Flight Booking
Flight Operations | The Emirates Virtual Group © 2022

Schedule Search

Confused Where to Fly? How About FLLS (Kenneth Kaunda International Airport Lusaka), click this link to view schedules from this airport!

Generate Rosters

Caution : durations are flexible (+/-) 2 hours


-- Flight Category --

JumpSeat Travel

Jumpseat tickets will cost you vMoney.

Current Account Balance : $
Last Jumpseat Flight : No Jumpseat flights!

Crew Information


Pilot Name :
ID # :
Hub :
Last Flight : New Hire, Stationed at Base

Location

AT BASE

Airport Information

No Records Found
METAR

TAF 0000008700 241 NCNC01 EGRR 260900 03414 00035 10035 555 00046 10037 20114 40073 50086 (date/time) MYNN 211700Z 2118/2218 21012KT 9999 VCSH SCT018CB SCT025 BECMG 2203/2205 24018KT 9000 SHRA SCT015CB BKN090 OVC220 FM221500 30015KT 9999 SCT035 BKN240 * SYCJ 161100Z 1612/1712 07010KT 9999 BKN015 BKN040 BKN080 TEMPO 1615/1618 5000 SHRA-RA BKN015 SCT040 OVC080 BECMG 1623/1701 06006KT 9999 FEW015 BKN090=* * SYEC 161100Z 1612/1712 6010KT 9999 BKN018 BKN040 BKN080 TEMPO 1615/1618 5000 SHRA BKN015 SCT040 BKN090 BECMG 1623/1701 04006KT 9999 FEW015 BKN090=* * SYMB **161100Z 1612/1623 **07010KT 5000 SHRA-RA BKN015 SCT040 OVC080 BECMG 1618/1620 9999 SCT016 BKN080=* * SYKA **161100Z 1612/1623 **06006KT 9999 BKN016 SCT040 TEMPO 1616/1622 5000 SHRA-RA BKN014 BKN080=* * SYKM **161100Z 1612/1623 **06006KT 9999 BKN016 SCT040 TEMPO 1616/1622 5000 SHRA-RA BKN014 BKN080==* * SYEB **161100Z 1612/1623 **06010KT 9999 BKN020 SCT045 TEMPO 1616/1620 5000 SHRA-RA BKN16 BKN090=* * SYLT **161100Z 1612/1623 **06010KT 9999 BKN020 SCT045 TEMPO 1616/1620 5000 SHRA BKN018 BKN090=* -- FTCO20 SKBO 191030 SKBO 191030Z 1912/2012 VRB02KT 9999 FEW015 BECMG 1915/1917 14010KT SCT020 TX21/1918Z TN06/2010Z . MGGT 3012/0112 00000KT 9999 BKN012 BKN090 TX27/3020Z TN17/3012Z TEMPO 3012/0112 8000 RADZ BKN010 BECMG 3014/3016 SCT018 BECMG 3018/3020 18010KT TEMPO 3018/0102 8000 TSRA SCT018TCU FEW025CB BECMG 0100/0102 00000KT BKN012 /MBPV 191100Z 1912/2012 13018KT 9999 SCT025 00 SPSO 021120Z 0212/0312 26012KT CAVOK TX19/0219Z TN15/0311Z FM030400 06004KT 7000 NSC BECMG 0306/0309 4000 BR OVC006 BECMG 0312/0315 33010KT OVC015 BECMG 0316/0318 26012KT SCT020 0000021100 00001 FTFK41 EGYP 171400 EGYP 171334Z 1715/1809 28018G28KT 9999 FEW045 PROB30 TEMPO 1716/1720 7000 -RA BECMG 1720/1723 23018G28KT PROB30 TEMPO 1720/1722 24028G38KT 7000 SHRA SCT016 021710Z MHRO 0218/0318 VRB08KT 5000 SHRA SCT020CB BKN070 TX29/0219Z TN26/0312Z TEMPO 0300/0306 7000 RA BECMG 0306/0308 27015KT 8000 VCSH FEW020CB SCT080 031800/040600 MYNN 031630Z 0318/0418 07018G28KT 9999 BKN035 BKN200 08024G35KT= FMST 080500Z 0806/0906 12006KT 9999 FEW023 BECMG 0808/0811 24012KT BECMG 0818/0820 VRB02KT 310500Z VIJP 310500Z 3106/3115 VRB03KT 3000 HZ NSC BECMG 3112/3114 2500 HZ FU BECMG 0101/0103 00000KT 1500 FU BECMG 0105/0106 VRB03KT 3000 HZ NSC 5030 TEMPO 2500/2506 2300 7 CWWU 031200Z 0312/0412 07015G25KT 3/4SM -SN DRSN OVC002 TEMPO 0313/0316 11/2SM -SN DRSN OVC005 FM031600 05015G25KT 5SM -SHSN BKN012 OVC020 FM031900 04012G22KT P6SM OVC020 FM040300 03012G22KT P6SM BKN020 FM040700 03012G22KT P6SM BKN015 TEMPO 0410/0412 03010KT P6SM SCT015 RMK NXT FCST BY 031800Z = OEBH 201100Z 2012/2118 03014KT CAVOK BECMG 2018/2020 VRB03KT BECMG 2108/2110 08010KT = SPRU 051630Z 0518/0618 18012KT 9000 SCT050 TX25/0519Z TN20/0611Z TEMPO 0520/0523 CAVOK FM060500 VRB02KT 6000 BKN030 TEMPO 0612/0615 6000 FEW012 BKN020 ? MWCR 201700Z 2018/2118 09010KT 9999 FEW018 PROB30 TEMPO 2018/2024 9000 SHRA SCT016 ?? HEAX 201700Z 2018/2124 31010KT 9999 SCT020 TEMPO 2018/2124 7000 SHRA BKN020 TEMPO 2019/2106 4000 TSSHRA FEW017CB ??? TEMPO 2206/2212 4000 RA=?????? HELX 210500Z 2106/2212 30010KT CAVOK TEMPO 2106/2109 VRB03KT 4000 HZ NSC ?????? ?????? HESC 201700Z 2018/2124 33013KT 9999 BKN020 TEMPO 2018/2112 2000 TSSHRA FEW020CB TEMPO 2112/2118 5000 RA A UKLL 181700Z 1817/1912 28006G12MPS 6000 BKN010 SCT030CB TEMPO 1817/1820 2100 -TSRAGR BKN007 BKN015CB TEMPO 1820/1909 2100 -SHRA SCT004 BKN007 BKN015CB AAA TUPJ 240313Z 2400/2424 CNL AAAA TUPJ 020357Z 0200/0224 CNL AAB TAPA 240623Z 2406/2506 10010KT 9999 SCT020 PROB30 TEMPO 2406/2418 SHRA BKN014 ADM SGAS 201640Z 2018/2118 07004KT 9999 SCT033 TX17/2019Z TN10/2110Z BECMG 2020/2022 08007KT 9999 -RA BKN030 BECMG 2100/2103 VRB05KT BKN027 AF LPMR 250147Z 2502/2524 12005KT CAVOK TEMPO 2502/2507 3000 BR NSC TEMPO 2515/2518 SCT025 AF FHAW 220130Z 2206/2224 16010KT 9999 FEW020 BKN035 PROB30 TEMPO 2206/2210 SCT020 AF KPGA 242320Z 2500/2524 VRB05KT P6SM SKC AF LPMR 241701Z 2418/2518 04005KT CAVOK AF MDPP 231000Z 2312/2412 00000KT 9999 SCT018 PROB30 2312/2318 8000 SH BKN016 BECMG 2315/2317 06015KT AF SLLP 222200Z 2300/2324 12005KT 9999 SCT015 SCT070 TX14/2319Z TN05/2310Z BECMG 2304/2307 3000E RA VCFG BKN008 BKN070 BECMG 2313/ 2315 9999 NSW SCT013 BKN070 TEMPO 2320/2323 6000 VCTSSH FEW017CB AF VOBL 150500Z 1506/1612 25010KT 6000 SCT012 SCT020 TEMPO 1600/1603 BKN008 SCT012 BKN080 TEMPO 1609/1612 3000 RA DZ SCT008 SCT012 FEW025CB BKN080 AGGA 101710Z 1018/1118 18010KT 9999 SCT018 Q 1008 1010 1010 1008 AGGC 101710Z 1018/1118 05010KT 9999 SCT018 PROB30 INTER 1103/1106 5000 TSSH BKN015 FEW016CB Q 1009 1011 1011 1009 AGGH 272310Z 2800/2824 32015KT 9999 -SHRA SCT016 SCT030 BKN100 INTER 2800/2806 5000 TSSH SCT015 FEW016CB BKN025 T 29 30 28 26 Q 1007 1005 1004 1006 AGGK 101710Z 1018/1118 05010KT 9999 SCT018 PROB40 INTER 1018/1100 5000 TSSH BKN015 FEW016CB AGGL 0720/0820 10020KT 9999 -SHRA SCT016 SCT026 BKN100 AGGM 101710Z 1018/1118 VRB03KT 9999 SCT018 PROB30 INTER 1101/1106 5000 TSSH BKN015 FEW016CB AGGN 310618Z 3106/0106 09010KT 9999 SCT018 AGGR 101710Z 1018/1118 05010KT 9999 SCT018 PROB30 INTER 1103/1106 5000 TSSH BKN015 FEW016CB D UTFN 141900Z 1419/1518 34010KT 2100 BR NSC TEMPO 1419/1504 VRB02KT 0600 FG VV002 AMDFCPP 091100Z 0912/1012 20007KT 9999 SCT013 BKN025 FEW030CB PROB30 TEMPO 0916/0919 -TSRA BKN010 BKN023 FEW030CB BECMG 0920/0922 SCT010 SCT023 AMDV SAVC 030530Z 0306/0406 27005KT CAVOK TX25/0320Z TN11/0310Z BECMG 0311/0313 29015KT CAVOK BECMG 0401/0403 18015KT 9999 BKN010 AMGGT 241100Z 2412/2512 18008KT 7000 BKN016 TX26/2420Z TN15/2412Z BECMG 2415/2417 20012KT 8000 FEW018 TEMPO 2420/2424 SCT020TCU BECMG 2501/2503 SCT016 BECMG 2506/2508 VRB03KT AMM UERR 091803Z 0918/1018 10003G08MPS 4000 -SN SCT007 BKN020 OVC100 TEMPO 0918/1006 1500 SN BKN003 OVC015 AND TRPG 170300Z 1700/1724 CNL ANYN 262117Z 2700/2800 9999 FEW020= ATF DIAP 141700Z 1418/1524 22010KT 8000 FEW015 PROB30 TEMPO 1504/1508 2000 BR AYPY 271317Z 2718/2818 30009KT 9999 SCT040 SCT140 FM272200 28010KT 9999 SCT018 SCT140 FM280600 29010KT 9999 -SHRA SCT018 FEW018CB PROB30 2719/2721 VRB03KT 0600 FG    HTGW 070500Z 0706/0806 12010KT 9999  FEW018            BECMG 0709/0712 TSRA  BKN035 FEW036CB   HTZA 010500Z 0106/0206 23010KT9999 BKN014 FEW016CB BKN070      PROB30 TEMPO 0107/0111 5000 TSRA      BECMG0111/0113 17015KT SCT018 FEW020CB    HTMT 080500Z 0806/0906 06010KT 9999 RA BKN018 FEW019CB            BECMG 0812/0814 NSW SCT022  HTGW 091700Z 0918/1018 11010KT 9999  SCT028 FEW032CB B SLCB 170405Z 1706/1806 00000KT 9999 FEW030 SCT070 TX24/1719Z TN11/1710Z PROB30 TEMPO 1711/1713 8000 TSRA SCT025 FEW030CB BKN070 BECMG 1714/1716 27010KT SCT030 FEW033CB BKN070 TEMPO 1718/1720 15010KT TSRA BECMG 2904/2906 5000 FU BEGK 270930Z 2712/2724 12010KT 6000 SCT020 FEW030CB BKN100 TEMPO 2718/2722 3000 TSRA SCT015 FEW030CB OVC080 BGGH 051855Z 0518/0622 17012KT 9999 FEW200 PROB40 0521/0522 4500 BCFG FEW005 BKN007 BGJN 032016Z 0318/0422 CNL BGSF 271654Z 2718/2723 29008KT 9999 BKN050 TEMPO 2718/2723 3000 -SN BKN020 BGTL 272000Z 2720/2902 06009KT 9999 FEW150 510004 QNH2948INS BECMG 2805/2806 11020G30KT 6000 BLSN FEW100 FEW150 520001 530105 QNH2952INS TEMPO 2807/2815 12030G45KT 3200 BLSN 530006 BECMG 2814/2815 06008KT 9999 NSW FEW100 SCT180 QNH2946INS TXM17/2807Z TNM25/2800Z LAST NO AMDS AFT 2720 NEXT 2704 BIAR 280123Z 2803/2903 19012KT 9999 SCT032 BKN045 TX04/2806Z TNM02/2818Z TEMPO 2803/2815 20020G30KT PROB40 TEMPO 2803/2812 4000 -SNRA BKN014 OVC028 BECMG 2814/2816 25030G45KT -SHSN BKN020 BECMG 2821/2823 34024G36KT -SN TEMPO 2823/2903 2000 SN BKN014 OVC020 BIEG 280123Z 2803/2903 19010KT 9999 SCT050 TX03/2810Z TNM01/2818Z TEMPO 2812/2818 24020G30KT BECMG 2819/2821 27025G38KT BECMG 2822/2900 34030G45KT -SN BKN018 BIKF 280123Z 2803/2903 20020G30KT 9999 -RA BKN015 OVC025 TX05/2803Z TNM03/2903Z TEMPO 2803/2805 4000 RADZ OVC009 BECMG 2803/2805 26028G40KT -SHSN BECMG 2814/2816 27020KT BECMG 2819/2821 35018KT BIRK 280123Z 2803/2903 20015KT 9999 -RA BKN025 TX05/2804Z TN00/2818Z TEMPO 2803/2806 20020G30KT 4000 RADZ BKN012 BECMG 2810/2812 26025G35KT -SHSN BECMG 2819/2821 33016KT BKN020= SPEO 051630Z 0518/0618 19014KT 9999 FEW010 BKN060 TX25/0519Z TN19/0611Z TEMPO 0519/0522 CAVOK BECMG 0604/0606 5000 BR BKN020 BKPR 280245Z 2802/2824 VRB03KT 4000 BR FEW015 TEMPO 2803/2808 0150 FZFG BKN004 BECMG 2809/2811 9999 NSW BNAK 202300Z 2100/2206 VRB02KT 9999 SCT011 TEMPO 2105/2108 5000 BR BECMG 2108/2110 25010KT BKN013 TEMPO 2113/2116 BKN013 FEW020CB BECMG 2117/2119 VRB02KT VRB02KT SCT011 C0R ULAA 221700Z 2218/2318 05003G08MPS 2100 -SHSN BR BKN004 BKN011CB TEMPO 2218/2224 02004G12MPS 0500 +SHSN BKN002 BKN010CB FM230000 02003MPS 6000 BKN013 TEMPO 2300/2306 03003MPS 0300 -SHSN FZFG BKN002 BKN010CB CBBC 280040Z 2801/2806 VRB03KT P6SM SKC RMK FCST BASED ON AUTO OBS. NXT FCST BY 281400Z CCA TAPA 132300Z 1400/1424 07013KT 9999 SCT018 SCT034 TEMPO 1400/1415 07015G25KT SHRA PROB30 TEMPO 1406/1412 4800 +SHRA CCC TAPA 022300Z 0300/0324 05012KT 9999 SCT018 BKN038 PROB30 TEMPO 0302/0314 05015G25KT SHRA CO MDPP 120400Z 1206/1306 00000KT 9999 FEW018 PROB30 1206/1212 7000 -RA BKN016 BECMG 1214/1216 09015KT COR= TNCA 261800Z 2618/2718 09022G33KT 9999 SCT020 SCT050 COR? MRPV 112300Z 1200/1224 09010KT 9999 SCT030 TX27/1218Z TN18/1210Z TEMPO 1200/1202 VRB02KT RA BECMG 1218/1220 27007KT TEMPO 1220/1224 TSRA SCT020CB CORFNSA 012300Z 0200/0212 33005KT 9000 BKN014 SCT025 TEMPO 0201/0206 5000 DZ FEW025CB BKN035 BECMG 0207/0210 VRB02KT CORR MNMG 171640Z 1718/1818 09014G24KT 9999 FEW023 TEMPO 1804/1808 11004KT FEW020 BECMG 1812/1815 07020G30KT CORSLCB 231600Z 2318/2418 26012KT 9999 FEW033 TX22/2319Z TN04/2411Z BECMG 2402/2404 00000KT FEW027 SCT070 COT MHRO 201025Z 2012/2112 35022KT 2000 SHRA FEW010 SCT016TCU OVC070 TX24/2019Z TN23/2112Z BECMG 2014/2016 4000 RA BECMG 2018/2020 2000 +RA SCT016CB OVC070 BECMG 2101/2103 27010KT 5000 -RA BECMG 2107/2109 8000 VCSH SCT016 BKN070 CWSA 271940Z 2720/2801 35012KT P6SM SCT020 TEMPO 2720/2801 BKN020 BECMG 2723/2801 VRB03KT RMK FCST BASED ON AUTO OBS. AUTO OBS REP NON-REPRESENTATIVE PCPN. NXT FCST BY 280900Z CWWU 272000Z 2720/2818 CNL RMK NO OBS. NXT FCST BY 280000Z CYAB 171840Z 1719/1723 VRB03KT P6SM FEW030 RMK NXT FCST BY 181400Z CYAH 272006Z 2720/2722 26022G32KT 2 1/2SM -SN BLSN SCT020 OVC040 TEMPO 2720/2721 1/2SM SN BLSN OVC020 FM272100 25020G30KT P6SM BKN030 BKN120 TEMPO 2721/2722 2SM -SHSN BLSN BKN020 BKN120 PROB30 2721/2722 1SM -SHSN BLSN VV008 RMK FCST BASED ON AUTO OBS. NXT FCST BY 281200Z CYAM 280140Z 2802/2814 36012KT P6SM -SHSN BKN040 BECMG 2802/2804 P6SM NSW SCT030 FM280600 01008KT P6SM FEW030 BECMG 2810/2812 09005KT RMK NXT FCST BY 280800Z CYAS 271441Z 2715/2722 20012KT 4SM -SN OVC030 TEMPO 2715/2722 1SM -SN OVC015 BECMG 2715/2717 14012KT RMK NXT FCST BY 281500Z CYAT 271803Z 2718/2720 30020G30KT P6SM FEW030 TEMPO 2718/2720 5SM -SHSN BLSN BKN030 RMK FCST BASED ON AUTO OBS. NXT FCST BY 281000Z CYAW 280031Z 2800/2806 CNL RMK NO OBS. NXT FCST BY 280600Z CYAY 280140Z 2802/2814 18008KT P6SM FEW020 TEMPO 2802/2804 BKN020 FM280400 15010KT P6SM SCT020 BKN180 TEMPO 2804/2810 BKN020 OVC180 FM281000 15012KT P6SM SCT020 BKN140 TEMPO 2810/2814 6SM -SHSN BKN020 OVC140 RMK FCST BASED ON AUTO OBS. NXT FCST BY 280800Z CYAZ 271840Z 2719/2801 VRB03KT P6SM SKC BECMG 2720/2722 13007KT RMK NXT FCST BY 281700Z CYBB 262106Z 2621/2702 24008KT P6SM SCT040 SCT080 TEMPO 2621/2702 3SM -SN BKN040 OVC080 RMK NXT FCST BY 271500Z CYBC 280140Z 2802/2814 21012G22KT P6SM -SN OVC030 TEMPO 2802/2810 2 1/2SM -SN OVC020 PROB30 2802/2810 1 1/2SM -SN FM281000 29005KT P6SM BKN040 TEMPO 2810/2812 5SM -SN FM281200 32010KT P6SM BKN050 RMK FCST BASED ON AUTO OBS. NXT FCST BY 280800Z CYBG 280240Z 2803/2824 VRB03KT P6SM OVC040 TEMPO 2803/2807 5SM -SN BKN020 OVC040 FM280700 VRB03KT P6SM SCT012 OVC025 TEMPO 2807/2811 5SM -SN BKN012 OVC025 BECMG 2807/2809 28012G22KT FM281100 28012G22KT P6SM SCT025 BECMG 2818/2820 26008KT RMK NXT FCST BY 280600Z CYBK 272346Z 2800/2812 31015KT P6SM FEW025 TEMPO 2800/2812 5SM IC FEW005 RMK NXT FCST BY 280600Z CYBL 280040Z 2801/2805 VRB03KT 1/4SM FZFG VV001 RMK NXT FCST BY 281600Z CYBN 172207Z 1722/1810 CNL RMK END OF FLY PROGRAM. NXT FCST BY 061000Z CYBR 272340Z 2800/2812 27006KT P6SM FEW250 FM280300 27007KT P6SM BKN090 FM280500 27008KT 6SM -SN SCT020 OVC050 TEMPO 2805/2809 2SM -SN VV015 FM281000 29005KT P6SM SCT020 BKN030 TEMPO 2810/2812 5SM -SN BKN020 RMK NXT FCST BY 280600Z CYBW 280211Z 2802/2805 30008KT P6SM FEW240 RMK FCST BASED ON AUTO OBS. NXT FCST BY 281300Z CYBX 280140Z 2802/2814 27005KT P6SM SCT020 BKN180 TEMPO 2802/2813 5SM -SHSN BKN020 OVC180 BECMG 2806/2808 24018G38KT FM281300 24015G30KT 6SM -SN OVC030 TEMPO 2813/2814 2SM -SHSN OVC020 RMK NXT FCST BY 280800Z CYCA 280140Z 2802/2814 22012G22KT P6SM BKN160 BECMG 2805/2807 20008KT FM280800 21010KT P6SM SCT020 BKN100 TEMPO 2808/2811 BKN020 OVC100 FM281100 21010KT P6SM SCT020 OVC050 TEMPO 2811/2814 5SM -SHSN OVC020 RMK FCST BASED ON AUTO OBS. NXT FCST BY 280800Z CYCB 280040Z 2801/2813 30012KT P6SM SCT015 BKN070 TEMPO 2801/2804 2SM -SN BKN020 BKN080 FM280400 31015KT P6SM FEW030 SCT080 RMK NXT FCST BY 280700Z CYCD 272344Z 2800/2805 VRB03KT P6SM SCT005 TEMPO 2800/2805 2SM BR BKN005 RMK NXT FCST BY 281600Z CYCG 272216Z 2722/2801 VRB03KT P6SM SCT030 TEMPO 2722/2801 OVC030 RMK NXT FCST BY 281600Z CYCO 280040Z 2801/2813 27012KT P6SM FEW030 TEMPO 2801/2803 P6SM -SN BKN020 RMK NXT FCST BY 280700Z CYCX 272040Z 2721/2809 VRB03KT P6SM SCT160 BKN220 FM280000 VRB03KT P6SM SCT025 BKN160 TEMPO 2800/2803 5SM -SN BKN025 OVC160 FM280300 VRB03KT P6SM BKN025 OVC160 TEMPO 2803/2809 5SM -SN BKN020 OVC160 RMK NXT FCST BY 280300Z CYCY 280137Z 2801/2813 33020G30KT 1SM -SN BLSN VV008 TEMPO 2801/2804 6SM -SN OVC030 BECMG 2802/2804 31015G25KT FM280400 31015G25KT 6SM -SN SCT015 BKN030 TEMPO 2804/2813 2SM -SN BLSN OVC015 BECMG 2810/2812 31020KT RMK FCST BASED ON AUTO OBS. NXT FCST BY 280700Z CYDA 272040Z 2721/2724 VRB03KT 5SM -SN SCT020 OVC050 TEMPO 2721/2724 1SM -SN BR OVC015 RMK NXT FCST BY 281700Z CYDB 280210Z 2802/2812 VRB03KT P6SM SCT006 BKN015 TEMPO 2802/2803 2SM -SN BR OVC006 FM280300 30005KT P6SM FEW012 BKN050 TEMPO 2803/2806 2SM -SN BR OVC012 FM280600 30008KT 3SM BR SCT005 OVC010 TEMPO 2806/2812 1SM -SN BR OVC004 RMK FCST BASED ON AUTO OBS. NXT FCST BY 280600Z CYDF 280140Z 2802/2814 VRB03KT P6SM FEW020 TEMPO 2802/2814 BKN020 BECMG 2802/2804 20005KT RMK NXT FCST BY 280800Z CYDL 271840Z 2719/2724 VRB03KT P6SM FEW200 RMK FCST BASED ON AUTO OBS. NXT FCST BY 281400Z CYDN 280243Z 2802/2812 25015KT P6SM -SN SCT015 OVC080 TEMPO 2802/2807 2SM -SN VV015 FM280700 26010KT P6SM FEW020 SCT050 TEMPO 2807/2812 BKN020 RMK FCST BASED ON AUTO OBS. NXT FCST BY 280600Z CYDP 271940Z 2720/2724 VRB03KT P6SM OVC090 FM272100 21012KT P6SM SCT030 BKN080 TEMPO 2721/2724 4SM -SN OVC030 RMK NXT FCST BY 281100Z CYDQ 280040Z 2801/2805 VRB03KT P6SM SKC BECMG 2803/2805 22008KT RMK FCST BASED ON AUTO OBS. NXT FCST BY 281300Z CYED 272340Z 2800/2812 23005KT P6SM FEW100 SCT220 RMK NXT FCST BY 280600Z CYEG 280240Z 2803/2824 19006KT P6SM SCT250 BECMG 2814/2816 23006KT FM281900 28012KT P6SM SCT120 BKN180 RMK NXT FCST BY 280600Z CYEK 280206Z 2802/2812 33020KT 3SM IC SKC TEMPO 2802/2812 1SM IC BECMG 2810/2812 33015KT RMK NXT FCST BY 280600Z CYEN 271753Z 2718/2724 32005KT P6SM SKC BECMG 2720/2722 28008KT BKN030 FM272300 25004KT P6SM BKN030 TEMPO 2723/2724 SCT030 BKN120 RMK FCST BASED ON OBS BY OTHER SRCS. WIND SENSOR INOP. NXT FCST BY 281200Z CYER 241442Z 2414/2420 28009KT P6SM SKC BECMG 2415/2417 28010G20KT BECMG 2418/2420 29015G25KT RMK FCST BASED ON AUTO OBS. FCST BASED ON OBS BY OTHER SRCS. NXT FCST BY 251000Z CYEU 272347Z 2800/2802 VRB03KT P6SM FEW100 RMK ADVISORY OFFSITE. NXT FCST BY 281100Z CYEV 280040Z 2801/2813 VRB03KT P6SM SCT050 BKN240 TEMPO 2801/2813 BKN030 RMK NXT FCST BY 280700Z CYFB 272345Z 2800/2824 VRB03KT P6SM SCT040 BKN060 TEMPO 2800/2803 4SM -SN SCT020 OVC040 FM280300 10008KT P6SM -SN SCT020 OVC040 TEMPO 2803/2824 2SM -SN BKN020 OVC040 RMK NXT FCST BY 280600Z CYFC 272340Z 2800/2812 VRB03KT P6SM FEW015 TEMPO 2800/2803 BKN015 FM280300 VRB03KT P6SM BKN025 TEMPO 2803/2807 4SM -SN BR BKN015 FM280700 22006KT P6SM FEW020 BKN080 TEMPO 2807/2812 5SM -SN BKN020 RMK FCST BASED ON AUTO OBS. NXT FCST BY 280600Z CYFS 280211Z 2802/2812 07005KT P6SM -SN SCT012 OVC050 TEMPO 2802/2812 1 1/2SM -SN VV012 RMK NXT FCST BY 280600Z CYGH 271740Z 2718/2724 VRB03KT P6SM BKN050 OVC180 TEMPO 2718/2724 5SM -SN BKN020 OVC040 BECMG 2718/2720 05007KT RMK NXT FCST BY 281500Z CYGK 280220Z 2802/2804 23015G25KT P6SM -SN OVC030 TEMPO 2802/2804 4SM -SN OVC020 RMK NXT FCST BY 281300Z CYGL 272340Z 2800/2824 26015G25KT P6SM -SHSN BKN025 TEMPO 2800/2812 2 1/2SM -SN BKN020 PROB40 2800/2812 1SM -SN BLSN FM281200 23012G22KT P6SM -SHSN BKN025 BECMG 2813/2815 23015G25KT BECMG 2819/2821 22012G22KT FM282100 22012G22KT P6SM -SHSN OVC020 RMK NXT FCST BY 280600Z CYGP 280140Z 2802/2814 30005KT P6SM OVC200 FM280600 27005KT P6SM BKN040 TEMPO 2806/2814 3SM -SN OVC020 PROB30 2806/2812 1SM -SN RMK NXT FCST BY 280800Z CYGQ 280140Z 2802/2814 VRB03KT P6SM SKC RMK NXT FCST BY 280800Z CYGR 280020Z 2800/2803 22010G20KT P6SM -SN OVC025 TEMPO 2800/2802 OVC020 FM280200 22010KT P6SM SCT020 TEMPO 2802/2803 P6SM -SN BKN020 RMK NXT FCST BY 281200Z CYGT 272019Z 2720/2722 01012KT P6SM SCT010 TEMPO 2720/2722 BKN009 RMK NXT FCST BY 281300Z CYGV 280140Z 2802/2814 20012G22KT P6SM SCT020 BKN140 TEMPO 2802/2808 4SM -SN BKN020 OVC140 PROB30 2806/2808 1 1/2SM -SN FM280800 23012G22KT 6SM -SN OVC030 TEMPO 2808/2810 1 1/2SM -SN OVC020 FM281000 24012G22KT 1SM -SN OVC010 PROB30 2810/2814 3/4SM -SN VV008 RMK FCST BASED ON AUTO OBS. NXT FCST BY 280800Z CYGW 272340Z 2800/2812 27020G30KT 1/2SM SN BLSN VV008 TEMPO 2800/2812 3SM -SN BLSN BKN020 RMK FCST BASED ON AUTO OBS. NXT FCST BY 280600Z CYGX 280040Z 2801/2813 26012KT P6SM OVC090 BECMG 2802/2804 BKN040 FM280400 28010KT P6SM BKN040 TEMPO 2806/2813 6SM -SN BKN030 BECMG 2807/2809 31010KT RMK NXT FCST BY 280700Z CYHA 271714Z 2717/2722 19012KT P6SM -SN SCT020 OVC050 TEMPO 2717/2722 3SM -SN OVC020 BECMG 2720/2722 15008KT RMK NXT FCST BY 281500Z CYHD 280140Z 2802/2814 27007KT P6SM SKC FM280800 24007KT P6SM BKN100 FM281200 24010KT P6SM SCT020 BKN050 TEMPO 2812/2814 4SM -SN OVC020 RMK FCST BASED ON AUTO OBS. NXT FCST BY 280800Z CYHI 271840Z 2719/2801 31006KT P6SM SCT015 BKN100 TEMPO 2719/2723 6SM -SN BKN015 BKN050 FM272300 31012KT P6SM SCT025 RMK NXT FCST BY 281700Z CYHK 272346Z 2800/2812 VRB03KT P6SM FEW007 TEMPO 2800/2812 3SM IC HZ SCT007 RMK NXT FCST BY 280600Z CYHM 272340Z 2800/2824 25012G22KT 6SM -SN OVC020 TEMPO 2800/2808 2SM -SHSN PROB30 2800/2808 1 1/2SM -SHSN VV008 FM280800 32010G20KT P6SM BKN040 FM281000 36008KT P6SM FEW020 SCT060 FM281500 04010KT P6SM SKC RMK NXT FCST BY 280600Z CYHU 280105Z 2801/2824 18008KT 1 1/2SM -SN OVC020 TEMPO 2801/2804 6SM -SN SCT020 OVC040 FM280400 19008KT 6SM -SN OVC030 TEMPO 2804/2808 2SM -SN OVC020 FM280800 19008KT 6SM -SN SCT008 OVC015 TEMPO 2808/2812 2SM -SN OVC008 FM281200 24008KT P6SM -SN SCT008 OVC040 TEMPO 2812/2815 3SM -SN BKN008 OVC040 BECMG 2812/2814 36010G20KT FM281500 36010G20KT P6SM -SN BKN020 OVC040 BECMG 2816/2818 36010KT FM282100 03008KT P6SM BKN030 RMK FCST BASED ON AUTO OBS. NXT FCST BY 280600Z CYHY 272340Z 2800/2812 06006KT P6SM FEW080 BKN150 TEMPO 2800/2802 BKN080 OVC120 FM280200 09009KT P6SM SCT020 BKN060 OVC120 TEMPO 2802/2804 4SM -SN BKN030 OVC060 FM280400 09010KT 4SM -SN SCT012 BKN025 OVC040 TEMPO 2804/2812 1 1/2SM -SN BKN012 OVC025 RMK NXT FCST BY 280600Z CYHZ 280240Z 2803/2824 16007KT P6SM FEW220 FM280500 19008KT P6SM SCT015 BKN200 TEMPO 2805/2807 BKN015 FM280700 18012KT P6SM BKN025 TEMPO 2807/2814 5SM -SN BR BKN015 FM281400 18012G22KT 4SM -SN OVC015 FM281700 18012G22KT 1 1/2SM -SN OVC008 FM282200 18010KT 1SM -SN BR OVC004 RMK NXT FCST BY 280600Z CYIK 271709Z 2717/2722 02018G28KT 2SM IC BLSN BKN010 TEMPO 2717/2719 6SM BLSN SCT010 BKN100 FM271900 01015G25KT P6SM SCT020 BKN040 TEMPO 2719/2722 2SM -SN BLSN BKN020 BKN040 RMK NXT FCST BY 281500Z CYIO 280040Z 2801/2813 VRB03KT P6SM FEW025 TEMPO 2801/2813 5SM IC HZ RMK FCST BASED ON AUTO OBS. NXT FCST BY 280700Z CYIV 280040Z 2801/2813 25008KT P6SM BKN090 BECMG 2804/2806 BKN030 FM280600 26008KT P6SM BKN030 TEMPO 2807/2813 6SM -SN BECMG 2809/2811 31008KT RMK FCST BASED ON AUTO OBS. NXT FCST BY 280700Z CYJT 272340Z 2800/2824 VRB03KT P6SM BKN025 TEMPO 2800/2809 5SM -SHSN OVC020 BECMG 2801/2803 18015KT FM280900 20018G28KT P6SM BKN025 TEMPO 2809/2815 4SM -SHSN BLSN OVC020 FM281500 21018G28KT 6SM -SHSN BKN025 BKN120 FM282100 21015G25KT 3SM -SN OVC020 RMK NXT FCST BY 280600Z CYKA 280040Z 2801/2813 08005KT P6SM OVC030 TEMPO 2801/2813 OVC020 RMK NXT FCST BY 280700Z CYKF 280140Z 2802/2814 24010G20KT 6SM -SHSN OVC025 TEMPO 2802/2806 2 1/2SM -SHSN OVC015 PROB30 2804/2806 3/4SM -SHSN FM280600 34012G22KT P6SM FEW030 TEMPO 2806/2808 BKN030 BECMG 2806/2808 35012KT RMK FCST BASED ON AUTO OBS. NXT FCST BY 280800Z CYKG 271510Z 2715/2722 31005KT P6SM -SN SCT020 BKN040 OVC050 TEMPO 2715/2722 3SM -SN BR BKN020 OVC040 RMK NXT FCST BY 281500Z CYKJ 271857Z 2719/2724 30010KT P6SM OVC025 TEMPO 2719/2721 5SM -SN OVC020 BECMG 2721/2723 FEW025 BKN130 FM272300 30005KT P6SM BKN240 RMK FCST BASED ON AUTO OBS. NXT FCST BY 281000Z CYKL 280140Z 2802/2814 20012G22KT P6SM SCT040 TEMPO 2802/2805 2 1/2SM -SN BLSN OVC040 FM280500 25015G25KT P6SM FEW020 TEMPO 2805/2814 BKN020 RMK FCST BASED ON AUTO OBS. NXT FCST BY 280800Z CYKQ 272019Z 2720/2722 29012G22KT P6SM OVC040 TEMPO 2720/2722 2SM -SN OVC020 RMK NXT FCST BY 281600Z CYLD 271626Z 2716/2801 VRB03KT P6SM -SN SCT015 OVC030 TEMPO 2716/2718 3/4SM -SN OVC006 FM271800 35010G20KT 2 1/2SM -SHSN OVC020 TEMPO 2718/2720 P6SM -SHSN BKN040 FM272000 35010G20KT P6SM -SHSN BKN040 RMK NXT FCST BY 272000Z CYLK 271840Z 2719/2801 23005KT P6SM SCT030 TEMPO 2719/2801 P6SM -SN BKN020 RMK NXT FCST BY 281700Z CYLL 272340Z 2800/2812 18008KT P6SM BKN260 BECMG 2801/2803 26008KT FM280600 30008KT P6SM SCT240 FM281000 VRB03KT P6SM FEW220 PROB30 2810/2812 3/4SM BR RMK NXT FCST BY 280600Z CYLT 272108Z 2721/2806 CNL RMK NO OBS. NXT FCST BY 280000Z CYLW 280040Z 2801/2813 17008KT P6SM OVC020 TEMPO 2801/2813 3SM BR RMK FCST BASED ON AUTO OBS. NXT FCST BY 280700Z CYMA 272340Z 2800/2812 02005KT 4SM -SN OVC025 TEMPO 2800/2809 1SM -SN OVC010 FM280900 01005KT P6SM -SN SCT015 OVC030 TEMPO 2809/2812 3SM -SN OVC012 RMK NXT FCST BY 280600Z CYMH 280140Z 2802/2804 22008KT P6SM SKC RMK FCST BASED ON AUTO OBS. NXT FCST BY 281000Z CYMJ 272310Z 2718/2806 CNL RMK NO OBS. NXT FCST BY 280000Z CYMM 280040Z 2801/2813 08005KT P6SM OVC025 TEMPO 2801/2804 OVC020 FM280400 09006KT P6SM SCT008 OVC012 TEMPO 2804/2812 3SM -SN BR OVC008 FM281200 12008KT P6SM -SN OVC006 RMK FCST BASED ON AUTO OBS. NXT FCST BY 280700Z CYMO 272340Z 2800/2812 28010G20KT P6SM SCT020 TEMPO 2800/2803 5SM -SHSN BKN020 FM280300 28010G20KT P6SM SCT020 TEMPO 2803/2812 BKN020 BECMG 2807/2809 26008KT RMK FCST BASED ON AUTO OBS. NXT FCST BY 280600Z CYMT 280018Z 2800/2801 30008G18KT 1 1/4SM -SN OVC020 TEMPO 2800/2801 3SM -SN OVC030 RMK FCST BASED ON AUTO OBS. NXT FCST BY 281300Z CYMX 272340Z 2800/2824 VRB03KT P6SM -SN SCT020 OVC040 TEMPO 2800/2803 1 1/2SM -SN OVC015 FM280300 VRB03KT 3SM -SN OVC015 TEMPO 2803/2809 6SM -SN OVC025 PROB30 2803/2809 2SM -SN FM280900 VRB03KT P6SM BKN025 TEMPO 2809/2811 P6SM -SN BKN015 FM281100 VRB03KT P6SM BKN040 TEMPO 2811/2824 BKN020 RMK NXT FCST BY 280600Z CYNA 280140Z 2802/2814 21020G30KT P6SM -SN BKN025 TEMPO 2802/2808 3SM -SN OVC020 FM280800 22012G22KT 6SM -SN OVC025 TEMPO 2808/2812 2SM -SN OVC020 PROB40 2808/2812 1SM -SN FM281200 22012G22KT 1SM -SN OVC015 PROB30 2812/2814 3/4SM -SN RMK FCST BASED ON AUTO OBS. NXT FCST BY 280800Z CYND 280119Z 2801/2802 18005KT 2SM -SN OVC020 TEMPO 2801/2802 6SM -SN OVC030 RMK NXT FCST BY 281400Z CYNE 280040Z 2801/2813 24005KT P6SM BKN100 TEMPO 2802/2804 SCT100 FM280400 26005KT P6SM SKC BECMG 2806/2808 31005KT FM281200 31005KT P6SM SKC RMK FCST BASED ON AUTO OBS. NXT FCST BY 280700Z CYOC 272206Z 2719/2801 CNL RMK NO OBS. NXT FCST BY 281500Z CYOD 280240Z 2803/2824 VRB03KT P6SM BKN220 FM280600 VRB03KT P6SM SCT260 PROB30 2809/2815 3/4SM BR VV003 FM281800 26008KT P6SM FEW180 BKN240 RMK NXT FCST BY 280600Z CYOJ 280040Z 2801/2813 13012KT P6SM SCT008 OVC012 TEMPO 2801/2812 5SM -SN BR OVC008 FM281200 12008KT P6SM SCT006 OVC010 TEMPO 2812/2813 3SM -SN BR OVC006 RMK NXT FCST BY 280700Z CYOO 280140Z 2802/2814 24010G20KT P6SM BKN030 TEMPO 2802/2806 5SM -SN BKN020 BECMG 2804/2806 30012G22KT FM280600 30012G22KT P6SM BKN030 TEMPO 2806/2808 SCT030 FM280800 32010G20KT P6SM FEW030 RMK FCST BASED ON AUTO OBS. NXT FCST BY 280800Z CYOW 280240Z 2803/2824 22010KT P6SM -SN SCT008 BKN025 OVC050 TEMPO 2803/2808 3SM -SN BKN008 OVC025 BECMG 2806/2808 29010G20KT FM280800 29010G20KT 3SM -SN BKN012 OVC040 TEMPO 2808/2810 P6SM NSW SCT012 OVC040 FM281000 33010G20KT P6SM BKN030 FM281400 33015KT P6SM SCT030 BECMG 2822/2824 34008KT RMK NXT FCST BY 280600Z CYOY 280107Z 2800/2812 CNL RMK NO OBS. NXT FCST BY 280600Z CYPA 280040Z 2801/2813 22005KT P6SM -SN SCT020 BKN070 TEMPO 2801/2804 4SM -SN BKN020 OVC040 FM280400 21004KT P6SM BKN070 BECMG 2805/2807 SKC FM280700 VRB02KT P6SM SKC TEMPO 2807/2809 1 1/2SM BR BECMG 2809/2811 1/2SM FZFG VV004 FM281100 07003KT 1/4SM FZFG VV002 TEMPO 2811/2813 1/2SM FZFG VV004 RMK NXT FCST BY 280700Z CYPC 271840Z 2719/2724 22012KT P6SM BKN025 TEMPO 2719/2722 P6SM -SN BKN020 FM272200 24015KT P6SM SCT025 RMK NXT FCST BY 281600Z CYPE 280040Z 2801/2813 VRB03KT P6SM FEW150 BKN200 BECMG 2810/2812 21008KT RMK NXT FCST BY 280700Z CYPG 272303Z 2718/2806 CNL RMK NO OBS. NXT FCST BY 280000Z CYPH 272340Z 2800/2812 33025G35KT 1/2SM SHSN VV007 TEMPO 2800/2803 3SM -SN OVC020 FM280300 32022G32KT 1SM -SN BLSN BKN020 TEMPO 2803/2812 4SM -SN BLSN BKN030 PROB40 2803/2812 3/4SM -SN BLSN VV007 RMK FCST BASED ON AUTO OBS. NXT FCST BY 280600Z CYPL 280140Z 2802/2814 27010KT P6SM SKC FM280600 27005KT P6SM SCT100 RMK FCST BASED ON AUTO OBS. NXT FCST BY 280800Z CYPQ 271943Z 2720/2803 24010G20KT 6SM -SN FEW012 OVC030 TEMPO 2720/2803 1 1/2SM -SN BLSN VV012 RMK FCST BASED ON AUTO OBS. NXT FCST BY 281100Z CYPR 280040Z 2801/2813 14012G22KT P6SM SCT120 BKN240 FM280700 13012G22KT P6SM -RA SCT020 BKN040 TEMPO 2807/2813 4SM -RA BR BKN020 OVC040 RMK FCST BASED ON AUTO OBS. NXT FCST BY 280700Z CYPX 272347Z 2800/2812 34025KT 2SM IC BLSN VV005 TEMPO 2800/2812 6SM BLSN SCT005 BKN040 RMK FCST BASED ON AUTO OBS. NXT FCST BY 280600Z CYPY 272340Z 2800/2807 VRB03KT P6SM FEW030 SCT120 TEMPO 2800/2807 SCT030 BKN080 RMK FCST BASED ON AUTO OBS. NXT FCST BY 281300Z CYQA 271818Z 2718/2801 18010G20KT P6SM -SN OVC040 TEMPO 2718/2801 1 1/2SM -SN OVC010 PROB30 2721/2801 3/4SM -SHSN VV007 RMK FCST BASED ON AUTO OBS. NXT FCST BY 272000Z CYQB 272340Z 2800/2824 VRB03KT P6SM BKN050 TEMPO 2800/2802 4SM -SN OVC015 FM280200 VRB03KT 2SM -SN OVC015 TEMPO 2802/2804 6SM -SN OVC025 FM280400 VRB03KT 1 1/2SM -SN OVC008 TEMPO 2804/2812 4SM -SN OVC015 FM281200 VRB03KT 5SM -SN OVC012 FM281500 27008KT P6SM BKN030 FM281800 25010KT P6SM SCT030 BECMG 2819/2821 20008KT RMK NXT FCST BY 280600Z CYQD 280040Z 2801/2813 25008KT P6SM BKN070 OVC090 TEMPO 2801/2803 4SM -SN OVC050 FM280400 28008KT P6SM SCT030 BKN070 BECMG 2804/2805 SKC FM280500 32005KT P6SM SKC FM281200 27005KT P6SM BKN200 RMK FCST BASED ON AUTO OBS. NXT FCST BY 280700Z CYQF 272340Z 2800/2812 18005KT P6SM FEW210 BECMG 2804/2806 23006KT RMK FCST BASED ON AUTO OBS. NXT FCST BY 280600Z CYQG 272340Z 2800/2824 23008KT P6SM BKN030 OVC060 TEMPO 2801/2805 2 1/2SM -SHSN BKN015 OVC030 FM280500 35012G22KT 2SM -SHSN OVC015 TEMPO 2805/2809 6SM -SN SCT015 OVC030 PROB30 2805/2808 1 1/2SM -SHSN BKN008 OVC015 FM280900 36012KT P6SM SCT020 BKN040 FM281400 01007KT 6SM -SN BKN020 RMK FCST BASED ON AUTO OBS. NXT FCST BY 280600Z CYQH 272340Z 2800/2812 VRB03KT P6SM FEW050 OVC120 FM280600 17005KT P6SM FEW012 BKN040 TEMPO 2806/2812 2SM BR SCT005 OVC012 PROB30 2806/2812 1/2SM FZFG VV003 RMK NXT FCST BY 280600Z CYQI 272340Z 2800/2812 16005KT P6SM BKN025 TEMPO 2800/2803 5SM -SHSN BKN020 BECMG 2800/2802 20012KT FM280300 20012G22KT 1 1/2SM -SN OVC015 TEMPO 2803/2812 6SM -SHSN OVC025 PROB30 2806/2811 3/4SM -SHSN -SHSN VV008 RMK NXT FCST BY 280600Z CYQK 280140Z 2802/2814 28005KT P6SM FEW150 FM280800 22005KT P6SM BKN080 FM281200 24007KT P6SM -SN SCT020 OVC040 TEMPO 2812/2814 3SM -SN OVC020 RMK NXT FCST BY 280800Z CYQL 272340Z 2800/2812 25020G30KT P6SM SCT300 BECMG 2807/2809 25025G35KT RMK NXT FCST BY 280600Z CYQM 272340Z 2800/2824 20006KT P6SM BKN220 FM280300 15008KT P6SM BKN025 OVC200 TEMPO 2803/2807 5SM -SN BKN020 OVC200 FM280700 17010KT 1SM -SN VV007 TEMPO 2807/2814 4SM -SN SCT007 OVC015 PROB30 2808/2814 3/4SM -SN FM281400 24005KT 1SM -SN OVC008 TEMPO 2814/2824 4SM -SN SCT008 OVC025 BECMG 2819/2821 30005KT RMK NXT FCST BY 280600Z CYQQ 272342Z 2800/2824 VRB03KT 1SM BR OVC002 TEMPO 2800/2802 2SM BR OVC004 FM280200 VRB03KT 1/4SM FZFG VV002 TEMPO 2802/2811 1SM BR OVC004 FM281100 17005KT 3/4SM BR OVC002 TEMPO 2811/2818 1 1/2SM BR OVC005 FM281800 VRB03KT 1 1/2SM BR OVC005 TEMPO 2818/2821 4SM BR BKN008 FM282100 14008KT 4SM BR BKN008 TEMPO 2821/2824 P6SM NSW SCT008 RMK NXT FCST BY 280600Z CYQR 272352Z 2800/2824 12007KT P6SM SCT030 BKN110 FM281000 13008KT P6SM FEW110 BKN250 BECMG 2810/2812 1/2SM FZFG VV004 FM281200 14005KT 1/4SM FZFG VV002 TEMPO 2812/2816 1/2SM FZFG VV004 BECMG 2816/2818 6SM BR FEW004 SCT250 FM281800 16005KT P6SM BKN250 FM282300 17010KT P6SM OVC200 RMK NXT FCST BY 280600Z CYQT 280140Z 2802/2814 28007KT P6SM SKC FM281200 28007KT P6SM BKN100 RMK NXT FCST BY 280800Z CYQU 280040Z 2801/2813 VRB03KT P6SM FEW120 BKN250 BECMG 2801/2803 26008KT FM280600 26012G22KT P6SM SCT220 FM281200 28008KT P6SM SKC RMK NXT FCST BY 280700Z CYQV 280132Z 2801/2806 21010KT 6SM -SN SCT012 OVC040 TEMPO 2801/2806 1 1/2SM -SN VV012 BECMG 2804/2806 26004KT RMK FCST BASED ON AUTO OBS. NXT FCST BY 281200Z CYQW 272356Z 2800/2812 12005KT P6SM OVC100 FM280500 13004KT P6SM FEW150 TEMPO 2805/2807 1 1/2SM BR BECMG 2807/2809 1/2SM FZFG VV004 FM280900 12004KT 1/2SM FZFG VV004 TEMPO 2809/2812 1/4SM FZFG VV002 RMK FCST BASED ON AUTO OBS. NXT FCST BY 280600Z CYQX 272340Z 2800/2824 27008KT P6SM SKC BECMG 2802/2804 21010KT FM281200 19010KT P6SM SCT015 FM281500 19015KT P6SM BKN015 BKN200 BECMG 2816/2818 20018G28KT BKN025 FM282200 19012KT P6SM -SHSN BKN020 BKN240 RMK NXT FCST BY 280600Z CYQY 272340Z 2800/2812 VRB03KT P6SM FEW020 BKN240 BECMG 2800/2802 22007KT FM280500 22007KT P6SM BKN025 TEMPO 2805/2812 5SM -SN BR BKN020 RMK NXT FCST BY 280600Z CYQZ 280040Z 2801/2806 16006KT P6SM FEW002 SCT200 RMK FCST BASED ON AUTO OBS. NXT FCST BY 281200Z CYRA 182111Z 1821/1901 VRB03KT P6SM SKC TEMPO 1821/1901 5SM IC BR RMK NXT FCST BY 191700Z CYRB 272345Z 2800/2824 35006KT P6SM SKC FM280300 VRB03KT P6SM FEW060 BKN160 FM280600 VRB03KT P6SM SCT030 BKN060 TEMPO 2806/2824 5SM -SN BKN030 BECMG 2810/2812 35010KT RMK NXT FCST BY 280600Z CYRJ 271940Z 2720/2803 20012G22KT P6SM -SN FEW020 OVC050 TEMPO 2720/2803 2 1/2SM -SN BKN020 OVC050 RMK NXT FCST BY 281300Z CYRL 271940Z 2720/2803 30008KT P6SM FEW030 BECMG 2720/2722 26007KT FM280100 26007KT P6SM FEW015 SCT160 RMK NXT FCST BY 281200Z CYRQ 280140Z 2802/2814 VRB03KT 1 1/2SM -SN OVC020 TEMPO 2802/2813 4SM -SN OVC025 PROB40 2811/2813 35015G25KT 3/4SM -SHSN BLSN VV008 FM281300 35012G22KT 6SM -SN BKN020 OVC040 TEMPO 2813/2814 P6SM NSW SCT020 BKN040 RMK FCST BASED ON AUTO OBS. NXT FCST BY 280800Z CYRT 280049Z 2800/2812 34020G30KT 1SM IC BLSN BKN005 TEMPO 2800/2812 3SM BLSN SCT005 RMK NXT FCST BY 280600Z CYSB 280140Z 2802/2814 35012G22KT P6SM BKN030 TEMPO 2802/2803 P6SM -SN BKN020 FM280300 35012G22KT P6SM FEW040 BECMG 2804/2806 01010KT RMK NXT FCST BY 280800Z CYSC 272340Z 2800/2803 17005KT P6SM OVC060 TEMPO 2800/2803 2SM -SN BKN020 OVC060 RMK FCST BASED ON AUTO OBS. NXT FCST BY 281100Z CYSF 272340Z 2800/2812 27006KT P6SM FEW060 TEMPO 2800/2802 6SM -SN SCT020 BKN060 FM280200 27005KT P6SM FEW030 RMK FCST BASED ON AUTO OBS. NXT FCST BY 280600Z CYSJ 272340Z 2800/2812 20010KT 6SM -SN OVC025 TEMPO 2800/2803 1 1/2SM -SHSN BLSN VV008 BECMG 2801/2803 20012G22KT FM280300 20012G22KT 3/4SM -SHSN BLSN VV006 TEMPO 2803/2809 3SM -SN OVC012 FM280900 27008KT 1 1/2SM -SN OVC015 TEMPO 2809/2812 6SM -SN SCT015 OVC080 RMK NXT FCST BY 280600Z CYSM 272340Z 2800/2812 VRB03KT P6SM FEW090 TEMPO 2800/2809 SCT025 BKN080 BECMG 2800/2802 12005KT FM280900 13007KT P6SM SCT020 BKN050 TEMPO 2809/2812 5SM -SN BKN020 OVC040 RMK NXT FCST BY 280600Z CYSN 271941Z 2720/2802 22018G28KT P6SM OVC025 TEMPO 2720/2802 2SM -SHSN OVC015 BECMG 2722/2724 24012G22KT RMK NXT FCST BY 281400Z CYSP 041942Z 0420/0422 04010G20KT P6SM FEW010 OVC110 RMK NXT FCST BY 051500Z CYSY 271840Z 2719/2724 28015KT P6SM FEW015 TEMPO 2719/2720 4SM -SN BKN015 FM272000 30015KT P6SM FEW030 RMK NXT FCST BY 281600Z CYTE 280040Z 2801/2813 02010KT P6SM SKC TEMPO 2801/2804 3SM IC HZ BECMG 2802/2804 35020G30KT FM280400 35020G30KT 1SM IC BLSN BKN005 TEMPO 2804/2813 6SM HZ FEW005 RMK FCST BASED ON AUTO OBS. NXT FCST BY 280700Z CYTH 280040Z 2801/2813 26005KT P6SM SCT025 BKN040 TEMPO 2801/2810 P6SM -SN BKN025 BECMG 2804/2806 31006KT FM281000 31005KT P6SM FEW030 BECMG 2811/2813 SKC RMK NXT FCST BY 280700Z CYTL 280140Z 2802/2814 27007KT P6SM OVC120 FM280600 28010G20KT P6SM BKN040 TEMPO 2806/2814 4SM -SN OVC020 RMK FCST BASED ON AUTO OBS. NXT FCST BY 280800Z CYTQ 271440Z 2715/2722 22015G25KT P6SM -SN FEW020 OVC240 TEMPO 2715/2718 1 1/2SM -SN BLSN OVC020 FM271800 19020G30KT 1 1/2SM -SN BLSN OVC020 TEMPO 2718/2722 6SM -SN OVC030 RMK NXT FCST BY 281500Z CYTR 280155Z 2801/2824 24015G25KT 3SM -SHSN BLSN BKN020 OVC030 TEMPO 2801/2803 6SM -SN SCT020 BKN030 BECMG 2801/2803 26010G20KT FM280300 26010G20KT 6SM -SN OVC030 TEMPO 2803/2807 3SM BLSN FM280700 27008KT P6SM BKN040 BECMG 2810/2812 34008KT SKC RMK NXT FCST BY 280600Z CYTS 280140Z 2802/2814 32006KT P6SM FEW025 SCT240 RMK NXT FCST BY 280800Z CYTZ 280140Z 2802/2902 25012G22KT P6SM BKN040 TEMPO 2802/2806 5SM -SN BKN020 BKN040 BECMG 2804/2806 30012G22KT FM280600 30012G22KT P6SM BKN050 TEMPO 2806/2808 SCT050 FM280800 33012G22KT P6SM FEW040 SCT080 FM281200 35010G20KT P6SM FEW025 BECMG 2815/2817 36010KT RMK FCST BASED ON AUTO OBS. NXT FCST BY 280800Z CYUB 280040Z 2801/2806 26007KT P6SM FEW080 SCT250 RMK NXT FCST BY 281600Z CYUL 280245Z 2803/2824 17010KT 1 1/4SM -SN OVC020 TEMPO 2803/2804 3SM -SN OVC025 FM280400 19008KT 6SM -SN OVC030 TEMPO 2804/2806 2SM -SN OVC020 FM280600 21008KT 6SM -SN SCT008 OVC025 TEMPO 2806/2812 2SM -SN BKN008 OVC025 FM281200 27008KT P6SM SCT008 OVC040 TEMPO 2812/2815 3SM -SN BKN008 OVC040 BECMG 2812/2814 36010G20KT FM281500 36010G20KT P6SM -SN BKN020 BKN040 BECMG 2816/2818 36010KT FM282100 03008KT P6SM BKN030 BECMG 2821/2823 FEW030 RMK NXT FCST BY 280600Z CYUT 271840Z 2719/2723 35022G32KT 1/4SM BLSN SCT050 TEMPO 2719/2723 3SM BLSN FEW050 RMK NXT FCST BY 281500Z CYUX 280040Z 2801/2813 34015KT P6SM SCT007 BKN060 TEMPO 2801/2803 2SM -SN BKN007 OVC060 FM280300 34020G30KT 1SM IC BLSN VV007 TEMPO 2803/2813 3SM BLSN SCT007 RMK NXT FCST BY 280700Z CYUY 272340Z 2800/2812 34012G22KT P6SM SCT020 OVC080 TEMPO 2800/2801 2SM -SN OVC020 FM280100 34012G22KT P6SM SCT020 TEMPO 2801/2812 BKN020 BECMG 2804/2806 33008KT RMK NXT FCST BY 280600Z CYVC 280041Z 2801/2813 33003KT 6SM -SN SCT020 OVC040 TEMPO 2801/2802 2SM -SN BKN020 OVC030 FM280300 31005KT P6SM SCT040 BKN070 BECMG 2804/2806 FEW040 SCT070 FM280600 VRB02KT P6SM FEW040 TEMPO 2806/2811 1 1/2SM BR FM281100 VRB02KT 6SM BR BKN200 TEMPO 2811/2813 2SM BR RMK NXT FCST BY 280700Z CYVM 280040Z 2801/2813 VRB03KT P6SM SCT030 OVC050 TEMPO 2801/2813 4SM -SN BKN020 OVC040 BECMG 2804/2806 02008KT RMK FCST BASED ON AUTO OBS. NXT FCST BY 280700Z CYVO 272340Z 2800/2812 33012G22KT 1SM -SN VV008 TEMPO 2800/2802 P6SM NSW SCT020 FM280200 34012G22KT P6SM SCT020 TEMPO 2802/2812 BKN020 BECMG 2804/2806 34008KT RMK NXT FCST BY 280600Z CYVP 280133Z 2801/2812 27015G25KT 1SM -SN BLSN OVC020 TEMPO 2801/2812 6SM -SN OVC030 BECMG 2808/2810 25015G25KT RMK NXT FCST BY 280600Z CYVQ 272340Z 2800/2812 26003KT P6SM -SN FEW004 SCT020 BKN050 TEMPO 2800/2805 2 1/2SM -SN BR SCT004 BKN015 OVC040 FM280500 28005KT 3SM -SN SCT012 OVC025 TEMPO 2805/2812 1SM -SN BKN012 OVC025 RMK NXT FCST BY 280600Z CYVR 280240Z 2803/2906 28005KT 1/4SM FG VV002 TEMPO 2803/2806 6SM BR BKN005 FM280600 VRB03KT 6SM BR OVC006 TEMPO 2806/2818 1/2SM FG VV002 FM281800 10006KT P6SM BKN005 PROB30 2818/2820 2SM BR BKN003 FM282000 10007KT P6SM FEW007 BKN250 RMK NXT FCST BY 280600Z CYVT 272040Z 2721/2804 VRB03KT 1SM -SN VV020 TEMPO 2721/2724 P6SM NSW SCT020 BKN040 BECMG 2722/2724 09006KT FM280000 09006KT P6SM OVC025 TEMPO 2800/2804 4SM -SN BR OVC015 RMK FCST BASED ON AUTO OBS. NXT FCST BY 281400Z CYVV 272234Z 2722/2724 26012G22KT P6SM OVC012 TEMPO 2722/2724 2SM -SHSN BECMG 2723/2724 30012G22KT RMK NXT FCST BY 281200Z CYWA 280049Z 2800/2824 CNL RMK NO OBS. NXT FCST BY 280600Z CYWE 280007Z 2800/2802 31008KT P6SM SCT030 BKN200 TEMPO 2800/2802 BKN012 BECMG 2800/2801 VRB03KT RMK FCST BASED ON AUTO OBS. NXT FCST BY 281400Z CYWG 272340Z 2800/2824 26006KT P6SM BKN160 BKN230 BECMG 2801/2803 23005KT FM280700 24008KT P6SM BKN080 BECMG 2809/2811 BKN040 FM281200 28005KT P6SM FEW040 BECMG 2813/2815 SKC FM281500 VRB02KT P6SM SKC BECMG 2817/2819 BKN200 FM282100 17004KT P6SM BKN150 FM282300 16008KT P6SM OVC080 RMK NXT FCST BY 280600Z CYWH 272342Z 2800/2805 03005KT P6SM FEW008 TEMPO 2803/2805 BKN008 RMK NXT FCST BY 281500Z CYWJ 271740Z 2718/2724 34005KT P6SM BKN060 OVC150 TEMPO 2718/2724 3SM -SN BKN020 OVC050 BECMG 2718/2720 03005KT RMK NXT FCST BY 281500Z CYWK 280140Z 2802/2814 19015G25KT P6SM SCT030 OVC120 TEMPO 2802/2807 2 1/2SM -SHSN BLSN OVC030 FM280700 28012G22KT P6SM FEW020 TEMPO 2807/2814 BKN020 RMK NXT FCST BY 280800Z CYWL 280040Z 2801/2813 12006KT P6SM SCT220 RMK NXT FCST BY 280700Z CYXC 280040Z 2801/2813 VRB03KT P6SM OVC020 TEMPO 2801/2813 OVC025 RMK NXT FCST BY 280700Z CYXE 272346Z 2800/2824 19006KT P6SM SCT110 BKN250 TEMPO 2800/2806 BKN110 FM280700 18006KT P6SM SKC TEMPO 2809/2813 1 1/2SM BR SCT004 PROB30 2809/2813 1/2SM FZFG VV004 FM281300 15003KT 4SM BR SCT004 TEMPO 2813/2817 1/2SM FZFG VV004 BECMG 2817/2819 6SM BR FM281900 18005KT P6SM BKN250 FM282200 25005KT P6SM BKN160 BKN250 RMK NXT FCST BY 280600Z CYXH 272340Z 2800/2812 20012G22KT P6SM BKN270 BECMG 2804/2806 21008KT RMK NXT FCST BY 280600Z CYXJ 280040Z 2801/2813 21008KT P6SM BKN200 RMK NXT FCST BY 280700Z CYXL 280140Z 2802/2814 VRB03KT P6SM SKC FM281000 25005KT P6SM BKN100 FM281200 24007KT P6SM SCT020 BKN050 TEMPO 2812/2814 4SM -SN OVC020 RMK NXT FCST BY 280800Z CYXP 271840Z 2719/2723 34008KT P6SM SCT040 BKN060 TEMPO 2719/2721 P6SM -SN BKN040 OVC100 FM272100 12007KT P6SM SCT030 BKN080 TEMPO 2721/2723 5SM -SN BKN030 OVC080 RMK NXT FCST BY 281400Z CYXR 272148Z 2721/2801 32018G28KT 3SM -SN OVC030 TEMPO 2721/2723 1SM -SN OVC020 FM272300 33018G28KT P6SM SCT020 BKN060 TEMPO 2723/2801 5SM -SN BKN020 OVC040 RMK FCST BASED ON AUTO OBS. NXT FCST BY 281300Z CYXS 280040Z 2801/2813 15005KT P6SM FEW200 FM280700 16006KT P6SM FEW200 PROB30 2807/2813 1SM BR RMK FCST BASED ON AUTO OBS. NXT FCST BY 280700Z CYXT 280040Z 2801/2813 14004KT P6SM FEW020 FM280300 16006KT P6SM FEW020 SCT200 TEMPO 2803/2807 3SM BR SCT004 BKN015 PROB30 2803/2807 3/4SM BR OVC004 FM280700 16008KT P6SM FEW005 OVC015 TEMPO 2807/2810 2SM -SN BR BKN005 OVC010 FM281000 16008KT 5SM -SN BR SCT005 OVC012 TEMPO 2810/2813 3/4SM -SN BR OVC004 RMK NXT FCST BY 280700Z CYXU 272340Z 2800/2824 25015KT 6SM -SN SCT015 OVC030 TEMPO 2800/2804 2 1/2SM -SN BKN008 OVC015 FM280500 34010G20KT 1 1/2SM -SHSN VV012 TEMPO 2805/2807 6SM -SN SCT012 OVC025 FM280700 36010G20KT P6SM BKN040 FM281100 01010KT P6SM FEW020 RMK NXT FCST BY 280600Z CYXX 272341Z 2800/2824 03005KT P6SM SKC BECMG 2802/2804 2SM BR FM280400 VRB03KT P6SM SCT006 TEMPO 2804/2818 2SM BR BKN006 PROB40 2804/2815 1/4SM FZFG RMK NXT FCST BY 280600Z CYXY 272340Z 2800/2812 18016KT P6SM FEW020 SCT040 BKN100 TEMPO 2800/2804 3SM -SN BR SCT006 OVC012 PROB30 2800/2804 1SM -SN BR OVC006 FM280400 16015KT P6SM FEW020 BKN080 TEMPO 2804/2810 4SM -SN BR BKN020 FM281000 18012KT 6SM -SN BKN015 OVC030 TEMPO 2810/2812 2SM -SN BR BKN006 OVC012 RMK NXT FCST BY 280600Z CYXZ 271353Z 2713/2724 34010G20KT P6SM -SHSN OVC040 TEMPO 2713/2717 2 1/2SM -SN OVC012 FM271700 35008G18KT P6SM -SHSN BKN040 BECMG 2719/2721 P6SM NSW SCT040 RMK NXT FCST BY 272000Z CYYB 280140Z 2802/2814 35015G25KT P6SM BKN030 TEMPO 2802/2804 5SM -SHSN BKN020 FM280400 36012G22KT P6SM FEW030 RMK NXT FCST BY 280800Z CYYC 280240Z 2803/2824 29012G22KT P6SM FEW240 BECMG 2803/2805 290010KT FM280800 28012G22KT P6SM SKC FM282000 27015G25KT P6SM SCT240 RMK NXT FCST BY 280600Z CYYD 280040Z 2801/2806 14005KT P6SM SCT200 FM280300 VRB03KT P6SM SKC TEMPO 2803/2806 4SM BR PROB30 2803/2806 1SM BR RMK NXT FCST BY 281400Z CYYE 280040Z 2801/2813 VRB03KT 3SM BR OVC006 TEMPO 2801/2813 1/2SM FZFG OVC002 RMK NXT FCST BY 280700Z CYYF 280040Z 2801/2813 18010KT P6SM OVC020 TEMPO 2801/2813 OVC025 RMK NXT FCST BY 280700Z CYYG 272340Z 2800/2812 17008KT P6SM BKN220 FM280800 17012KT P6SM FEW012 BKN030 TEMPO 2808/2812 5SM -SN BKN012 OVC030 RMK NXT FCST BY 280600Z CYYH 272346Z 2800/2812 16008KT P6SM FEW040 RMK NXT FCST BY 280600Z CYYJ 272342Z 2800/2824 27005KT P6SM FEW015 FM280400 26005KT P6SM SCT005 TEMPO 2804/2812 2SM BR BKN005 PROB30 2804/2812 1/2SM FG FM281200 25005KT P6SM BKN008 TEMPO 2812/2820 1SM BR BKN004 PROB30 2812/2820 1/2SM FG FM282000 08005KT P6SM SCT008 TEMPO 2820/2824 2SM BR BKN008 RMK NXT FCST BY 280600Z CYYL 280040Z 2801/2813 28008KT P6SM FEW040 BECMG 2801/2803 SCT020 BKN040 FM280300 31008KT P6SM SCT020 OVC040 TEMPO 2803/2805 6SM -SN BKN020 FM280600 31008KT P6SM FEW030 FM280900 29005KT P6SM SKC BECMG 2811/2813 BKN200 RMK FCST BASED ON AUTO OBS. NXT FCST BY 280700Z CYYN 272358Z 2800/2812 21012KT P6SM FEW150 FM280500 25008KT P6SM FEW150 SCT250 RMK FCST BASED ON AUTO OBS. NXT FCST BY 280600Z CYYQ 272340Z 2800/2824 29012KT P6SM FEW015 BECMG 2805/2807 32018G28KT SKC FM280900 33018G28KT 6SM IC FEW020 TEMPO 2810/2815 3SM -SN BLSN BKN020 BECMG 2815/2816 32015KT FM281600 31012KT P6SM SCT020 TEMPO 2816/2820 BKN020 FM282100 29012KT P6SM BKN025 TEMPO 2821/2824 6SM -SN RMK NXT FCST BY 280600Z CYYR 272340Z 2800/2824 18012KT P6SM BKN180 BECMG 2800/2802 23012KT FM280200 23012KT P6SM BKN030 OVC180 TEMPO 2802/2818 P6SM -SN BECMG 2812/2814 24015KT FM281800 26015KT P6SM BKN030 FM282100 27010KT P6SM SCT030 RMK NXT FCST BY 280600Z CYYT 272340Z 2800/2824 32010KT P6SM BKN025 TEMPO 2800/2803 5SM -SHSN OVC020 FM280300 28010KT P6SM SCT020 TEMPO 2803/2808 BKN020 FM280800 26008KT P6SM SKC FM281100 28008KT P6SM SCT240 BECMG 2812/2814 23012KT FM281700 22012KT P6SM BKN020 BECMG 2822/2824 21012G22KT RMK NXT FCST BY 280600Z CYYU 280140Z 2802/2814 29005KT P6SM SKC RMK NXT FCST BY 280800Z CYYY 280140Z 2802/2814 19012G22KT P6SM BKN070 OVC140 TEMPO 2802/2812 3SM -SN OVC040 FM281200 20012G22KT 6SM -SN OVC025 TEMPO 2812/2814 2 1/2SM -SN PROB30 2812/2814 1 1/2SM -SN OVC020 RMK NXT FCST BY 280800Z CYYZ 280240Z 2803/2906 24012KT P6SM BKN030 TEMPO 2803/2805 3SM -SHSN BKN015 OVC030 BECMG 2803/2805 32012G22KT FM280500 33012G22KT P6SM BKN060 TEMPO 2805/2807 SCT060 FM280700 34010G20KT P6SM FEW020 SCT040 FM281200 36012KT P6SM SKC RMK NXT FCST BY 280600Z CYZE 271516Z 2715/2723 24015G25KT 6SM -SN BLSN FEW008 OVC025 TEMPO 2715/2722 1 1/2SM -SN BLSN VV008 PROB30 2717/2722 3/4SM -SHSN BLSN VV007 FM272200 32015G25KT 6SM -SN SCT020 OVC040 TEMPO 2722/2723 4SM -SN BLSN OVC020 RMK FCST BASED ON AUTO OBS. NXT FCST BY 272000Z CYZF 280210Z 2802/2824 VRB03KT P6SM -SN SCT020 OVC040 TEMPO 2802/2821 1SM -SN BKN012 OVC025 BECMG 2802/2803 07006KT FM282100 05012KT P6SM SCT025 BKN050 TEMPO 2821/2824 5SM -SN BKN020 OVC040 RMK NXT FCST BY 280600Z CYZG 271806Z 2718/2722 02010KT 6SM -SN SCT012 BKN040 TEMPO 2718/2722 3/4SM -SN BR VV004 BECMG 2720/2722 35015KT RMK NXT FCST BY 281500Z CYZH 280040Z 2801/2813 28005KT P6SM SCT120 BKN220 RMK FCST BASED ON AUTO OBS. NXT FCST BY 280700Z CYZP 280042Z 2801/2813 16015G25KT P6SM SCT012 TEMPO 2801/2803 BKN012 FM280300 14015KT P6SM -RA OVC030 TEMPO 2803/2813 4SM -RA BR OVC020 RMK FCST BASED ON AUTO OBS. NXT FCST BY 280700Z CYZR 271940Z 2720/2803 21010G20KT P6SM SCT020 OVC050 TEMPO 2720/2722 3SM -SN OVC020 FM272200 21010KT P6SM -SHSN OVC025 TEMPO 2722/2803 2 1/2SM -SHSN OVC020 BECMG 2802/2803 26008KT RMK FCST BASED ON AUTO OBS. NXT FCST BY 280900Z CYZS 280040Z 2801/2813 36020G30KT P6SM FEW020 TEMPO 2801/2813 3SM IC BLSN BKN020 RMK NXT FCST BY 280700Z CYZT 280040Z 2801/2813 10010G20KT P6SM SKC RMK NXT FCST BY 280700Z CYZU 271840Z 2719/2723 28005KT P6SM BKN100 OVC220 BECMG 2720/2722 SCT100 BKN220 RMK NXT FCST BY 281400Z CYZV 272340Z 2800/2824 22008KT P6SM -SN SCT020 OVC060 TEMPO 2800/2801 1 1/2SM -SN BKN020 FM280100 22010KT 1 1/2SM -SN OVC015 TEMPO 2801/2809 4SM -SN SCT015 OVC030 FM280900 29006KT 6SM -SN SCT015 OVC080 TEMPO 2809/2812 2 1/2SM -SN BKN015 OVC080 FM281200 30006KT P6SM SCT030 BKN090 TEMPO 2812/2821 6SM -SN BECMG 2813/2815 34012KT FM282100 34010KT P6SM FEW030 RMK NXT FCST BY 280600Z CYZW 271740Z 2718/2724 VRB03KT P6SM FEW050 BKN120 TEMPO 2718/2724 P6SM -SN FEW020 BKN040 RMK NXT FCST BY 281800Z CYZX 280140Z 2801/2824 VRB03KT P6SM BKN220 FM280400 18008KT P6SM BKN030 BKN200 TEMPO 2804/2810 BKN020 FM281000 18008KT P6SM OVC025 TEMPO 2810/2818 4SM -SHSN OVC020 FM281800 21012KT 1SM -SN OVC010 TEMPO 2818/2824 3SM -SN OVC020 BECMG 2820/2822 VRB03KT RMK NXT FCST BY 280600Z CYZY 280040Z 2801/2809 16005KT P6SM SKC FM280700 16005KT P6SM FEW200 TEMPO 2807/2809 5SM BR PROB30 2807/2809 2SM BR RMK FCST BASED ON AUTO OBS. NXT FCST BY 280700Z CZBF 280140Z 2802/2804 18006KT P6SM BKN180 RMK FCST BASED ON AUTO OBS. AUTO OBS REP NON-REPRESENTATIVE PCPN. NXT FCST BY 281000Z CZFA 271740Z 2718/2722 VRB03KT P6SM FEW020 BKN050 OVC120 TEMPO 2718/2722 3SM -SN OVC020 RMK NXT FCST BY 281600Z CZFM 272030Z 2720/2724 VRB03KT P6SM BKN050 TEMPO 2720/2724 2SM -SN BKN020 OVC040 RMK NXT FCST BY 281600Z CZMD 271740Z 2718/2723 27010KT P6SM FEW015 TEMPO 2718/2723 5SM IC BKN015 RMK FCST BASED ON AUTO OBS. NXT FCST BY 281100Z CZMT 272131Z 2721/2802 16012G22KT P6SM SCT008 BKN100 TEMPO 2721/2802 BKN008 RMK NXT FCST BY 281600Z CZSJ 271740Z 2718/2723 29010KT P6SM FEW025 RMK FCST BASED ON AUTO OBS. NXT FCST BY 281100Z CZUM 280237Z 2802/2814 21010G20KT P6SM -SN SCT030 BKN100 TEMPO 2802/2810 2 1/2SM -SHSN BKN030 OVC100 FM281000 27010G20KT P6SM FEW020 TEMPO 2810/2814 BKN020 RMK FCST BASED ON AUTO OBS. NXT FCST BY 280800Z CZVL 272340Z 2800/2812 28005KT P6SM SCT080 BKN220 BECMG 2802/2804 22005KT FM280900 19005KT P6SM SKC RMK FCST BASED ON AUTO OBS. NXT FCST BY 280600Z DAAE 272300Z 2800/2824 20008KT CAVOK BECMG 2809/2811 02006KT BECMG 2815/2817 20006KT DAAG 280214Z 2802/2824 VRB02KT 3000 BR FEW020 BECMG 2806/2808 6000 NSW TEMPO 2810/2816 04010KT DAAJ 272300Z 2800/2824 VRB02KT CAVOK DAAS 272300Z 2800/2824 VRB02KT CAVOK BECMG 2806/2808 30006KT DAAT 272300Z 2800/2824 08014KT CAVOK DAAV 272300Z 2800/2824 16008KT CAVOK BECMG 2808/2810 34006KT BECMG 2815/2817 20008KT DAAY 241700Z 2418/2506 36012KT CAVOK BECMG 2423/2501 VRB02KT DABB 272300Z 2800/2824 20006KT CAVOK PROB40 TEMPO 2800/2806 VRB02KT 2000 BR BKN010 PROB30 TEMPO 2800/2805 0500 FG BECMG 2809/2811 34006KT BECMG 2815/2817 24006KT DABC 272300Z 2800/2824 VRB02KT CAVOK PROB40 TEMPO 2800/2806 2000 BR BKN010 PROB30 TEMPO 2800/2805 0500 FG BECMG 2807/2809 30006KT DABS 272300Z 2800/2824 22006KT CAVOK BECMG 2808/2810 34006KT DABT 272300Z 2800/2824 VRB02KT CAVOK BECMG 2807/2809 34008KT DAF FNUE 012200Z 0200/0212 12004KT 8000 SCT020 FEW026CB TEMPO 0201/0207 3000 BR -RA OVC010 BECMG 0210/0212 09008KT 9000 DAOB 272300Z 2800/2824 10008KT CAVOK DAOI 272300Z 2800/2824 06010KT CAVOK BECMG 2802/2804 VRB02KT BECMG 2810/2812 03010KT DAON 272300Z 2800/2824 VRB02KT 9999 FEW026 BECMG 2810/2812 06010KT DAOO 272300Z 2800/2824 02010KT 9999 FEW020 BECMG 2802/2804 VRB02KT BECMG 2810/2812 16010KT DAOV 241700Z 2418/2506 02006KT CAVOK BECMG 2422/2424 VRB02KT DAOY 161700Z 1618/1703 36016KT 8000 SCT015 SCT023 PROB40 TEMPO 1619/1724 8000 -DZ BECMG 1701/1703 8000 FEW010 DAUA 272300Z 2800/2824 04014KT CAVOK PROB40 TEMPO 2809/2815 06024KT 4000 DRSA DAUB 272300Z 2800/2824 20006KT CAVOK DAUG 272300Z 2800/2824 06008KT CAVOK DAUH 272300Z 2800/2824 06008KT CAVOK DAUI 272300Z 2800/2824 04014KT 8000 NSC PROB40 TEMPO 2809/2816 04025KT 3000 DRSA DAUK 181100Z 1812/1821 04025010KT DAUO 181100Z 1812/1821 10010KT CAVOK DAUT 181100Z 1812/1821 34012KT CAVOK PROB30 TEMPO 1812/1815 812/1821 12008KT 9999 FEW046 PROB30 TEMPO 1812/1815 FEW036TCU BECMG 1814/1816 25010KT DAUZ 272300Z 2800/2824 08010KT CAVOK DBAK 091100Z 0912/1018 25010KT 9999 BKN012 TEMPO 0912/0918 SCT012 FEW020CB PROB30 0914/0917 5000 -TSRA BKN009 FEW019CB BECMG 0918/0920 VRB02KT SCT011 BECMG 1008/1010 22010KT BKN012 DBBB 272300Z 2800/2906 03005KT 4000 DU NSC DBBE 102300Z 1100/1206 VRB02KT 8000 SCT010 TEMPO 1105/1108 5000 BR BECMG 1108/1110 22010KT BKN012 FEW020CB TEMPO 1113/1118 4000 -TSRA BKN010 FEW019CB BECMG 1118/1120 VRB02KT SCT010 DBIB 032300Z 0400/0506 VRB02KT 8000 FEW011 TEMPO 0405/0409 5000 HZ PROB30 0406/0409 3000 BECMG 0409/0411 20010KT BKN013 PROB30 TEMPO 0412/0418 08010KT 5000 HZ BECMG 0418/0420 VRB02KT SCT011 DBSU 220500Z 2206/2312 VRB02KT 2000 HZ NSC TEMPO 2206/2209 1500 BR PROB30 2206/2207 0800 FG VV/// BECMG 2209/2211 03010KT 6000 BECMG 2217/2219 VRB02KT DFFD 272300Z 2800/2906 08010KT 8000 NSC TEMPO 2806/2811 3500 DU TEMPO 2817/2821 4000 DU DFOO 272300Z 2800/2824 09010KT 8000 NSC TEMPO 2806/2810 4000 DU DGAA 272300Z 2800/2906 20005KT 8000 NSC BECMG 2803/2805 28005KT TEMPO 2806/2810 3000 HZ FM281200 17010KT 5000 HZ NSC DGSI 270500Z 2706/2806 14005KT 2000 HZ NSC BECMG 2711/2713 4000 DGTK 231100Z 2312/2418 32005KT 7000 NSC TEMPO 2312/2314 4000 HZ FM 232100 00000KT 5000 BR FEW010 TEMPO 2405/2406 05003KT 3000 DIAP 272300Z 2800/2906 VRB02KT 8000 FEW012 TEMPO 2805/2808 3000 BR DIBK 272300Z 2800/2824 12004KT 8000 NSC TEMPO 2812/2818 4000 HZ DIYO 272300Z 2800/2824 20004KT 8000 NSC TEMPO 2805/2808 3000 BR TEMPO 2812/2818 4000 HZ DKSO 290500Z 2906/3012 23010KT 9999 SCT012 DMBE 030500Z 0306/0412 VRB02KT 3000 BR TEMPO 0306/0308 1500 BECMG 0308/0310 21010KT 8000 NSW BKN013 FEW020CB BECMG 0317/0319 VRB02KT SCT009 DMIB 050500Z 0506/0612 VRB02KT 8000 SCT008 TEMPO 0506/0508 4000 BR BECMG 0508/0510 24010KT BKN012 TEMPO 0514/0519 TS SCT013 FEW020CB BECMG 0519/0521 VRB02KT SCT011 DNAA 242300Z 2500/2606 29003KT 8000 NSC BECMG 2501/2503 06010KT TEMPO 2505/2511 5000 HZ PROB30 2507/2510 3000 BECMG 2512/2514 16010KT DNAI 302300Z 0100/0206 VRB02KT 8000 BKN008 PROB30 TEMPO 0103/0107 5000 BR BECMG 0108/0110 22010KT BKN011 DNAK 272300Z 2800/2906 VRB02KT 1000 HZ NSC TEMPO 2805/2809 0800 DU VV/// BECMG 2809/2811 05010KT BECMG 2817/2819 VRB02KT 5000 DNBA 272300Z 2800/2906 04006KT 0800 DU NSC TEMPO 2805/2811 0350 VV/// DNBE 272300Z 2800/2906 VRB02KT 1500 HZ NSC TEMPO 2805/2809 0800 DU VV/// BECMG 2808/2811 32010KT 3000 BECMG 2817/2819 VRB02KT DNBZ 090505Z 0906/1012 05007KT 7000 NSC TEMPO 0906/09010 4000 HZ DNCA 261700Z 2618/2724 VRB02KT 3000 HZ NSC TEMPO 2704/2708 1500 BR BECMG 2708/2710 32010KT BECMG 2718/2720 VRB02KT DNEN 261700Z 2618/2724 09005KT 5000 HZ NSC TEMPO 2705/2710 2000 DNGO 272300Z 2800/2906 03006KT 0800 DU NSC TEMPO 2805/2811 0350 VV/// DNIB 272300Z 2800/2906 VRB02KT 2000 HZ NSC TEMPO 2805/2809 1000 BECMG 2809/2811 04010KT BECMG 2817/2819 VRB02KT 5000 DNIL 242300Z 2500/2606 35003KT CAVOK BECMG 2502/2505 09010KT TEMPO 2509/2515 26010KT DNIM 261700Z 2618/2724 07005KT 7000 NSC TEMPO 2706/2710 5000 HZ DNJO 242300Z 2500/2606 10008KT CAVOK BECMG 2501/2503 03015KT PROB30 TEMPO 2504/2510 5000 HZ NSC DNKA 242300Z 2500/2606 04006KT CAVOK TEMPO 2505/2510 5000 HZ NSC DNKN 272300Z 2800/2906 VRB02KT 0800 DU NSC TEMPO 2802/2808 0350 VV/// DNKT 272300Z 2800/2906 VRB02KT 0800 DU NSC TEMPO 2802/2808 0350 VV/// DNMA 272300Z 2800/2906 05006KT 0350 DU VV/// TEMPO 2801/2807 0150 DNMM 272300Z 2800/2906 VRB02KT 2000 HZ NSC TEMPO 2805/2809 1500 PROB30 2806/2807 0800 DU VV/// TEMPO 2811/2817 17010KT BECMG 2817/2819 VRB02KT DNMN 250500Z 2506/2612 35015G25KT 7000 NSC TEMPO 2510/2516 06005KT 5000 HZ DNPO 261700Z 2618/2724 VRB02KT 2000 HZ NSC TEMPO 2704/2708 1000 BECMG 2708/2710 34010KT BECMG 2717/2719 VRB02KT DNSO 272300Z 2800/2906 09008KT 0800 DU NSC TEMPO 2807/2813 0350 VV/// DNSU 272300Z 2800/2906 VRB02KT 1500 HZ NSC TEMPO 2805/2809 0800 DU VV/// BECMG 2809/2811 33010KT 3000 BECMG 2817/2819 VRB02KT DNYO 272300Z 2800/2906 00000KT 0350 DU VV/// TEMPO 2801/2807 0150 DRRN 272300Z 2800/2906 04008KT 1500 DU NSC BECMG 2802/2804 4000 TEMPO 2804/2808 2500 TEMPO 2808/2812 08018KT 1200 BLDU DRZA 272300Z 2800/2824 08015KT 8000 NSC TEMPO 2808/2814 10025KT 2500 BLDU DRZR 272300Z 2800/2824 06006KT 1200 DU NSC TEMPO 2808/2812 08016KT 0600 BLDU DTKA 190300Z 1904/2013 08005KT 9999 SCT020 DTMB 272300Z 2800/2824 24002KT 6000 NSC PROB40 TEMPO 2802/2808 3000 BR PROB30 TEMPO 2805/2808 0800 FG BECMG 2821/2823 31012KT DTNH 272300Z 2800/2824 29004KT CAVOK PROB30 TEMPO 2803/2808 3000 BR PROB30 TEMPO 2816/2818 35010KT PROB30 TEMPO 2822/2824 31014KT DTTA 272300Z 2800/2824 VRB02KT 9999 FEW026 PROB30 TEMPO 2803/2808 2000 BR BECMG 2808/2810 24010KT BECMG 2813/2815 30010KT BECMG 2820/2822 24008KT DTTB 171200Z 1713/1801 VRB03KT 8000 BKN020 PROB30 TEMPO 1714/1718 TSRA FEW026CB BECMG 1720/1722 31010KT DTTF 190300Z 1904/2013 03012KT 9999 FEW026 DTTG 190300Z 1904/2013 09005KT 9999 FEW023CB PROB40 TEMPO 1905/1908 -TSRA FEW026CB DTTJ 272300Z 2800/2824 19004KT CAVOK BECMG 2808/2810 26010KT BECMG 2816/2818 20004KT BECMG 2821/2823 26014KT DTTR 171200Z 1713/1801 16012KT 7000 NSC BECMG 1717/1719 VRB04KT DTTX 272300Z 2800/2824 25004KT CAVOK BECMG 2822/2824 35010KT DTTZ 272300Z 2800/2824 VRB04KT CAVOK BECMG 2813/2815 28010KT DXNG 272300Z 2800/2824 06008KT 6000 NSC BECMG 2805/2807 2500 HZ DXXX 272300Z 2800/2906 VRB02KT 6000 NSC PROB30 TEMPO 2805/2809 2500 HZ BECMG 2812/2814 18010KT BECMG 2820/2822 VRB03KT EBBE 171605Z 1719/1807 30006KT 4000 BR FEW015 BKN220 TEMPO 1719/1807 24004KT 2000 BR SCT004 TEMPO 1801/1807 VRB02KT 0500 FG BKN001 BKN003 EBBL 241627Z 2419/2507 VRB03KT 7000 SKC BECMG 2419/2421 4000 BR BECMG 2421/2423 3000 BR TEMPO 2422/2507 1000 BR TEMPO 2423/2507 0500 FZFG BKN001 EBBR 272310Z 2800/2906 29006KT 9999 SCT025 PROB30 2807/2810 4000 BR BKN004 BECMG 2819/2821 23010KT BKN012 TEMPO 2821/2906 3000 DZ OVC005 EBCI 272310Z 2800/2906 29006KT 8000 SCT020 BECMG 2802/2804 4000 BR BKN006 PROB40 2805/2809 0600 FG OVC002 TEMPO 2812/2818 8000 NSW SCT010 BECMG 2819/2821 23010KT TEMPO 2823/2906 2000 DZ OVC003 EBCV 211606Z 2119/2207 28005KT 9999 SCT025 SCT040 TEMPO 2113/2117 BKN020 BECMG 2122/2200 SCT010 BKN012 PROB30 TEMPO 2202/2207 3000 -RADZ -DZ BR BKN007 BECMG 2204/2206 BKN006 BY EBWM EBDT 021541Z 0219/0307 28005KT 6000 FEW030 SCT045 BECMG 0220/0222 3000 BR BECMG 0302/0304 23006KT 1600 BR SCT003 BKN120 EBFN 181700Z 1819/1907 12006KT 1000 BR SCT003 BKN005 BKN020 TEMPO 1819/1904 VRB02KT 0100 FG BKN002 OVC003 BECMG 1905/1907 24007KT 6000 NSW SCT007 PROB40 TEMPO 1904/1907 4000 BR BKN006 EBFS 171616Z 1719/1807 1719/1807 35005KT 2000 BR BKN003 BECMG 1719/1721 VRB03KT 0500 FG BKN001 TEMPO 1720/1807 05005KT 0200 FG DZ OVC001 EBLG 272310Z 2800/2906 28005KT 8000 SCT025 PROB30 2806/2810 4000 BR BKN009 BECMG 2820/2822 22010KT BKN014 PROB40 TEMPO 2902/2906 3000 DZ BKN005 EBOS 272310Z 2800/2906 32012KT 9999 SCT025 BECMG 2803/2805 26006KT PROB30 2806/2808 1500 BCFG TEMPO 2818/2906 25015G25KT 4000 -RADZ SCT008 BKN012 EDDB 272300Z 2800/2824 28020G30KT 9999 BKN030 BECMG 2805/2807 30015G25KT BECMG 2815/2817 29010KT BECMG 2820/2823 23005KT EDDC 272300Z 2800/2824 29020G30KT 9999 SCT015 BKN030 BECMG 2811/2814 29015G25KT BECMG 2816/2818 27011KT EDDE 272300Z 2800/2824 28015G25KT 9999 SCT030 TEMPO 2800/2804 28020G30KT BECMG 2809/2812 30015KT BECMG 2815/2818 27010KT EDDF 272300Z 2800/2906 23010KT 9999 SCT045 TEMPO 2800/2806 -SHRA SCT015CB BKN045 TEMPO 2806/2812 BKN045 BECMG 2810/2812 29012KT BECMG 2816/2818 21008KT BECMG 2900/2902 BKN020 TEMPO 2902/2906 BKN014 PROB30 TEMPO 2905/2906 3000 DZRA EDDG 272300Z 2800/2824 28011KT 9999 SCT030 BECMG 2812/2815 24006KT BECMG 2822/2824 22011KT BKN012 EDDH 272300Z 2800/2906 29015G30KT 9999 SCT020 BECMG 2806/2808 30012KT PROB30 TEMPO 2808/2810 30015G25KT BECMG 2814/2816 27007KT BECMG 2818/2820 21010KT BECMG 2822/2824 BKN012 TEMPO 2902/2906 24015G25KT 4000 RA BKN008 EDDK 280156Z 2801/2906 30010KT 9999 BKN020 TEMPO 2801/2806 30015G25KT PROB30 TEMPO 2803/2811 BKN012 BECMG 2813/2816 21005KT TEMPO 2904/2906 BKN012 EDDL 272300Z 2800/2906 28010KT 9999 SCT030 BECMG 2804/2807 27005KT BECMG 2814/2817 21007KT BECMG 2822/2901 22012KT BECMG 2901/2903 BKN012 BECMG 2903/2906 BKN007 EDDM 272300Z 2800/2906 28015G25KT 9999 BKN012 TEMPO 2800/2808 3000 -SHSNRA BKN008TCU TEMPO 2808/2814 2000 SHSNRA BKN015TCU BECMG 2814/2816 28012KT BECMG 2816/2818 25006KT EDDN 272300Z 2800/2824 26015G25KT 9999 OVC010 PROB30 TEMPO 2801/2809 4000 -SHSNRA BKN004 BKN010TCU BECMG 2809/2811 32015G25KT BKN020 BECMG 2815/2817 26007KT EDDP 272300Z 2800/2824 28020G30KT 9999 BKN025 BECMG 2803/2806 28015G25KT TEMPO 2809/2814 30020G30KT BECMG 2815/2818 29010KT EDDR 272300Z 2800/2824 25007KT 4000 BR OVC003 TEMPO 2800/2810 8000 OVC005 PROB30 TEMPO 2800/2808 1500 BR OVC001 BECMG 2809/2811 9999 SCT011 BKN020 PROB30 TEMPO 2822/2824 BKN008 EDDS 272300Z 2800/2824 25009KT 9999 BKN015 TEMPO 2800/2808 BKN010 BECMG 2817/2819 23004KT EDDT 082300Z 0823/0918 CNL= EGGD 082300Z 0823/0918 14005KT 6000 BKN008 TEMPO 0823/0908 2000 BR BKN002 PROB30 TEMPO 0823/0908 0800 FG BKN001 PROB30 TEMPO 0903/0911 SHRA BECMG 0908/0911 9999 SCT008 TEMPO 0911/0918 BKN008 PROB30 TEMPO 0911/0918 4000 SHRA EDDV 272300Z 2800/2824 28015G30KT 9999 BKN020 BECMG 2804/2806 28012KT TEMPO 2806/2813 30015G25KT BECMG 2814/2816 25007KT BECMG 2822/2824 23012KT PROB30 TEMPO 2823/2824 BKN012 EDDW 272300Z 2800/2824 28015G25KT 9999 SCT020 BECMG 2804/2806 29012KT BECMG 2815/2817 23007KT BECMG 2821/2823 23012KT BKN012 PROB30 TEMPO 2823/2824 BKN008 EDFH 272300Z 2800/2824 28011KT 0800 FG BKN001 BECMG 2800/2802 9999 SCT012 BKN020 TEMPO 2803/2812 BKN010 TEMPO 2820/2824 BKN005 PROB40 TEMPO 2821/2824 3000 BR OVC002 EDLP 272300Z 2800/2824 28011KT 9999 BKN020 TEMPO 2800/2802 BKN012 BECMG 2802/2805 BKN008 BECMG 2808/2811 BKN012 BECMG 2811/2814 26006KT SCT020 BECMG 2820/2823 23011KT EDLV 272350Z 2723/2818 CNL EDLW 272250Z 2722/2818 CNL= EGWU 272252Z 2800/2818 27002KT CAVOK BECMG 2802/2805 6000 BR PROB30 2807/2809 2500 MIFG BECMG 2809/2812 9999 NSW BECMG 2815/2818 BKN020 EDNY 280104Z 2801/2824 23008KT 9999 BKN050 TEMPO 2801/2807 BKN008 BECMG 2816/2818 VRB03KT EDSB 272300Z 2800/2824 21012KT 9999 OVC012 PROB30 TEMPO 2800/2803 BKN006 BECMG 2803/2806 FEW012 BKN040 PROB30 TEMPO 2804/2808 4000 BR BECMG 2805/2807 21007KT EEEI 272330Z 2800/2824 02010KT 9000 OVC006 TEMPO 2800/2812 1500 SN OVC003 TEMPO 2807/2817 36014G26KT BECMG 2812/2814 BKN020 EEKA 251200Z 2413/2519 20008KT 8000 RA BKN007 OVC020 TEMPO 2513/2516 3000 TSRA BKN005 SCT020CB BECMG 2516/2518 30010KT EETN 272300Z 2800/2824 03010KT 8000 BKN005 OVC015 TEMPO 2800/2805 0800 +SN VV003 PROB40 TEMPO 2802/2807 -FZRA BECMG 2804/2806 35015G25KT TEMPO 2805/2814 3000 SHSN BLSN BKN013 SCT015CB BECMG 2814/2816 DRSN BKN020 EFHK 280228Z 2803/2903 01008KT 6000 -SN BKN007 BECMG 2803/2805 BKN012 BECMG 2808/2810 9999 BKN015 EFJY 280228Z 2803/2903 36005KT 9999 -SN BKN004 BECMG 2803/2805 BKN008 BECMG 2805/2807 BKN013 BECMG 2809/2811 SCT015 EFKU 280237Z 2803/2903 33004KT 9999 -SN SCT008 OVC015 TEMPO 2803/2810 7000 -FZDZ BKN008 PROB30 2816/2820 BKN009 EFOU 280226Z 2803/2903 33005KT 9999 BKN015 PROB30 2803/2806 BKN005 TEMPO 2806/2813 4000 -SN BKN005 EFRO 280226Z 2803/2903 35004KT 9999 BKN006 TEMPO 2803/2807 7000 -SN BKN015 BECMG 2807/2809 3000 -SN BKN020 BECMG 2810/2812 8000 TEMPO 2812/2814 4000 BKN011 EFTP 280246Z 2803/2903 01006KT 6000 -SN OVC004 BECMG 2803/2805 9000 BKN012 BECMG 2807/2809 BKN015 EFTU 280228Z 2803/2903 02007KT 9999 OVC006 BECMG 2803/2805 BKN012 BECMG 2805/2807 BKN015 EFVA 280226Z 2803/2903 34006KT 9999 BKN020 TEMPO 2803/2805 4000 -SN BKN004 BECMG 2805/2807 4000 -SN BKN010 BECMG 2807/2809 32015G25KT 9999 NSW BKN025 BECMG 2810/2812 32013KT BECMG 2822/2824 19011KT EGAA 272259Z 2800/2824 20005KT 9999 BKN025 TEMPO 2806/2814 BKN008 PROB30 TEMPO 2806/2824 8000 -RADZ PROB40 TEMPO 2814/2824 23015G25KT BKN008 TEMPO 2817/2824 SCT008 BKN012 EGBB 272258Z 2800/2824 25003KT 9999 FEW020 PROB30 2800/2810 8000 BECMG 2815/2818 25013KT PROB30 TEMPO 2822/2824 BKN014 EGCC 280248Z 2802/2906 28005KT 0200 FG BKN001 PROB30 TEMPO 2802/2807 1400 BR BECMG 2807/2810 9999 NSW FEW030 BECMG 2811/2814 24015KT PROB30 TEMPO 2812/2823 BKN014 PROB40 TEMPO 2821/2906 27018G28KT PROB30 TEMPO 2822/2906 8000 -RADZ TEMPO 2823/2906 BKN014 EGCN 272258Z 2800/2824 28004KT 9999 FEW040 PROB30 2800/2810 9000 BECMG 2808/2811 20010KT PROB30 TEMPO 2815/2821 21015G25KT TEMPO 2821/2824 21015G25KT BKN014 EGFF 272258Z 2800/2824 VRB04KT 9999 FEW030 PROB30 2800/2805 6000 PROB40 2805/2809 4000 BR BECMG 2814/2817 27012KT BKN012 TEMPO 2816/2824 27015G25KT 6000 -RADZ BKN006 PROB40 TEMPO 2818/2824 1200 RADZ BKN002 EGGD 272258Z 2800/2824 VRB03KT 9999 FEW030 PROB30 2800/2805 7000 PROB40 2805/2809 2500 BR MIFG PROB30 TEMPO 2807/2810 BKN003 BECMG 2812/2815 21010KT BECMG 2816/2819 27012KT -RA OVC009 TEMPO 2818/2824 27015G25KT 5000 -RADZ BKN004 PROB40 2820/2824 0300 DZ FG BKN000 EGGP 280052Z 2800/2824 26004KT 9999 SCT030 TEMPO 2800/2810 4000 BR PROB40 TEMPO 2800/2810 0300 FG BECMG 2808/2811 20010KT PROB30 TEMPO 2818/2824 22015G25KT TEMPO 2823/2824 BKN014 PROB30 TEMPO 2823/2824 8000 -RADZ BKN009 EGGW 272302Z 2800/2824 28006KT 9999 FEW030 PROB30 2802/2805 9000 PROB30 2805/2809 5000 BR BECMG 2812/2815 22010KT BECMG 2821/2824 28015KT TEMPO 2822/2824 7000 -RA BKN012 EGHH 071752Z 0718/0823 CNL= EGHI 071752Z 0718/0822 CNL EGHI 201729Z 2018/2123 CNL= LFMN 201732Z 2017/2121 VRB03KT CAVOK BECMG 2017/2019 34012KT BECMG 2111/2113 24010KT BECMG 2116/2118 34012KT EGKK 272255Z 2800/2906 24002KT 9999 FEW025 PROB40 2800/2804 6000 PROB30 TEMPO 2804/2810 1400 MIFG BECMG 2818/2821 25012KT TEMPO 2818/2906 BKN012 PROB30 TEMPO 2900/2906 4000 -RADZ BKN006 EGLL 272259Z 2800/2906 24003KT 9999 FEW045 PROB30 2804/2810 4000 BR TEMPO 2818/2906 BKN010 BECMG 2819/2822 25013KT PROB30 TEMPO 2820/2906 BKN006 EGNH 072121Z 0718/0821 CNL EGNM 272336Z 2800/2824 CNL= LFPG 272300Z 2800/2906 VRB03KT 3000 BR BKN003 TX07/2815Z TN05/2904Z BECMG 2800/2802 1200 BR BKN001 TEMPO 2802/2810 0600 FG VV/// BECMG 2810/2812 27005KT 6000 NSW BKN006 BECMG 2814/2816 BKN012 TEMPO 2818/2823 4000 BR BECMG 2902/2904 21010KT BKN005 EGNT 272258Z 2800/2824 26006KT 9999 FEW040 BECMG 2807/2810 20018KT TEMPO 2815/2824 21020G35KT BKN014 PROB40 TEMPO 2821/2824 22030G45KT EGNV 271655Z 2718/2821 04009KT 9999 SCT012 BKN018 PROB40 TEMPO 2718/2821 BKN012 EGNX 272258Z 2800/2824 25005KT 9999 FEW020 PROB30 2800/2810 8000 BECMG 2814/2817 25015KT PROB30 TEMPO 2822/2824 BKN014 EGPD 272259Z 2800/2824 25005KT 9999 FEW030 BECMG 2809/2812 19010KT PROB30 TEMPO 2812/2824 BKN014 BECMG 2813/2816 23015G25KT TEMPO 2815/2824 25022G36KT EGPF 272259Z 2800/2824 23006KT 9999 SCT035 BECMG 2810/2813 23015G25KT TEMPO 2810/2824 BKN012 PROB40 TEMPO 2811/2824 6000 -RADZ BKN008 PROB40 TEMPO 2814/2821 24019G35KT BECMG 2821/2824 24022G38KT EGPH 272259Z 2800/2824 24007KT 9999 FEW040 PROB40 TEMPO 2800/2809 8000 BECMG 2809/2812 23015G25KT PROB40 TEMPO 2813/2821 24020G35KT PROB40 TEMPO 2814/2824 8000 -RA BKN014 BECMG 2821/2824 23022G38KT EGPK 272259Z 2800/2824 VRB04KT 9999 FEW025 SCT035 BECMG 2806/2809 21012KT TEMPO 2809/2824 22015G27KT PROB40 TEMPO 2811/2821 6000 -RADZ BKN012 PROB40 TEMPO 2821/2824 6000 -RADZ BKN008 EGQS 280138Z 2803/2821 22008KT 9999 FEW045 BECMG 2809/2812 23018G28KT TEMPO 2811/2821 24028G38KT EGSS 272302Z 2800/2906 29004KT 9999 FEW035 PROB30 2800/2804 7000 PROB40 2804/2809 3000 BR BECMG 2813/2816 23010KT BECMG 2822/2901 29015KT TEMPO 2822/2906 8000 -RA BKN014 PROB30 TEMPO 2823/2906 27015G25KT 4000 -RADZ BKN009 EGUL 272200Z 2722/2904 29009KT 9999 FEW050 QNH3041INS BECMG 2800/2801 12006KT 6000 BR FEW050 QNH3027INS BECMG 2804/2805 29003KT 3200 BR FEW030 QNH3054INS TEMPO 2805/2808 1600 BR BECMG 2808/2809 27012KT 6000 BR BKN015 BKN140 QNH3058INS BECMG 2810/2811 24012KT 8000 BR BKN030 QNH3056INS BECMG 2812/2813 24010G15KT 9999 NSW BKN030 QNH3053INS TX09/2821Z TN02/2803Z LAST NO AMDS AFT 2722 NEXT 2804 EGUN 280025Z 2800/2902 30010G15KT 9000 BR SCT030 QNH3043INS BECMG 2802/2803 28006KT 6000 BR SCT015 SCT100 QNH3054INS TEMPO 2803/2809 5000 BR BKN015 BECMG 2809/2811 23009KT 9999 NSW SCT020 BKN150 QNH3052INS BECMG 2812/2813 22010G15KT 9999 BKN020 BKN150 QNH3043INS BECMG 2818/2819 23012G20KT 9999 OVC015 QNH3031INS TX09/2812Z TN02/2804Z EGVA 271640Z 2716/2819 30010G15KT 9999 FEW036 QNH3032INS BECMG 2722/2724 28009KT 6000 BR SCT025 QNH3045INS BECMG 2802/2804 VRB06KT 3200 BR SCT020 QNH3050INS TEMPO 2805/2809 0800 MIFG BECMG 2809/2811 VRB06KT 4800 BR BKN025 QNH3051INS BECMG 2812/2813 25012G18KT 9999 NSW SCT025 SCT035 QNH3050INS BECMG 2815/2817 26015G20KT 9999 BKN015 BKN025 QNH3045INS TX11/2716Z TN01/2804Z LAST NO AMDS AFT 2716 NEXT 2804 EGVN 280128Z 2803/2903 28003KT 9999 FEW030 PROB40 2803/2811 4000 BR PROB30 2806/2810 1200 MIFG BKN003 TEMPO 2815/2821 BKN022 PROB40 TEMPO 2818/2903 6000 -DZ SCT010 PROB30 TEMPO 2818/2903 BKN006 EGVO 272228Z 2721/2809 CNL EGWU 272324Z 2800/2818 CNL EGXC 280141Z 2803/2821 27005KT 9999 FEW035 PROB40 TEMPO 2803/2810 3000 BR MIFG PROB30 TEMPO 2803/2809 0300 FZFG SCT001 EGXW 272009Z 2721/2815 CNL EGYP 280127Z 2803/2821 22020G30KT 9999 SCT030 BECMG 2803/2806 22018KT PROB40 TEMPO 2804/2813 22020G30KT BKN022 BECMG 2818/2821 25010KT EHAM 272320Z 2800/2906 31012KT 9999 SCT030 BECMG 2802/2805 29007KT BECMG 2807/2810 24005KT BECMG 2812/2815 25010KT SCT015 BKN020 PROB30 TEMPO 2814/2818 BKN007 BECMG 2818/2821 25015KT BECMG 2900/2903 SCT004 BKN006 EHBK 272323Z 2800/2906 27005KT 9999 SCT025 PROB30 2806/2820 4000 BR BKN006 BECMG 2817/2820 23012KT BKN010 BECMG 2820/2823 7000 BKN007 PROB40 2902/2906 2000 DZ BKN003 EHDL 161952Z 1618/1706 CNL EHEH 272322Z 2800/2906 27008KT CAVOK PROB40 2803/2809 2000 BR MIFG PROB30 2809/2823 2000 BR BKN002 OVC003 BECMG 2818/2821 22011KT BECMG 2823/2902 4000 BR BKN008 BKN012 PROB40 TEMPO 2823/2906 2000 -DZ BR BKN003 BKN005 EHGG 272323Z 2800/2906 31015KT 9999 SCT025 PROB30 TEMPO 2800/2803 7000 -SHRA SCT020TCU BECMG 2812/2815 27007KT BECMG 2815/2818 23010KT BECMG 2818/2821 BKN011 BECMG 2823/2902 BKN006 BECMG 2903/2906 26015KT EHGR 271741Z 2718/2806 30010KT 9999 SCT035 PROB40 2801/2806 3500 BR EHKD 280143Z 2802/2814 31015G25KT 9999 SCT020 SCT040 PROB30 TEMPO 2802/2805 4500 -SHRA FEW018 BKN025 BECMG 2804/2806 31012KT BECMG 2808/2810 29007KT BECMG 2811/2813 24009KT EHLE 272320Z 2800/2906 31012KT 9999 SCT030 BECMG 2802/2805 29007KT BECMG 2808/2811 24005KT BECMG 2812/2815 25010KT SCT015 BKN020 PROB30 TEMPO 2815/2819 BKN007 BECMG 2819/2822 25015KT 6000 SCT004 BKN006 PROB30 2900/2906 2500 -RADZ BKN004 EHLW 280144Z 2802/2814 31020G30KT 9999 SCT040 PROB30 TEMPO 2802/2806 3500 -SHRA FEW018 BKN025 BECMG 2804/2806 31015KT BECMG 2808/2810 31008KT BECMG 2813/2814 23010KT EHRD 272320Z 2800/2906 31010KT 9999 SCT030 BECMG 2802/2805 29006KT BECMG 2807/2810 24005KT BECMG 2812/2815 25010KT SCT015 BKN020 PROB30 TEMPO 2814/2818 BKN007 BECMG 2818/2821 25015KT BECMG 2821/2824 6000 SCT004 BKN006 EHVK 280128Z 2802/2814 28007KT CAVOK PROB30 2804/2809 3500 BR MIFG EHWO 270934Z 2710/2722 26013KT 2000 DZRA SCT004 BKN006 OVC010 TEMPO 2710/2714 5000 -RA BKN010 OVC015 BECMG 2713/2715 31010KT 9999 NSW SCT030 BECMG 2716/2718 29007KT EICK 280129Z 2801/2824 VRB03KT 9999 FEW010 BKN020 TEMPO 2801/2804 4000 BR BKN004 TEMPO 2804/2809 0400 -DZ FG BKN001 BECMG 2809/2811 23012KT BKN007 TEMPO 2813/2824 25015G25KT 2000 -DZ BR BKN002 EIDW 272300Z 2800/2824 25006KT 9999 FEW015 SCT030 BECMG 2810/2812 25014KT TEMPO 2814/2820 26017G27KT PROB40 TEMPO 2814/2824 BKN012 BECMG 2820/2822 26018KT TEMPO 2820/2824 27022G32KT EIKN 271106Z 2712/2812 CNL EINN 272300Z 2800/2824 VRB03KT 9999 FEW025 PROB30 TEMPO 2800/2805 2000 BR BKN003 PROB40 TEMPO 2808/2818 3000 -RA BR BKN005 BECMG 2811/2813 25012KT PROB40 TEMPO 2815/2821 26015G25KT BECMG 2821/2823 26020G30KT EKAH 272308Z 2800/2824 32015KT 9999 SCT025 BECMG 2811/2814 24005KT BECMG 2820/2822 21012KT TEMPO 2822/2824 BKN012 EKBI 272308Z 2800/2824 30020G35KT 9999 SCT025 BECMG 2800/2803 32015G25KT BECMG 2805/2807 32010KT BECMG 2811/2814 23005KT BECMG 2818/2821 BKN012 BECMG 2821/2824 23015KT BKN008 EKCH 272308Z 2800/2824 30020G30KT 9999 SCT020 BECMG 2803/2805 33015G25KT BECMG 2812/2815 30008KT EKKA 280226Z 2803/2903 29018G28KT 9999 FEW020 BECMG 2803/2804 31012KT BECMG 2807/2810 30005KT BECMG 2811/2814 24008KT BECMG 2818/2821 21012KT 7000 -RA BKN012 TEMPO 2821/2901 4000 -DZ BR BKN008 TEMPO 2901/2903 2500 DZ BR BKN004 EKSP 280226Z 2803/2903 30020G32KT 9999 SCT020 BECMG 2803/2804 31015G25KT BECMG 2805/2807 31012KT BECMG 2814/2816 24010KT BECMG 2820/2823 7000 -RA BKN012 BECMG 2823/2901 25015G25KT BKN008 TEMPO 2901/2903 2500 -DZ BR BKN004 EKYT 280226Z 2803/2903 32015KT 9999 FEW020 BECMG 2806/2809 30008KT BECMG 2811/2814 25008KT BECMG 2818/2821 21012KT 7000 -RA BKN012 TEMPO 2821/2903 4000 -DZ BR BKN008 ELLX 272300Z 2800/2906 23007KT 2000 BR BKN003 TEMPO 2800/2808 0500 FG BKN001 PROB30 TEMPO 2800/2809 6000 FEW005 BECMG 2810/2813 9999 SCT005 BECMG 2821/2824 0200 DZRA FG OVC001 EMD ORNI 221700Z 2218/2318 27005KT 8000 NSC BECMG 2302/2304 21005KT 5000 BR PROB30 TEMPO 2303/2306 1200 ENAN 272300Z 2800/2824 34016KT 9999 -SHSN FEW010 BKN025 TEMPO 2800/2806 34030G40KT 0500 +SHSN BLSN VV004 PROB40 TEMPO 2806/2815 30022G32KT 1000 SHSN VV008 BECMG 2811/2813 27015KT BECMG 2817/2819 21008KT ENBO 272300Z 2800/2824 30015KT 9999 FEW015CB SCT040 TEMPO 2800/2815 27025G35KT TEMPO 2800/2818 1000 SHSN VV007 TEMPO 2809/2821 VRB08KT BECMG 2818/2821 09020KT ENBR 272300Z 2800/2824 32015G25KT 9999 SCT030 BKN050 BECMG 2800/2802 34012KT BECMG 2802/2804 VRB05KT TEMPO 2810/2812 SHRA BKN009 SCT018CB BECMG 2809/2812 16012KT BECMG 2815/2818 19022G32KT 4000 -RADZ BR BKN012 TEMPO 2818/2824 2000 RADZ BR OVC004 ENCODED KBIX 121800Z 1218/1324 33012KT 9999 SKC QNH2990INS TX25/1220Z TN13/1312Z ENDU 272300Z 2800/2824 22008KT 9999 -SHSN FEW010 BKN030 TEMPO 2800/2808 27015G25KT 0700 SHSN VV004 ENEV 272300Z 2800/2824 27009KT 9999 -SHSN FEW010 BKN030 TEMPO 2800/2803 2000 SHSN VV014 TEMPO 2803/2807 27015G25KT 0700 SHSN VV010 PROB40 TEMPO 2810/2814 2000 -SHSN VV014 ENGC 280200Z 2803/2903 25018KT 9999 -SHRA SCT015TCU BKN040 BECMG 2803/2805 24030KT TEMPO 2806/2812 SHRA BKN014CB BECMG 2812/2815 20045KT 4000 -RADZ BR BKN012 TEMPO 2816/2821 2000 RADZ BR BKN008 BECMG 2820/2822 26032KT TEMPO 2821/2903 1200 BR OVC004 ENGM 272300Z 2800/2824 34010KT CAVOK TEMPO 2800/2803 35018G28KT BECMG 2808/2810 19010KT TEMPO 2815/2824 2000 -SN TEMPO 2821/2824 19015G25KT BKN008 ENNA 2801/2824 18005KT 9000 -SN SCT010 BKN020 TEMPO 2801/2819 2000 SHSN VV009 ENOA 280200Z 2803/2903 33018KT 9999 -SHRA SCT015TCU BKN040 BECMG 2806/2808 23030KT TEMPO 2807/2812 SHRA BKN014CB BECMG 2815/2818 20042KT 3000 RADZ BR BKN009 TEMPO 2818/2821 1800 RADZ BR BKN004 BECMG 2820/2822 26035KT TEMPO 2818/2903 1200 BR OVC002 ENOL 272300Z 2800/2824 34018KT 9999 -SHRA FEW008 BKN025 TEMPO 2800/2803 35028G38KT TEMPO 2800/2810 2000 SHRASN VV010 TEMPO 2800/2806 BKN012CB BECMG 2803/2806 24015KT TEMPO 2810/2824 3000 RASN BKN008 TEMPO 2810/2815 24025G35KT BECMG 2818/2820 15020KT ENRY 272300Z 2800/2824 34010KT CAVOK TEMPO 2800/2803 35015G25KT BECMG 2807/2809 21010KT TEMPO 2815/2818 4000 -SNRA TEMPO 2818/2824 2000 RADZ BR OVC004 TEMPO 2821/2824 22018G30KT ENSB 272300Z 2800/2824 12009KT 9999 FEW015 SCT040 ENTC 272300Z 2800/2824 20009KT 9999 -SHSN FEW010 BKN020 TEMPO 2800/2818 29015G25KT 0500 +SHSN VV004 ENTO 272300Z 2800/2824 30008KT CAVOK TEMPO 2800/2802 34015G25KT BECMG 2808/2810 23010KT PROB30 2815/2818 4000 -SNRA TEMPO 2818/2824 2000 RADZ BR OVC004 TEMPO 2821/2824 22018G30KT ENVA 272300Z 2800/2824 31015KT 9999 -SHRA FEW012TCU BKN025 TEMPO 2800/2809 0800 SHSN VV006 TEMPO 2800/2804 32020G30KT BECMG 2805/2809 21008KT PROB30 2810/2814 2000 -SN VV010 ENZV 272300Z 2800/2824 30022G32KT 9999 -SHRA FEW012 BKN020 BECMG 2802/2804 34012KT BECMG 2804/2806 VRB05KT TEMPO 2810/2812 SHRA BKN020CB BECMG 2809/2811 16012KT BECMG 2815/2818 21020G30KT 4000 -RADZ BR BKN012 TEMPO 2818/2824 2000 RADZ OVC004 EPBY 272330Z 2800/2824 27015KT 9999 BKN027 TEMPO 2800/2815 6000 -RA BKN014 PROB40 TEMPO 2800/2808 27020G38KT 4000 SHRA BKN008 BKN013CB EPGD 272330Z 2800/2824 27018KT 9999 SCT014 BKN020 TEMPO 2800/2806 30022G32KT RA BKN005 BKN010 PROB30 TEMPO 2800/2803 SHRA BKN012CB BECMG 2802/2804 33015KT PROB40 TEMPO 2803/2813 3000 RASN BKN003 TEMPO 2806/2813 32018G32KT 1500 SHRASN BKN003 BKN008CB EPKK 280230Z 2803/2903 25017G27KT 9999 BKN025 TEMPO 2803/2812 27024G37KT 1500 SHRASN SHSN BR BKN006 BKN013CB BECMG 2812/2814 31015G25KT TEMPO 2812/2824 3000 SHRASN SHSN BKN007 BKN012CB PROB40 TEMPO 2812/2820 31020G35KT BECMG 2823/2901 28010KT EPKT 272330Z 2800/2824 25015G25KT 9999 BKN020 TEMPO 2800/2803 4000 SHSN SHSNRA BR BKN006 BKN012CB TEMPO 2803/2812 28020G40KT 1200 SHSNRA SHSN BR BKN004 BKN012CB BECMG 2810/2812 31015G25KT TEMPO 2812/2822 3000 SHRASN SHSN BKN007 BKN012CB PROB40 TEMPO 2812/2821 32020G35KT EPLB 272330Z 2800/2824 25012KT 9999 SCT012 BKN020 TEMPO 2800/2806 27017G27KT 4500 -RA BKN009 TEMPO 2806/2817 28018G31KT RA BKN009 BECMG 2810/2813 31012KT TEMPO 2817/2824 2500 SHSN BKN007 BKN012CB EPLL 272330Z 2800/2824 24012KT 9999 SCT012 BKN017 TEMPO 2800/2803 28016G26KT SHRA BKN007 BKN012CB TEMPO 2803/2810 29020G33KT RA BKN007 BKN012 BECMG 2808/2811 30012KT TEMPO 2810/2818 33017G30KT -SHRASN SCT012 BKN020TCU EPMO 272330Z 2800/2824 25016KT 9999 SCT012 BKN017 TEMPO 2800/2802 28018G28KT 4500 SHRA BKN012CB TEMPO 2802/2810 28018G28KT RA BKN007 BKN012 BECMG 2807/2810 31012KT TEMPO 2810/2818 32018G30KT -SHRA SCT012 BKN020TCU TEMPO 2818/2821 SHSNRA BKN012TCU EPPO 272330Z 2800/2824 27020G35KT 9999 BKN020 TEMPO 2800/2806 28025G45KT 4000 SHRA SCT007 BKN012CB TEMPO 2806/2811 -SHRA BKN007 BKN012CB BECMG 2808/2811 33015G30KT BECMG 2815/2818 27010KT EPRZ 272330Z 2800/2824 26015G25KT 9999 BKN020 TEMPO 2800/2806 4000 -SHRA -SHRASN BR BKN008 OVC013CB TEMPO 2806/2813 27023G38KT 2000 SHRA SHRASN BKN004 BKN012CB BECMG 2813/2815 32015G25KT TEMPO 2813/2824 3000 SHRASN SHSN BKN007 BKN012CB PROB40 TEMPO 2813/2821 32020G35KT EPSC 272330Z 2800/2824 27016KT 9999 SCT025 TEMPO 2800/2807 29018G31KT RA BKN007 BKN012 BECMG 2806/2808 33014KT TEMPO 2806/2815 34020G31KT EPWA 280230Z 2803/2903 25015KT 9999 BKN030 TEMPO 2803/2810 27021G31KT -RA BKN014 PROB40 TEMPO 2803/2806 4000 RA BKN008 BECMG 2807/2810 31015KT TEMPO 2810/2818 30015G25KT -SHRA BKN020TCU TEMPO 2818/2822 4500 -SHSNRA BKN010 BKN015TCU EPWR 280230Z 2803/2903 27020G32KT 9999 BKN020 TEMPO 2803/2809 29025G42KT 4000 SHRA SCT007 BKN012CB TEMPO 2809/2815 -SHRA BKN007 BKN012CB BECMG 2815/2818 33015G25KT BECMG 2819/2822 27010KT ESGG 280230Z 2803/2903 34011KT CAVOK BECMG 2814/2816 21005KT BECMG 2821/2823 2000 RASN BKN004 BECMG 2900/2902 22016G28KT ESKN 280230Z 2803/2903 32014KT 9999 BKN015 BECMG 2807/2809 34015G25KT BECMG 2813/2815 28008KT ESMS 280209Z 2803/2903 32015KT CAVOK TEMPO 2809/2812 32015G25KT BECMG 2814/2817 27005KT BECMG 2901/2903 4000 RADZ BKN006 ESMT 010733Z 0107/0121 16010KT 9999 BKN012 TEMPO 0107/0109 2800 RADZ BR BKN003 BECMG 0109/0112 SCT012 ESNS 032330Z 0400/0412 20006KT CAVOK ESOW 190230Z 1903/1915 27005KT CAVOK ESSA 280230Z 2803/2903 35012KT 9999 BKN015 TEMPO 2803/2805 2000 SHSN BKN012 BKN020TCU BECMG 2805/2807 34015G25KT BECMG 2812/2814 31008KT BECMG 2901/2903 20010KT ETAD 272100Z 2721/2903 25007KT 9999 OVC005 QNH3032INS TEMPO 2721/2724 8000 -RA BECMG 2804/2805 28008KT 9999 OVC015 QNH3042INS BECMG 2815/2816 26007KT 9999 BKN020 QNH3053INS BECMG 2820/2821 24010G15KT 9999 OVC005 QNH3048INS BECMG 2823/2824 24010G15KT 8000 -DZ OVC002 QNH3040INS TX04/2814Z TN01/2807Z LAST NO AMDS AFT 2721 NEXT 2805 ETAR 280200Z 2802/2908 24006KT 9999 OVC007 QNH3038INS BECMG 2805/2806 27006KT 5000 BR SCT009 BKN020 QNH3041INS BECMG 2809/2810 28009KT 9999 NSW FEW015 BKN030 QNH3052INS BECMG 2817/2818 24012KT 9999 BKN015 BKN100 QNH3054INS BECMG 2902/2903 23012G20KT 8000 -RA OVC010 QNH3042INS TX05/2814Z TN02/2803Z ETEB 271500Z 2715/2821 26010G15KT 6000 BR OVC005 620052 QNH3023INS TEMPO 2715/2718 3600 -FZDZ 660003 BECMG 2718/2719 28010G15KT 8000 -SHSN OVC005 610057 QNH3021INS BECMG 2800/2801 27010G15KT 9000 BR SCT005 BKN012 620126 QNH3026INS TEMPO 2804/2810 2400 -SN BR TX02/2804Z TNM01/2715Z LAST NO AMDS AFT 2722 NEXT 2807 ETHL 220421Z 2205/2220 04005KT 9999 NSW SCT035 ETIC 280200Z 2802/2908 24008KT 5000 -RASN OVC006 620105 QNH3016INS TEMPO 2802/2804 25009KT 6000 -RASN BKN010 620103 BECMG 2803/2804 25009KT 9999 NSW OVC015 630159 QNH3030INS BECMG 2809/2810 31010G15KT 9999 BKN015 620209 510004 QNH3035INS TEMPO 2810/2817 6000 -SN 650209 BECMG 2817/2818 31010G15KT 9999 BKN020 620406 510004 QNH3040INS TX03/2811Z TN00/2818Z ETIK 272050Z 2720/2820 26012G20KT 6000 BR OVC010 610009 510005 QNH3025INS BECMG 2806/2807 27010G20KT 9999 NSW OVC015 610159 QNH3037INS BECMG 2811/2812 27010G20KT 9999 BKN020 640209 510005 QNH3047INS BECMG 2817/2818 27015G25KT 9999 BKN018 640189 520005 QNH3048INS TX05/2812Z TN00/2807Z LAST NO AMDS AFT 2720 NEXT 2806 ETND 081035Z 0811/0911 CNL 1035 BY ETGL ETNG 272300Z 2800/2815 26008KT 9999 SCT018 BKN025 PROB40 2804/2810 4000 BR BKN005 ETNH 292100Z 2917/3017 CNL 2100 BY ETGL= LOWS 292049Z 2920/3018 15006KT 9999 FEW050 TX27/3014Z TN17/3004Z TEMPO 2920/2922 FEW050CB SCT090 BECMG 3008/3010 34006KT PROB30 TEMPO 3016/3018 21015G25KT TSRA FEW040 FEW040CB BKN060 ETNL 251600Z 2517/2606 30005KT 9999 NSW FEW060 BY ETGL ETNN 062300Z 0700/0715 10005KT 9999 NSW SKC TEMPO 0703/0707 12003KT 4000 BR SKC BY ETGL ETNW 272300Z 2800/2824 28015G25KT 9999 NSW BKN030 TEMPO 2800/2804 30020G35KT 4000 SHRA BKN010CB BY ETGL ETOU 272005Z 2720/2902 26009KT 9999 OVC015 QNH3028INS BECMG 2723/2724 28010G15KT 9999 BKN016 OVC023 QNH3032INS BECMG 2809/2810 30006KT 9999 SCT024 OVC035 QNH3052INS BECMG 2811/2812 31012G18KT 9999 SCT025 BKN035 QNH3054INS BECMG 2816/2817 30009KT 9000 BR SCT020 OVC040 QNH3056INS BECMG 2900/2901 24010G15KT 8000 BR BKN010 QNH3051INS TX06/2813Z TN02/2900Z LAST NO AMDS AFT 2720 NEXT 2804 ETSN 031620Z 0317/0420 VRB03KT 9999 NSW FEW050 BECMG 0321/0323 23005KT 9999 NSW BKN090 BY ETGL EVGA 280217Z 2803/2903 22007KT 8000 OVC007 TEMPO 2803/2812 2000 RASN BKN002 OVC005 PROB40 TEMPO 2803/2809 0500 FG VV001 BECMG 2806/2808 32010KT TEMPO 2812/2815 32015G28KT 2000 SNRA OVC012 BECMG 2815/2816 OVC015 TEMPO 2815/2821 32015G28KT EVJT 120330Z 1206/1218 0400KT 6000 FEW025 FEW100 BECMG 1214/1216 VRB02KT 5000 BR FEW025 FEW100 EVLA 280220Z 2803/2903 34015KT 9999 BKN010 OVC015 TEMPO 2803/2806 34020G32KT 2000 RASN BKN005 OVC010 BECMG 2806/2808 34021G35KT OVC015 TEMPO 2808/2818 BKN012CB BKN015 BECMG 2820/2822 33010KT EVRA 280218Z 2803/2903 19007KT 8000 OVC005 TEMPO 2803/2806 2500 RA BR BKN002 OVC005 BECMG 2804/2806 33012KT TEMPO 2806/2815 33017G30KT 1500 SNRA BECMG 2812/2814 OVC014 TEMPO 2815/2824 33017G30KT EVVA 141350Z 1413/1421 23015KT CAVOK TEMPO 1415/1421 21017G30KT EYKA 272300Z 2800/2824 25014G24KT 5000 RASN OVC005 TEMPO 2800/2803 OVC010 TEMPO 2803/2808 1500 SNRA OVC002 BECMG 2808/2809 33016G30KT 8000 NSW OVC010 TEMPO 2809/2815 1500 SNRA OVC005 BECMG 2815/2816 OVC025 EYPA 272300Z 2800/2824 34020G40KT 7000 OVC005 TEMPO 2800/2809 28010G20KT 3000 SHRASN BKN015CB BECMG 2809/2810 OVC025 TEMPO 2810/2816 BKN015CB BECMG 2822/2824 34010G20KT NSC EYSA 251401Z 2512/2524 20014KT CAVOK EYVI 272300Z 2800/2824 23014G24KT 5000 RASN OVC005 TEMPO 2800/2803 OVC010 TEMPO 2803/2809 0800 +SNRA OVC002 BECMG 2809/2810 33016G30KT TEMPO 2810/2816 1500 SNRA BECMG 2816/2818 8000 NSW OVC015 TEMPO 2818/2824 BKN012CB FABA31 MYNN 011700 011800/020600 SPECIAL FEATURES FABL 272200Z 2800/2824 VRB03KT CAVOK TX32/2812Z TN16/2803Z BECMG 2810/2812 34008KT 9999 FEW045TCU TEMPO 2815/2820 -TSRA FEW040CB FACT 272200Z 2800/2906 19014KT 9999 FEW020 TX25/2812Z TN17/2804Z FM280200 VRB03KT 9999 BKN020 FM280900 18017KT 9999 FEW030 BECMG 2900/2902 VRB03KT FAEL 050600Z 0507/0518 26007KT CAVOK TX25/0512Z TN19/0518Z BECMG 0509/0511 18006KT 9999 FEW110TCU PROB30 TEMPO 0514/0518 -TSRA SCT090TCU FEW100CB FAGG 272200Z 2800/2824 VRB03KT 9999 FEW008 BKN018 TX22/2812Z TN17/2804Z PROB30 TEMPO 2800/2803 4000 BR BKN005 FM280500 26005KT 9999 FEW015 FM281100 23013KT 9999 FEW015 BKN030 BECMG 2818/2820 VRB03KT FAKM 050600Z 0507/0518 35005KT CAVOK TX22/0512Z TN16/0518Z FALA 271600Z 2718/2818 VRB03KT CAVOK TX28/2813Z TN18/2803Z PROB30 TEMPO 2718/2719 -TSRA FEW035CB SCT040 PROB40 TEMPO 2800/2806 BKN009 BECMG 2806/2808 02009KT BKN035 PROB30 TEMPO 2813/2818 -TSRA FEW035CB BECMG 2816/2818 VRB03KT FALE 272200Z 2800/2906 VRB03KT CAVOK TX30/2810Z TN22/2803Z FM280600 18015KT 9999 SCT020 TEMPO 2810/2815 18018G28KT PROB40 TEMPO 2815/2819 4000 TSRA BKN015 FEW035CB FAMM 040440Z 0404/0418 VRB03KT CAVOK TX20/0412Z TN02/0405Z FM040800 05008KT 9999 SCT040 BECMG 0410/0412 VRB03KT CAVOK FAOR 272200Z 2800/2906 01009KT CAVOK TX26/2813Z TN16/2803Z PROB40 TEMPO 2800/2806 BKN004 BECMG 2806/2808 BKN030 PROB30 TEMPO 2812/2818 -TSRA FEW030CB BECMG 2819/2821 12012KT PROB40 TEMPO 2820/2906 5000 TSRA BKN009 FEW030CB FAPE 280245Z 2800/2824 25010KT CAVOK TX24/2812Z TN18/2802Z PROB30 TEMPO 2803/2806 3000 BR BKN007 OVC010 PROB40 TEMPO 2812/2815 24015G25KT FAPM 050600Z 0507/0518 28005KT CAVOK TX26/0512Z TN16/0518Z BECMG 0510/0512 18005KT BECMG 0513/0515 12005KT FAPP 050600Z 0507/0518 19006KT CAVOK TX24/0512Z TN15/0518Z FARB 050600Z 0507/0518 36005KT CAVOK TX27/0512Z TN20/0518Z BECMG 0510/0512 04012KT FAUP 272200Z 2800/2824 22005KT CAVOK TX38/2813Z TN21/2804Z FAUT 050800Z 0507/0518 33004KT CAVOK TX25/0512Z TN14/0518Z BECMG 0509/0511 20005KT FAWB 050608Z 0507/0518 VRB03KT CAVOK TX24/0512Z TN15/0518Z FBFT 270000Z 2700/2712 05006KT CAVOK FBKE 110900Z 1109/1121 06006KT 9999 SCT030 FEW035CB PROB30 TEMPO 1114/1118 TSRA BECMG 1119/1121 CAVOK FBMN 110900Z 1109/1121 01006KT 9999 SCT030 FEW035CB PROB30 TEMPO 1113/1118 TSRA BECMG 1119/1121 CAVOK FBPM 161000Z 1612/1718 32006KT 9999 SCT025 FEW035CB PROB40 TEMPO 1612/1617 TSRA BECMG 1618/1620 CAVOK BECMG 1704/1706 BKN015 SCT060 PROB40 TEMPO 1709/1714 TSRA FEW030CB FBSK 272200Z 2800/2906 05008KT 9999 OVC015 BKN065 BECMG 2812/2814 SCT025 FEW035CB PROB30 TEMPO 2813/2816 TSRA BECMG 2818/2820 CAVOK BECMG 2900/2902 BKN015 FEW035CB PROB30 TEMPO 2900/2906 TSRA FBSP 110900Z 1109/1121 04004KT 9999 SCT030 FEW035CB BECMG 1117/1119 CAVOK FCBB 272300Z 2800/2906 25004KT 9000 FEW022 BECMG 2812/2814 SCT020 FEW030CB BECMG 2818/2820 FEW020 FCIN90 VAAH 231100 VAAH 231100Z 2312/2321 25004KT 5000 FU NSC BECMG 2315/2317 VRB03KT 4000 HZ FU FCPP 272300Z 2800/2824 VRB03KT 9000 FEW010 SCT020 PROB30 2804/2807 4000 BR BECMG 2810/2812 20010KT SCT016 FEW030CB BECMG 2819/2821 26004KT FEW010 FEFF 272300Z 2800/2906 00000KT 6000 NSC BECMG 2803/2805 3000 BR BECMG 2806/2808 04010KT 7000 NSW BECMG 2814/2816 VRB03KT 3000 HZFU BECMG 2819/2821 6000 NSC FGBT 272300Z 2800/2824 22004KT 9999 SCT010 PROB30 TEMPO 2810/2815 TS BKN010 FEW020CB FGSL 272300Z 2800/2906 24006KT 8000 SCT012 PROB30 TEMPO 2804/2808 TS BKN010 FEW020CB FHA31 MTCH 121700 MTCH 121700Z 1218/1318 01010KT 9999 FEW030TCU PROB40 TEMPO 1300/1306 4000 SHRA SCT024CB BKN030 BECMG 1307/1310 VRB02KT 9000 NSW FEW014 SCT200=NNNN FHAW 261157Z 2612/2706 CNL FIMA 140300Z 1403/1418 13011KT 9999 SCT018 FIMP 272310Z 2800/2906 14003KT 9999 SCT018 TEMPO 2818/2900 7000 -SHRA FEW010 BKN016 FIMR 272315Z 2800/2818 09010G20KT 9999 SCT017 PROB30 TEMPO 2805/2809 7000 -SHRA BKN016 FJDG 280100Z 2801/2907 32018G25KT 8000 -SHRA SCT020 BKN050 OVC080 QNH2967INS TEMPO 2801/2810 32025G35KT VCTS BKN030CB TX33/2809Z TN24/2801Z FKKD 272300Z 2800/2906 VRB05KT 8000 BKN013 FEW016CB PRPB40 2804/2808 2500 TS BR FKKL 270700Z 2707/2718 01007KT 1000 DU NSC BECMG 2708/2710 2500 DU BECMG 2711/2713 4500 DU FKKR 260500Z 2606/2618 03005KT 4000 HZ NSC FKKU 260500Z 2606/2618 VRB04KT 2000 BR SCT013 BECMG 2606/2608 4000 HZ FKYS 272300Z 2800/2824 26005KT 6000 BKN006 TEMPO 2803/2807 2000 BR BECMG 2807/2809 BKN016 FLCP 271600Z 2718/2824 VRB03KT 9999 FEW040CB BKN090 PROB30 TEMPO 2802/2804 9000 -TSRA BECMG 2807/2809 30005KT 9999 FEW025CB BKN030 PROB40 TEMPO 2809/2812 9000 -TSRA FLHN 271600Z 2718/2824 VRB03KT 9999 FEW040CB BKN090 PROB40 TEMPO 2721/2723 9000 -RA BECMG 2800/2802 07005KT 9999 SCT007 BKN090 PROB40 TEMPO 2800/2804 9000 -RADZ SCT006 BKN090 FLJK 271600Z 2718/2824 VRB03KT 9999 FEW040CB BKN090 PROB30 TEMPO 2719/2723 9000 -TSRA BECMG 2802/2804 07005KT 9999 SCT008 BKN090 BECMG 2806/2808 36010KT 9999 SCT015 BKN090 FLKK 271600Z 2718/2824 VRB03KT 9999 FEW040CB BKN090 PROB30 TEMPO 2719/2723 9000 -TSRA BECMG 2802/2804 07005KT 9999 SCT008 BKN090 BECMG 2806/2808 36010KT 9999 SCT015 BKN090 FLKS 271600Z 2718/2824 VRB03KT 9999 FEW040CB BKN090 BECMG 2720/2723 CAVOK BECMG 2804/2806 36005KT 9999 SCT010 BKN090 BECMG 2808/2810 27010KT 9999 FEW025CB BKN030 FLLI 231000Z 2312/2418 VRB04KT 9000 -TSRA FEW040CB SCT040 SCT080 BECMG 2317/2319 9999 FEW///CB BECMG 2423/2405 SCT010 SCT100 BECMG 2409/2412 05005KT FEW035CB SCT035 SCT080 FLLS 231000Z 2312/2418 08005KT 9999 FEW040CB SCT040 BECMG 2316/2318 VRB03KT FEW///CB BECMG 2406/2408 06005G10KT SCT015 BECMG 2409/2412 FEW040CB SCT040 FLMA 271600Z 2718/2824 36005KT 9999 FEW040CB BKN090 BECMG 2720/2722 VRB03KT CAVOK BECMG 2804/2806 30010KT 9999 BKN010 BECMG 2807/2809 33010KT 9999 FEW025CB BKN030 FLMF 271600Z 2718/2824 VRB03KT 9999 FEW040CB BKN090 PROB30 TEMPO 2802/2804 9000 -TSRA BECMG 2807/2809 30005KT 9999 FEW025CB BKN030 PROB40 TEMPO 2809/2812 9000 -TSRA FLND 062200Z 0700/0806 12010G20KT CAVOK BECMG 0704/0706 9000 FU NSC BECMG 0707/0709 BKN035 BECMG 0712/0714 11005KT FLRZ 271600Z 2718/2824 VRB03KT 9999 FEW040CB BKN090 PROB30 TEMPO 2719/2723 9000 -TSRA BECMG 2802/2804 07005KT 9999 SCT008 BKN090 BECMG 2806/2808 36010KT 9999 SCT015 BKN090 FLSK 271600Z 2718/2824 36005KT 9999 FEW040CB BKN090 PROB30 TEMPO 2720/2723 9000 -RA BECMG 2800/2802 VRB03KT 9999 SCT006 BKN090 BECMG 2804/2806 36005KT 9999 SCT010 BKN090 FLSW 271600Z 2718/2824 30005KT 9999 FEW035CB BKN040 PROB30 TEMPO 2718/2721 9000 -TSRA BECMG 2800/2802 VRB03KT 9999 SCT008 BKN090 BECMG 2805/2807 36005KT 9999 SCT015 BKN090 FM052000 03008KT 9999 SCT022 BKN100 PROB30 TEMPO 0520/0603 5000 SHRA BKN015 FM061300 VRB03KT 8000 SCT020 BECMG 0708/0711 18008KT FM100900 VRB06KT P6SM SCT030 FM151900 30011KT P6SM FEW015 FM152100 30012G20KT P6SM FEW150 FM160300 31010KT P6SM OVC012 FMCH 271700Z 2718/2824 12004KT 9999 FEW020 BECMG 2804/2807 26010KT BECMG 2816/2818 10004KT FMCZ 272300Z 2800/2824 20010KT 9999 SCT030 TEMPO 2808/2816 4500 SHRA BKN014CB FMEE 272300Z 2800/2906 20006KT 9999 FEW025 BECMG 2804/2806 08015KT BECMG 2815/2818 16010KT BECMG 2904/2906 10015KT FMMI 272300Z 2800/2906 16005KT 9999 FEW017 BKN020 BECMG 2809/2811 10010KT SCT020CB BECMG 2819/2821 16005KT FEW017 SCT020 FMMS 272300Z 2800/2824 24010KT 9999 SCT017TCU BKN033 PROB30 TEMPO 2800/2809 4000 SHRA FMMT 272300Z 2800/2824 22012KT 9999 SCT017TCU BKN033 PROB40 TEMPO 2800/2806 4000 SHRA BECMG 2810/2812 16010KT BECMG 2818/2820 22006KT FMNA 272300Z 2800/2824 14010KT 9999 SCT020CB SCT040 FMNM 272300Z 2800/2824 08005KT 9999 SCT020TCU SCT040 PROB30 TEMPO 2800/2806 4000 SHRA BECMG 2807/2809 30010KT BECMG 2818/2820 24005KT FMNN 272300Z 2800/2824 08005KT 9999 SCT020CB SCT040 BECMG 2807/2809 30010KT PROB40 TEMPO 2815/2824 4000 SHRA BECMG 2818/2820 02005KT FMSD 272300Z 2800/2824 08010KT 9999 FEW017 SCT033 BECMG 2809/2811 06020KT BECMG 2818/2820 04010KT FMST 272300Z 2800/2824 00000KT 9999 FEW023 SCT040 BECMG 2807/2809 27010KT BECMG 2818/2820 36005KT FNBG 272300Z 2800/2812 VRB02KT 9000 SCT016 BKN025 PROB40 TEMPO 2806/2810 8000 DZ BECMG 2810/2812 31005KT FNCA 272300Z 2800/2812 VRB03KT 9000 FEW012 BKN023 TEMPO 2801/2806 7000 SCT018 TEMPO 2807/2812 8000 FNCT 272300Z 2800/2812 VRB02KT 9999 SCT018 PROB30 TEMPO 2806/2810 8000 -DZ BECMG 2810/2812 31004KT FNDU 272300Z 2800/2812 VRB02KT 9999 SCT020 BKN025 FNGI 272300Z 2800/2812 28004KT 9999 FEW025= FNME 272300Z 2800/2812 23005KT 9000 SCT028 FEW030CB PROB30 TEMPO 2801/2806 6000 -DZ BKN020 TEMPO 2807/2812 8000 7000 DZ FNHU 272300Z 2800/2812 VRB02KT 9999 SCT012 BKN020 PROB40 TEMPO 2803/2809 8000 DZ BECMG 2809/2812 24004KT RA FNKU 272300Z 2800/2812 27006KT 8000 BKN020 PROB40 TEMPO 28003/2808 5000 DZ SCT018 FEW025CB PROB030 TEMPO 28108/2812 6000 -TSRA FNLU 272300Z 2800/2806 VRB02KT 9999 FEW020 TEMPO 2803/2807 8000 SCT015 BKN020 PROB30 TEMP0 2812/2816 28008KT 7000 DZ FNMA 272300Z 2800/2812 28005KT 9000 BKN010 TEMPO 2801/2806 8000 FNME 271100Z 2712/2724 26006KT 9999 SCT028 FEW030CB TEMPO 2716/2720 7000 FNMO 272300Z 2800/2812 19007KT 9999 FEW020 BKN030 FNSA 272300Z 2800/2812 30005KT 9999 BKN025 FNSO 272300Z 2800/2812 25010KT 8000 SCT012 BKN020 TEMPO 2801/2806 7000 PROB30 TEMPO 2808/2812 6000 DZ FNUB 272300Z 2800/2812 VRB02KT 9000 SCT020 BKN030 TEMPO 2807/2812 8000 FNUE 272300Z 2800/2812 28008KT 9999 SCT020 FOOG 272300Z 2800/2824 19010KT 8000 SCT010 BKN026 FOOL 272300Z 2800/2906 20010KT 9999 SCT011 BKN030 FOON 220000ZFTGO31 FOOL 220515 FOOL 220500Z 2206/2312 14004KT 9999 SCT010 BKN026 TEMPO 2212/2220 TS BKN012 FEW020CB PROB40 TEMPO 2218/2303 3000 TSRA BKN008 FEW018CB FPST 202200Z 2100/2206 26004KT 9999 FEW022CB SCT040 BECMG 2103/2107 BKN040 FQBR 272200Z 2800/2906 08015KT 9999 SCT018 TX32/2813Z TN26/2803Z BECMG 2802/2804 19016KT BECMG 2806/2808 01010KT FQCH 271000Z 2712/2812 09010KT 9999 BKN015 FEW020CB TX28/2713Z TN20/2803Z PROB30 TEMPO 2714/2716 5000 TSRA BKN015 FEW025CB BECMG 2720/2722 23012KT BECMG 2802/2804 02010KT FQIN 271000Z 2712/2812 06012KT 9999 SCT020 TX31/2713Z TN26/2803Z BECMG 2720/2722 19006KT BECMG 2806/2808 34014KT FQLC 271000Z 2712/2812 03010KT 9999 BKN015 TX23/2713Z TN14/2803Z PROB30 TEMPO 2713/2718 5000 TSRA SCT010 BKN015 FEW025CB BECMG 2718/2720 28012KT BECMG 2806/2808 02010KT FQMA 271600Z 2718/2824 10012KT 9999 SCT020 FEW025CB TX32/2813Z TN24/2803Z BECMG 2720/2722 19015KT BECMG 2804/2806 35008KT BECMG 2810/2812 08012KT FQNC 271000Z 2712/2818 05008KT 9999 BKN020 FEW025CB TX29/2713Z TN24/2803Z PROB30 TEMPO 2712/2718 5000 TSRA BKN015 FEW025CB BECMG 2802/2804 02010KT BECMG 2812/2814 07010KT FQNP 272200Z 2800/2824 08008KT 9999 BKN020 FEW025CB TX29/2813Z TN22/2803Z PROB30 TEMPO 2803/2806 5000 TSRA BKN015 FEW025CB BECMG 2804/2806 02010KT BECMG 2812/2814 07010KT FQPB 272200Z 2800/2824 07006KT 9999 SCT020 FEW025CB TX29/2813Z TN24/2803Z BECMG 2804/2806 16010KT BECMG 2810/2812 09010KT FQQL 272200Z 2800/2824 08008KT 9999 SCT020 TX32/2813Z TN24/2803Z BECMG 2802/2804 23012KT BECMG 2806/2808 16010KT FQTT 272200Z 2800/2824 15008KT 9999 BKN020 FEW025CB TX31/2813Z TN24/2803Z PROB30 TEMPO 2801/2806 4000 TSRA BKN020 FEW025CB BECMG 2806/2808 02010KT BECMG 2812/2814 07010KT FQVL 271000Z 2712/2812 08010KT 9999 BKN020 TX32/2713Z TN26/2803Z PROB30 TEMPO 2712/2718 5000 -RADZ BKN018 FEW030CB BECMG 2804/2806 02013KT FQXA 271000Z 2712/2812 08010KT 9999 BKN020 TX33/2713Z TN25/2803Z BECMG 2719/2721 19010KT BECMG 2803/2805 34010KT FSIA 272304Z 2800/2824 32015KT 9999 FEW017CB BKN022 TEMPO 2800/2804 8000 TSRA FEW010 FEW016CB BKN019 TEMPO 2806/2810 5000 SHRA FEW009 FEW015CB BKN018 BECMG 2802/2804 31015G25KT FT LY31 HLMC 252300 HLGD 252300Z 2600/2624 18015KT 8000 FEW025 SCT070 BECMG 2602/2604 33015G25KT BECMG 2608/2610 33010KT BECMG 2614/2616 VRB02KT FTAN40 FNLU 072200 RRA FTAT31 TAPA 042100 CCA TRPG 042035Z 0418/0518 09014KT 9999 SCT019 PROB30 TEMPO 0420/0424 SHRA PROB30 TEMPO 0508/0512 SHRA TEMPO 0512/0516 SHRA FTBH31 MZBZ 101100 MZBZ 101100Z 1012/1112 09010KT 9999 SCT022. PROB40 TEMPO 1015/1021 5000 SHRA BKN015. PROB40 TEMPO 1106/1112 4000 SHRA BKN015 FTBO SLLP 072359 AAA SLLP 072359Z 0800/0824 24011KT 8000 -TSRA SCT015 SCT017CB SCT070 TX15/0819Z TN04/0810Z BECMG 0803/0805 3000E VCFG FEW002 SCT012 BECMG 0811/0814 9999 NSW SCT015 SCT070 TEMPO 0818/0822 03010KT 8000 VCTSSH FEW020CB FTCO20 SKBO 130430 FTFK41 EGYP 231100 EGYP 231020Z 2312/2406 24023G33KT 9999 FEW018CB TEMPO 2312/2406 7000 SHRA BKN022 PROB40 TEMPO 2312/2317 23030G43KT 4000 SHGS BKN012CB PROB40 TEMPO 2317/2324 4000 SHGS SHRASN BKN018CB BECMG 2319/2322 29018G28KT PROB40 TEMPO 2400/2404 27025G38KT 2000 +SHGS +SHRASN BKN014CB BECMG 2402/2404 25016G26KT FTHA31 MTPP 171700 MTPP 171700Z 1718/1818 13007KT 9999 FEW030 FM 171900 30012KT 9000 SCT024TCU PROB40 TEMPO 1802/1808 4500 TSRA SCT020CB BKN040 BECMG 1809/1813 VRB02KT 8000 NSW NSC FTIN90 VAAH 021100 VAAH 021100Z 0212/0318 09004KT 6000 NSC BECMG 0213/0215 00000KT 4000 FU BECMG 0216/0218 05004KT BECMG 0301/0303 07004KT 2500 HZ FU BECMG 0304/0306 09004KT 4000 FU BECMG 0307/0309 07004KT 6000 BECMG 0310/0312 05003KT BECMG 0313/0315 4000 FU BECMG 0316/0318 07003KT FTJM31 MKJP 300515 MKJP 300515Z 3006/3106 36005KT 9999 FEW022 FEW024CB SCT036 BECMG 3013/3015 13016KT TEMPO 3018/3102 TSRA BKN018 SCT020CB BECMG 3104/3106 36005KT FTMO31 ZMCK 091040 ZMCK 091040Z 0912/1018 VRB02MPS 9999 SCT033 TNM01/0922Z TX21/1007Z FTNU31 TNCC 270515 TNCC 270500Z 2706/2806 08011KT 9999 SCT018 PROB30 TEMPO 2708/2800 06010KT 6000 SHRA BKN014 FTNV01 NVVV 281000 NVSC 281000Z 2812/2912 VRB02KT 9999 BKN020 OVC100 INTER 2812/2818 9000 -SHRA BKN018 OVC090 FTPK31 OPKC 170400 RAA OPPS 170428Z 1706/1812 05010KT 3000 HZ NSC BECMG 1707/1708 05010KT 3600 HZ NSC TEMPO 1713/1715 25010KT 3000 HZ BECMG 1715/1717 25010KT 4000 HZ NSC TEMPO 1804/1806 35010KT 1500 BECMG 1806/1807 15010KT 3000 HZ NSC FTTJ 272300Z 2800/2906 36012KT 1000 DU NSC TEMPO 2804/2807 2000 BECMG 2808/2810 4000 FTUG32 HUEN 292300Z 3000/0106 17010KT 9999 FEW022 FEW024CB TEMPO 3002/3006 VRB12KT 9000 –TSRA SCT017 FEW019CB BKN100 BECMG 3007/3010 23005KT –RA SCT019 FEW021CB BECMG 3021/3024 25004KT BECMG02/0106 36005KT 9000 DZ SCT016 FEW018CB FVJN 190400Z 1906/2012 10008KT CAVOK FVRG 190400Z 1906/2012 VRB08KT CAVOK BECMG 1906/1908 9999 SCT015 BECMG 1908/1910 BKN030TCU PROB30 TEMPO 1910/1916 8000 -TSRA FEW030CB BKN080 BECMG 1918/1920 CAVOK BECMG 2006/2008 9999 SCT020 FWCL 270500Z 2706/2812 09010KT 9999 FEW018 BKN070 TX27/2709Z TN21/2803Z PROB30 TEMPO 2710/2712 05008KT 8000 -TSRA FEW025CB BKN030 BECMG 2716/2718 07006KT 9999 FEW025 BKN070 FWKI 270900Z 2712/2818 06010KT 9999 FEW030CB SCT035 BKN090 TEMPO 2713/2715 09004KT 8000 -TSRA FEW032CB BKN090 BECMG 2715/2717 07004KT 9999 FEW035CB BKN090 FXMM 150600Z 1509/1521 VRB02KT 9999 FEW035 SCT035 BECMG 1510/1512 34010KT FXW UWKD 250351Z 2504/2603 21006G13MPS 2200 -SN BLSN OVC010 TXM01/2509Z TNM08/2523Z TEMPO 2504/2509 0700 +SHSN BLSN BKN003 BKN018CB FM250900 27008G15MPS 9999 BKN016 TEMPO 2509/2515 1000 SHSN BLSN BKN005 BKN020CB FYGF 051426Z 0512/0524 05006KT 9999 FEW040 BECMG 0516/0518 12006KT NSC FYKT 272200Z 2800/2900 21015KT CAVOK FYWB 272200Z 2800/2900 01006KT 0800 FG OVC009 TEMPO 2809/2811 22008KT 9999 BKN015 FYWE 051400Z 0512/0524 30008KT CAVOK FYWH 272200Z 2800/2900 23014KT CAVOK FZAA 272300Z 2800/2906 20006KT 6000 BKN016 BECMG 2811/2813 31010KT 8000 SCT022 FEW030CB TEMPO 2816/2820 TS BECMG 2822/2824 24004KT FEW018 FZIC 271100Z 2712/2818 25008KT 7000 BKN024 FEW032CB TEMPO 2712/2716 05006KT TS BECMG 2716/2718 VRB04KT NSC BECMG 2800/2802 1500 BR FM 280700 12006KT 7000 BKN013 BECMG 2810/2812 SCT020 FEW032CB FZNA 270500Z 2706/2812 08004KT 6000 SCT014 BECMG 2709/2711 24012KT SCT016 FEW020CB FM 271700 06004KT 4000 BR SCT014 BECMG 2804/2807 6000 NSW FZQA 221100Z 2212/2318 09010KT 9999 BKN015 FEW026CB PROB30 TEMPO 2214/2216 6000 -TSRA BECMG 2219/2221 20005KT BKN012 BECMG 2305/2307 36010KT BKN016 FEW028CB FZWA 041100Z 0412/0518 21008KT 9999 FEW020 BECMG 0413/0415 SCT022 FEW028CB PROB30 TEMPO 0417/0421 TS BECMG 0423/0501 09002KT SCT012 GABS 272300Z 2800/2906 06008KT 8000 NSC GAGO 272300Z 2800/2824 08010G20KT 6000 NSC TEMPO 2806/2816 3000 BLDU GBYD 272330Z 2800/2906 36008KT CAVOK GCFV 280200Z 2803/2903 09012KT 9999 FEW030 TX17/2814Z TN14/2806Z GCGM 280200Z 2803/2903 VRB05KT 9999 SCT030 TX19/2814Z TN14/2806Z PROB40 TEMPO 2803/2806 RA GCHI 280200Z 2803/2903 13006KT 9999 BKN020 TX19/2814Z TN14/2806Z TEMPO 2803/2815 4500 RA BKN013 PROB30 TEMPO 2803/2813 2500 SHRA SCT030TCU GCLA 280200Z 2803/2903 29006KT 9999 BKN030 TX19/2814Z TN14/2806Z TEMPO 2803/2815 4500 RA PROB30 TEMPO 2803/2813 2500 SHRA SCT030TCU GCLP 280200Z 2803/2903 36009KT 9999 SCT030 TX19/2814Z TN14/2806Z= KIAB 280208Z 2802/2908 33006KT 9999 BKN060 OVC130 620607 QNH3036INS BECMG 2815/2816 31010G20KT 9999 FEW100 QNH3035INS BECMG 2823/2824 27006KT 9999 SKC QNH3024INS TX08/2820Z TNM06/2812Z GCRR 280200Z 2803/2903 09013KT 9999 FEW030 TX18/2814Z TN14/2806Z GCTS 280200Z 2803/2903 02009KT 9999 SCT030 TX20/2814Z TN13/2806Z BECMG 2810/2812 09012KT PROB30 TEMPO 2814/2820 RA GCXO 280200Z 2803/2903 13005KT 9999 BKN015 TX15/2814Z TN08/2806Z TEMPO 2803/2809 4000 RA GECE 280200Z 2803/2903 09014KT 9999 SCT015 BKN030 TX17/2814Z TN13/2806Z TEMPO 2803/2903 09018G28KT TEMPO 2803/2810 BKN012 GEML 272300Z 2800/2824 14005KT 9999 FEW020 TX17/2813Z TN11/2806Z BECMG 2809/2811 08010KT TEMPO 2818/2824 08016G28KT GFLL 271700Z 2718/2824 27006KT 7000 HZ FEW013 TEMPO 2724/2804 28006KT NSC TEMPO 2806/2810 VRB02KT 4000 BR BKN010 BECMG 2812/2814 27004KT 7000 HZ SCT013 BECMG 2818/2820 FEW013 GGOV 272300Z 2800/2824 24005KT 7000 NSC PROB30 2806/2809 2500 BR GLRB 271100Z 2712/2812 23010KT 9999 BKN020 FM 271300 22010KT 9000 SCT018 TEMPO 2719/2723 00000KT SCT013 FEW023CB GMAD 272300Z 2800/2906 08014KT 8000 NSC GMAG 272300Z 2800/2906 08015KT 6000 NSC= GMMH 272300Z 2800/2906 06009KT 8000 NSC PROB40 2800/2809 2000 BR GMFF 272300Z 2800/2906 10008KT CAVOK GMFK 272300Z 2800/2906 29005KT 9999 BKN030 SCT080 TEMPO 2801/2808 4500 RA GMFM 272300Z 2800/2906 09010KT CAVOK BECMG 2808/2812 18014KT BECMG 2816/2820 12010KT 9999 SCT016 BKN100 BECMG 2900/2904 10014KT CAVOK GMFO 272300Z 2800/2906 30008KT 9999 FEW023 GMME 272300Z 2800/2906 00000KT 5000 NSC PROB30 TEMPO 2801/2808 3000 BR BKN008 BECMG 2808/2810 14012KT SCT015 BKN100 BECMG 2815/2817 01010KT GMMH 271700Z 2718/2824 02014KT 8000 NSC PROB30 2800/2808 3000 BR BKN008 GMMI 272300Z 2800/2906 09005KT 8000 NSC PROB40 2802/2810 2000 BR GMML 272300Z 2800/2906 04010KT 8000 NSC GMMN 272300Z 2800/2906 16007KT CAVOK TEMPO 2816/2819 03014KT GMMW 272300Z 2800/2906 21005KT 8000 NSC GMMX 272300Z 2800/2906 16006KT 8000 SCT023 SCT080 TEMPO 2816/2820 02016KT GMMZ 272300Z 2800/2906 01003KT 5000 -RA BKN030 SCT100 GMTA 272300Z 2800/2906 VRB02KT 8000 NSC GMTN 021100Z 0212/0318 09008KT CAVOK BECMG 0219/0223 26012KT GMTT 272300Z 2800/2906 08020G30KT CAVOK GOBD 272330Z 2800/2906 01014KT CAVOK GOGS 272330Z 2800/2824 35008KT CAVOK GOOY 272330Z 2800/2906 01016KT CAVOK= GOBD 272330Z 2800/2906 01014KT CAVOK GOSS 272330Z 2800/2824 36010KT CAVOK GQMA 031600Z 0318/0424 35012KT CAVOK TX27/0413Z TN15/0403Z BECMG 0410/0412 12010G20KT 9999 BKN020 GQNO 272300Z 2800/2906 36012KT 8000 NSC GQPP 272300Z 2800/2824 02015KT 7000 NSC GUCY 272300Z 2800/2906 27006KT 5000 HZ NSC PROB30 TEMPO 2804/2809 VRB02KT 3000 BR NSC GVAC 272300Z 2800/2906 05018KT 9999 SCT014 GVBA 272300Z 2800/2906 04018KT 9999 SCT015 GVNP 272300Z 2800/2906 04020KT 9999 SCT018 GVSV 272300Z 2800/2906 06024KT 9999 FEW022 H 082300Z 0900/0924 36005KT 9999 BKN020 HAAB 271530Z 2718/2824 12008KT 9999 SCT027 SCT090= HADR 271530Z 2718/2824 06008K T 9999 FEW040 SCT080 HAAK 202130Z 2100/2206 10010KT 9999 SCT030 FEW080 BECMG 2106/2109 12012KT SCT030 BECMG 2112/2115 36010KT SCT025 FEW080 HAAM 020330Z 0204/0310 23006KT 6000 SHRA BKN020 BKN060 BECMG 0208/0215 28004 9999 SCT040 SCT080 HAAX 292130Z 2922/0104 30005KT 9000 -BR BKN026 SCT090 HABD 271530Z 2718/2824 32006KT 9999 SCT030 SCT090 HABR 061530Z 0618/0724 15006KT 9999 FEW035 FEW090 HADB 111530Z 1118/1224 36005KT 9999 FEW035 FEW090 HADC 250340Z 2506/2612 06005G26KT 9999 SCT025 SCT080 HADIR 100930Z 1006/1112 36008KT 9999 FEW030 FEW090 BECMG 1106/1110 C A V O K HADR 271530Z 2718/2824 06008K T 9999 FEW040 SCT080 HAGI 061530Z 0618/0724 30008KT 9999 FEW035 FEW090 HAGN 271530Z 2718/2824 14005KT 9999 FEW030 SCT070 HAJI 042000Z 0500/0606 22010KT 9999 SCT025 FEW080 BECMG 0509/0512 21012KT SCT030 BECMG 0512/0515 24012KT SCT025 FEW080 HAJJ 271530Z 2718/2824 060010KT 9999 FEW040 SCT090 HAJV 161530Z 1618/1724 04009KT 9999 FEW035 FEW090 BECMG 1618/1623 04009KT FEW030 FEW090 HALA 271530Z 2718/2824 11008KT 9999 SCT040 SCT080 HAMK 290930Z 2912/3018 35005KT 7000M -BR BKN025 SCT080 HASO 191530Z 1918/2024 07006KT 9/9 -HZ BKN020 SCT075 TEMPO 2006/2008 04006KT -HZ FEW019 FEW075 HBBA 272252Z 2800/2906 36002KT 9999 FEW020 SCT090 BECMG2808/2810 18010G20KT 9999 FEW030 SCT100 BECMG2719/2721 36002KT 9999 FEW025 BKN090 HCMM 271100Z 2712/2818 08017KT CAVOK BECMG 2722/2801 04011KT FEW019 BECMG 2809/2812 06018KT CAVOK HDAM 011200Z 0112/0212 06010KT 9999 FEW023 FEW133 BECMG 0115/0121 VRB03KT CAVOK BECMG 0200/0206 00000KT FEW023 FEW133 HE0W 191710Z 1918/2024 36010KT 6000 NSC HEAL 272300Z 2800/2906 30010KT 9999 SCT020 SCT022 TEMPO 2800/2816 6000 SHRA BKN020 HEAR 272300Z 2800/2906 27012KT 9999 SCT020 TEMPO 2800/2806 6000 -RA BKN025 HEAT 272300Z 2800/2906 32010KT 6000 NSC HEAX 272300Z 2800/2906 27013KT 9999 SCT020 SCT022 TEMPO 2800/2818 6000 SHRA BKN020 HEBA 272300Z 2800/2906 27013KT 9999 SCT020 SCT022 TEMPO 2800/2818 6000 SHRA BKN020 HEBL 272300Z 2800/2906 36014KT CAVOK HECA 272300Z 2800/2906 27008KT 9999 SCT025 TEMPO 2800/2806 VRB03KT 4000 BR NSC HEGN 272300Z 2800/2906 31014KT CAVOK HEGR 270500Z 2706/2812 27010G22KT 9999 SCT020 TEMPO 2706/2712 6000 RA BKN025 HELX 272300Z 2800/2906 32008KT 7000 NSC TEMPO 2806/2810 VRB03KT 4000 HZ HEMA 272300Z 2800/2906 30014KT CAVOK HEMM 272300Z 2800/2906 30010KT 9999 SCT020 SCT022 TEMPO 2800/2816 6000 SHRA BKN020 HENN 161700Z 1618/1724 26010G25KT 9999 SCT020 TEMPO 1706/1712 3000 -RA SA BKNO20 HEOW 272300Z 2800/2906 01010KT 6000 NSC HEPS 272300Z 2800/2906 27013KT 9999 SCT025 TEMPO 2800/2812 6000 RA BKN020 HESC 272300Z 2800/2906 29010KT 9999 SCT025 HESG 272300Z 2800/2906 32008KT 6000 NSC HESH 272300Z 2800/2906 35012KT CAVOK= KLSV 272300Z 2723/2905 04015G24KT 9999 SKC 510009 QNH3027INS TEMPO 2723/2805 03020G35KT 530009 BECMG 2807/2808 36010G15KT 9999 SKC QNH3050INS BECMG 2811/2812 34009KT 9999 SKC QNH3046INS BECMG 2817/2818 02012KT 9999 SKC QNH3050INS TX17/2723Z TN03/2813Z HESN 272300Z 2800/2906 36012KT CAVOK HETB 272300Z 2800/2906 32012KT 9999 SCT025 HETR 272300Z 2800/2906 29015KT CAVOK HHUEN 171700Z 1718/1824 34008KT 9999 FEW020 FEW022CB TEMPO 1802/1806 VRB15KT 8000 -TSRA SCT018 FEW020CB OVC090 BECMG 1807/1810 16010KT -RA BKN019 FEW021CB FM 181600 24005KT HKEL 272300Z 2800/2906 14010KT CAVOK BECMG 2808/2811 9999 FEW025 BECMG 2820/2823 CAVOK HKJK 272300Z 2800/2906 35005KT SCT020 BECMG 2806/2810 06010KT 99 99 FEW027 BECMG 2820/2823 CAVOK BECMG 2901/2905 35005KT SCT020 HKKI 272300Z 2800/2906 2718/2824 06005KT FEW023 BECMG 2808/2811 2 3010KT 9999 FEW027 BECMG 2820/2823 06005KT CAVOK BECMG 2901/2905 0600 5KT FEW023 HKML 272300Z 2800/2824 00000KT 9999 BKN019 BECMG 2809/2812 07015KT SCT025 HKMO 272300Z 2800/2906 35005KT 9999 BKN019 BECMG 2809/2812 07015KT SCT026 BECMG 2818/2821 06005KT BECMG 2900/2906 00000KT BKN020 HKNW 271700Z 2718/2818 06010KT CAVOK BECMG 2806/2810 06010KT 9999 FEW027 BECMG 2820/2823 CAVOK HLGD 261700Z 2618/2718 VRB02KT 8000 SCT025 SCT080 BECMG 2703/2705 25012KT HLGT 261700Z 2618/2718 08010KT CAVOK BECMG 2621/2623 VRB02KT BECMG 2703/2705 17010KT HLKF 261100Z 2612/2712 36012KT CAVOK HLLB 261100Z 2612/2712 35015KT 7000 SCT025 SCT070 TEMPO 2612/2624 5000 SHRA FEW020TCU BKN022 HLLM 261100Z 2612/2712 20010KT 8000 SCT025 SCT080 BECMG 2615/2617 34010KT BECMG 2620/2622 VRB02KT BECMG 2703/2705 20010KT HLLQ 261700Z 2618/2718 35015KT 7000 SCT023 SCT060 PROB40 TEMPO 2712/2718 4000 TSRAGR FEW018 CB OVC 020 HLLS 261100Z 2612/2712 06012KT CAVOK BECMG 2621/2623 VRB02KT BECMG 2703/2705 08010KT HLLT 260500Z 2606/2706NIL= HLLM 260500Z 2606/2706 24010KT 8000 SCT025 SCT080 HLMS 261100Z 2612/2712 35012KT 8000 SCT025 SCT080 BECMG 2621/2623 VRB02KT BECMG 2703/2704 25012KT HLON 261100Z 2612/2712 36010KT 9999 SCT035 BECMG 2700/2702 VRB02KT HLTD 261700Z 2618/2718 VRB02KT 8000 NSC BECMG 2703/2705 08010KT BECMG 2710/2712 12012KT HLTQ 261700Z 2618/2718 34015G25KT 7000 SCT025 SCT080 BECMG 2703/2705 25012KT HLUB 261700Z 2618/2718 VRB02KT CAVOK BECMG 2706/2708 09010KT HRYR 272300Z 2800/2906 25003KT 9999 FEW025 SCT100 BECMG 2802/2805 00000KT 8000 SCT025 SCT100 FM 280900 17006KT 9999 BKN024 TEMPO 2813/2817 09012KT TS FEW023CB BKN025 BECMG 2820/2823 28004KT NSW SCT025 SCT100 BECMG 2902/2905 32003KT FEW025 SCT100 HRZA 201100Z 2012/2118 35006KT 9999 FEW023CB BKN025 TEMPO 2015/2019 08007KT BKN025 BECMG 2021/2023 25006KT FEW025 SCT100 FM 212000 00000KT 9000 SCT025 BECMG 2106/2109 31006KT 9999 BKN025 SCT100 TEMPO 2112/2115 18010KT -TSRA FEW023CB BKN025 HSKA 272300Z 2800/2906 02010G20KT 8000 NSC TEMPO 2807/2813 4000 BLDU HSOB 272300Z 2800/2906 35012G22KT 7000 NSC TEMPO 2806/2818 36014G2KT TEMPO 2805/2812 4000 BLSA HSPN 272000Z 2800/2906 34014G24KT 8000 FEW030 SCT130 BECMG 2809/2811 06016G26KT TEMPO 2804/2812 4000 BLSA HSSJ 241100Z 2412/2518 VRB06KT 9999 FEW040 SCT140 PROB30 TEMPO 2415/2421 06005KT 4000 HZ SCT090 HSSK 272300Z 2800/2906 35012G22KT 7000 NSC TEMPO 2806/2818 36015G25KT TEMPO 2806/2813 4000 BLDU HSSS 041100Z 0412/0518 02014G24KT CAVOK TEMPO 0413/0418 6000 HTAR 272300Z 2800/2824 11006KT 9999 SCT024 HTDA 272300Z 2800/2906 01005KT 9999 SCT014 BECMG 2808/2811 08010KT HTDO 271700Z 2718/2818 10010KT 9999 SCT026 FEW027CB PROB30 TEMPO 2801/2806 8000 TSRA BKN021 FEW022CB BECMG 2812/2815 NSW HTGT 270500Z 2706/2806 16010KT 9999 FEW018 FEW019CB BKN090 TEMPO 2710/2716 TSRA BKN022 FEW023CB BECMG 2720/2722 00000KT NSW FEW020 FEW021CB BKN090 HTGW 270500Z 2706/2806 00000KT 9999 TSRA SCT026 FEW027CB BKN080 BECMG 2710/2712 10010KT BKN030 FEW032CB HTKA 260500Z 2606/2706 00000KT 9999 TS FEW018 FEW019CB BKN080 PROB30 TEMPO 2606/2611 24005KT -TSRA TEMPO 2616/2621 00000KT HTKJ 272300Z 2800/2824 09005KT 9999 SCT024 BECMG 2812/2814 09015KT FEW036CB SCT037 BECMG 2816/2818 SCT028 HTMT 271100Z 2712/2812 36015KT 9999 BKN024 FEW025 BECMG 2715/2718 SCT022 FEW023CB BKN080 BECMG 2806/2809 BKN024 FEW025CB SCT080 HTMW 271700Z 2718/2818 00000KT 9999 FEW022 FEW023CB BECMG 2802/2803 13010KT BECMG 2812/2814 35010KT SCT025 FEW026CB HTTB 272300Z 2800/2824 20010KT 9999 SCT020 FEW021CB BKN070 PROB40 TEMPO 2808/2815 TSRA HTTKA 211100Z 2112/2212 00000KT 9999 FEW024 FEW025CB BECMG 2112/2116 27015KT TEMPO 2204/2208 TSRA SCT020 FEW021CB BKN080 HTTTB 132300Z 1400/1424 09010KT 9999 SCT020 HTZA 272300Z 2800/2824 00000KT 9999 FEW014 BECMG 2803/2805 36010KT BKN016 BECMG 2810/2812 06010KT FEW020 HUEN 272300Z 2800/2906 17010KT 8000 FEW026 BECMG 2802/2806 VRB10KT 6000 BCFG FEW018 FEW020CB HUSO 271050Z 2712/2812 36012KT 9999 FEW021 FM 280200 07004KT CAVOK BECMG 2809/2812 34006KT 9999 FEW021 INTER 0500/0506 9000 -SHRA BKN018 OVC038 IRER 041100Z 0412/0512 32008KT 8000 SCT040 KABE 280240Z 2803/2824 21005KT P6SM BKN070 FM280500 VRB03KT P6SM OVC070 FM281100 00000KT P6SM OVC040 FM281300 VRB03KT P6SM VCSH OVC030 FM281800 33005KT 3SM -SN BR OVC025 KABI 272337Z 2800/2824 35014KT P6SM SKC FM280300 35009KT P6SM SKC KABQ 280003Z 2800/2824 02011KT P6SM FEW060 FM280015 08020G28KT P6SM VCSH SCT090 TEMPO 2801/2804 09025G35KT FM280500 08022G31KT P6SM SCT060 FM280900 08010KT P6SM FEW050 FM281500 VRB06KT P6SM SKC KABR 272339Z 2800/2824 03006KT P6SM SKC FM280400 17005KT P6SM SKC FM281000 19009KT P6SM BKN080 FM282200 05007KT P6SM SCT200 KABY 272334Z 2800/2824 07005KT P6SM FEW250 FM281600 31010G15KT P6SM BKN040 OVC100 KACK 272329Z 2800/2824 22007KT P6SM OVC030 FM280500 22013KT P6SM OVC045 FM281000 24010G17KT P6SM OVC045 FM281400 25008KT P6SM OVC040 FM281900 28005KT P6SM OVC030 FM282100 32006KT 6SM BR BKN025 KACT 280252Z 2803/2824 02009KT P6SM BKN050 FM280800 01012G20KT P6SM SCT050 FM281500 35013G20KT P6SM SCT250 KACV 272337Z 2800/2824 33007KT P6SM FEW250 FM280300 VRB03KT 6SM BR FEW002 FM280900 09003KT P6SM SCT002 FM281800 32007KT 6SM HZ SCT250 KACY 272322Z 2800/2824 VRB03KT P6SM SCT250 FM280400 VRB03KT P6SM BKN100 FM281200 VRB03KT P6SM OVC060 FM282000 36005KT P6SM OVC040 FM282300 02008KT 4SM -SN BR OVC020 KADF 272320Z 2800/2824 VRB03KT P6SM BKN060 OVC080 FM281600 35009KT P6SM BKN060 FM281700 35011G18KT P6SM SCT040 BKN060 KADW 280100Z 2801/2907 VRB06KT 9999 BKN050 620509 QNH3012INS BECMG 2816/2817 10008KT 9999 SCT010 BKN020 620209 QNH3003INS BECMG 2819/2820 08008KT 9999 BKN010 OVC020 620109 QNH3001INS BECMG 2820/2821 03012KT 3200 -SN BKN006 BKN010 650104 620505 QNH2987INS BECMG 2905/2906 36012KT 9999 NSW SCT006 BKN010 620109 QNH2984INS TX03/2818Z TNM03/2801Z KAEG 272323Z 2800/2824 33007KT P6SM FEW060 FM280100 02011KT P6SM SCT090 FM280300 07011KT P6SM SCT050 BKN100 TEMPO 2803/2805 35012G18KT FM280900 VRB05KT P6SM SCT040 FM281500 33005KT P6SM SKC KAEX 272327Z 2800/2824 VRB05KT P6SM BKN200 FM281400 33010KT P6SM SCT200 FM281600 34012G22KT P6SM SCT200 FM282300 24010KT P6SM SKC KAFF 271556Z 2712/2818 VRB06KT 9999 SCT030 BKN070 630805 QNH3010INS BECMG 2714/2715 VRB06KT 9999 VCSH SCT015 BKN030 BKN050 630305 QNH3011INS BECMG 2716/2717 01012G18KT 4800 -SN SCT010 BKN015 OVC050 630159 510009 QNH3024INS TEMPO 2717/2718 3200 -SN BKN010 630109 BECMG 2717/2718 01015G25KT 1600 -SN SCT010 BKN015 OVC030 630159 520009 QNH3029INS BECMG 2723/2724 35012G18KT 9999 NSW SCT025 QNH3036INS BECMG 2804/2805 35009KT 9999 FEW030 FEW200 520205 QNH3037INS ROTOR CONDS EXIST BECMG 2816/2817 34010G15KT 9999 SKC QNH3043INS TXM02/2721Z TNM14/2811Z LAST NO AMDS AFT 2715 NEXT 1812 KAFW 280252Z 2803/2824 36010KT P6SM FEW040 FM281500 34013G20KT P6SM SKC KAGC 280056Z 2801/2824 21010KT P6SM OVC035 TEMPO 2801/2802 23012G22KT 3SM -SN OVC007 FM280200 22005KT P6SM OVC025 FM280800 23005KT 5SM -SN OVC010 FM281700 34010KT P6SM BKN020 KAGS 280251Z 2803/2824 VRB03KT P6SM SCT200 FM281500 VRB05KT P6SM BKN150 KAHN 272342Z 2800/2824 09003KT P6SM SKC FM281500 00000KT P6SM BKN250 FM281800 26006KT P6SM BKN100 FM281900 27007KT P6SM BKN070 FM282100 28010G20KT P6SM BKN040 KAIA 280200Z 2802/2824 28010KT P6SM BKN070 FM280600 30010KT P6SM BKN100 FM281300 28011KT P6SM FEW250 WS020/32035KT FM281500 29015G25KT P6SM FEW250 WS020/32035KT FM281800 30019G30KT P6SM SKC FM282300 28011KT P6SM FEW250 KALB 272327Z 2800/2824 16010KT P6SM FEW120 BKN250 FM281700 30006KT P6SM BKN035 FM282200 35009KT P6SM SCT025 BKN035 KALI 272320Z 2800/2824 05007KT P6SM OVC030 FM280300 05008KT 6SM -RA BR BKN015 OVC025 FM280800 02013KT 4SM -RA BR SCT007 OVC015 FM281200 02015G22KT P6SM -RA OVC018 FM281600 02015G22KT P6SM OVC035 FM282200 36007KT P6SM BKN035 KALO 272341Z 2800/2824 33010KT P6SM SCT050 FM281900 27006KT P6SM FEW250 FM282300 24005KT P6SM FEW200 KALS 280247Z 2803/2824 10013KT P6SM VCSH BKN050 OVC080 FM280500 27004KT P6SM FEW050 SCT120 FM280900 VRB03KT 1SM BR BKN002 FM281500 VRB04KT P6SM SKC KALW 272320Z 2800/2824 VRB04KT P6SM OVC012 FM281300 VRB04KT P6SM OVC009 FM282100 24004KT P6SM OVC015 KAMA 272340Z 2800/2824 03013KT P6SM SCT040 SCT300 FM280300 36008KT P6SM BKN040 FM280900 30007KT P6SM SKC FM281700 27013KT P6SM SKC KANB 272340Z 2800/2824 07003KT P6SM FEW250 FM281500 28007KT P6SM BKN100 FM281800 32011G19KT P6SM OVC060 PROB30 2818/2824 -SHSN OVC050 KAND 272325Z 2800/2824 VRB02KT P6SM SCT200 FM281500 23004KT P6SM BKN150 FM281800 24007KT P6SM BKN070 FM282000 25008KT P6SM OVC050 PROB30 2820/2824 6SM -RA BR OVC035 KAOO 272324Z 2800/2824 19007KT P6SM BKN050 FM280700 25007KT P6SM OVC035 FM281300 32007KT 4SM -SHSN BKN015 OVC025 KAPA 272326Z 2800/2824 VRB03KT P6SM FEW030 FM280100 23007KT P6SM FEW030 FM280400 20009KT P6SM SKC FM281800 25008KT P6SM SKC KAPC 272336Z 2800/2824 10006KT P6SM SKC FM280400 VRB04KT P6SM SKC FM281900 11008KT P6SM FEW200 KAPF 280255Z 2803/2824 VRB03KT P6SM SCT025 BKN050 TEMPO 2803/2805 FEW015 BKN025 FM280800 VRB03KT 6SM BR SCT010 BKN035 FM281400 30010KT P6SM SCT025 BKN050 KAPN 272320Z 2800/2824 32011G20KT P6SM VCSH SCT025 OVC035 TEMPO 2800/2804 3SM -SHSN BKN025 FM280400 34008KT P6SM OVC035 FM281500 01006KT P6SM BKN040 KARA 272327Z 2800/2824 35005KT P6SM FEW250 FM281300 36010KT P6SM BKN250 FM281700 36015G25KT P6SM SCT250 KART 272325Z 2800/2824 20012KT 2SM -SN OVC035 FM280300 20015G25KT 1SM -SN BLSN OVC015 FM280500 24013G18KT 1/4SM +SN OVC007 FM280800 26011KT 2SM -SN OVC020 FM281000 31010KT 6SM -SHSN OVC030 FM281300 01012KT P6SM BKN035 KASD 272320Z 2800/2824 VRB03KT P6SM SCT250 FM281900 34011KT P6SM SCT250 KASE 272322Z 2800/2824 34006KT P6SM BKN040 FM280100 22004KT P6SM BKN040 FM280300 20004KT P6SM FEW040 FM280600 VRB04KT P6SM SKC KASN 272340Z 2800/2824 07003KT P6SM FEW250 FM281500 28007KT P6SM BKN100 FM281800 32011G19KT P6SM OVC060 PROB30 2818/2824 -SHSN OVC050 KAST 272354Z 2800/2824 07007KT P6SM SKC FM281200 VRB03KT P6SM SCT010 KATL 280134Z 2802/2906 11004KT P6SM FEW150 BKN250 FM280700 00000KT P6SM BKN250 FM281300 29004KT P6SM SCT035 BKN100 FM281600 27006KT P6SM SCT035 BKN070 FM281900 30010G23KT P6SM SCT030 BKN040 FM290000 32014G24KT P6SM SCT020 BKN060 KATW 272335Z 2800/2824 35008G15KT P6SM SCT045 FM280300 33006KT P6SM SKC FM281600 27006KT P6SM SCT200 KATY 272339Z 2800/2824 36011KT P6SM SKC FM280300 18006KT P6SM SKC FM281200 19010KT P6SM BKN080 KAUG 272320Z 2800/2824 20004KT P6SM SCT250 FM281500 28005KT P6SM OVC060 KAUS 272325Z 2800/2906 05006KT P6SM OVC035 FM280700 01013KT P6SM OVC050 FM281600 36016G26KT P6SM SCT250 FM290000 36006KT P6SM SKC KAUW 272335Z 2800/2824 33009KT P6SM SKC FM280400 33004KT P6SM SCT250 FM281600 27006KT P6SM SCT200 FM282000 26006KT P6SM SCT110 KAVL 272325Z 2800/2824 17004KT P6SM SCT200 FM280600 35003KT P6SM BKN150 FM281400 35006KT P6SM OVC070 PROB30 2816/2820 4SM -RASN BR OVC035 FM282000 34008KT 6SM -RASN BR OVC025 FM282300 34010G18KT 5SM -SN BR OVC015 KAVP 272333Z 2800/2824 21005KT P6SM SCT090 BKN120 FM280500 21005KT P6SM BKN070 FM281200 VRB06KT P6SM VCSH SCT030 OVC040 TEMPO 2812/2814 5SM -SHSN BKN024 OVC035 FM281400 29004KT 5SM -SHSN BKN022 OVC030 TEMPO 2814/2818 2SM -SHSN BKN018 OVC025 FM282000 30006KT P6SM BKN030 KAXN 272328Z 2800/2824 32011KT P6SM FEW250 FM280600 27004KT 1 1/2SM BR OVC004 FM280800 VRB03KT 3/4SM BR OVC003 FM281200 22004KT 2SM BR OVC003 FM281500 22007KT 6SM BR BKN035 KAZO 280233Z 2803/2824 32009KT P6SM BKN027 OVC030 FM280400 01009KT P6SM VCSH OVC015 FM280500 02010KT P6SM VCSH OVC025 FM280600 02009KT P6SM BKN070 FM281100 03005KT P6SM SCT250 KBAB 280300Z 2803/2909 VRB06KT 9999 SKC QNH3021INS BECMG 2900/2901 06006KT 9999 SCT250 QNH3022INS TX15/2823Z TN02/2815Z KBAD 272000Z 2720/2902 32005KT 9999 SCT060 BKN220 QNH3029INS WND 35010KT AFT 2810 BECMG 2814/2816 35018G28KT 9999 SKC QNH3034INS BECMG 2900/2901 34010KT 9999 SKC QNH3034INS TX13/2721Z TNM01/2813Z KBAF 272329Z 2800/2824 16005KT P6SM SKC FM280300 19007KT P6SM BKN150 FM280400 20006KT P6SM OVC090 FM280700 20004KT P6SM OVC050 FM281400 22003KT P6SM BKN050 FM282000 32004KT P6SM BKN050 KBAM 272325Z 2800/2824 06006KT P6SM SKC KBBD 272337Z 2800/2824 30005KT P6SM BKN050 FM280600 01013KT P6SM SCT025 BKN050 FM281100 02011KT P6SM SCT050 FM281500 35012KT P6SM SKC NOT SKED KBBG 272320Z 2800/2824 32007KT P6SM SCT060 BKN150 FM281100 33008KT P6SM BKN060 FM281800 33010G18KT P6SM SCT080 KBCB 272333Z 2800/2824 12005KT P6SM SCT120 FM280500 VRB03KT P6SM OVC100 FM281600 27004KT P6SM OVC050 FM282000 30005KT P6SM OVC028 TEMPO 2820/2822 -SN FM282200 32005KT 3SM -SN BR OVC015 KBCE 280104Z 2801/2824 35010KT P6SM SKC FM280500 30007KT P6SM SKC FM281800 15007KT P6SM SKC KBDL 272329Z 2800/2906 18007KT P6SM SCT250 FM280600 20005KT P6SM OVC060 FM281400 21003KT P6SM OVC050 FM282000 33003KT P6SM BKN040 FM282300 35004KT P6SM BKN060 FM290200 36007KT P6SM OVC030 FM290500 01009KT P6SM VCSH OVC025 KBDN 272320Z 2800/2824 11005KT P6SM OVC004 FM280500 VRB03KT 6SM BR OVC004 FM281800 18004KT P6SM SCT250 KBDR 280228Z 2802/2824 24006KT P6SM FEW035 SCT100 BKN150 FM281400 27007KT P6SM OVC040 PROB30 2814/2817 3SM -SN OVC030 FM281700 28007KT P6SM OVC025 PROB30 2817/2820 4SM -SN OVC015 FM282300 01005KT P6SM OVC040 KBED 272329Z 2800/2824 18006KT P6SM SCT250 FM280500 21007KT P6SM OVC100 FM281000 23006KT P6SM OVC060 FM281600 24005KT P6SM OVC045 FM282100 30003KT P6SM BKN045 KBFD 280213Z 2802/2824 24007KT P6SM OVC015 FM280700 29007KT P6SM -SHSN OVC009 FM281600 35007KT P6SM -SHSN OVC015 KBFF 280158Z 2802/2824 VRB05KT P6SM BKN100 FM280400 31008KT P6SM SCT120 FM281600 29015G25KT P6SM SKC KBFI 280259Z 2803/2824 VRB03KT P6SM SKC TEMPO 2806/2809 5SM BR BKN006 FM280900 00000KT 2SM BR OVC004 FM281900 00000KT P6SM SCT006 FM282000 00000KT P6SM SKC KBFL 272320Z 2800/2824 VRB05KT 6SM HZ SKC= KVIS 272320Z 2800/2824 VRB03KT 6SM HZ SKC FM281000 VRB02KT 4SM BR SKC FM281800 VRB03KT 6SM HZ SKC KBFM 272324Z 2800/2824 17006KT P6SM SKC FM280300 30004KT P6SM SCT050 BKN250 FM281200 34007KT P6SM SCT050 OVC250 FM281500 34012G18KT P6SM OVC250 KBGM 272333Z 2800/2824 20010G18KT P6SM BKN050 FM281000 26007G11KT P6SM OVC035 TEMPO 2810/2814 5SM -SN OVC025 FM281400 31008G15KT P6SM BKN025 OVC030 FM282100 35007KT P6SM BKN020 KBGR 272328Z 2800/2824 20006KT P6SM SCT025 BKN200 FM280800 21004KT P6SM OVC050 FM282000 30005KT P6SM BKN050 KBHB 272328Z 2800/2824 VRB03KT 5SM -SHSN OVC035 FM280200 21008KT P6SM BKN045 FM281000 24007KT P6SM OVC040 FM282000 30005KT P6SM BKN080 KBHM 272340Z 2800/2824 00000KT P6SM FEW250 FM281500 33010G19KT P6SM BKN045 FM281800 33011G21KT P6SM -SHSN OVC050 KBIF 272200Z 2722/2904 28010G15KT 9999 SKC 510013 QNH3003INS BECMG 2805/2806 07020G35KT 9999 FEW070 530009 QNH3022INS BECMG 2813/2814 08010G15KT 9999 SKC QNH3041INS BECMG 2901/2902 VRB06KT 9999 SKC QNH3042INS TX10/2722Z TNM01/2814Z KBIH 272322Z 2800/2824 33006KT P6SM SKC FM282100 16006KT P6SM FEW250 KBIL 272320Z 2800/2824 28011KT P6SM SCT200 FM280300 26015G25KT P6SM SCT200 KBIS 280243Z 2803/2824 11005KT P6SM VCSH SCT030 OVC050 TEMPO 2803/2805 6SM -SHSN SCT025 BKN035 FM280500 08004KT P6SM VCSH SCT025 BKN050 FM281200 22005KT P6SM FEW030 SCT110 FM281700 31007KT P6SM FEW250 FM282100 VRB05KT P6SM SCT250 KBIX 271900Z 2719/2901 VRB06KT 9999 FEW250 QNH3015INS BECMG 2900/2901 33015KT 9999 SKC QNH3025INS TX15/2722Z TN06/2813Z KBJC 272326Z 2800/2824 VRB05KT P6SM FEW030 BKN050 FM280200 28008KT P6SM SKC FM282000 25010KT P6SM SKC KBJI 272339Z 2800/2824 29009KT P6SM SCT250 FM280300 VRB05KT P6SM SCT180 KBKE 272327Z 2800/2824 16008KT P6SM BKN010 FM280300 VRB05KT P6SM SCT007 FM281800 10011KT P6SM SKC KBKF 280102Z 2801/2907 VRB06KT 9999 FEW019 510032 QNH3038INS BECMG 2810/2811 20006KT 9999 SKC 530053 QNH3029INS TX02/2823Z TNM14/2801Z KBKW 280244Z 2803/2824 19003KT P6SM BKN070 OVC090 FM280600 24004KT P6SM VCSH BKN080 FM280800 27004KT P6SM BKN090 FM281400 27004KT P6SM VCSH OVC028 FM281600 30005KT P6SM VCSH OVC018 KBLF 272333Z 2800/2824 26004KT P6SM BKN120 FM281000 25004KT P6SM OVC080 FM281600 29006KT P6SM OVC040 TEMPO 2817/2819 6SM -SN OVC030 FM281900 30007KT 5SM -SN BR OVC015 FM282200 33007KT 3SM -SN BR OVC008 KBLH 272344Z 2800/2824 34010KT P6SM SKC KBLI 272338Z 2800/2824 02004KT P6SM SKC FM280600 00000KT 1/4SM FG VV001 FM281700 00000KT P6SM SKC KBLV 280000Z 2800/2906 25006KT 9999 BKN025 OVC100 QNH3022INS BECMG 2811/2812 31012KT 9999 BKN025 OVC100 QNH3027INS BECMG 2814/2815 33015G20KT 9999 FEW025 SCT100 QNH3031INS BECMG 2903/2904 33009KT 9999 SKC QNH3036INS TX01/2801Z TNM07/2823Z KBMG 280204Z 2802/2824 00000KT P6SM SCT020 OVC026 FM280600 34006KT P6SM BKN045 FM281200 34007KT P6SM BKN014 FM282100 36011KT P6SM SCT035 LTD TO CLD VIS AND WIND 2802/2814 KBMI 272340Z 2800/2824 28007KT P6SM OVC050 FM280200 32008KT P6SM VCSH OVC060 TEMPO 2802/2806 4SM -SN OVC020 FM281600 35011KT P6SM BKN035 FM282300 33008KT P6SM FEW250 KBNA 272340Z 2800/2824 01003KT P6SM BKN100 BKN250 FM281000 35004KT P6SM SCT025 OVC040 TEMPO 2812/2816 -SN SCT015 BKN025 FM282100 33010KT P6SM OVC050 KBNO 280215Z 2802/2824 07006KT P6SM SKC FM280600 VRB03KT 1/2SM FZFG OVC002 FM281800 06006KT P6SM SKC KBOI 272327Z 2800/2824 13010KT P6SM SKC FM280300 VRB03KT P6SM FEW015 KBOS 272329Z 2800/2906 19010KT P6SM FEW035 SCT250 FM281300 24008KT P6SM OVC060 FM281700 25006KT P6SM OVC040 FM282100 30004KT P6SM BKN050 FM290100 36008KT P6SM OVC035 FM290500 36010G17KT 6SM BR VCSH OVC020 KBPI 272320Z 2800/2824 34007KT P6SM SKC KBPK 272320Z 2800/2824 VRB05KT P6SM BKN080 FM281600 33011G18KT P6SM OVC080 KBPT 272327Z 2800/2824 01006KT P6SM SCT250 FM281100 35010KT P6SM BKN150 FM281600 35013G25KT P6SM SCT250 FM282300 35013KT P6SM SKC KBRD 272327Z 2800/2824 33006KT P6SM FEW250 FM280600 VRB03KT P6SM SCT150 FM281100 21004KT P6SM BKN100 FM281900 25007KT P6SM VCSH SCT015 BKN045 KBRL 272320Z 2800/2824 31009KT P6SM BKN035 FM281200 35007KT P6SM OVC250 KBRO 272339Z 2800/2824 04005KT P6SM VCSH SCT014 OVC040 TEMPO 2803/2805 4SM -RA BKN013 FM280500 02006KT P6SM OVC014 TEMPO 2805/2809 2SM -RA BR OVC008 FM281000 35010G17KT 4SM -RA BR OVC006 FM281500 01019G28KT 5SM -RA OVC010 PROB30 2818/2821 4SM -RA OVC008 FM282100 34013KT P6SM BKN022 KBTL 280234Z 2803/2824 31008KT P6SM VCSH BKN026 OVC030 FM280400 02010KT P6SM VCSH OVC015 FM280600 02010KT P6SM BKN025 FM280800 02006KT P6SM OVC050 FM281200 03004KT P6SM SCT250 KBTM 272330Z 2800/2824 00000KT P6SM SKC KBTR 272320Z 2800/2824 VRB03KT P6SM SCT250 FM281700 34012KT P6SM SCT250 KBTV 272328Z 2800/2824 18012G24KT P6SM OVC150 FM280500 19012KT P6SM OVC050 FM281200 24006KT P6SM OVC035 FM281400 34009KT P6SM OVC025 FM281800 34005KT P6SM SCT020 KBUF 272325Z 2800/2824 23017G27KT 6SM -SN OVC025 FM280200 24016G26KT 2SM -SN BLSN OVC020 FM280400 25014G23KT 3/4SM -SN BLSN OVC015 FM280700 30012KT 6SM -SN OVC015 FM281400 36009KT P6SM -SHSN OVC015 FM282100 03008KT P6SM VCSH BKN025 KBUR 272347Z 2800/2824 20006KT P6SM SKC FM280200 VRB03KT P6SM SKC FM281300 02006KT P6SM SKC FM281600 11006KT P6SM SKC KBVI 272320Z 2800/2824 21010KT P6SM OVC035 TEMPO 2800/2801 2SM -SN BKN025 FM280100 22005KT P6SM OVC025 FM280800 23005KT 5SM -SN OVC010 FM281700 34010KT P6SM BKN020 KBVO 272320Z 2800/2824 VRB03KT P6SM SKC FM281600 33007KT P6SM BKN250 KBWG 272337Z 2800/2824 28003KT P6SM OVC060 FM280700 30003KT 6SM -SN BR OVC015 FM281400 31010KT P6SM VCSH OVC015 FM281700 31010G18KT P6SM -SHSN BKN025 OVC035 KBWI 280244Z 2803/2906 19004KT P6SM SCT070 BKN100 FM281700 36005KT 6SM -SN SCT025 OVC030 FM282100 02007KT 3SM -SNRA SCT010 OVC015 FM282200 02008KT 2SM -SN SCT010 OVC015 FM290400 01009KT 3SM -SN OVC015 FM290500 01010G21KT 3SM -SN SCT010 OVC015 KBYI 280139Z 2802/2824 03005KT P6SM VCFG FEW008 FM281700 06008KT P6SM SCT200 KBZN 272320Z 2800/2906 VRB05KT P6SM FEW250 KCAE 280251Z 2803/2824 VRB03KT P6SM SCT200 FM281500 VRB05KT P6SM BKN150 KCAK 272340Z 2800/2824 22009KT P6SM OVC018 FM280500 25007KT P6SM OVC010 FM280700 29006KT P6SM VCSH OVC008 TEMPO 2808/2811 3SM -SHSN BR OVC005 FM281800 36009KT P6SM BKN015 KCAR 272328Z 2800/2824 18010KT P6SM BKN150 FM280500 18007KT P6SM VCSH OVC050 FM280800 19007KT 5SM -SHSN OVC030 FM281500 24007KT 3SM -SHSN OVC025 FM281800 32009KT P6SM VCSH SCT025 OVC040 KCBM 280100Z 2801/2907 33006KT 9999 SKC QNH3016INS BECMG 2805/2806 33006KT 9999 BKN100 QNH3016INS BECMG 2812/2813 33010G15KT 9999 BKN020 QNH3016INS BECMG 2813/2814 33010G20KT 9999 BKN020 QNH3016INS BECMG 2820/2821 33015G25KT 9999 BKN050 QNH3017INS TX08/2820Z TN02/2812Z KCDC 280104Z 2801/2824 36010KT P6SM SKC FM280500 VRB05KT P6SM SKC KCDR 280159Z 2802/2824 VRB06KT P6SM SCT060 OVC070 FM280600 27008KT P6SM BKN100 FM281300 27012KT P6SM SKC FM281600 28015G25KT P6SM FEW250 WS015/31030KT FM281800 29020G30KT P6SM SKC FM282300 26010KT P6SM FEW250 KCDS 272320Z 2800/2824 03006KT P6SM SCT250 FM281200 30011KT P6SM SCT250 KCEC 272337Z 2800/2824 33008KT 6SM HZ FEW250 TEMPO 2801/2803 4SM HZ FM280300 VRB05KT 6SM BR SCT250 FM280600 08003KT 3SM BR FEW002 FM281800 13003KT 6SM HZ FEW002 FM282100 23007KT 5SM HZ SCT250 KCEF 271925Z 2719/2901 21012KT 9999 BKN250 QNH3022INS BECMG 2800/2801 VRB06KT 9999 SCT065 WS020/23030KT 510203 QNH3009INS TEMPO 2805/2809 -SN OVC050 650507 BECMG 2808/2809 20009KT 9999 OVC050 620507 QNH3006INS BECMG 2817/2818 28009KT 9999 OVC050 620503 QNH3005INS BECMG 2820/2821 31009KT 9999 OVC050 620507 QNH3004INS TX00/2819Z TNM07/2812Z KCGI 272336Z 2800/2824 VRB04KT P6SM OVC045 FM280400 33008KT P6SM BKN035 FM281300 33012G19KT P6SM SCT015 BKN200 FM281700 33017G25KT P6SM SCT050 FM282300 35010KT P6SM SKC KCHA 272341Z 2800/2824 00000KT P6SM SCT250 FM281700 34005KT P6SM BKN045 FM282000 33009KT P6SM BKN029 FM282100 33010G17KT P6SM VCSH BKN025 KCHO 280244Z 2803/2824 VRB03KT P6SM SCT070 BKN130 FM281900 05006KT 6SM -RA OVC040 FM282000 04006KT 5SM -RA SCT025 OVC035 FM282100 04006KT 3SM -SNRA OVC015 FM282200 04006KT 2SM -SNRA SCT010 OVC015 FM282300 04006KT 1 1/2SM -SN SCT008 OVC015 KCHS 272324Z 2800/2824 01004KT P6SM SCT250 FM281700 34006KT P6SM SCT080 OVC200 KCID 272320Z 2800/2824 32013G20KT P6SM BKN035 FM280400 34011KT P6SM BKN070 FM280900 33007KT P6SM SCT200 FM282100 28006KT P6SM FEW250 KCKB 280244Z 2803/2824 22006KT P6SM OVC035 FM280400 24005KT P6SM OVC027 FM280900 23004KT 2SM -SN OVC013 FM281400 28004KT P6SM VCSH OVC010 FM281500 31004KT P6SM VCSH OVC010 KCKV 272340Z 2800/2824 26004KT P6SM OVC080 FM280900 34007KT P6SM SCT020 BKN030 TEMPO 2811/2815 -SN SCT012 BKN020 FM281800 34012KT P6SM OVC025 KCLE 280212Z 2802/2906 24008KT P6SM -SN BKN016 OVC022 FM280600 28008KT 5SM -SN BKN015 OVC025 TEMPO 2806/2809 2SM -SN OVC008 FM280900 33008KT 4SM -SHSN BR OVC007 FM281300 36010KT 5SM -SHSN OVC010 FM281700 01011KT P6SM BKN020 KCLL 272337Z 2800/2824 35005KT P6SM SCT050 FM280100 VRB04KT P6SM BKN050 BKN200 FM280600 01008KT P6SM OVC050 FM281100 36010G17KT P6SM BKN100 FM281400 36010G17KT P6SM SKC KCLM 272338Z 2800/2824 VRB03KT P6SM SKC FM280600 VRB03KT 5SM BR OVC006 FM282100 VRB03KT P6SM SKC KCLT 280150Z 2802/2906 17003KT P6SM BKN200 FM281400 20004KT P6SM OVC150 FM281800 21005KT P6SM OVC060 FM282300 33007KT 6SM -RA BR SCT020 OVC050 FM290200 34008KT 5SM -RASN BR OVC020 FM290400 34010G17KT 3SM -SN BR OVC010 KCMA 272341Z 2800/2824 25008KT P6SM SKC FM280200 VRB03KT P6SM SKC FM280400 08010KT P6SM SKC FM281200 08015G25KT P6SM SKC FM281700 08025G35KT P6SM SKC FM282200 08018G28KT P6SM SKC KCMH 272331Z 2800/2824 22008KT P6SM OVC022 TEMPO 2800/2804 SCT025 OVC035 FM280400 26003KT P6SM OVC020 FM280800 33005KT P6SM OVC008 FM281200 35006KT P6SM OVC010 FM282200 36010KT P6SM BKN020 KCMI 272340Z 2800/2824 23007KT P6SM OVC030 FM280300 30007KT P6SM VCSH OVC030 TEMPO 2803/2807 4SM -SN OVC020 FM280800 35008KT P6SM VCSH BKN060 FM281200 35009KT P6SM OVC023 FM282300 34008KT P6SM FEW200 KCMX 280145Z 2802/2824 34006KT P6SM OVC029 FM280600 33006KT P6SM -SHSN BKN040 FM281500 24008KT P6SM -SHSN OVC025 FM282300 24009KT P6SM BKN026 KCNM 272340Z 2800/2824 01010KT P6SM SKC FM280300 01013G22KT P6SM BKN060 FM281000 33010KT P6SM FEW100 KCNU 272334Z 2800/2824 35008KT P6SM SCT060 KCNY 272322Z 2800/2824 05015G24KT P6SM SKC FM280100 03011KT P6SM SKC FM280400 VRB04KT P6SM SKC FM281800 31008KT P6SM SKC KCOD 272320Z 2800/2824 VRB05KT P6SM FEW050 FM280300 25013G24KT P6SM FEW070 FM281600 31010KT P6SM SKC KCOE 272324Z 2800/2824 03006KT P6SM SKC FM280600 03010KT P6SM VCFG SKC FM281300 03008KT P6SM VCFG SCT250 FM281900 03007KT P6SM FEW250 KCOF 280044Z 2800/2901 33012G18KT 8000 -SHRA OVC006 QNH2996INS BECMG 2811/2812 33010KT 9999 NSW SCT010 BKN015 QNH2994INS BECMG 2818/2819 32012KT 9999 BKN020 OVC030 QNH2991INS TX22/2819Z TN16/2810Z KCON 272320Z 2800/2824 18004KT P6SM SCT250 FM281500 26004KT P6SM OVC060 KCOS 272338Z 2800/2824 35013G25KT P6SM VCSH SCT030 OVC080 FM280100 35010KT P6SM SCT040 OVC080 FM280300 30005KT P6SM FEW080 FM280600 05004KT P6SM SKC FM280900 36008KT P6SM SKC FM281800 30009KT P6SM SKC KCOT 272320Z 2800/2824 11004KT P6SM FEW015 OVC040 FM280700 03011KT P6SM -RA OVC025 FM281100 03013G20KT P6SM -RA OVC035 FM281600 01012G18KT P6SM SCT035 FM282200 36008KT P6SM SCT050 KCOU 272334Z 2800/2824 33011G20KT P6SM BKN060 FM280100 33009KT P6SM BKN060 FM281000 34008KT P6SM BKN040 KCPR 272320Z 2800/2824 26014KT P6SM FEW050 FM280500 23018G26KT P6SM FEW090 KCPS 272334Z 2800/2824 31007KT P6SM BKN040 FM281500 33011G17KT P6SM VCSH BKN060 FM282300 33008KT P6SM FEW200 KCRE 272340Z 2800/2824 02003KT P6SM BKN250 FM281400 02005KT P6SM BKN100 OVC200 FM282100 02006KT P6SM BKN045 OVC100 KCRG 272343Z 2800/2824 02011KT P6SM BKN015 BKN025 OVC050 FM280200 02009KT P6SM SCT025 BKN050 BKN250 FM280700 36006KT P6SM SCT015 BKN060 OVC250 FM281600 34010KT P6SM SCT020 OVC050 KCRP 272320Z 2800/2824 04010KT P6SM BKN035 OVC050 FM280300 04010KT 6SM -RA BR OVC025 FM280900 02014KT 5SM -RA BR BKN015 OVC025 FM281100 01017G25KT P6SM -RA OVC025 FM281500 01018G24KT P6SM -RA OVC035 FM282300 35008KT P6SM BKN035 KCRQ 272323Z 2800/2824 27005KT P6SM SKC FM280800 07008KT P6SM SKC WS012/09025KT FM281500 09010G18KT P6SM SKC FM281900 VRB05KT P6SM SKC KCRW 280244Z 2803/2824 00000KT P6SM BKN050 OVC070 FM280700 00000KT P6SM VCSH OVC021 FM280900 00000KT 6SM -SN OVC017 FM281000 00000KT 4SM -SN OVC014 FM281600 VRB03KT P6SM VCSH OVC010 KCSG 272342Z 2800/2824 11007KT P6SM SKC FM281300 00000KT P6SM BKN200 FM281600 VRB03KT P6SM BKN080 FM281800 29007KT P6SM BKN080 FM282000 31011KT P6SM BKN060 FM282200 32013G21KT P6SM BKN040 KCSM 272332Z 2800/2824 36011KT P6SM BKN150 FM281200 30010KT P6SM SKC KCSV 272340Z 2800/2824 31003KT P6SM OVC100 FM281200 34003KT P6SM BKN040 TEMPO 2814/2818 5SM -SHSN SCT007 OVC015 FM282100 32010KT P6SM OVC025 KCTB 272320Z 2800/2824 26020G34KT P6SM SCT250 FM281600 26026G44KT P6SM BKN250 FM281800 26031G51KT P6SM BKN250 KCUB 280251Z 2803/2824 VRB03KT P6SM SCT200 FM281500 VRB05KT P6SM BKN150 KCVG 272331Z 2800/2906 22008KT P6SM SCT025 OVC035 FM280100 26008KT P6SM -SN SCT018 OVC025 TEMPO 2802/2806 5SM -SN BKN018 FM280600 32006KT 5SM BR VCSH OVC018 FM281000 31005KT P6SM OVC015 FM282000 35010KT P6SM BKN030 KCVS 280200Z 2802/2908 03010G15KT 9999 BKN120 QNH3037INS BECMG 2804/2805 04015G25KT 9999 BKN050 QNH3050INS OVC 620503 QNH3033INS BECMG 2806/2807 36010KT 9999 SCT040 SCT090 QNH3055INS BECMG 2809/2810 VRB06KT 9999 SKC QNH3057INS BECMG 2817/2818 28012KT 9999 SKC QNH3050INS BECMG 2901/2902 VRB06KT 9999 SKC QNH3048INS TX06/2821Z TNM09/2814Z KCWA 272335Z 2800/2824 33009KT P6SM SKC FM280400 33004KT P6SM SCT250 FM281600 27006KT P6SM SCT200 FM282000 26006KT P6SM SCT110 KCXO 272337Z 2800/2824 33005KT P6SM SCT050 BKN250 FM280200 VRB02KT P6SM BKN060 BKN250 FM280700 35006KT P6SM BKN060 BKN200 FM281300 35010G18KT P6SM BKN100 FM281500 36012G20KT P6SM SKC KCXP 272320Z 2800/2824 07010KT P6SM SKC FM280300 VRB02KT P6SM SKC FM282100 09006KT P6SM SKC KCYS 272320Z 2800/2824 33011KT P6SM SCT030 BKN050 FM280600 28016KT P6SM SKC FM281300 29017G27KT P6SM SKC WS020/33040KT FM281500 28020G30KT P6SM SKC KDAA 272100Z 2721/2903 21009KT 9999 FEW110 QNH3022INS BECMG 2805/2806 VRB06KT 9999 FEW045 BKN070 OVC095 QNH3020INS BECMG 2806/2807 VRB06KT 9999 FEW045 BKN070 OVC095 QNH3018INS BECMG 2808/2809 VRB06KT 9999 SCT045 OVC070 QNH3012INS BECMG 2818/2819 VRB06KT 9999 BKN025 OVC035 510043 QNH3004INS BECMG 2822/2823 VRB06KT 9000 -SN SCT008 BKN025 OVC035 620255 QNH3000INS TX02/2818Z TNM02/2810Z LAST NO AMDS AFT 2802 NEXT 2813 KDAB 280159Z 2802/2824 36011G19KT P6SM VCSH BKN008 BKN025 OVC030 FM280400 36010KT P6SM VCSH BKN025 BKN035 FM281500 33009KT P6SM BKN020 BKN030 KDAG 272322Z 2800/2824 12006KT P6SM SKC FM280200 09007KT P6SM SKC FM281200 VRB06KT P6SM FEW250 FM282000 09009G19KT P6SM FEW250 KDAL 280252Z 2803/2824 36010KT P6SM SCT040 FM281500 34013G20KT P6SM SKC KDAN 272333Z 2800/2824 VRB03KT P6SM SCT250 FM280300 VRB03KT P6SM BKN150 FM281500 23003KT P6SM OVC100 FM282000 VRB03KT P6SM OVC050 KDAY 272331Z 2800/2824 23006KT P6SM OVC018 TEMPO 2800/2804 22010KT OVC020 FM281000 33007KT P6SM SCT008 OVC015 TEMPO 2810/2814 BKN008 OVC012 FM281500 01010KT P6SM BKN011 KDBQ 272320Z 2800/2824 32013G20KT P6SM BKN035 FM280100 34011KT P6SM BKN070 FM280900 33007KT P6SM SCT200 FM282100 28006KT P6SM FEW250 KDCA 280244Z 2803/2906 18004KT P6SM SCT070 BKN110 FM281800 01006KT 6SM -RA SCT035 OVC050 FM282000 01007KT 4SM -RA SCT010 OVC035 FM282200 01007KT 3SM -RA SCT003 OVC015 FM282300 01006KT 2SM -SN SCT003 OVC010 FM290400 01010G20KT 2SM -SN SCT008 OVC010 KDDC 272337Z 2800/2824 34008KT P6SM BKN200 FM281000 28009KT P6SM FEW250 FM281700 28014G22KT P6SM SKC FM281800 28015KT P6SM SKC KDEC 272340Z 2800/2824 31006KT P6SM BKN035 FM280300 32008KT P6SM VCSH OVC030 TEMPO 2803/2807 4SM -SN OVC020 FM281300 34008KT P6SM VCSH BKN035 FM282000 34012KT P6SM SCT150 KDEN 272326Z 2800/2906 VRB04KT P6SM FEW030 FM280100 21009KT P6SM SKC FM281800 26008KT P6SM SKC FM290200 23008KT P6SM SKC KDET 280204Z 2802/2824 24012KT 3SM -SN OVC015 FM280300 35012G25KT 1 1/2SM -SN OVC010 FM280400 35012KT P6SM SCT030 BKN050 FM281000 36006KT P6SM SCT025 TEMPO 2812/2816 BKN025 FM281600 01008KT P6SM BKN028 KDFW 280252Z 2803/2906 36012KT P6SM SCT040 FM281500 34013G20KT P6SM SKC KDHN 272334Z 2800/2824 08004KT P6SM FEW250 FM281400 32012G18KT P6SM BKN040 OVC100 KDHT 280155Z 2802/2824 02017KT P6SM BKN012 BKN050 OVC070 TEMPO 2802/2803 5SM -SN BR FM280300 34009KT P6SM OVC025 FM280800 29007KT P6SM SKC FM281600 27012KT P6SM SKC KDIJ 272320Z 2800/2824 VRB04KT P6SM SKC FM280600 VRB03KT P6SM FEW200 FM281800 VRB04KT P6SM SCT200 LTD TO CLD VIS AND WIND KDIK 280246Z 2803/2824 25005KT P6SM VCSH SCT020 OVC040 TEMPO 2803/2805 24007KT SCT035 SCT110 FM280500 22007KT P6SM BKN110 FM281200 29011KT P6SM FEW150 SCT250 FM281600 29014G20KT P6SM SCT250 KDLF 280000Z 2800/2902 13008KT 9999 SCT030 BKN180 QNH3013INS BECMG 2801/2802 11008KT 9999 SCT025 BKN040 OVC180 QNH3012INS BECMG 2805/2806 07010G15KT 9000 -SHRA BKN018 OVC025 QNH3020INS BECMG 2809/2810 36015G25KT 8000 -SHRA BKN015 BKN025 QNH3023INS BECMG 2812/2813 36015G25KT 9999 NSW FEW025 SCT070 BKN120 QNH3040INS BECMG 2815/2816 36015G25KT 9999 SCT070 SCT120 QNH3038INS BECMG 2820/2821 35010G15KT 9999 FEW120 QNH3040INS BECMG 2823/2824 35009KT 9999 SKC QNH3040INS TX15/2800Z TN07/2812Z LAST NO AMDS AFT 2800 NEXT 2812 KDLH 272327Z 2800/2824 33007KT P6SM FEW250 FM280600 32006KT P6SM FEW250 FM281200 26008KT P6SM SCT100 FM281800 26009KT P6SM SCT015 BKN040 KDLS 272320Z 2800/2824 11008KT P6SM OVC021 FM280200 10005KT P6SM OVC015 KDMA 272200Z 2722/2904 30009KT 9999 SKC QNH3010INS BECMG 2806/2807 10012KT 9999 FEW270 QNH3023INS BECMG 2813/2814 10015G25KT 9999 SCT250 510009 QNH3028INS TEMPO 2817/2821 11020G35KT 520009 TX17/2722Z TN03/2808Z KDMN 272323Z 2800/2824 28009KT P6SM SKC FM280500 03016G25KT P6SM SKC WS020/03045KT FM281400 06016G26KT P6SM FEW250 KDNL 280251Z 2803/2824 VRB03KT P6SM SCT200 FM281500 VRB05KT P6SM BKN150 KDOV 280000Z 2800/2906 20006KT 9999 SKC QNH3026INS BECMG 2803/2804 22006KT 9999 BKN050 QNH3003INS BECMG 2821/2822 02009KT 4800 -SN OVC015 QNH2990INS BECMG 2904/2905 35012G20KT 3200 -SN OVC010 QNH2988INS TX03/2822Z TNM05/2811Z KDPA 280123Z 2801/2824 34011G18KT P6SM BKN040 TEMPO 2801/2805 6SM -SHSN BKN030 OVC040 FM280800 35009KT P6SM SCT035 SCT200 FM281700 30007KT P6SM SCT030 KDRO 280155Z 2802/2824 VRB04KT P6SM VCSH BKN070 OVC090 TEMPO 2802/2803 08006KT SCT023 FM280300 34010KT P6SM SKC FM280600 36005KT P6SM SKC FM281200 VRB03KT P6SM SKC KDRT 272325Z 2800/2824 13008KT P6SM BKN035 FM280500 03008KT P6SM -SHRA OVC025 FM280800 36012G22KT P6SM -SHRA OVC015 FM281400 35014G24KT P6SM OVC035 FM281700 34012KT P6SM SCT250 KDSM 280201Z 2802/2824 34012G18KT P6SM BKN060 TEMPO 2802/2803 2SM -SN BKN025 FM280700 34008KT P6SM BKN250 FM282000 28004KT P6SM FEW250 KDTW 280206Z 2802/2906 24012KT 3SM -SN OVC015 FM280300 35012G25KT 1 1/2SM -SN OVC010 FM280500 35012KT P6SM SCT030 BKN050 FM281000 36006KT P6SM SCT025 TEMPO 2812/2816 BKN025 FM281600 01008KT P6SM BKN028 KDUG 202331Z 2100/2124 12009KT P6SM SCT035 BKN060 TEMPO 2100/2102 6SM -SHRA BR BKN035 FM210300 09009KT 5SM -SHRA BR SCT015 OVC030 FM210700 VRB05KT 6SM SHRA BR FEW009 SCT014 OVC025 FM211500 VRB05KT P6SM SHRA SCT016 OVC030 FM212200 22009KT P6SM VCSH SCT027 BKN035 KDUJ 280057Z 2801/2824 23010KT P6SM BKN025 FM280800 24010KT 3SM -SN OVC005 FM281500 35005KT 6SM -SN BKN010 KDVL 272339Z 2800/2824 VRB06KT P6SM SKC FM281000 24009KT P6SM BKN025 FM281900 29006KT P6SM BKN035 FM282200 31005KT P6SM SCT120 KDVT 272344Z 2800/2824 25005KT P6SM SKC FM280200 04005KT P6SM SKC FM280400 03014G24KT P6SM SKC FM280800 04011KT P6SM SKC WS020/05040KT FM281800 09012G20KT P6SM FEW250 KDYS 272100Z 2721/2903 28009KT 9999 SKC QNH3017INS BECMG 2801/2802 35009KT 9999 SKC QNH3029INS BECMG 2816/2817 35012G18KT 9999 SKC QNH3045INS BECMG 2900/2901 VRB06KT 9999 SKC QNH3045INS TX12/2821Z TNM03/2813Z KEAR 272330Z 2800/2824 34011KT P6SM VCSH FEW040 SCT080 FM280300 33006KT P6SM FEW040 SCT180 FM280800 28005KT P6SM FEW045 SCT120 FM281300 26005KT P6SM FEW060 FEW250 KEAT 272324Z 2800/2824 29004KT P6SM OVC018 FM280800 30004KT P6SM OVC010 FM281500 29002KT P6SM OVC007 KEAU 280027Z 2800/2824 35007KT P6SM SKC FM280600 33003KT P6SM FEW250 FM280900 VRB03KT P6SM FEW250 FM281500 25005KT P6SM BKN100 KECG 272320Z 2800/2824 07005KT P6SM SKC FM280200 03004KT P6SM SKC FM282300 03009KT P6SM OVC060 KECP 272334Z 2800/2824 01004KT P6SM FEW200 FM280900 01003KT P6SM BKN050 FM281500 30010KT P6SM SCT040 BKN120 KEDW 272200Z 2722/2904 VRB06KT 9999 SKC QNH3024INS BECMG 2721/2722 05012G18KT 9999 SKC QNH3023INS BECMG 2804/2805 VRB06KT 9999 SKC QNH3029INS BECMG 2818/2819 06015G25KT 9999 SKC QNH3040INS TX17/2723Z TNM02/2814Z KEED 272322Z 2800/2824 35018G28KT P6SM SKC FM280600 33012G20KT P6SM SKC FM282000 01014G24KT P6SM FEW250 KEET 272340Z 2800/2824 00000KT P6SM FEW250 FM281500 33010KT P6SM BKN090 FM281800 33011G19KT P6SM OVC060 PROB30 2818/2824 -SHSN OVC050 KEFD 272000Z 2720/2902 VRB06KT 9999 SCT040 QNH3020INS BECMG 2814/2815 36015G20KT 9999 FEW120 510103 QNH3038INS BECMG 2822/2823 35020G25KT 9999 SKC 510103 QNH3038INS BECMG 2900/2901 35006KT 9999 SKC 510103 QNH3041INS TX18/2722Z TN06/2813Z KEFK 272328Z 2800/2824 18008G15KT P6SM OVC150 FM280300 19013KT P6SM VCSH OVC050 FM280600 19009KT P6SM VCSH OVC035 FM281400 27010KT P6SM VCSH OVC025 FM282000 33009KT P6SM SCT020 KEGE 272322Z 2800/2824 VRB03KT P6SM BKN060 FM280200 VRB04KT P6SM SKC KEGI 280200Z 2802/2908 06009KT 9999 FEW250 QNH3013INS BECMG 2805/2806 05009KT 9999 FEW020 SCT250 QNH3010INS BECMG 2808/2809 02009KT 9999 BKN020 BKN200 QNH3008INS BECMG 2815/2816 32012G18KT 9999 SCT030 BKN200 QNH3005INS BECMG 2818/2819 33015G25KT 9999 FEW200 QNH3003INS BECMG 2822/2823 33015G30KT 9999 FEW200 QNH3008INS TX13/2821Z TN04/2812Z KEKN 280244Z 2803/2824 27005KT P6SM BKN035 OVC045 FM280800 VRB03KT P6SM VCSH OVC016 FM281000 00000KT 4SM -SN OVC012 KEKO 272325Z 2800/2824 04009KT P6SM SKC FM281100 08006KT P6SM SKC KEKS 272320Z 2800/2824 18012KT P6SM FEW250 FM280200 17012G20KT P6SM FEW250 FM282000 19015G27KT P6SM FEW250 KELD 272320Z 2800/2824 34003KT P6SM BKN060 BKN250 TEMPO 2806/2810 BKN035 FM281000 33005KT P6SM BKN035 FM281300 33007KT P6SM SCT140 FM281600 33012G20KT P6SM SKC KELM 272333Z 2800/2824 21008G15KT P6SM BKN070 FM280600 21005KT P6SM BKN040 TEMPO 2810/2812 5SM -SN OVC030 FM281200 31005KT P6SM OVC030 FM281500 34005KT P6SM OVC019 KELP 272323Z 2800/2824 04006KT P6SM FEW250 FM280300 04012G25KT P6SM FEW250 WS020/08035KT FM281400 07010G20KT P6SM FEW250 FM281800 03008KT P6SM SKC KELY 272325Z 2800/2824 01012G20KT P6SM SKC FM280200 17010KT P6SM SKC FM281800 VRB06KT P6SM SKC KEND 280226Z 2802/2908 36006KT 9999 SCT150 QNH3033INS BECMG 2815/2816 30010G20KT 9999 FEW150 QNH3040INS BECMG 2822/2823 VRB06KT 9999 SKC QNH3036INS TX09/2821Z TNM05/2812Z LAST NO AMDS AFT 2802 NEXT 2810 KENV 272320Z 2800/2824 VRB06KT P6SM SKC KENW 272322Z 2800/2824 33009KT P6SM BKN050 FM280100 33009KT P6SM VCSH BKN060 FM280400 35011G19KT P6SM VCSH BKN070 FM280600 35011G19KT P6SM BKN060 FM281700 32010KT P6SM FEW100 KERI 280245Z 2803/2824 22011KT P6SM OVC020 TEMPO 2803/2805 3SM -SHSN OVC010 FM280500 25012KT 4SM -SHSN BR OVC015 TEMPO 2806/2809 2SM -SHSN BR OVC006 FM280900 01012KT 4SM -SHSN BR OVC010 FM281500 02011KT P6SM OVC015 KEUG 272354Z 2800/2824 VRB03KT P6SM SCT006 FM280600 00000KT 3SM BR FEW001 FM280800 00000KT 1/2SM FZFG VV002 FM281800 00000KT 1SM BR BKN004 FM281900 00000KT 5SM BR BKN008 FM282000 00000KT P6SM SKC KEUL 272327Z 2800/2824 10008KT P6SM FEW025 FM280300 13010KT P6SM FEW015 KEVV 272336Z 2800/2824 26004KT P6SM OVC035 FM280300 26003KT P6SM OVC027 FM280500 31005KT P6SM OVC020 FM281400 32010G17KT 6SM -SN BR OVC015 FM281900 32013G20KT P6SM BKN027 KEVW 272320Z 2800/2824 VRB06KT P6SM SKC FM281700 22008KT P6SM SKC KEWN 272320Z 2800/2824 03003KT P6SM SCT200 FM282000 03005KT P6SM SCT080 OVC150 KEWR 280228Z 2802/2906 23006KT P6SM BKN100 FM281500 28006KT P6SM OVC035 PROB30 2815/2818 3SM -SN OVC020 FM281800 30006KT P6SM BKN025 PROB30 2818/2821 3SM -SN OVC015 FM282100 35007KT P6SM BKN020 PROB30 2821/2824 5SM -SN OVC015 FM290000 01006KT P6SM OVC035 FM290400 01008KT 6SM BR OVC020 PROB30 2904/2906 2SM -SN OVC015 KEYW 272335Z 2800/2824 34008KT P6SM BKN015 FM280300 32006KT P6SM SCT015 SCT050 KFAF 271900Z 2719/2901 VRB06KT 9999 SKC QNH3022INS BECMG 2801/2802 VRB06KT 9999 SCT055 SCT150 QNH3015INS BECMG 2806/2807 VRB06KT 9999 BKN100 QNH2995INS BECMG 2819/2820 01006KT 9999 BKN050 OVC100 QNH2986INS BECMG 2900/2901 03012KT 9999 BKN010 OVC020 QNH2995INS TX06/2818Z TNM03/2804Z KFAR 272339Z 2800/2824 34011KT P6SM SKC FM280200 VRB06KT P6SM SCT250 FM281600 19007KT P6SM BKN030 FM281900 20006KT P6SM SCT029 KFAT 272320Z 2800/2824 VRB03KT 5SM HZ SKC FM280800 VRB02KT 2SM BR SKC FM281900 VRB03KT 5SM HZ FEW250 KFAY 272320Z 2800/2824 04003KT P6SM FEW250 FM282100 04003KT P6SM OVC100 KFBG 280200Z 2802/2908 VRB06KT 9999 FEW120 QNH3020INS BECMG 2816/2817 VRB06KT 9999 BKN100 QNH3003INS BECMG 2903/2904 35006KT 9999 BKN050 QNH2984INS BECMG 2905/2906 35012KT 1600 -SN OVC010 650107 QNH2980INS TX06/2820Z TNM04/2811Z KFCS 272117Z 2721/2903 04010G15KT 9000 -SN BKN015 650154 QNH2928INS BECMG 2723/2724 03009KT 9999 NSW SCT025 QNH3034INS BECMG 2805/2806 VRB06KT 9999 SCT010 QNH3044INS BECMG 2806/2807 VRB06KT 9999 SKC QNH3036INS TX05/2822Z TNM13/2811Z KFDY 272340Z 2800/2824 23009KT P6SM OVC018 FM280400 27008KT P6SM OVC015 FM280700 34007KT P6SM OVC010 FM281200 02008KT P6SM BKN025 KFFO 271900Z 2719/2901 22009KT 9000 -SN BKN020 OVC090 650206 620805 510152 QNH3012INS TEMPO 2719/2722 23010G15KT 6000 -SN OVC018 650186 620785 BECMG 2722/2723 24009KT 9999 VCSH SCT015 OVC025 620254 QNH3014INS BECMG 2801/2803 27009KT 9000 -SN OVC015 620156 QNH3014INS BECMG 2807/2808 36009KT 8000 -SN OVC020 620204 QNH3015INS BECMG 2814/2815 02010G15KT 9999 NSW BKN010 OVC015 620104 QNH3017INS TX01/2719Z TNM06/2811Z KFHU 272200Z 2722/2904 31009KT 9999 SKC QNH3009INS TEMPO 2722/2724 31010G16KT 510003 BECMG 2800/2801 33009KT 9999 FEW270 QNH3014INS BECMG 2806/2807 05006KT 9999 SCT250 520201 QNH3024INS BECMG 2810/2811 09013KT 9999 SKC WS012/09035KT 530103 QNH3030INS BECMG 2813/2814 11012G24KT 9999 SKC WS012/10040KT 520001 530103 QNH3037INS BECMG 2816/2817 11016G30KT 9999 SKC 530005 QNH3027INS TEMPO 2817/2823 12020G36KT BECMG 2822/2823 10016G32KT 9999 FEW180 SCT240 520004 QNH3028INS TEMPO 2901/2904 10012G20KT TX18/2722Z TNM01/2814Z KFKL 272320Z 2800/2824 21010KT P6SM -SN OVC015 FM280500 23010KT 3SM -SN OVC015 FM281500 36005KT P6SM BKN015 FM281800 01006KT P6SM BKN025 KFLG 280202Z 2802/2824 06020G35KT P6SM SKC WS020/04050KT FM281000 06015G20KT P6SM SKC FM281800 06020G30KT P6SM SKC KFLL 280255Z 2803/2906 35004KT P6SM SCT025 BKN050 FM280400 VRB04KT P6SM SCT025 BKN050 FM281400 28010KT P6SM SCT025 BKN050 KFLO 280003Z 2800/2824 01004KT P6SM SCT250 FM280200 00000KT P6SM BKN250 FM281400 04004KT P6SM OVC200 FM282200 35004KT P6SM VCSH SCT045 BKN090 OVC200 KFMH 272329Z 2800/2824 22006KT P6SM SCT019 OVC023 FM280300 21008KT P6SM BKN050 FM280800 24007KT P6SM OVC050 FM281800 25006KT P6SM OVC030 FM282100 28004KT P6SM OVC035 FM282200 32003KT P6SM OVC035 KFMN 272323Z 2800/2824 31017G28KT P6SM FEW080 FM280400 33011KT P6SM FEW080 FM280600 VRB06KT P6SM SKC KFMY 272350Z 2800/2824 36006KT P6SM BKN030 FM280300 03005KT P6SM BKN015 FM280900 02004KT P6SM SCT007 BKN015 FM281600 32007KT P6SM BKN035 FM282000 30010KT P6SM BKN050 KFNT 280200Z 2802/2824 35010G20KT 6SM -SHSN OVC025 TEMPO 2802/2803 1 1/2SM -SHSN OVC010 FM280400 35012G18KT P6SM SCT028 BKN060 FM280600 36006KT P6SM SCT020 TEMPO 2813/2816 BKN022 FM281600 01008KT P6SM BKN025 KFOD 272341Z 2800/2824 35012G20KT P6SM SCT050 FM280500 35009KT P6SM FEW250 FM281600 28004KT P6SM SCT200 KFOE 272325Z 2800/2824 35007KT P6SM SCT060 BKN080 KFPR 280203Z 2802/2824 33006KT P6SM OVC007 FM280600 34003KT P6SM VCSH SCT012 BKN020 FM281000 VRB03KT P6SM SCT009 BKN015 FM281500 29008KT P6SM SCT030 BKN040 FM281800 29011G18KT P6SM SCT015 BKN035 KFRI 272100Z 2721/2903 36006KT 9999 FEW150 510033 QNH3028INS BECMG 2806/2807 32009KT 9999 SCT018 510043 QNH3042INS BECMG 2814/2815 VRB06KT 9999 BKN011 620117 QNH3044INS BECMG 2820/2821 VRB06KT 9999 FEW025 510043 QNH3038INS BECMG 2823/2824 VRB06KT 9999 SKC QNH3030INS TX10/2722Z TNM03/2814Z KFSD 272320Z 2800/2824 36010KT P6SM FEW200 FM280600 VRB02KT P6SM FEW150 FM281700 20008KT P6SM BKN070 FM282300 VRB04KT P6SM SKC KFSI 031400Z 0314/0420 19009KT 9999 SKC QNH3019INS TX19/0320Z TN04/0410Z KFSM 272320Z 2800/2824 27003KT P6SM OVC060 FM280300 VRB03KT P6SM BKN250 FM281500 31012KT P6SM BKN250 KFST 280135Z 2802/2824 07007KT 4SM BR BKN007 TEMPO 2802/2804 OVC002 FM280400 02011KT P6SM BKN250 FM281200 35008KT P6SM SKC KFTK 272000Z 2720/2902 19008KT 9999 SCT020 BKN040 OVC080 610408 QNH3018INS BECMG 2723/2724 22010KT 9999 BKN020 OVC040 610209 QNH3012INS TEMPO 2800/2805 24010KT 9000 -SN BKN015 OVC030 620158 BECMG 2804/2805 26010KT 9999 NSW SCT020 OVC030 610307 QNH3008INS BECMG 2811/2812 33010G15KT 9999 OVC020 610204 QNH3025INS TX03/2721Z TNM05/2802Z LAST NO AMDS AFT 2804 NEXT 2812 KFTW 280252Z 2803/2824 36012KT P6SM FEW040 FM281500 34013G20KT P6SM SKC KFTY 272342Z 2800/2824 11003KT P6SM SKC FM280500 00000KT P6SM BKN250 FM281500 VRB03KT P6SM BKN080 FM281700 29007KT P6SM BKN060 FM281900 31009G20KT P6SM BKN040 KFVE 272328Z 2800/2824 17012KT P6SM BKN150 FM280300 18010KT P6SM VCSH OVC050 FM280700 18009KT 6SM -SHSN OVC030 FM280900 18009KT 3SM -SHSN OVC030 FM281500 27008G16KT P6SM VCSH OVC020 FM281800 33010G18KT P6SM BKN050 KFWA 272320Z 2800/2824 25007KT P6SM OVC025 FM280900 36008KT P6SM BKN040 FM281600 03008KT P6SM SCT250 KFXE 280255Z 2803/2824 VRB03KT P6SM SCT015 BKN050 FM281400 27010KT P6SM SCT025 BKN050 KFYV 272320Z 2800/2824 33006KT P6SM OVC030 FM280300 35006KT P6SM BKN250 FM281500 32010KT P6SM BKN250 KGBD 272334Z 2800/2824 34016KT P6SM BKN050 FM280100 31008KT P6SM BKN050 FM281700 28015G23KT P6SM SKC KGCC 272336Z 2800/2824 30008KT P6SM SCT050 FM280400 25009KT P6SM SKC FM281200 24010KT P6SM FEW250 WS020/32040KT KGCK 272337Z 2800/2824 35009KT P6SM BKN100 FM280200 32008KT P6SM BKN120 FM280800 30009KT P6SM FEW250 FM281600 28014KT P6SM SKC FM281800 28015G23KT P6SM SKC FM281900 28015KT P6SM SKC KGCN 272339Z 2800/2824 05014G23KT P6SM SKC FM280300 06014G25KT P6SM SKC WS020/06045KT FM281100 06013KT P6SM SKC KGDV 272335Z 2800/2824 VRB06KT P6SM SCT060 FM280700 22009KT P6SM BKN090 FM280800 23008KT P6SM SCT100 WS020/29040KT FM281300 28011G22KT P6SM FEW200 WS020/32040KT KGEG 272324Z 2800/2824 03003KT P6SM FEW025 FEW200 FM280600 04004KT 5SM MIFG FEW001 SCT250 FM281600 06004KT P6SM FEW250 KGFA 271900Z 2719/2901 22010G15KT 9999 FEW250 QNH3019INS TEMPO 2719/2723 23015G25KT 510009 TX02/2722Z TNM02/2812Z KGFK 272339Z 2800/2824 VRB06KT P6SM FEW015 FM281300 VRB05KT P6SM BKN030 FM281800 VRB06KT P6SM SCT060 KGFL 272327Z 2800/2824 19006KT P6SM SCT080 FM280500 19004KT P6SM BKN060 FM281600 35007KT P6SM SCT025 BKN035 KGGG 272320Z 2800/2824 35004KT P6SM SCT060 BKN250 TEMPO 2802/2806 BKN050 FM280600 35004KT P6SM BKN050 FM281000 35006KT P6SM SCT140 FM281600 35013G23KT P6SM SKC KGGW 272335Z 2800/2824 VRB05KT P6SM SCT100 FM280400 VRB06KT P6SM VCFG SCT100 WS020/27030KT FM281100 29009KT P6SM SCT100 KGJT 272322Z 2800/2824 35009KT P6SM FEW040 FM280600 09004KT P6SM SKC FM281400 12008KT P6SM SKC FM281800 14010KT P6SM SKC KGKY 280252Z 2803/2824 36010KT P6SM SCT040 FM281500 34013G20KT P6SM SKC KGLD 272320Z 2800/2824 32008KT P6SM SCT100 TEMPO 2800/2802 BKN030 FM280600 28008KT P6SM SKC KGLH 272320Z 2800/2824 32005KT P6SM SCT070 BKN150 FM281600 34014G20KT P6SM OVC120 KGLS 272337Z 2800/2824 05007KT P6SM SCT060 BKN250 FM280300 02008KT P6SM BKN060 BKN200 FM281000 01012KT P6SM VCSH OVC060 FM281500 36014KT P6SM BKN100 FM281700 36015G23KT P6SM BKN100 FM281900 01014G21KT P6SM SKC KGMU 272325Z 2800/2824 16003KT P6SM SCT200 FM280600 00000KT P6SM BKN150 FM281500 22004KT P6SM BKN100 FM281800 25008KT P6SM OVC050 PROB30 2820/2824 6SM -RA BR OVC035 NOT SKED KGNV 272343Z 2800/2824 04007KT P6SM SCT025 BKN040 BKN250 FM280600 VRB04KT P6SM SCT015 BKN060 OVC250 FM281900 30007KT P6SM SCT020 OVC050 KGON 280228Z 2802/2824 24006KT P6SM SCT035 SCT100 BKN150 FM281700 27007KT P6SM OVC025 FM282100 33004KT P6SM OVC025 PROB30 2821/2823 4SM -SN OVC015 FM282300 34004KT P6SM BKN035 PROB30 2823/2824 4SM -SN OVC015 KGPI 280258Z 2803/2824 00000KT P6SM SKC FM280400 00000KT 3SM BR FEW002 SCT020 FM281000 00000KT 3/4SM BR SCT007 OVC020 FM281300 00000KT P6SM OVC025 KGPT 272320Z 2800/2824 VRB03KT P6SM FEW250 FM281500 34012KT P6SM BKN250 KGRB 272335Z 2800/2824 35010G16KT P6SM SCT050 FM280300 33006KT P6SM SKC FM281600 27006KT P6SM SCT200 KGRF 272100Z 2721/2903 VRB06KT 6000 BR SCT005 QMH3026INS BECMG 2722/2723 VRB06KT 9999 NSW FEW010 QNH3026INS BECMG 2801/2802 VRB06KT 5000 BR SCT010 QNH3030INS BECMG 2804/2805 VRB06KT 1200 BR OVC007 QNH3031INS BECMG 2817/2818 VRB06KT 9999 NSW SKC QNH3032INS TX04/2722Z TN00/2815Z KGRI 272330Z 2800/2824 33009KT P6SM VCSH SCT040 BKN090 FM280700 VRB03KT P6SM SCT040 BKN070 KGRK 280000Z 2800/2906 VRB06KT 9999 OVC040 QNH3015INS BECMG 2815/2816 36010G15KT 9999 SKC 510053 QNH3020INS BECMG 2820/2821 35015G20KT 9999 SKC 510053 QNH3025INS BECMG 2900/2901 VRB06KT 9999 SKC 510053 QNH3030INS TX15/2822Z TN02/2814Z KGRR 280231Z 2803/2824 31009KT P6SM -SN SCT016 OVC025 FM280315 02011KT P6SM BKN025 FM280400 02011KT P6SM BKN070 FM281600 05007KT P6SM SCT080 KGSB 272100Z 2721/2903 01009KT 9999 FEW250 QNH3027INS BECMG 2816/2817 02009KT 9999 SCT100 BKN120 QNH3003INS BECMG 2821/2822 03006KT 9999 BKN090 BKN130 QNH2983INS BECMG 2823/2824 04009KT 8000 -RA BKN070 BKN130 QNH2987INS TX07/2721Z TNM06/2811Z KGSO 272320Z 2800/2824 00000KT P6SM FEW250 FM281800 VRB03KT P6SM OVC100 KGSP 272325Z 2800/2824 15002KT P6SM SCT200 FM280600 00000KT P6SM BKN150 FM281500 23003KT P6SM BKN100 FM281800 25007KT P6SM OVC050 PROB30 2820/2824 6SM -RA BR OVC035 KGTB 280255Z 2802/2907 21010G15KT 4800 -SN OVC003 620034 QNH3000INS TEMPO 2802/2807 3200 -SN OVC001 620016 BECMG 2805/2807 24013G18KT 1600 -SN OVC005 650059 530053 QNH2997INS TEMPO 2807/2810 28015G25KT 0800 -SN BLSN BECMG 2811/2812 34010G15KT 9000 -SN BKN010 OVC020 620109 520053 QNH3004INS BECMG 2817/2818 VRB06KT 9999 NSW SCT010 QNH3008INS TXM02/2802Z TNM16/2813Z KGTF 272320Z 2800/2824 21019G28KT P6SM SCT250 FM281400 21023G34KT P6SM FEW250 FM282100 23029G43KT P6SM SCT250 KGTR 272320Z 2800/2824 33005KT P6SM BKN120 FM281600 34015G20KT P6SM BKN050 KGUC 280158Z 2802/2824 VRB03KT P6SM VCSH BKN060 FM280300 VRB03KT P6SM SCT050 FM281200 VRB03KT P6SM SKC KGUP 272323Z 2800/2824 33015G24KT P6SM FEW090 FM280300 36009KT P6SM SKC FM280800 VRB03KT P6SM SKC KGUR 272108Z 2721/2903 32015G20KT 9999 SCT030 BKN050 QNH3025INS BECMG 2800/2801 31009KT 9999 FEW035 QNH3033INS BECMG 2819/2820 27010G20KT 9999 SKC QNH3026INS TX07/2722Z TNM04/2812Z KGUS 280100Z 2801/2903 24015G25KT 9999 OVC020 620208 QNH3014INS BECMG 2802/2803 24009KT 9999 OVC020 620208 QNH3016INS BECMG 2805/2806 36006KT 9999 OVC020 620208 QNH3018INS TEMPO 2807/2809 9000 -SN OVC005 650059 BECMG 2808/2809 02012G18KT 9999 OVC010 620109 QNH3018INS TEMPO 2809/2812 9000 -SN OVC005 650059 BECMG 2813/2814 02012G18KT 9999 SCT050 SCT100 QNH3028INS BECMG 2900/2901 VRB06KT 9999 SCT100 QNH3032INS TXM02/2801Z TNM10/2821Z KGUY 272340Z 2800/2824 35011KT P6SM BKN045 OVC070 FM280600 29007KT P6SM SKC FM281500 27011KT P6SM SKC FM281900 32013KT P6SM SKC KGWO 272320Z 2800/2824 33005KT P6SM SCT070 BKN150 FM281600 34014G20KT P6SM OVC120 KGYY 272330Z 2800/2824 28010KT P6SM BKN040 FM280100 34012G20KT P6SM BKN040 TEMPO 2805/2807 6SM -SHSN BKN025 OVC040 FM280700 36010KT 2SM -SN SCT006 OVC015 TEMPO 2807/2811 06010KT 1/2SM SN VV006 FM281200 11008KT 6SM -SHSN BKN030 FM281700 30007KT P6SM SCT030 KHBG 272320Z 2800/2824 35003KT P6SM FEW150 FM281700 34013G19KT P6SM BKN050 KHCR 272320Z 2800/2824 VRB05KT P6SM SKC KHDC 272320Z 2800/2824 VRB03KT P6SM SCT250 FM281800 34011KT P6SM FEW250 KHDN 272322Z 2800/2824 VRB03KT P6SM SCT060 FM280200 10006KT P6SM SCT060 FM281200 11013KT P6SM SKC KHIB 272327Z 2800/2824 32006KT P6SM FEW250 FM280500 VRB02KT P6SM SCT250 FM281100 VRB02KT P6SM BKN080 FM281600 29007KT P6SM VCSH SCT015 BKN040 FM282100 29007KT P6SM SCT015 KHIE 272320Z 2800/2824 00000KT P6SM BKN200 TEMPO 2803/2806 3SM -SHSN OVC040 FM281700 33003KT P6SM OVC025 KHIF 272200Z 2722/2904 36009KT 9999 SKC QNH3045INS BECMG 2802/2803 09009KT 9999 SKC QNH3058INS BECMG 2808/2809 09012G22KT 9999 SKC 510009 QNH3062INS BECMG 2819/2820 VRB06KT 9999 SKC QNH3058INS TX02/2722Z TNM09/2815Z KHIO 272354Z 2800/2824 10010KT P6SM SKC FM280300 VRB03KT P6SM SKC FM281300 VRB03KT 5SM BR FEW001 FM281600 00000KT P6SM SKC KHKS 272320Z 2800/2824 34005KT P6SM FEW070 SCT150 FM281600 34014G20KT P6SM BKN050 KHKY 272325Z 2800/2824 00000KT P6SM SCT200 FM281300 23003KT P6SM OVC100 FM281700 25005KT P6SM OVC060 PROB30 2818/2822 6SM -RA BR OVC035 FM282200 33006KT 5SM -RA BR OVC025 KHLG 280056Z 2801/2824 21010KT P6SM OVC035 TEMPO 2801/2802 5SM -SN BKN025 FM280200 22005KT P6SM OVC025 FM280800 23005KT 5SM -SN OVC010 FM281700 34010KT P6SM BKN020 KHLN 272320Z 2800/2824 VRB06KT P6SM FEW250 KHMN 280100Z 2801/2907 VRB06KT 9999 SKC QNH3013INS BECMG 2803/2804 05010G15KT 9999 FEW060 SCT140 QNH3023INS TEMPO 2804/2808 06015G25KT BECMG 2811/2812 VRB06KT 9999 SKC QNH3044INS TX09/2822Z TNM06/2814Z KHNB 272337Z 2800/2824 23005KT P6SM OVC035 FM280100 24005KT 6SM -SN OVC028 FM280600 30005KT P6SM VCSH OVC026 FM280900 32005KT P6SM SCT025 OVC040 FM281300 33009KT P6SM VCSH OVC018 FM281600 33012G20KT 6SM -SHSN SCT015 OVC025 KHND 272322Z 2800/2824 04011G21KT P6SM SKC FM280400 34009KT P6SM SKC FM281900 02010G20KT P6SM FEW250 KHOB 272340Z 2800/2824 03007KT P6SM SKC FM280200 02017G25KT P6SM SCT080 FM280900 33009KT P6SM FEW100 KHON 272320Z 2800/2824 01010KT P6SM SCT150 FM280400 VRB03KT P6SM FEW120 FM281500 18010KT P6SM SCT120 FM282300 VRB04KT P6SM FEW250 KHOP 280000Z 2800/2906 VRB06KT 9999 BKN100 QNH3021INS BECMG 2805/2806 33006KT 9000 -SN BKN010 OVC015 620105 QNH3020INS BECMG 2808/2809 32006KT 9999 NSW OVC010 620105 QNH3022INS BECMG 2816/2817 33012G18KT 9999 OVC020 QNH3022INS BECMG 2819/2820 32015G20KT 9999 BKN040 620402 QNH3024INS TX03/2800Z TNM03/2900Z KHOT 272320Z 2800/2824 VRB03KT P6SM BKN060 OVC080 FM281600 35009KT P6SM BKN060 FM281700 35011G18KT P6SM SCT040 BKN060 KHOU 280251Z 2803/2824 VRB04KT P6SM SCT080 BKN250 FM280800 36007KT P6SM BKN060 OVC200 FM281000 36010KT P6SM VCSH OVC060 FM281400 36016G22KT P6SM BKN100 FM281700 36016G22KT P6SM SKC KHPN 280228Z 2802/2824 23004KT P6SM BKN100 FM281200 27004KT P6SM BKN040 PROB30 2813/2816 3SM -SN OVC030 FM281600 31005KT P6SM OVC025 PROB30 2816/2820 4SM -SN OVC025 FM282200 36004KT P6SM OVC035 NOT SKED KHQM 272338Z 2800/2824 09010KT P6SM SKC KHRL 272339Z 2800/2824 04008KT P6SM VCSH SCT010 OVC028 TEMPO 2803/2806 4SM -RA BKN010 FM280600 02008KT 5SM BR OVC008 TEMPO 2806/2809 2SM -RA BR OVC005 FM281200 36016G22KT 4SM -RA BR OVC010 FM281500 36021G30KT 6SM -RA OVC011 PROB30 2818/2819 4SM -RA OVC009 FM281900 36019KT P6SM OVC024 PROB30 2819/2821 4SM -RA OVC015 KHRO 272320Z 2800/2824 VRB06KT P6SM SCT025 BKN060 TEMPO 2800/2802 BKN025 FM281500 33010G18KT P6SM OVC060 KHRT 280200Z 2802/2908 34009KT 9999 FEW250 QNH3016INS BECMG 2806/2807 05006KT 9999 SCT050 SCT250 QNH3018INS BECMG 2812/2813 06005KT 9999 BKN030 BKN100 QNH3010INS BECMG 2816/2817 03010G15KT 9999 SCT050 SCT150 QNH3008INS WND 05015G25KT AFT 2820 TX13/2820Z TN02/2810Z KHST 280237Z 2802/2902 30007KT 9999 BKN012 BKN025 QNH2998INS TEMPO 2805/2806 00000KT 4800 BR SCT005 BKN015 BKN025 BECMG 2816/2817 29012KT 9999 NSW SCT015 SCT025 BKN100 QNH2998INS TX25/2820Z TN17/2811Z KHSV 272356Z 2800/2824 VRB03KT P6SM SCT120 OVC250 FM280800 34006KT P6SM BKN060 OVC120 FM281500 33010KT P6SM BKN015 OVC060 FM281900 32012G20KT P6SM BKN030 OVC080 KHTS 280244Z 2803/2824 00000KT P6SM OVC050 FM280500 VRB03KT P6SM VCSH OVC045 FM280700 VRB03KT 4SM -SN OVC017 FM281000 00000KT 2SM -SN OVC010 FM281500 34004KT P6SM VCSH OVC010 KHUA 272000Z 2720/2902 VRB06KT 9999 FEW110 QNH3015INS BECMG 2814/2815 34012KT 9999 BKN012 510109 QNH3019INS BECMG 2815/2816 34010G15KT 9999 OVC012 510109 QNH3018INS BECMG 2817/2818 33015G20KT 9999 BKN030 510109 QNH3016INS BECMG 2820/2821 32020G25KT 9999 BKN040 QNH3015INS BECMG 2900/2901 32012KT 9999 BKN030 QNH3019INS TX12/2720Z TN00/2812Z LAST NO AMDS AFT 2800 NEXT 2812 KHUF 280201Z 2802/2824 20003KT P6SM FEW030 OVC070 FM280400 32007KT P6SM BKN035 FM281300 35009KT P6SM BKN014 KHUL 272331Z 2800/2824 18009KT P6SM BKN028 FM280200 19008KT P6SM BKN200 FM280700 21005KT P6SM OVC050 FM280900 21004KT P6SM VCSH OVC045 FM281500 23007KT 5SM -SHSN OVC030 FM282100 32007KT P6SM SCT025 OVC050 NOT SKED KHUM 272320Z 2800/2824 VRB03KT P6SM FEW250 FM281600 35012KT P6SM BKN250 KHUT 272334Z 2800/2824 35010G17KT P6SM BKN060 FM280100 34008KT P6SM BKN060 FM281700 29013G19KT P6SM SKC KHVR 272320Z 2800/2824 22015KT P6SM BKN180 FM280600 23015G24KT P6SM SCT250 FM281900 23019G30KT P6SM SCT250 KHYA 272329Z 2800/2824 21008KT P6SM SCT019 BKN025 FM280300 21010G19KT P6SM OVC050 FM280800 23008KT P6SM OVC060 FM281400 25006KT P6SM OVC050 FM281900 26005KT P6SM OVC030 FM282200 32004KT P6SM OVC035 KHYR 272327Z 2800/2824 VRB03KT P6SM FEW200 FM281500 22003KT P6SM BKN100 FM282000 22005KT P6SM SCT015 BKN040 KHYS 272337Z 2800/2824 34008KT P6SM BKN120 FM281000 28005KT P6SM SCT250 KIAB 280208Z 2802/2908 33006KT 9999 BKN060 OVC130 620607 QNH3036INS BECMG 2815/2816 31010G20KT 9999 FEW100 QNH3035INS BECMG 2823/2824 27006KT 9999 SKC QNH3024INS TX08/2820Z TNM06/2812Z KIAD 280244Z 2803/2906 19005KT P6SM SCT070 BKN110 FM281700 36006KT P6SM SCT008 OVC040 FM281900 36007KT 5SM -SNRA SCT008 OVC030 FM282100 01007KT 2SM -SNRA SCT001 OVC015 FM290300 01009KT 2SM -SN SCT008 OVC010 FM290400 01010G20KT 3SM -SN SCT010 OVC015 KIAG 272325Z 2800/2824 23017G27KT 6SM -SN OVC025 FM280200 25016G26KT 2SM -SN BLSN OVC020 FM280400 25015G22KT 6SM -SHSN OVC030 FM280700 30013KT P6SM VCSH OVC020 FM281400 36009KT P6SM -SHSN OVC020 FM282000 01009KT P6SM VCSH BKN035 KIAH 280250Z 2803/2906 03005KT P6SM FEW060 BKN250 FM280700 36006KT P6SM BKN060 BKN100 FM281500 36015G23KT P6SM BKN100 FM281700 01016G26KT P6SM SKC FM290300 34006KT P6SM SKC KICT 272334Z 2800/2824 34009KT P6SM BKN060 FM281700 30012G18KT P6SM SKC KIDA 272320Z 2800/2824 VRB05KT P6SM SKC FM280600 VRB05KT P6SM VCFG SCT005 FM281800 VRB05KT P6SM SCT200 KIFP 272322Z 2800/2824 36020G30KT P6SM SKC KILG 280242Z 2803/2824 18005KT P6SM SCT100 BKN250 FM280400 18005KT P6SM OVC100 FM280700 VRB03KT P6SM OVC070 FM281400 30005KT P6SM VCSH OVC040 FM281800 33005KT P6SM OVC035 FM282200 01005KT 6SM -SN BR OVC030 KILM 272340Z 2800/2824 02003KT P6SM BKN250 FM281400 01005KT P6SM BKN100 OVC200 FM282100 01007KT P6SM BKN045 OVC090 KILN 272331Z 2800/2824 23007KT P6SM -SN OVC025 TEMPO 2801/2805 4SM -SN OVC018 FM280500 30006KT P6SM OVC010 TEMPO 2805/2809 4SM -SN OVC008 FM280900 34007KT P6SM SCT009 OVC015 KIND 280208Z 2802/2906 22010KT P6SM SCT030 OVC050 FM280300 28006KT P6SM BKN050 FM280500 31006KT P6SM BKN027 FM282200 35011KT P6SM FEW080 KINK 272340Z 2800/2824 02007KT P6SM SKC FM280300 03015G24KT P6SM SCT080 FM281000 35008KT P6SM SKC KINL 272327Z 2800/2824 30006KT P6SM FEW250 FM280500 23003KT P6SM SCT250 FM280900 22004KT P6SM BKN090 FM281700 27005KT P6SM VCSH SCT015 BKN040 TEMPO 2821/2824 BKN015 KINS 2721/2903 06012KT 9999 SKC QNH3029INS WND 300V060 TEMPO 2722/2803 06012G20KT BECMG 2802/2803 06009KT 9999 SKC QNH3041INS BECMG 2811/2812 VRB06KT 9999 SKC QNH3053INS BECMG 2820/2821 10012KT 9999 SKC QNH3056INS TX13/2721Z TNM05/2813Z KINT 272320Z 2800/2824 00000KT P6SM FEW250 FM281800 VRB03KT P6SM OVC100 KINW 272339Z 2800/2824 35015G23KT P6SM SKC FM280800 28008KT P6SM SKC KIPL 272344Z 2800/2824 34007KT P6SM SKC FM280100 29004KT P6SM SKC FM281800 36006KT P6SM FEW250 KIPT 272324Z 2800/2824 08007KT P6SM BKN090 FM280300 10007KT P6SM OVC050 FM281600 33007KT 5SM -SHSN BKN015 OVC025 KISM 272338Z 2800/2824 03010KT P6SM OVC013 FM280300 36009KT P6SM BKN025 FM281200 33006KT P6SM BKN025 FM281800 32009KT P6SM BKN040 BKN170 FM282300 29009KT P6SM SCT035 BKN120 KISO 272320Z 2800/2824 02003KT P6SM SCT200 FM282000 04005KT P6SM SCT080 OVC150 LTD TO CLD VIS AND WIND KISP 280228Z 2802/2824 23005KT P6SM FEW035 SCT100 BKN150 FM281400 27007KT P6SM BKN040 FM281700 28007KT P6SM OVC030 FM282100 35004KT P6SM OVC030 PROB30 2821/2824 3SM -SN OVC015 KITH 272333Z 2800/2824 18010G17KT P6SM BKN070 OVC100 FM280600 22007G14KT P6SM OVC040 FM280900 23006G12KT P6SM OVC030 FM281100 30007G13KT 5SM -SHSN OVC020 TEMPO 2811/2815 3SM -SN OVC018 FM281500 31008KT P6SM OVC025 FM281800 35008KT 5SM -SHSN OVC018 KIWA 272344Z 2800/2824 29007KT P6SM SKC FM280300 06006KT P6SM SKC FM280500 06010KT P6SM SKC WS020/06040KT FM281600 09015G25KT P6SM SKC KIWD 272336Z 2800/2824 33006KT P6SM -SHSN BKN035 FM280300 32007KT P6SM OVC045 FM280500 29006KT P6SM BKN045 FM281700 24008KT P6SM BKN120 KIXD 272326Z 2800/2824 34006KT P6SM BKN150 TEMPO 2805/2807 4SM -SN BKN050 FM280800 36006KT P6SM BKN045 KJAC 272320Z 2800/2824 02006KT P6SM SKC KJAN 272320Z 2800/2824 34005KT P6SM FEW070 SCT150 FM281600 34014G20KT P6SM BKN050 KJAX 272343Z 2800/2824 03008KT P6SM SCT050 FM280700 35005KT P6SM BKN050 OVC250 FM281700 33008KT P6SM OVC050 KJBR 272330Z 2800/2824 28003KT P6SM OVC080 FM280500 32007KT P6SM BKN070 FM280700 35008KT P6SM BKN250 FM281700 33015KT P6SM SCT250 FM282000 33016KT P6SM SCT070 KJCT 272337Z 2800/2824 VRB06KT P6SM OVC035 FM280100 03006KT P6SM BKN025 FM280500 02013KT P6SM VCSH OVC025 FM280900 02012KT P6SM BKN050 FM281300 01010KT P6SM SCT250 KJEF 272334Z 2800/2824 32012G20KT P6SM BKN070 FM280100 32007KT P6SM BKN060 FM281100 33007KT P6SM BKN045 KJER 272327Z 2800/2824 07005KT P6SM SKC FM280300 05011KT 1SM BR BKN002 FM280600 07017KT P6SM FEW250 KJFK 280228Z 2802/2906 22010KT P6SM FEW040 BKN100 FM280900 25005KT P6SM SCT050 OVC070 FM281500 27007KT P6SM OVC035 PROB30 2815/2818 3SM -SN OVC020 FM281800 27007KT P6SM OVC025 PROB30 2818/2821 3SM -SN OVC015 FM282100 35008KT P6SM BKN020 OVC030 PROB30 2821/2824 5SM -SN OVC020 FM290000 01007KT P6SM OVC035 FM290300 02009KT 6SM BR OVC020 PROB30 2903/2906 2SM -SN OVC015 KJHW 272325Z 2800/2824 22012G18KT 6SM -SHSN OVC020 FM280500 25009KT 2SM -SN OVC012 FM280700 26009KT 3/4SM -SN OVC012 FM281100 35009KT 2SM -SN OVC012 FM281400 01010KT 6SM -SHSN OVC012 KJKL 272339Z 2800/2824 00000KT P6SM SCT050 BKN090 FM280700 00000KT P6SM SCT015 OVC035 FM280900 00000KT P6SM -SN SCT007 OVC015 FM281800 VRB03KT 4SM -SN OVC015 KJLN 272320Z 2800/2824 34008KT P6SM SCT060 SCT200 FM281000 33010KT P6SM BKN060 FM281700 33012G20KT P6SM SCT080 KJMS 280245Z 2803/2824 26005KT P6SM FEW200 FM280500 23006KT P6SM VCSH SCT035 BKN050 FM280700 22005KT P6SM VCSH BKN050 OVC090 FM281400 21005KT P6SM BKN110 FM281700 27006KT P6SM SCT150 BKN220 KJST 280120Z 2801/2824 24010G20KT P6SM -SHSN OVC030 FM280600 25010KT 5SM -SHSN OVC015 FM280900 26008KT 4SM -SHSN OVC007 FM281700 33007KT 5SM -SHSN OVC015 KJVL 272322Z 2800/2824 34009KT P6SM VCSH BKN040 FM280200 35009KT P6SM BKN070 FM280600 36009KT P6SM SCT250 FM282300 27004KT P6SM SCT250 KJXN 272333Z 2800/2824 23009KT P6SM VCSH OVC022 FM280200 30007KT 4SM -SHSN BR BKN015 FM280300 34008KT 6SM BR VCSH BKN017 FM280400 36010KT P6SM VCSH OVC027 FM280500 36011KT P6SM VCSH BKN060 FM281500 02006KT P6SM SCT035 SCT250 KJZI 272324Z 2800/2824 01004KT P6SM SCT250 FM281700 34006KT P6SM SCT080 OVC200 KLAF 280202Z 2802/2824 25006KT P6SM BKN027 OVC060 FM280300 32008KT P6SM SCT025 OVC050 FM281000 35008KT P6SM BKN017 FM281400 02008KT P6SM BKN045 LTD TO CLD VIS AND WIND 2802/2814 KLAL 272340Z 2800/2824 03008KT P6SM OVC015 FM280900 02005KT P6SM SCT007 OVC015 FM281600 34007KT P6SM OVC025 FM282100 31009KT P6SM OVC030 KLAN 280247Z 2803/2824 35014G20KT 2SM -SN OVC015 FM280400 36011KT P6SM BKN050 FM281600 03009KT P6SM SCT070 KLAR 272320Z 2800/2824 30010KT P6SM SCT120 FM280500 23008KT P6SM FEW250 WS020/31030KT FM281000 25009KT P6SM FEW250 WS020/31035KT KLAS 280249Z 2803/2906 03010G18KT P6SM SKC FM280700 34008KT P6SM SKC FM281700 03010G18KT P6SM FEW250 FM290200 29008KT P6SM SCT250 KLAW 272332Z 2800/2824 36005KT P6SM BKN150 FM281700 31011KT P6SM SKC KLAX 280256Z 2803/2906 26008KT P6SM FEW250 FM280500 VRB03KT P6SM SKC FM281200 07005KT P6SM SKC FM282000 26008KT P6SM SKC FM290400 VRB03KT P6SM SKC KLBB 272320Z 2800/2824 01011KT P6SM SKC FM281700 29011KT P6SM SCT250 KLBE 280210Z 2802/2824 22010KT P6SM OVC035 TEMPO 2802/2804 3SM -SN BKN025 FM280800 23008KT P6SM -SN OVC025 FM281100 23005KT 2SM -SN OVC008 FM281600 33005KT 5SM -SN OVC015 KLBF 272320Z 2800/2824 34007KT P6SM SCT090 FM280200 31005KT P6SM SCT150 FM280700 28005KT P6SM SCT250 FM281700 29012KT P6SM FEW250 FM282000 30012G22KT P6SM FEW250 KLBL 272337Z 2800/2824 01010KT P6SM OVC080 KLBT 272340Z 2800/2824 03004KT P6SM SKC FM280200 00000KT P6SM SCT200 FM281500 05004KT P6SM BKN200 NOT SKED KLBX 272337Z 2800/2824 VRB05KT P6SM BKN060 FM280900 01006KT P6SM VCSH OVC060 FM281600 36015G20KT P6SM BKN100 FM281900 36015G20KT P6SM SKC KLCH 272327Z 2800/2824 VRB05KT P6SM SCT250 FM281500 35011G22KT P6SM SCT250 FM282300 36012KT P6SM FEW250 KLCK 272331Z 2800/2824 23009KT P6SM OVC025 TEMPO 2800/2803 SCT025 OVC035 FM280300 26003KT P6SM OVC020 FM280800 33005KT P6SM OVC008 FM281200 35006KT P6SM OVC010 FM282200 36010KT P6SM BKN020 KLEB 272320Z 2800/2824 19003KT P6SM SCT250 FM281500 28003KT P6SM OVC050 KLEE 272338Z 2800/2824 03011KT P6SM OVC015 FM280300 36007KT P6SM BKN025 BKN050 FM281500 34008KT P6SM SCT020 BKN030 FM282200 31007KT P6SM BKN040 BKN120 KLEX 272337Z 2800/2824 23005KT P6SM OVC040 FM280400 24005KT 6SM -SN BKN028 OVC035 FM280500 24005KT 4SM -SN OVC018 FM280700 25005KT 3SM BR OVC007 TEMPO 2807/2811 1 1/2SM -SN BR OVC006 FM281200 30006KT 5SM -SN BR OVC008 FM281600 33010KT P6SM VCSH OVC015 KLFI 280200Z 2802/2908 VRB06KT 9999 FEW150 QNH2999INS BECMG 2817/2818 02012KT 9999 SCT080 BKN110 OVC150 QNH2995INS TEMPO 2902/2904 6000 -DZ BKN015 OVC080 BECMG 2903/2904 01009KT 3200 -SN OVC009 QNH2987INS BECMG 2905/2906 35012KT 1600 SN OVC009 QNH2964INS TX04/2817Z TNM05/2809Z KLFK 272320Z 2800/2824 VRB03KT P6SM BKN180 OVC250 FM280800 VRB03KT P6SM SCT045 BKN180 BKN250 TEMPO 2808/2812 BKN045 FM281400 34008KT P6SM SCT140 SCT250 FM281600 34012G20KT P6SM SKC KLFT 272327Z 2800/2824 VRB05KT P6SM FEW250 FM281400 36010KT P6SM BKN250 FM281600 35014G22KT P6SM SCT250 KLGA 280228Z 2802/2906 22008KT P6SM FEW040 BKN100 FM280900 25004KT P6SM SCT050 OVC070 FM281500 27006KT P6SM OVC035 PROB30 2815/2818 3SM -SN OVC020 FM281800 27006KT P6SM BKN025 PROB30 2818/2821 3SM -SN OVC015 FM282100 35007KT P6SM BKN020 OVC030 PROB30 2821/2824 5SM -SN OVC020 FM290000 01006KT P6SM OVC035 FM290400 01009KT 6SM BR OVC020 PROB30 2904/2906 2SM -SN OVC015 KLGB 272347Z 2800/2824 30005KT P6SM SKC FM280300 VRB03KT P6SM SKC FM281500 01008KT P6SM SKC FM282200 15006KT P6SM SKC KLGU 272320Z 2800/2824 VRB03KT P6SM SKC FM280900 VRB03KT 5SM BR SCT003 FM281600 VRB03KT P6SM SKC KLIT 272320Z 2800/2824 VRB05KT P6SM SCT040 BKN070 FM281500 34010KT P6SM SCT060 FM281600 34011G17KT P6SM BKN060 KLLQ 272320Z 2800/2824 VRB05KT P6SM BKN080 FM281500 35011G18KT P6SM SCT060 BKN080 KLMT 272320Z 2800/2824 VRB05KT P6SM SKC KLND 272320Z 2800/2824 16006KT P6SM FEW090 KLNK 280027Z 2800/2824 32009KT P6SM VCSH SCT025 BKN060 FM280300 36006KT P6SM SCT025 BKN050 FM281500 20004KT P6SM SCT060 KLNS 272324Z 2800/2824 16007KT P6SM BKN100 FM281300 VRB05KT P6SM OVC050 FM281900 36007KT 4SM -SHSN BKN012 OVC025 KLOZ 272339Z 2800/2824 00000KT P6SM SCT045 BKN080 FM281000 00000KT P6SM SCT025 OVC040 FM281200 00000KT P6SM VCSH SCT010 OVC025 FM281300 00000KT P6SM VCSH SCT007 OVC015 FM281500 00000KT P6SM VCSH OVC007 FM281800 VRB06KT P6SM OVC010 KLRD 280215Z 2802/2824 04005KT 4SM -RA BR OVC015 FM281200 02015G21KT P6SM -RA OVC012 FM281500 01014KT P6SM OVC025 FM281700 35012KT P6SM BKN035 FM282200 32010KT P6SM BKN050 KLRF 272300Z 2723/2905 30006KT 9999 OVC030 QNH3024INS BECMG 2806/2807 34006KT 9999 FEW050 QNH3032INS BECMG 2813/2814 32012KT 9999 FEW050 QNH3039INS BECMG 2816/2817 32015G25KT 9999 BKN050 QNH3033INS BECMG 2822/2823 34006KT 9999 FEW120 QNH3035INS TX08/2820Z TNM05/2810Z KLRU 272323Z 2800/2824 26007KT P6SM SKC FM280400 02012G22KT P6SM SKC WS020/08040KT FM281300 07010KT P6SM FEW250 KLSE 272329Z 2800/2824 33007KT P6SM SCT050 FM281000 VRB03KT P6SM SCT200 FM281700 26005KT P6SM SCT100 KLSF 272200Z 2722/2904 VRB06KT 9999 FEW150 QNH3012INS BECMG 2813/2814 VRB06KT 9999 SCT030 BKN060 QNH3010INS BECMG 2817/2818 30012G18KT 9999 BKN050 QNH3004INS BECMG 2823/2824 31012KT 9999 FEW080 SCT140 QNH3010INS TX15/2722Z TNM01/2810Z LAST NO AMDS AFT 2804 NEXT 2814 KLSV 272322Z 2723/2905 04015G25KT 9999 SKC 520009 QNH3027INS TEMPO 2723/2805 03020G35KT 530009 BECMG 2807/2808 36010G15KT 9999 SKC QNH3050INS BECMG 2811/2812 34009KT 9999 SKC QNH3046INS BECMG 2817/2818 02012KT 9999 SKC QNH3050INS TX17/2723Z TN03/2813Z KLTS 280100Z 2801/2907 32006KT 9999 SKC QNH3028INS BECMG 2805/2806 32006KT 9999 SCT080 510052 QNH3040INS BECMG 2811/2812 31009KT 9999 SKC QNH3045INS BECMG 2816/2817 32012G22KT 9999 SKC QNH3033INS BECMG 2822/2823 VRB06KT 9999 SKC QNH3028INS TX12/2821Z TNM06/2812Z KLUF 272000Z 2720/2902 VRB06KT 9999 SKC QNH3010INS BECMG 2803/2804 03015G25KT 9999 SKC QNH3022INS BECMG 2811/2812 08012G18KT 9999 SCT250 QNH3021INS BECMG 2900/2901 08012KT 9999 BKN250 QNH3023INS TX19/2723Z TN04/2813Z KLUK 272331Z 2800/2824 21009KT P6SM SCT030 OVC050 FM280100 26008KT P6SM -SN SCT020 OVC030 TEMPO 2802/2806 5SM -SN BKN018 FM280600 32006KT 5SM BR VCSH OVC020 FM281000 31005KT P6SM OVC018 FM282000 35010KT P6SM BKN030 KLVK 272336Z 2800/2824 07009KT P6SM SKC FM280300 VRB04KT P6SM FEW200 FM282000 06008KT P6SM FEW200 KLVM 280158Z 2802/2824 25018G30KT P6SM SCT200 FM280400 24025G40KT P6SM SCT200 FM280700 22032G50KT P6SM SCT200 FM281800 23028G40KT P6SM SKC KLVS 280121Z 2801/2824 06011KT 3SM -SN BKN025 OVC040 TEMPO 2801/2804 1SM -SN OVC018 FM280500 02008KT 5SM BR BKN012 FM280800 VRB06KT P6SM SCT012 FM281200 VRB06KT P6SM SKC KLWB 272333Z 2800/2824 VRB03KT P6SM SCT100 FM280500 VRB02KT P6SM OVC090 FM281600 27005KT P6SM OVC050 TEMPO 2817/2819 6SM -SN OVC035 FM281900 30005KT 4SM -SN BR OVC025 FM282200 33005KT 2SM -SN BR OVC012 KLWS 280229Z 2802/2824 VRB03KT P6SM SKC FM281200 13009KT P6SM SKC KLWT 272320Z 2800/2824 23009KT P6SM SCT200 FM280600 24013G21KT P6SM SCT250 WS020/30035KT FM281400 22010G18KT P6SM FEW250 FM282000 26017G27KT P6SM FEW250 KLYH 272333Z 2800/2824 20003KT P6SM BKN100 FM281700 31004KT P6SM OVC070 FM282200 01005KT P6SM OVC035 KMAF 272340Z 2800/2824 02006KT P6SM SKC FM280300 03016G25KT P6SM FEW080 FM281100 35009KT P6SM SKC KMBG 280142Z 2802/2824 13006KT P6SM BKN070 FM281600 28008KT P6SM SKC KMBL 272320Z 2800/2824 36011G20KT 6SM -SHSN SCT025 OVC035 TEMPO 2800/2804 3SM -SHSN BKN025 FM280400 01009KT 4SM -SHSN OVC025 FM281800 VRB03KT P6SM VCSH OVC035 KMBS 280200Z 2802/2824 35012G20KT 2SM -SHSN OVC020 FM280400 35012KT P6SM SCT030 BKN060 FM280600 36006KT P6SM SCT020 FM281600 36010KT P6SM BKN022 KMCB 272320Z 2800/2824 VRB05KT P6SM FEW080 SCT250 FM281600 35012KT P6SM FEW100 SCT250 KMCC 272335Z 2800/2824 VRB03KT P6SM SKC TEMPO 2808/2812 5SM BR FM281400 00000KT 4SM BR BKN003 FM281800 33003KT P6SM SCT250 KMCE 272320Z 2800/2824 VRB03KT 5SM HZ SKC FM280800 VRB02KT 2SM BR SKC FM281000 00000KT 1/4SM FG VV001 FM281800 VRB03KT 4SM HZ SKC KMCF 280100Z 2801/2907 05010KT 9999 OVC018 QNH3004INS BECMG 2804/2805 03009KT 9999 BKN006 OVC010 QNH2995INS BECMG 2821/2822 30010KT 9999 SCT006 BKN015 QNH2994INS BECMG 2904/2905 30015G25KT 9999 FEW050 QNH3000INS TX20/2820Z TN10/2810Z KMCI 272326Z 2800/2824 34008KT P6SM SCT050 BKN150 TEMPO 2804/2807 4SM -SN BKN050 FM281200 34007KT P6SM SCT060 KMCK 272320Z 2800/2824 33010KT P6SM SCT045 FM280100 29008KT P6SM SCT150 KMCN 272342Z 2800/2824 09006KT P6SM SKC FM280500 00000KT P6SM SCT250 FM280800 VRB03KT P6SM BKN250 FM281700 29004KT P6SM BKN120 FM282000 29008KT P6SM BKN070 FM282200 29010G19KT P6SM BKN040 KMCO 280259Z 2803/2906 35011KT P6SM BKN011 BKN025 OVC045 FM280600 35007KT P6SM SCT030 BKN040 FM281400 33008KT P6SM BKN030 FM281800 31010KT P6SM BKN040 BKN170 FM290000 29011KT P6SM SCT035 BKN120 FM290500 30017KT P6SM SCT250 KMCW 272341Z 2800/2824 33012KT P6SM SCT040 FM281000 31006KT P6SM FEW250 FM281700 28007KT P6SM BKN100 KMDT 272324Z 2800/2824 19007KT P6SM BKN100 FM281100 12007KT P6SM OVC050 FM281700 35007KT 5SM -SHSN BKN015 OVC025 KMDW 280123Z 2801/2906 34011G18KT P6SM BKN040 TEMPO 2801/2805 6SM -SHSN BKN030 OVC040 FM280900 35008KT 4SM -SHSN BKN025 TEMPO 2810/2813 1SM -SN BKN012 FM281500 35008KT P6SM -SHSN BKN035 FM281700 30007KT P6SM SCT030 KMEI 272320Z 2800/2824 32005KT P6SM SCT150 FM281600 34014G20KT P6SM BKN050 KMEM 272330Z 2800/2906 32004KT P6SM BKN150 FM280600 35004KT P6SM OVC045 FM280900 34006KT P6SM BKN060 FM281500 35012KT P6SM BKN250 FM290000 35011KT P6SM SCT250 FM290500 01007KT P6SM FEW250 KMER 272320Z 2800/2824 VRB03KT 5SM HZ SKC FM280600 VRB02KT 2SM BR SKC FM280900 00000KT 1/4SM FG VV001 FM281800 VRB03KT 4SM HZ SKC KMEV 272320Z 2800/2824 10007KT P6SM SKC FM280100 VRB03KT P6SM SKC FM282200 06005KT P6SM SKC KMFD 272340Z 2800/2824 20010KT P6SM OVC013 FM280500 27008KT P6SM VCSH OVC008 FM280900 35007KT P6SM VCSH OVC008 FM281700 01008KT P6SM OVC015 FM282200 01010KT P6SM BKN025 KMFE 280115Z 2801/2824 02005KT 4SM -RA BR BKN007 OVC015 TEMPO 2806/2809 2SM -RA BR OVC004 FM280900 36011KT 3SM -RA BR OVC004 FM281300 36015G22KT 3SM -RA BR OVC004 PROB30 2818/2819 4SM -RA OVC008 FM281900 35014KT P6SM BKN021 PROB30 2819/2821 4SM -RA OVC015 FM282300 33010KT P6SM SCT070 KMFR 272320Z 2800/2824 VRB03KT P6SM SKC KMGE 272215Z 2722/2904 14009KT 9999 FEW250 QNH3018INS BECMG 2803/2804 VRB05KT 9999 SCT150 SCT250 QNH3012INS BECMG 2810/2811 28007KT 9999 BKN120 BKN200 QNH3010INS BECMG 2815/2816 29012G18KT 9999 BKN040 OVC120 QNH3002INS BECMG 2821/2822 30015G25KT 9999 BKN025 OVC070 QNH2998INS BECMG 2823/2824 31020G30KT 9999 SCT035 SCT080 SCT250 QNH3002INS TX10/2723Z TNM01/2812Z LAST NO AMDS AFT 2804 NEXT 2811 KMGM 272340Z 2800/2824 09003KT P6SM FEW250 FM281500 31007KT P6SM BKN100 FM281800 31011G21KT P6SM OVC060 KMGW 272320Z 2800/2824 22008KT P6SM OVC050 FM280800 22005KT 2SM -SN OVC005 FM281300 23005KT 3SM -SN OVC008 FM281600 34003KT 3SM -SN OVC010 KMHK 272325Z 2800/2824 34007KT P6SM SCT060 BKN080 KMHR 272335Z 2800/2824 VRB03KT P6SM SKC TEMPO 2807/2811 5SM BR SCT003 FM281100 00000KT 4SM BR BKN003 FM281800 33005KT P6SM SCT250 KMHT 272320Z 2800/2824 19004KT P6SM SCT250 FM281500 26004KT P6SM OVC050 KMIA 280255Z 2803/2906 VRB04KT P6SM SCT025 BKN050 FM281400 28010KT P6SM SCT025 BKN050 KMIB 280100Z 2801/2907 21009KT 9999 FEW050 SCT100 QNH3030INS TXM04/2820Z TNM22/2810Z KMIV 272322Z 2800/2824 00000KT P6SM SCT250 FM280300 00000KT P6SM OVC100 FM281400 VRB03KT P6SM OVC060 FM281700 31005KT P6SM OVC040 FM282000 35005KT P6SM OVC040 FM282300 02007KT 4SM -SN BR OVC020 KMKC 272326Z 2800/2824 34006KT P6SM BKN120 TEMPO 2805/2807 4SM -SN BKN050 FM281800 34007KT P6SM SCT100 KMKE 272322Z 2800/2906 33010KT P6SM VCSH BKN060 FM280400 35012G20KT P6SM VCSH BKN070 FM280600 36011G19KT P6SM SCT080 FM281200 33007KT P6SM FEW090 FM290500 27003KT P6SM FEW200 KMKG 280218Z 2802/2824 36010G20KT P6SM -SN OVC060 FM280400 02012G22KT P6SM VCSH BKN060 FM281000 05007KT P6SM SCT080 FM281800 06005KT P6SM SCT045 KMKL 272330Z 2800/2824 32005KT P6SM SCT100 FM280600 34003KT P6SM OVC045 FM281200 35008KT P6SM BKN060 FM281600 34013KT P6SM BKN250 KMKT 272328Z 2800/2824 32009KT P6SM FEW250 FM281000 27006KT P6SM SCT150 FM281600 21006KT P6SM SCT120 KMLB 280201Z 2802/2824 35009G17KT P6SM VCSH BKN007 OVC012 FM280300 36011KT P6SM VCSH SCT010 BKN025 OVC040 FM281500 31012KT P6SM SCT020 BKN030 KMLC 272320Z 2800/2824 32006KT P6SM BKN060 FM280300 VRB03KT P6SM BKN250 FM281500 33006KT P6SM BKN250 KMLI 272320Z 2800/2824 30010G18KT P6SM -SN SCT025 OVC040 FM280400 34010KT P6SM OVC050 FM280900 35007KT P6SM SCT120 KMLS 272320Z 2800/2824 33005KT P6SM SCT040 SCT200 FM280300 18008KT P6SM SCT200 WS020/27040KT FM280800 24011KT P6SM SCT200 WS020/30040KT FM281500 25010KT P6SM SKC KMLU 272320Z 2800/2824 35004KT P6SM BKN060 BKN250 TEMPO 2808/2812 BKN030 FM281200 34007KT P6SM BKN030 FM281500 35012G18KT P6SM SKC FM281700 34014G24KT P6SM SKC KMMH 272320Z 2800/2824 VRB05KT P6SM SKC FM281200 32007KT P6SM SKC FM281800 VRB03KT P6SM SKC KMMT 280000Z 2800/2906 VRB06KT 9999 SCT200 QNH3020INS BECMG 2818/2819 VRB06KT 9999 BKN100 QNH3014INS BECMG 2903/2904 31009KT 9000 DZ OVC015 650207 QNH2988INS BECMG 2905/2906 32012KT 8000 -RA OVC007 650108 QNH2988INS TX09/2821Z TNM02/2811Z KMOB 272324Z 2800/2824 17006KT P6SM FEW250 FM280300 30004KT P6SM SCT050 BKN250 FM281200 34005KT P6SM SCT050 OVC250 FM281500 34010G18KT P6SM OVC250 KMOD 272335Z 2800/2824 VRB03KT P6SM SKC FM280600 VRB03KT 5SM BR SKC FM281100 00000KT 2SM BR BKN004 TEMPO 2813/2817 1/2SM FG OVC002 FM281900 VRB03KT P6SM SCT250 KMOT 272345Z 2800/2824 20005KT P6SM FEW110 SCT250 TEMPO 2800/2801 -SHSN BKN025 OVC035 FM280100 21006KT P6SM VCSH BKN022 OVC035 TEMPO 2802/2805 SCT035 SCT120 FM280500 21007KT P6SM VCSH BKN080 BKN110 FM281400 29006KT P6SM SCT180 FM281900 24007KT P6SM SCT220 KMPV 272328Z 2800/2824 19009KT P6SM OVC150 FM280300 20010KT P6SM OVC060 WS020/23040KT FM280800 20005KT P6SM SCT020 OVC040 FM281400 30008KT P6SM OVC025 FM282100 35006KT P6SM SCT020 BKN035 KMQY 272340Z 2800/2824 34004KT P6SM OVC100 FM281000 35004KT P6SM SCT025 OVC040 TEMPO 2812/2816 -SN SCT015 BKN025 FM282100 33010KT P6SM OVC050 KMRB 280244Z 2803/2824 22004KT P6SM SCT060 BKN100 FM281500 34004KT P6SM SCT020 OVC045 FM281700 34006KT 6SM -SN SCT020 OVC035 FM281800 35006KT 5SM -SN SCT008 OVC030 FM282100 01007KT 3SM -SN SCT008 OVC010 FM282200 36007KT 2SM -SN SCT008 OVC015 KMRY 272336Z 2800/2824 VRB04KT P6SM SKC FM280800 10005KT P6SM FEW200 FM281900 VRB04KT P6SM SCT200 KMSL 272356Z 2800/2824 VRB03KT P6SM SCT120 OVC250 FM280500 34006KT P6SM BKN060 OVC120 FM281200 33010KT P6SM BKN015 OVC060 FM281600 32012G20KT P6SM BKN030 OVC080 KMSN 272322Z 2800/2824 34009KT P6SM VCSH BKN060 FM280100 35009KT P6SM BKN080 FM280300 36009KT P6SM SCT180 FM280600 36006KT P6SM FEW250 KMSO 272330Z 2800/2824 00000KT P6SM SKC FM280900 00000KT 2SM BR VCFG SKC FM281300 00000KT 3/4SM BR MIFG FEW002 FM282100 00000KT 5SM BR SCT010 KMSP 280201Z 2802/2906 33010KT P6SM SKC FM280600 30006KT P6SM FEW200 FM281200 24004KT P6SM BKN100 FM282000 21005KT P6SM SCT050 KMSS 272328Z 2800/2824 20014G22KT P6SM OVC070 FM280100 21015G21KT P6SM VCSH SCT020 OVC045 FM280300 22012KT 2SM -SHSN BR OVC025 FM280900 29013G20KT P6SM VCSH BKN022 OVC035 FM281200 32013G19KT P6SM SCT020 BKN035 FM281600 35008KT P6SM SCT020 KMSY 272320Z 2800/2906 33005KT P6SM SCT250 FM281500 35013KT P6SM BKN250 KMTC 280255Z 2802/2907 30009KT 9999 BKN025 OVC060 620304 QNH3006INS TEMPO 2802/2803 9000 -SN BKN015 620156 BECMG 2803/2804 34012KT 9999 BKN020 OVC040 620205 QNH3011INS BECMG 2811/2812 35009KT 9999 BKN030 620302 QNH3026INS BECMG 2822/2823 VRB06KT 9999 SCT050 QNH3028INS TXM02/2803Z TNM16/2812Z LAST NO AMDS AFT 2804 NEXT 2809 KMTH 272335Z 2800/2824 31007KT P6SM BKN005 FM280500 32005KT P6SM SCT015 KMTJ 280001Z 2800/2824 31010KT P6SM VCSH BKN060 FM280200 15006KT P6SM FEW040 SCT100 FM280600 15004KT P6SM FEW100 FM281600 VRB03KT P6SM SKC KMTN 280244Z 2803/2824 19005KT P6SM SCT070 BKN090 FM281500 35004KT P6SM SCT025 OVC045 FM281800 36005KT 6SM -SN SCT020 OVC035 FM281900 36007KT 5SM -SN SCT020 OVC030 FM282000 01007KT 4SM -SNRA SCT020 OVC025 FM282100 02007KT 3SM -SN SCT010 OVC015 NOT SKED 2802/2812 KMTW 272335Z 2800/2824 36008G15KT P6SM SCT028 BKN040 FM280100 35009KT P6SM SCT045 FM280300 33006KT P6SM SKC FM281600 27006KT P6SM SCT200 KMUI 272330Z 2723/2901 VRB06KT 9999 SKC 510013 QNH3024INS BECMG 2800/2801 VRB06KT 9999 SCT035 BKN050 620505 510013 QNH3018INS BECMG 2807/2808 VRB06KT 9999 SCT020 BKN035 QNH3004INS TX00/2819Z TNM04/2800Z LAST NO AMDS AFT 2805 NEXT 2811 KMUO 280200Z 2802/2908 VRB06KT 9999 FEW050 QNH3060INS BECMG 2806/2807 12010G15KT 9999 FEW010 SCT030 QNH3069INS BECMG 2818/2819 13015G25KT 9999 FEW030 SCT180 510009 QNH3058INS BECMG 2900/2901 12012KT 9999 BKN180 QNH3050INS TXM02/2822Z TNM08/2814Z KMVN 272336Z 2800/2824 23003KT P6SM OVC027 FM280300 VRB03KT P6SM OVC035 FM281300 32006KT P6SM OVC027 FM281700 33007KT P6SM BKN045 KMWH 272324Z 2800/2824 32005KT P6SM OVC021 FM280700 34004KT P6SM OVC011 KMXF 272000Z 2720/2902 VRB06KT 9999 FEW220 QNH3014INS BECMG 2814/2815 VRB06KT 9999 FEW017 QNH3015INS BECMG 2816/2817 32012KT 9999 FEW024 510109 QNH3016INS BECMG 2817/2818 32010G15KT 9999 SCT070 510109 QNH3013INS BECMG 2820/2821 31020G25KT 9999 BKN035 510109 QNH3011INS BECMG 2823/2824 32012KT 9999 SCT045 QNH3016INS TX14/2721Z TN03/2810Z LAST NO AMDS AFT 2804 NEXT 2812 KMYL 272327Z 2800/2824 VRB03KT P6SM SKC FM280300 VRB04KT 1/2SM FZFG OVC002 FM281500 VRB03KT P6SM SKC NOT SKED KMYR 272359Z 2800/2824 02004KT P6SM BKN250 FM281400 02006KT P6SM BKN100 OVC200 FM282100 02008KT P6SM VCSH BKN045 OVC100 KNBC 2803/2903 34010KT 9999 BKN150 QNH2992INS BECMG 2818/2820 29008KT 9999 SCT050 BKN150 QNH2988INS T03/2809Z T11/2820Z KNBG 2723/2823 02006KT 9999 SCT250 QNH3014INS BECMG 2801/2803 36006KT 9999 SCT150 BKN250 QNH3017INS BECMG 2813/2815 35012G22KT 9999 FEW030 BKN100 BKN250 QNH3018INS AUTOMATED SENSOR METWATCH 2805 TIL 2811 T00/2811Z T09/2819Z FN20040 KNCA 2721/2821 02010KT 9999 FEW150 QNH3018INS FM280900 02006KT 9999 SCT150 QNH3012INS BECMG 2815/2817 03010KT 9999 BKN060 QNH3000INS FM282000 03010KT 6000 -SHRA BR BKN025 OVC060 QNH2988INS TM03/2809Z T06/2818Z KNEW 272320Z 2800/2824 30005KT P6SM SCT250 FM281500 35015G25KT P6SM BKN250 KNFG 2721/2821 VRB05KT 9999 SKC 520009 520903 QNH3011INS TEMPO 2721/2800 22006KT FM281630 03008KT 9999 SKC 500000 QNH3018INS TEMPO 2817/2821 03008G18KT T24/2721Z T06/2814Z KNFL 2723/2823 VRB06KT 9999 SKC QNH3036INS TEMPO 2800/2804 01008KT FM280600 VRB06KT 9999 SKC QNH3040INS TM09/2814Z T09/2823Z FS30123 KNFW 2723/2823 36010KT 9999 OVC038 QNH3020INS BECMG 2806/2808 36010KT 9999 FEW038 QNH3040INS FM281800 33010G20KT 9999 SKC QNH3041INS AUTOMATED SENSOR METWATCH 2805 TIL 2812 T01/2814Z T12/2823Z FN20070 KNGP 2723/2823 05013KT 9999 BKN035 OVC080 QNH3014INS TEMPO 2723/2803 9999 -RA TEMPO 2803/2809 8000 -RA BR BKN020 OVC035 FM280900 02018G26KT 8000 -RA BR OVC015 611009 611906 510005 QNH3024INS FM281200 02024G32KT 6000 SHRA BR VCTS OVC020CB 641009 641906 510008 QNH3031INS TEMPO 2812/2815 2400 +SHRA BR FM281500 01024G32KT 9999 VCSH FEW020 OVC035 641009 641906 510008 QNH3042INS TEMPO 2815/2818 9000 -SHRA FM282100 36014G20KT 9999 BKN100 OVC200 611009 611906 500000 QNH3041INS AUTOMATED SENSOR METWATCH 2805 TIL 2812 T16/2723Z T10/2812Z T14/2821Z FN20044 KNGU 2723/2823 VRB04KT 9999 SKC QNH3019INS FM280600 VRB06KT 9999 SCT060 BKN120 BKN250 QNH2992INS FM282100 04011KT 9999 FEW009 BKN060 OVC100 QNH2987INS TM02/2805Z T07/2818Z FN20079 KNHK 2723/2823 16006KT 9999 FEW150 SCT280 QNH3026INS BECMG 2801/2802 19006KT 9999 OVC110 651106 QNH3024INS BECMG 2811/2813 24006KT 9999 VCSH OVC065 650609 QNH3012INS TEMPO 2814/2819 9000 -RASN FM281900 02006KT 8000 -SN OVC050 650509 QNH3004INS FM282000 02006KT 3200 -SN OVC035 650309 651205 QNH3001INS FM282100 03009KT 1600 -SN OVC020 650209 651106 QNH2996INS TEMPO 2821/2823 0800 SN OVC010 AUTOMATED SENSOR METWATCH 2804 TIL 2809 TM01/2801Z T03/2818Z FN20066 KNID 2723/2823 12008G16KT 9999 SKC 520009 520906 QNH3017INS WND 090V150 BECMG 2802/2804 34009KT 9999 SKC 500000 QNH3024INS WND 310V010 BECMG 2814/2816 VRB05KT 9999 SKC QNH3034INS LAST NO AMDS AFT 2806 NEXT 2815 TM03/2814Z T18/2823Z KNIP 2723/2823 02014KT 9999 BKN012 BKN025 QNH3015INS FM270100 01010KT 9999 BKN035 BKN070 QNH3012INS FM280600 36008KT 9999 SCT025 BKN060 BKN250 QNH3010INS T10/2810Z T14/2821Z FN20076 KNJK 2723/2823 35009KT 9999 SKC QNH3014INS FM280100 27008KT 9999 FEW250 QNH3014INS FM280900 35009KT 9999 BKN250 QNH3030INS AUTOMATED SENSOR METWATCH 2807 TIL 2814 T23/2723Z T04/2813Z FS30130 KNKT 2721/2821 04010KT 9999 SCT150 QNH3025INS FM272300 VRB05KT 9999 FEW120 QNH3027INS BECMG 2808/2810 VRB05KT 9999 SCT090 BKN130 QNH3014INS FM281800 VRB05KT 9999 OVC080 QNH2999INS TM01/2810Z T09/2817Z KNKX 2721/2821 30007KT 9999 FEW250 QNH3010INS BECMG 2802/2804 08005KT 9999 SKC QNH3016INS T21/2721Z T07/2814Z KNLC 2723/2823 VRB06KT 8000 HZ SKC 532009 532909 QNH3017INS BECMG 2803/2805 6000 BR SKC 532009 532909 QNH3013INS FM281000 VRB06KT 3200 BR SCT020 532009 532909 QNH3015INS TEMPO 2813/2818 0800 FG OVC008 FM281900 VRB06KT 4800 BR SCT009 500000 QNH3016INS T03/2814Z T18/2823Z 2356 FS30067 KNMM 2723/2823 VRB05KT 9999 BKN240 QNH3012INS BECMG 2808/2810 35008KT 9999 BKN100 BKN240 QNH3013INS FM281500 35011KT 9999 SCT015 SCT080 BKN240 QNH3011INS TEMPO 2816/2822 36012G20KT BKN015 OVC060 AUTOMATED SENSOR METWATCH 2805 TIL 2811 T01/2811Z T11/2821Z FN20088 KNPA 2723/2823 VRB05KT 9999 BKN250 QNH3013INS FM280600 VRB04KT 9999 SCT025 SCT150 BKN250 QNH3013INS TEMPO 2807/2811 BKN025 FM281200 35005KT 9999 SCT025 BKN140 OVC250 QNH3014INS FM281800 33011G18KT 9999 FEW025 BKN140 OVC250 QNH3011INS FM282100 33015G24KT 9999 BKN140 BKN250 QNH3008INS AUTOMATED SENSOR METWATCH 2803 TIL 2812 T05/2812Z T13/2820Z FN20034 KNQI 2723/2823 06008KT 9999 BKN030 OVC045 QNH3013INS TEMPO 2723/2803 8000 RA BR OVC025 BECMG 2803/2805 03008KT 8000 -SHRA BR OVC025 QNH3018INS TEMPO 2808/2814 03015G24KT 3200 RA BR SCT006 OVC012 FM281500 01018G25KT 9999 VCSH SCT015 OVC025 510004 QNH3040INS TEMPO 2815/2820 01020G27KT FEW015 SCT030 OVC050 FM282000 36012G18KT 9999 FEW030 SCT060 OVC120 500000 QNH3045INS AUTOMATED SENSOR METWATCH 2806 TIL 2813 T17/2723Z T08/2813Z FN20058 KNQX 2723/2823 34010KT 9999 OVC012 QNH3001INS BECMG 2803/2805 35008KT 9999 SCT012 BKN060 QNH3002INS AUTOMATED SENSOR METWATCH 2803 TIL 2811 T21/2811Z T27/2819Z FN20073 KNRB 2723/2823 02015G20KT 9999 VCSH BKN015 OVC060 QNH3015INS FM280200 02015KT 9999 SCT010 BKN025 OVC060 QNH3015INS FM281200 36010G15KT 9999 VCSH SCT020 BKN060 BKN250 QNH3008INS FM281600 34010G15KT 9999 FEW060 BKN250 QNH2997INS AUTOMATED SENSOR METWATCH 2804 TIL 2810 T11/2711Z T13/2818Z FN20083 KNSE 2723/2823 VRB05KT 9999 SCT250 QNH3013INS FM280900 00000KT 9999 SCT020 BKN200 QNH3010INS TEMPO 2809/2813 8000 BR BKN020 BKN200 FM281500 33010G18KT 9999 FEW025 SCT070 BKN180 QNH3012INS FM281800 34018G28KT 9999 SCT060 BKN150 QNH3009INS AUTOMATED SENSOR METWATCH 2805 TIL 2812 T05/2812Z T11/2820Z FN20029 KNTD 2723/2823 24009KT 9999 FEW150 QNH3011INS FM280100 VRB06KT 9999 SKC QNH3009INS BECMG 2806/2808 03011KT 9999 SKC QNH3012INS FM281400 03018G25KT 9999 SKC 510009 QNH3018INS AUTOMATED SENSOR METWATCH 2807 TIL 2814 T10/2813Z T21/2822Z FS30029 KNTU 2723/2823 VRB04KT 9999 SKC QNH3017NS FM280900 VRB06KT 9999 BKN250 QNH3000INS FM281800 04008KT 9999 BKN150 OVC200 QNH2990INS TM01/2710Z T04/2719Z FN20051 KNUC 2723/2823 35008KT 9999 FEW250 QNH3012INS FM281500 07009KT 9999 SCT250 QNH3016INS TEMPO 2815/2821 07015G20KT LAST NO AMDS AFT 2802 NEXT 2815 T12/2811Z T20/2821Z FS30192 KNUW 2723/2823 13006KT 9999 SCT200 QNH3036INS FM280800 14009KT 9999 FEW010 QNH3032INS TEMPO 2812/2818 VRB06KT 1600 BR BCFG FEW005 BKN015 FM281800 13008KT 9999 FEW025 SCT200 QNH3030INS T07/2723Z T03/2812Z FS30028 KNXP 2721/2821 35007KT 9999 SKC QNH3027INS BECMG 2804/2806 30005KT 9999 SKC QNH3035INS T18/2722Z T04/2815Z KNYG 2721/2821 16009KT 9999 SKC QNH3032INS BECMG 2800/2802 VRB06KT 9999 BKN030 QNH3027INS FM281800 VRB06KT 6000 SN OVC010 QNH3009INS TM02/2800Z T02/2816Z LAST NO AMENDS UNTIL 2809 KNYL 2721/2821 35010KT 9999 SKC QNH3012INS TEMPO 2721/2802 35010G20KT BECMG 2802/2804 VRB06KT 9999 SKC QNH3016INS FM280800 03010KT 9999 FEW250 QNH3024INS TEMPO 2816/2821 02015G25KT T22/2722Z T11/2812Z KNZY 2723/2823 32008KT 9999 FEW250 510009 510901 QNH3006INS FM280400 VRB04KT 9999 SCT250 510009 510901 QNH3015INS FM281500 32006KT 9999 SCT250 510009 510901 QNH3020INS FM282000 33008KT 9999 FEW250 510009 510901 QNH3015INS T09/2813Z T20/2821Z 2304 FS30160 KOAJ 272320Z 2800/2824 02003KT P6SM SCT200 FM282000 03005KT P6SM SCT080 OVC150 LTD TO CLD VIS AND WIND KOAK 272336Z 2800/2906 29006KT P6SM FEW200 FM280300 VRB03KT P6SM FEW200 FM281800 VRB05KT P6SM SCT200 FM282100 29007KT P6SM SKC FM290300 VRB03KT P6SM FEW200 KOFF 010200Z 0102/0208 VRB06KT 9999 SKC QNH3015INS BECMG 0107/0108 VRB06KT 8000 BR SKC QNH3021INS BECMG 0113/0114 33012G18KT 9999 NSW FEW050 QNH3028INS BECMG 0119/0120 VRB06KT 9999 FEW030 QNH3033INS TX07/0120Z TNM05/0110Z KOFK 280031Z 2801/2824 36010G20KT P6SM OVC025 FM280200 36006KT P6SM SCT025 BKN050 FM281100 19006KT P6SM SCT025 BKN060 KOGB 280251Z 2803/2824 VRB03KT P6SM SCT200 FM281500 VRB05KT P6SM BKN150 KOGD 272320Z 2800/2824 35004KT P6SM SKC FM280300 17004KT P6SM SKC FM281800 35005KT P6SM SKC KOKC 272332Z 2800/2824 34008KT P6SM BKN150 FM281700 31012KT P6SM SKC KOLF 272335Z 2800/2824 VRB06KT P6SM SCT090 FM280600 VRB05KT P6SM VCFG SCT080 WS020/27030KT FM280800 25009KT P6SM SCT070 FM280900 26010G18KT P6SM SCT060 WS020/32035KT KOLM 272338Z 2800/2824 00000KT P6SM SKC FM280600 00000KT 1/4SM FG VV001 FM281800 00000KT 2SM BR BKN002 FM282000 00000KT P6SM SKC KOLS 272329Z 2800/2824 03006KT P6SM SKC FM280900 06012G22KT P6SM FEW250 WS020/10045KT FM281500 09015G23KT P6SM FEW250 FM281800 09011KT P6SM FEW250 KOMA 280038Z 2801/2824 35013G19KT P6SM VCSH SCT030 BKN060 FM280130 34010KT P6SM BKN025 FM280330 36008KT P6SM BKN050 FM281600 18004KT P6SM SCT060 KONP 272354Z 2800/2824 09005KT P6SM SKC FM281200 VRB03KT P6SM SCT010 KONT 272323Z 2800/2906 29007KT P6SM FEW250 FM280300 VRB05KT P6SM SKC WS012/03030KT FM280600 04010G18KT P6SM SKC FM281600 06015G25KT P6SM SKC FM290100 04010KT P6SM SKC KOPF 280255Z 2803/2824 VRB04KT P6SM SCT025 BKN050 FM281400 28010KT P6SM SCT025 BKN050 KORD 280122Z 2801/2906 34011G18KT P6SM BKN040 TEMPO 2801/2805 6SM -SHSN BKN030 OVC040 FM281000 35008KT P6SM VCSH BKN030 PROB30 2812/2816 3SM -SN BKN020 FM281700 30007KT P6SM SCT030 KORF 272320Z 2800/2824 VRB03KT P6SM SKC FM281700 01004KT P6SM BKN200 KORH 272329Z 2800/2824 22009KT P6SM SCT250 FM280500 23009KT P6SM OVC090 FM281100 23006KT P6SM BKN060 FM281700 26004KT P6SM OVC035 KOSH 041722Z 0418/0518 VRB04KT P6SM SCT060 FM050200 18005KT P6SM SCT070 FM051200 22005KT P6SM FEW250 KOTH 272320Z 2800/2824 27005KT P6SM SKC FM280300 12003KT P6SM SKC FM280900 14005KT 1SM BR VCFG OVC004 FM281700 VRB03KT P6SM SKC KOTM 272341Z 2800/2824 31010G18KT P6SM BKN040 FM280900 33010KT P6SM OVC250 FM282100 29006KT P6SM FEW250 KOUN 272332Z 2800/2824 33007KT P6SM BKN150 FM281700 31012KT P6SM SKC KOWB 272336Z 2800/2824 28004KT P6SM OVC035 FM280400 30005KT P6SM OVC027 FM281500 33011G18KT 6SM -SN BR OVC015 FM282000 33014G22KT P6SM OVC025 KOXR 272341Z 2800/2824 20006KT P6SM SKC FM280300 VRB03KT P6SM SKC FM280600 08008KT P6SM SKC FM281400 08015G25KT P6SM SKC FM281800 08020G30KT P6SM SKC FM282200 08015G25KT P6SM SKC KOZR 280200Z 2802/2908 05005KT 9999 FEW030 FEW220 QNH3018INS BECMG 2804/2805 05005KT 9999 BKN200 QNH3012INS BECMG 2808/2809 04005KT 9999 SCT045 BKN130 OVC200 QNH3010INS BECMG 2812/2813 04005KT 9999 VCSH SCT025 BKN050 QNH3006INS BECMG 2820/2821 31015G20KT 9999 NSW SCT025 QNH3002INS TX13/2820Z TN03/2812Z KPAE 272338Z 2800/2824 VRB03KT P6SM SKC FM280600 00000KT 1/4SM FG OVC001 FM281700 00000KT P6SM SCT004 FM281900 00000KT P6SM SKC KPAH 272336Z 2800/2824 26003KT P6SM BKN080 FM280300 30005KT P6SM OVC040 FM280800 33008KT P6SM SCT015 OVC035 FM281700 33015G23KT P6SM BKN050 FM282300 34010KT P6SM SKC KPAM 272000Z 2720/2902 03009KT 9999 SKC QNH3010INS BECMG 2806/2807 06009KT 9999 SCT020 BKN150 QNH3006INS BECMG 2813/2814 01012KT 9999 BKN020 BKN150 QNH3004INS BECMG 2818/2819 33015G21KT 9999 FEW030 SCT150 QNH2999INS TX17/2720Z TN09/2812Z KPBF 272320Z 2800/2824 VRB05KT P6SM BKN080 FM281500 35011G18KT P6SM SCT060 BKN080 KPBG 272328Z 2800/2824 18009KT P6SM BKN150 FM280600 18012KT P6SM OVC050 FM281100 25005KT P6SM SCT025 OVC040 FM281600 33009KT P6SM SCT020 KPBI 280255Z 2803/2824 34005KT P6SM FEW010 SCT025 BKN050 FM280500 VRB04KT P6SM SCT015 BKN050 FM281400 27010KT P6SM SCT025 BKN050 KPDK 272342Z 2800/2824 00000KT P6SM SKC FM280900 00000KT P6SM BKN250 FM281500 VRB03KT P6SM BKN090 FM281700 28007KT P6SM BKN060 FM281900 30009G17KT P6SM BKN040 KPDT 272320Z 2800/2824 06004KT P6SM OVC011 FM280200 VRB03KT P6SM OVC008 FM282000 32003KT P6SM OVC012 KPDX 280012Z 2800/2824 11015G23KT P6SM SKC FM280600 10007KT P6SM SKC KPEQ 272340Z 2800/2824 03008KT P6SM SKC FM280400 02013G21KT P6SM OVC060 FM281100 34007KT P6SM SKC KPGA 272339Z 2800/2824 04013G20KT P6SM SKC FM280400 35007KT P6SM SKC KPGD 272350Z 2800/2824 04007KT P6SM BKN030 FM280200 02008KT P6SM BKN015 FM280800 02006KT P6SM SCT007 BKN015 FM281600 33007KT P6SM BKN035 FM282000 30011KT P6SM BKN050 KPGV 272320Z 2800/2824 02003KT P6SM SCT200 FM282000 04005KT P6SM SCT080 OVC150 LTD TO CLD VIS AND WIND KPHF 272320Z 2800/2824 07005KT P6SM SKC FM281500 VRB04KT P6SM BKN120 FM282000 03004KT P6SM OVC090 KPHL 280241Z 2803/2906 20007KT P6SM SCT100 BKN250 FM280400 20005KT P6SM OVC100 FM280700 VRB03KT P6SM OVC070 FM281400 30005KT P6SM VCSH OVC040 FM281800 33005KT P6SM OVC035 FM282200 35005KT 6SM -SN BR OVC030 FM290100 01008KT 2SM -SN BR OVC010 KPHX 272344Z 2800/2906 27007KT P6SM SKC FM280300 06007KT P6SM SKC FM280500 06010KT P6SM SKC WS020/06040KT FM281600 09014G22KT P6SM FEW250 FM290100 09007KT P6SM SCT200 KPIA 272340Z 2800/2824 29005KT P6SM OVC050 FM280200 33008KT P6SM VCSH OVC050 TEMPO 2803/2805 4SM -SN OVC020 FM280600 36008KT P6SM BKN040 FM281400 35007KT P6SM SCT100 KPIB 272320Z 2800/2824 35003KT P6SM FEW150 FM281700 34013G19KT P6SM BKN050 KPIE 272340Z 2800/2824 03010KT P6SM OVC015 FM280900 01005KT P6SM SCT007 OVC015 FM281600 33009KT P6SM OVC025 FM282100 31013KT P6SM OVC020 KPIH 272320Z 2800/2824 VRB03KT P6SM SKC FM280600 VRB03KT P6SM VCFG SCT200 FM281700 VRB03KT P6SM SCT200 KPIR 280141Z 2802/2824 09007KT P6SM BKN070 FM281800 29014KT P6SM SKC KPIT 280055Z 2801/2906 21010KT P6SM OVC040 TEMPO 2801/2802 3SM -SN BKN025 FM280200 22005KT P6SM OVC025 FM280800 23005KT 5SM -SN OVC010 FM281700 34010KT P6SM BKN020 FM290000 21006KT P6SM SCT020 KPKB 280244Z 2803/2824 25006G16KT P6SM BKN035 BKN045 OVC060 FM280500 VRB03KT P6SM VCSH OVC018 FM280600 VRB03KT 4SM -SN OVC012 FM280700 23004KT 2SM -SN OVC008 FM281200 00000KT P6SM VCSH OVC008 FM281500 35004KT P6SM VCSH OVC010 KPLN 280205Z 2802/2824 31008KT P6SM BKN035 FM281500 VRB03KT P6SM BKN040 KPMD 272350Z 2800/2824 06015KT P6SM SKC FM280700 VRB05KT P6SM SKC FM281800 08012KT P6SM SKC KPNA 272320Z 2800/2824 30008KT P6SM SKC KPNC 272332Z 2800/2824 01008KT P6SM BKN150 FM281400 30009KT P6SM FEW200 KPNE 280241Z 2803/2824 20005KT P6SM OVC100 FM280500 VRB03KT P6SM OVC100 FM281400 30005KT P6SM VCSH OVC040 FM281800 33005KT P6SM OVC035 FM282200 01005KT 6SM -SN BR OVC030 KPNS 272324Z 2800/2824 17006KT P6SM SKC FM280300 30004KT P6SM SCT050 BKN250 FM281200 35005KT P6SM SCT050 OVC250 FM281500 34010KT P6SM OVC250 KPOB 280200Z 2802/2908 VRB03KT 9999 SCT180 QNH3000INS BECMG 2816/2817 02005KT 9999 SCT050 BKN120 BKN200 QNH2995INS BECMG 2822/2823 36005KT 9999 SCT025 BKN050 OVC100 620507 QNH2988INS BECMG 2905/2906 34008KT 8000 -RA SCT012 BKN020 OVC050 650208 QNH2978INS TEMPO 2906/2908 33010KT 6000 -RASN BECMG 2907/2908 32010G15KT 4800 -SN BKN012 BKN020 OVC050 650129 QNH2975INS TX10/2820Z TNM05/2812Z LAST NO AMDS AFT 2803 NEXT 2818 KPOE 280000Z 2800/2906 VRB06KT 9999 SCT035 QNH3015INS BECMG 2817/2818 34020G25KT 9999 SKC 510043 QNH3030INS BECMG 2823/2824 34006KT 9999 SKC 510043 QNH3035INS TX15/2820Z TN04/2811Z LAST NO AMDS AFT 2805 NEXT 2808 KPOU 272327Z 2800/2824 17003KT P6SM SKC FM280600 20005KT P6SM BKN070 FM281800 35003KT P6SM VCSH OVC025 PROB30 2818/2822 5SM -SN BR OVC020 FM282200 01007KT P6SM VCSH OVC020 KPQI 280015Z 2800/2824 17010KT P6SM BKN150 FM280500 19006KT P6SM VCSH OVC050 FM280800 19004KT 5SM -SHSN OVC045 FM281600 25007KT P6SM VCSH OVC025 FM281900 31008KT P6SM BKN035 KPRB 272341Z 2800/2824 08012KT P6SM SKC FM280400 VRB03KT P6SM SKC FM281800 09012KT P6SM SKC KPRC 280143Z 2802/2824 34012G16KT P6SM SKC FM280300 36007KT P6SM SKC WS020/05040KT FM281100 34006KT P6SM SKC FM281700 04007KT P6SM SKC KPSC 272320Z 2800/2824 VRB04KT P6SM OVC015 FM282100 35003KT P6SM OVC021 KPSF 272327Z 2800/2824 16004KT P6SM SKC FM280900 21004KT P6SM OVC060 FM281700 30006KT P6SM VCSH BKN035 FM282100 32005KT P6SM VCSH OVC025 KPSM 272320Z 2800/2824 20004KT P6SM SCT200 FM281500 27005KT P6SM OVC100 KPSP 272323Z 2800/2824 32006KT P6SM SKC FM280300 30009KT P6SM SKC FM281300 VRB05KT P6SM SKC KPTK 280201Z 2802/2824 25010G20KT 6SM -SHSN OVC025 TEMPO 2802/2804 1 1/2SM -SHSN OVC010 FM280400 35012G18KT P6SM SCT028 BKN060 FM280600 36006KT P6SM SCT020 TEMPO 2813/2816 BKN022 FM281600 01008KT P6SM BKN025 KPUB 272338Z 2800/2824 07008KT P6SM VCSH FEW025 OVC060 FM280300 27005KT P6SM BKN050 FM281000 27006KT P6SM SKC FM282100 35007KT P6SM SKC KPUW 272324Z 2800/2824 22004KT P6SM FEW200 FM280200 10008KT P6SM SKC FM280700 12011KT P6SM SKC FM282100 12007KT P6SM SKC KPVD 272329Z 2800/2824 22005KT P6SM FEW030 FEW250 FM280500 22006KT P6SM OVC100 FM281100 24005KT P6SM OVC070 FM281400 25005KT P6SM OVC050 FM281800 26004KT P6SM OVC030 FM282200 36004KT P6SM OVC035 KPVU 272320Z 2800/2824 VRB05KT P6SM SKC KPVW 272320Z 2800/2824 03011KT P6SM SKC FM281200 30011KT P6SM SCT250 KPWM 272320Z 2800/2824 22004KT P6SM FEW025 SCT250 FM281200 27005KT P6SM OVC100 KPWT 272338Z 2800/2824 VRB03KT P6SM SKC FM280600 00000KT 1/4SM FG OVC001 FM281800 00000KT P6SM SCT004 FM282000 00000KT P6SM SKC KQD3 271930Z 2720/2902 VRB06KT 9999 FEW020 QNH2996INS BECMG 2808/2809 05012G18KT 9999 SCT030 QNH2987INS BECMG 2813/2814 08009KT 9999 SKC QNH2988INS BECMG 2817/2818 VRB06KT 9999 FEW020 QNH2999INS TX30/2812Z TN22/2803Z KQDB 2403/2503 19010KT 9999 BKN200 QNH2976INS BECMG 2415/2417 18005KT 9999 SCT180 BKN230 QNH2969INS T19/2412Z T30/2421Z KQN3 280100Z 2801/2907 VRB06KT 2400 HZ SKC QNH2993INS BECMG 2807/2808 06012G20KT 6000 HZ SKC QNH2988INS TEMPO 2808/2817 3200 HZ BECMG 2816/2817 VRB06KT 8000 HZ SKC QNH2990INS TX30/2815Z TN18/2806Z KQNR 100800Z 1008/1114 35002KT 9999 SCT020 QNH2997INS BECMG 1017/1018 12006KT 9999 SCT030 QNH2996INS TEMPO 1018/1022 VRB10G15KT VCTS BKN030CB BECMG 1101/1102 06002KT 9999 SCT040 QNH2998INS TEMPO 1104/1108 BKN015 TX30/1017Z TN22/1009Z KQNS 100800Z 1008/1114 03002KT 9999 FEW015 QNH2995INS BECMG 1015/1016 14005KT 9999 SCT020 QNH2992INS TEMPO 1017/1021 VRB10G15KT VCTS BKN020CB BECMG 1106/1107 11003KT 9999 FEW015 QNH2998INS TX30/1017Z TN24/1010Z KQNT 100800Z 1008/1114 10002KT 9999 FEW050 QNH3000INS BECMG 1018/1019 20004KT 9999 VCTS BKN060CB QNH2998INS TEMPO 1019/1024 VRB10G15KT 9000 -TSRA BKN040CB BECMG 1101/1102 09001KT 9999 NSW FEW040 QNH3004INS TX32/1017Z TN22/1010Z KQRH 271900Z 2719/2901 VRB06KT 9999 SKC QNH2988INS BECMG 2811/2812 09010G15KT 9999 SKC QNH2985INS BECMG 2817/2818 VRB06KT 9999 SCT025 BKN035 QNH2994INS TX29/2812Z TN20/2802Z KQVF 272000Z 2720/2902 11009KT 9999 FEW030 QNH2981INS BECMG 2806/2807 12012G18KT 9999 SCT020 BKN030 QNH2984INS BECMG 2815/2816 VRB06KT 9999 FEW030 SCT140 QNH2982INS TX31/2810Z TN24/2802Z KRAP 272336Z 2800/2824 02010KT P6SM BKN050 TEMPO 2800/2801 3SM -SHSN BKN025 FM280300 VRB05KT P6SM SCT250 FM281400 28010G20KT P6SM FEW250 WS020/31035KT KRBG 272320Z 2800/2824 VRB02KT P6SM SKC FM280800 00000KT 1SM BR OVC003 FM280900 00000KT 1/4SM FG VV002 FM282000 VRB02KT P6SM SKC KRBL 272335Z 2800/2824 36010KT P6SM SKC FM282000 33007KT P6SM SKC KRCA 272300Z 2723/2901 36009KT 9999 BKN025 OVC030 620256 QNH3028INS TEMPO 2723/2724 3200 -SHSN BECMG 2801/2802 VRB06KT 9999 BKN100 QNH3018INS BECMG 2817/2818 32012G18KT 9999 SCT100 QNH3013INS TX06/2803Z TNM04/2813Z KRDD 272335Z 2800/2824 02010KT P6SM SKC FM282000 VRB04KT P6SM SKC KRDG 280239Z 2803/2824 19005KT P6SM SCT100 BKN200 FM280400 VRB02KT P6SM OVC100 FM281100 00000KT P6SM OVC040 FM281300 VRB03KT P6SM VCSH OVC030 FM281800 34005KT 3SM -SN BR OVC025 KRDM 272320Z 2800/2824 31006KT P6SM OVC004 TEMPO 2800/2802 VRB03KT 3SM BR OVC005 FM280600 16003KT 6SM BR OVC004 FM282000 35005KT P6SM SCT250 KRDR 280200Z 2802/2908 VRB06KT 9999 FEW150 QNH3032INS BECMG 2810/2811 VRB06KT 9999 SCT010 BKN015 620157 QNH3029INS BECMG 2814/2815 VRB06KT 9999 BKN010 OVC015 620106 QNH3022INS BECMG 2820/2821 17009KT 9999 BKN005 OVC010 620054 QNH2985INS TXM09/2820Z TNM22/2802Z KRDU 272320Z 2800/2824 00000KT P6SM FEW250 FM281800 04003KT P6SM OVC100 KRFD 280101Z 2801/2824 35011G18KT P6SM BKN040 TEMPO 2801/2803 6SM -SHSN BKN025 OVC040 FM280800 35009KT P6SM FEW035 SCT200 FM282000 31007KT P6SM FEW030 KRHI 280146Z 2802/2824 32004KT P6SM SCT022 FM281200 26003KT P6SM SCT250 FM281800 25005KT P6SM SCT100 KRIC 272320Z 2800/2824 18004KT P6SM FEW200 FM280800 VRB03KT P6SM BKN100 FM281900 03005KT P6SM OVC070 KRIL 272322Z 2800/2824 31014KT P6SM SCT060 FM280200 27005KT P6SM FEW060 FM280800 VRB03KT P6SM SKC FM281800 26005KT P6SM SKC KRIV 272003Z 2720/2902 05009KT 9999 SKC 520009 QNH3012INS WND 010V090 TEMPO 2722/2802 05012G20KT BECMG 2803/2804 06006KT 9999 FEW250 520309 QNH3019INS BECMG 2808/2809 06010G15KT 9999 BKN250 520009 QNH3026INS WND 020V100 TEMPO 2809/2815 06015G25KT BECMG 2814/2815 07012G20KT 9999 SCT250 530005 520507 QNH3020INS WND 030V110 TEMPO 2815/2824 07015G30KT TX21/2722Z TN04/2814Z KRIW 272320Z 2800/2824 16006KT P6SM SKC FM280900 VRB05KT P6SM SKC FM282000 33008KT P6SM SKC KRKD 280049Z 2801/2824 22009KT P6SM SCT035 FM281400 27006KT P6SM OVC050 KRKS 272320Z 2800/2824 26010KT P6SM SCT035 FM280800 25015KT P6SM FEW080 KRME 272333Z 2800/2824 VRB04KT P6SM BKN060 OVC100 FM280300 19005KT P6SM OVC035 FM280900 25008G12KT 3SM -SN OVC020 TEMPO 2809/2813 2SM -SN OVC016 FM281500 30006G11KT P6SM BKN022 KRND 271635Z 2717/2823 VRB06KT 9999 BKN040 BKN230 QNH3015INS BECMG 2804/2805 05012KT 9999 BKN027 OVC040 QNH3021INS BECMG 2805/2806 04010G15KT 9999 OVC020 QNH3025INS BECMG 2808/2809 02010G15KT 9000 DZ OVC006 QNH3029INS BECMG 2811/2812 01020G25KT 9000 DZ BKN014 OVC021 QNH3039INS BECMG 2814/2815 01022G30KT 9999 NSW FEW065 BKN095 520014 QNH3049INS BECMG 2820/2821 36015G25KT 9999 SKC QNH3045INS TX16/2721Z TN04/2814Z LAST NO AMDS AFT 2801 NEXT 2811 KRNH 272328Z 2800/2824 33009KT P6SM SKC FM280600 32006KT P6SM FEW250 FM281200 VRB03KT P6SM BKN150 FM281500 24005KT P6SM BKN120 KRNO 272320Z 2800/2824 11007KT P6SM SKC FM280300 VRB03KT P6SM SKC FM282100 09005KT P6SM SKC KROA 272333Z 2800/2824 12004KT P6SM BKN120 FM280300 VRB03KT P6SM OVC090 FM281600 25004KT P6SM OVC050 FM282000 30005KT P6SM OVC035 FM282200 33005KT 5SM -SN OVC022 KROC 272325Z 2800/2824 23012KT P6SM -SHSN OVC035 FM280200 24013G21KT P6SM VCSH OVC020 FM280800 29010KT 2SM -SN OVC025 FM281200 33011KT 2SM -SN OVC012 FM281800 36009KT P6SM -SHSN OVC025 KROG 272320Z 2800/2824 33005KT P6SM OVC030 FM280300 VRB03KT P6SM BKN250 FM281500 32010KT P6SM BKN250 KROW 272323Z 2800/2824 02011KT P6SM SKC FM280400 01013KT P6SM SCT040 BKN110 FM280600 36009KT P6SM SCT040 FM281200 VRB04KT P6SM SKC KRSL 272334Z 2800/2824 33014KT P6SM BKN060 FM280100 32008KT P6SM BKN060 FM281700 28015G23KT P6SM SKC KRST 272329Z 2800/2824 34010KT P6SM SCT035 FM281000 29006KT P6SM SCT200 FM281500 26007KT P6SM SCT100 KRSW 272350Z 2800/2824 36006KT P6SM BKN030 FM280300 03005KT P6SM BKN015 FM280900 02004KT P6SM SCT007 BKN015 FM281600 32007KT P6SM BKN035 FM282000 29010KT P6SM BKN050 KRUT 272328Z 2800/2824 VRB03KT P6SM OVC150 WS020/23035KT FM280200 18007KT P6SM OVC070 WS020/23035KT FM280800 21006KT P6SM OVC045 FM281200 24005KT P6SM OVC028 FM281600 28006KT P6SM OVC025 FM282100 33007KT P6SM SCT020 BKN035 KRVS 272320Z 2800/2824 VRB03KT P6SM BKN250 FM281500 34006KT P6SM BKN250 KRWF 272328Z 2800/2824 33015G23KT P6SM FEW040 FM280100 32011KT P6SM FEW250 FM280800 26004KT P6SM BKN150 FM281500 20005KT P6SM BKN080 KRWI 272320Z 2800/2824 00000KT P6SM FEW250 FM282100 05003KT P6SM OVC100 KRWL 272320Z 2800/2824 26009KT P6SM SKC FM280300 25015KT P6SM SKC FM281900 23013G20KT P6SM SKC KRYY 272342Z 2800/2824 11003KT P6SM SKC FM280300 VRB03KT P6SM BKN250 FM281500 27004KT P6SM BKN090 FM281900 31011KT P6SM BKN040 FM282200 32012G20KT P6SM BKN035 KSAC 272335Z 2800/2824 VRB03KT P6SM SKC TEMPO 2807/2811 5SM BR FM281100 00000KT 4SM BR BKN003 FM281800 33004KT P6SM SCT250 KSAF 272354Z 2800/2824 11014G22KT P6SM VCSH BKN040 TEMPO 2802/2805 4SM -SN BKN025 FM280700 03009KT P6SM SCT040 FM281400 36011KT P6SM SKC KSAN 272323Z 2800/2906 31008KT P6SM SCT250 FM280200 07003KT P6SM FEW250 FM282100 31009KT P6SM SKC WS020/09015KT FM290200 VRB04KT P6SM SKC KSAT 272325Z 2800/2906 12005KT P6SM OVC040 FM280700 03009KT P6SM VCSH OVC025 FM281200 02013KT P6SM BKN035 OVC150 FM281500 01015G25KT P6SM SCT250 FM290000 01005KT P6SM SKC KSAV 272324Z 2800/2824 02003KT P6SM SCT250 FM281700 33005KT P6SM SCT100 OVC250 KSAW 280147Z 2802/2824 32006KT P6SM -SHSN OVC035 FM280300 33009KT P6SM -SHSN BKN021 FM280700 32006KT P6SM BKN019 FM281000 29005KT P6SM BKN070 KSBA 272341Z 2800/2824 22006KT P6SM SKC FM280300 VRB03KT P6SM SKC FM281900 22006KT P6SM SKC KSBD 272323Z 2800/2824 VRB05KT P6SM SKC FM281800 35010G20KT P6SM SKC KSBM 272322Z 2800/2824 35011G19KT P6SM VCSH BKN035 FM280100 35011G20KT P6SM VCSH BKN070 FM280200 36012G21KT P6SM SCT100 FM280600 35010KT P6SM FEW200 FM282300 27005KT P6SM SCT200 KSBN 280251Z 2803/2824 35009KT P6SM BKN025 FM280700 02007KT P6SM BKN050 KSBP 272341Z 2800/2824 33008KT P6SM SKC FM280200 VRB03KT P6SM SKC FM282200 30006KT P6SM SKC KSBY 272320Z 2800/2824 19003KT P6SM FEW200 FM280600 VRB03KT P6SM BKN100 FM281900 01006KT P6SM OVC070 KSCK 272335Z 2800/2824 33003KT P6SM SKC FM280600 VRB03KT 5SM BR SKC FM281100 00000KT 2SM BR BKN004 TEMPO 2815/2817 1/2SM FG OVC002 FM281900 VRB03KT P6SM SCT250 KSDF 280153Z 2802/2906 23005KT P6SM -SN OVC028 FM280400 27006KT 6SM -SN SCT018 OVC022 TEMPO 2805/2809 4SM -SN BKN018 OVC022 FM281000 30006KT P6SM VCSH OVC014 FM281300 32010KT 6SM -SHSN OVC015 FM281700 33012G20KT P6SM OVC022 FM290000 35010KT P6SM FEW035 KSDL 272344Z 2800/2824 25005KT P6SM SKC FM280200 04005KT P6SM SKC FM280400 04011G18KT P6SM SKC WS020/05040KT FM281700 09012G20KT P6SM FEW250 KSDY 272335Z 2800/2824 VRB05KT P6SM SCT035 FM280800 21009KT P6SM VCFG SCT090 FM281000 24009KT P6SM FEW050 FM281300 27009KT P6SM FEW200 KSEA 280258Z 2803/2906 VRB03KT P6SM SKC TEMPO 2806/2809 3SM BR BKN003 FM280900 00000KT 1/4SM FG VV001 FM281800 00000KT P6SM SCT004 FM282000 00000KT P6SM SKC FM290500 00000KT 1SM BR BKN002 KSEZ 272339Z 2800/2824 06015G22KT P6SM SKC FM280300 06025G35KT P6SM SKC WS020/05055KT FM281100 06014G22KT P6SM SKC KSFB 280159Z 2802/2824 36010KT P6SM OVC011 FM280300 36007KT P6SM BKN025 FM281400 33009KT P6SM BKN030 FM281800 32009KT P6SM BKN040 BKN170 FM282300 29009KT P6SM SCT035 BKN120 KSFF 272324Z 2800/2824 00000KT P6SM FEW200 FM281000 00000KT P6SM VCFG FEW002 SCT250 FM281600 05002KT P6SM FEW250 KSFO 272336Z 2800/2906 34005KT P6SM FEW200 FM280400 VRB03KT P6SM FEW200 FM281400 04005KT P6SM SCT200 FM282300 34005KT P6SM SKC FM290400 VRB04KT P6SM FEW200 KSGF 272320Z 2800/2824 33009KT P6SM SCT060 SCT200 FM281000 33010KT P6SM BKN060 FM281700 33012G20KT P6SM SCT080 KSGJ 272343Z 2800/2824 01014KT P6SM VCSH SCT008 BKN012 OVC020 FM280400 36011KT P6SM SCT020 BKN050 BKN250 FM281200 34008KT P6SM SCT015 BKN060 OVC250 FM281700 33011KT P6SM OVC015 KSGR 272337Z 2800/2824 03005KT P6SM SCT060 FM280200 VRB04KT P6SM BKN060 BKN250 FM281000 36007KT P6SM VCSH OVC060 FM281400 36015G20KT P6SM BKN100 FM281700 36015G20KT P6SM SKC KSGU 272320Z 2800/2824 03015G30KT P6SM SKC FM280300 05010G16KT P6SM SKC FM280500 VRB05KT P6SM SKC KSHP 2811/2905 08006KT 7 OVC015 QNH29.91INS FM 1300Z 12006KT 7 OVC015 QNH29.92INS FM 1500Z 14006KT 7 OVC030 QNH29.94INS FM 1700Z 13006KT 7 BKN050 QNH29.94INS FM 1900Z 08006KT 7 BKN050 QNH29.93INS FM 2100Z 08006KT 7 OVC050 QNH29.90INS LGT RIME 170/250 TEMPO 3/-TSRA FM 2300Z 08012KT 7 OVC050 QNH29.86INS LGT RIME 170/250 TEMPO 3/-TSRA FM 0100Z 10008KT 7 OVC050 QNH29.90INS LGT RIME 170/250 TEMPO 3/-TSRA KSHR 272320Z 2800/2824 31011KT P6SM SCT080 FM280100 VRB06KT P6SM SCT120 SCT200 KSHV 272320Z 2800/2824 35004KT P6SM BKN060 BKN250 TEMPO 2804/2808 BKN045 FM280800 34005KT P6SM BKN045 FM281400 34012G18KT P6SM SCT140 FM281600 35014G24KT P6SM SKC KSJC 272336Z 2800/2824 31005KT P6SM FEW200 FM280300 VRB03KT P6SM FEW200 FM282200 31006KT P6SM SCT200 KSJS 272339Z 2800/2824 00000KT P6SM SCT050 BKN080 FM280900 00000KT P6SM -SN SCT015 OVC025 FM281300 00000KT P6SM -SN SCT007 OVC015 FM282100 VRB05KT 2SM -SN OVC010 KSJT 272337Z 2800/2824 VRB05KT P6SM SCT070 FM280200 01013KT P6SM SCT250 FM280900 35008KT P6SM SKC KSKA 271900Z 2719/2901 05005KT 9999 FEW025 SCT250 QNH3055INS BECMG 2805/2806 08006KT 9999 VCFG FEW002 FEW250 QNH3051INS BECMG 2811/2812 08008KT 0800 FZFG VV002 620001 QNH3046INS BECMG 2817/2818 06009KT 9999 NSW FEW004 FEW200 QNH3037INS TX02/2723Z TNM06/2811Z KSKF 280200Z 2802/2908 12006KT 9999 BKN035 BKN160 QNH3020INS WND 05005KT AFT 2804 BECMG 2807/2808 03012G20KT 9999 VCSH OVC035 620754 520036 QNH3024INS TEMPO 2810/2814 02015G28KT BECMG 2814/2815 01015G25KT 9999 SCT070 510005 QNH3042INS BECMG 2820/2821 36010KT 9999 SKC QNH3040INS TX16/2822Z TN05/2814Z KSLC 272320Z 2800/2906 29011KT P6SM SKC FM280300 13003KT P6SM SKC FM281900 32004KT P6SM SKC FM290300 13003KT P6SM SKC KSLE 272354Z 2800/2824 36009KT P6SM SKC FM280300 VRB03KT P6SM SKC FM281300 00000KT 5SM BR FEW001 FM281600 00000KT P6SM SKC KSLI 272100Z 2721/2903 VRB06KT 9999 SKC QNH3012INS BECMG 2807/2808 VRB06KT 9999 SKC QNH3021INS BECMG 2810/2811 VRB06KT 9999 FEW290 QNH3024INS BECMG 2813/2814 VRB06KT 9999 FEW240 QNH3025INS BECMG 2821/2822 VRB06KT 9999 SKC QNH3017INS TX21/2723Z TN08/2816Z KSLK 272328Z 2800/2824 21012G18KT P6SM BKN050 OVC070 FM280400 21012KT P6SM VCSH OVC028 WS020/24040KT FM280600 23008KT 2SM -SHSN BR SCT008 OVC018 WS020/24035KT FM281100 29009KT P6SM VCSH OVC015 FM281400 32008KT P6SM SCT020 BKN035 KSLN 272334Z 2800/2824 34014KT P6SM BKN070 FM280100 32007KT P6SM BKN070 FM281700 29014G20KT P6SM SKC KSME 272339Z 2800/2824 00000KT P6SM SCT045 BKN080 FM280900 00000KT P6SM SCT025 OVC040 FM281100 00000KT P6SM SCT015 OVC025 FM281200 00000KT P6SM -SN SCT007 OVC015 FM281500 VRB03KT P6SM -SN OVC007 FM281700 VRB05KT P6SM -SN OVC015 KSMF 272335Z 2800/2824 33004KT P6SM SKC FM281200 VRB03KT 4SM BCFG BKN004 FM281800 34003KT P6SM SCT250 KSMN 272330Z 2800/2824 00000KT P6SM SKC FM281000 00000KT 5SM BR SCT010 FM281500 00000KT P6SM SKC KSMO 272341Z 2800/2824 24005KT P6SM SKC FM280200 VRB03KT P6SM SKC FM281300 05008KT P6SM SKC FM282100 22008KT P6SM SKC KSMX 272341Z 2800/2824 21006KT P6SM SKC FM280300 VRB03KT P6SM SKC FM281200 14008KT P6SM SKC FM281700 VRB03KT P6SM SKC FM282100 32008KT P6SM SKC KSNA 272323Z 2800/2824 22007KT P6SM SKC FM280200 VRB04KT P6SM SKC FM280500 VRB03KT P6SM SKC WS010/03025KT FM281400 04012G22KT P6SM SKC FM281900 07006KT P6SM SKC KSNS 272336Z 2800/2824 33009KT P6SM SKC FM280200 VRB04KT P6SM FEW200 FM280800 13008KT P6SM FEW200 FM281400 13013KT P6SM SCT200 FM282300 VRB04KT P6SM SCT200 KSNY 280159Z 2802/2824 30008KT P6SM FEW100 FM280600 29010KT P6SM SCT080 FM281500 28018G28KT P6SM SKC FM282300 29013KT P6SM SKC KSOA 272337Z 2800/2824 VRB03KT P6SM BKN050 FM280200 01011KT P6SM BKN025 FM280900 02014KT P6SM BKN050 FM281400 01010KT P6SM SCT250 KSPI 272340Z 2800/2824 31006KT P6SM OVC035 FM280400 32008KT P6SM VCSH OVC029 TEMPO 2804/2806 4SM -SN OVC020 FM281200 34008KT P6SM VCSH BKN035 FM281800 34012KT P6SM SCT200 KSPS 272332Z 2800/2824 34008KT P6SM BKN200 KSRQ 272340Z 2800/2824 04010KT P6SM BKN035 FM280100 03008KT P6SM OVC015 FM280700 01005KT P6SM SCT007 OVC015 FM281400 35007KT P6SM OVC025 FM282100 32010KT P6SM OVC025 KSSC 280000Z 2800/2906 VRB06KT 9999 FEW200 QNH2982INS BECMG 2812/2813 VRB06KT 9999 SCT120 BKN200 QNH3004INS BECMG 2902/2903 32009KT 8000 -RA BKN080 QNH3015INS BECMG 2905/2906 33012G20KT 8000 -SN OVC020 650209 QNH3016INS TX10/2820Z TNM03/2811Z KSSF 272325Z 2800/2824 11005KT P6SM OVC040 FM280700 04009KT P6SM VCSH OVC025 FM281100 02014KT P6SM BKN035 OVC150 FM281500 02014G24KT P6SM SCT250 KSSI 272343Z 2800/2824 04009KT P6SM SCT250 FM281200 36008KT P6SM SCT025 BKN050 OVC250 FM282100 31006KT P6SM SCT025 OVC080 KSTC 272328Z 2800/2824 34012KT P6SM SKC FM280100 31006KT P6SM FEW250 FM281100 28004KT P6SM BKN150 FM281600 21005KT P6SM BKN080 KSTJ 272326Z 2800/2824 34007KT P6SM BKN120 TEMPO 2804/2806 3SM -SN BKN050 FM281800 VRB04KT P6SM SCT090 KSTL 272334Z 2800/2906 28007KT P6SM BKN040 FM280100 31007KT P6SM OVC040 FM281500 33011G18KT P6SM BKN060 FM282300 33009KT P6SM FEW250 KSTS 272336Z 2800/2824 VRB04KT P6SM SKC FM280700 VRB03KT 6SM BR SCT001 FM281600 VRB03KT P6SM SKC KSUA 272338Z 2800/2824 36007KT P6SM SCT030 FM280900 30003KT P6SM SCT020 BKN030 FM281500 29008KT P6SM SCT030 BKN040 FM281800 29011G18KT P6SM SCT030 BKN060 NOT SKED KSUN 272320Z 2800/2906 13005KT P6SM SKC FM280300 31010KT P6SM SKC FM281900 13005KT P6SM SCT200 FM290300 32010KT P6SM SCT200 LTD TO CLD VIS AND WIND 2806/2814 KSUS 272334Z 2800/2824 28007KT P6SM BKN040 FM280100 31007KT P6SM OVC040 FM281500 32010G17KT P6SM BKN050 FM282300 33006KT P6SM SCT250 KSUU 280255Z 2803/2909 VRB06KT 9999 SKC QNH3024INS BECMG 2805/2806 VRB06KT 9000 BR SKC QNH3026INS BECMG 2808/2809 VRB06KT 8000 BR SKC QNH3027INS TEMPO 2810/2816 3200 BR BECMG 2818/2819 03007KT 9999 NSW FEW200 QNH3023INS TX18/2823Z TN02/2813Z KSUX 272320Z 2800/2824 36013KT P6SM VCSH BKN040 FM280100 36010KT P6SM FEW060 FM280700 VRB03KT P6SM SKC FM281700 18008KT P6SM FEW120 KSVN 272100Z 2721/2903 03012KT 9999 SKC QNH2995INS TX14/2820Z TN03/2813Z KSWF 280228Z 2802/2906 23003KT P6SM SCT040 BKN100 FM280900 VRB03KT P6SM SCT030 OVC060 PROB30 2812/2814 3SM -SN OVC030 FM281400 28004KT 6SM BR BKN040 PROB30 2814/2816 4SM -SN OVC030 FM281800 01005KT P6SM OVC040 FM290400 01008KT P6SM OVC040 PROB30 2904/2906 4SM -SN OVC030 NOT SKED KSWO 272332Z 2800/2824 36008KT P6SM BKN150 FM281400 30009KT P6SM FEW200 KSYM 272339Z 2800/2824 VRB03KT P6SM SCT035 OVC040 FM280400 VRB03KT P6SM -SN SCT025 OVC035 FM280530 VRB03KT P6SM -SN SCT010 OVC025 FM280700 00000KT P6SM -SN SCT007 OVC015 FM282200 34008KT P6SM OVC015 KSYR 272333Z 2800/2824 19009KT P6SM BKN060 OVC080 FM280600 21009KT P6SM -SN OVC040 FM280900 26007KT 5SM -SHSN BKN026 OVC035 TEMPO 2809/2813 2SM -SN OVC018 FM281500 33009G16KT P6SM SCT025 OVC035 KSZL 271900Z 2719/2901 30009KT 9999 FEW030 SCT130 QNH3021INS BECMG 2721/2722 32009KT 9999 SCT030 BKN130 QNH3023INS BECMG 2802/2803 33006KT 9999 BKN025 620253 QNH3030INS TEMPO 2809/2812 6000 -SN OVC020 650204 BECMG 2815/2816 24010G15KT 9999 FEW140 521704 QNH3035INS TX06/2721Z TNM06/2814Z KTCC 272323Z 2800/2824 06012G20KT P6SM SCT050 SCT200 FM280200 03009KT P6SM BKN040 FM281000 VRB06KT P6SM SKC FM281900 26009KT P6SM SKC KTCL 272340Z 2800/2824 00000KT P6SM FEW250 FM281500 33010KT P6SM BKN090 FM281800 33011G19KT P6SM OVC060 PROB30 2818/2824 -SHSN OVC050 KTCM 272110Z 2721/2903 16006KT 9999 FEW200 QNH3034INS BECMG 2806/2807 18006KT 4800 BR OVC002 QNH3034INS BECMG 2811/2812 15006KT 1600 BR OVC001 QNH3031INS BECMG 2817/2818 19006KT 9999 NSW SCT200 QNH3027INS TX04/2723Z TNM01/2813Z KTCS 272323Z 2800/2824 VRB05KT P6SM SKC FM280300 01015G25KT P6SM FEW100 WS020/02045KT FM281400 03010KT P6SM SKC KTEB 280228Z 2802/2906 23003KT P6SM BKN100 FM281500 27005KT P6SM OVC035 PROB30 2815/2818 3SM -SN OVC020 FM281800 31006KT P6SM BKN025 PROB30 2818/2821 3SM -SN OVC015 FM282100 36007KT P6SM BKN020 PROB30 2821/2824 5SM -SN OVC020 FM290000 01005KT P6SM OVC040 FM290400 01006KT 6SM BR OVC020 PROB30 2905/2906 2SM -SN OVC015 KTEX 280002Z 2800/2824 VRB04KT P6SM SCT035 OVC050 FM280100 VRB04KT P6SM SCT030 BKN100 FM280600 VRB04KT P6SM SKC KTIK 280200Z 2802/2908 35012G18KT 9999 FEW100 QNH3030INS BECMG 2821/2822 VRB06KT 9999 SKC QNH3038INS TX10/2821Z TNM02/2812Z KTIX 280201Z 2802/2824 01012G17KT 6SM BR VCSH OVC005 TEMPO 2802/2805 4SM -RA BR BKN007 OVC022 FM280600 01008G15KT P6SM VCSH SCT012 BKN025 FM281500 34009KT P6SM SCT020 BKN030 NOT SKED TIL 281200 KTLH 272334Z 2800/2824 06003KT P6SM FEW200 FM281100 03003KT P6SM BKN050 FM281700 31008KT P6SM BKN040 KTMB 280255Z 2803/2824 VRB03KT P6SM FEW015 SCT025 TEMPO 2803/2805 FEW015 BKN025 FM280800 VRB03KT 6SM BR SCT010 BKN035 FM281400 27010KT P6SM SCT025 BKN050 KTOI 272340Z 2800/2824 09003KT P6SM FEW250 FM281500 31007KT P6SM BKN100 FM281800 31011G21KT P6SM OVC100 KTOL 272340Z 2800/2824 23009KT P6SM VCSH OVC025 FM280500 33008KT P6SM OVC015 FM280600 36008KT P6SM BKN030 FM281400 01009KT P6SM SCT050 FM281700 01008KT P6SM BKN025 KTOP 272325Z 2800/2824 35006KT P6SM SCT060 BKN080 KTPA 280259Z 2803/2906 04007KT P6SM OVC012 FM280900 36005KT P6SM SCT007 OVC015 FM281600 33009KT P6SM OVC025 FM282100 30013KT P6SM OVC020 KTPH 272325Z 2800/2824 30010G17KT P6SM SKC FM280200 36010KT P6SM SKC FM281800 VRB06KT P6SM SKC KTRI 272341Z 2800/2824 00000KT P6SM SCT150 FM281700 VRB03KT P6SM OVC050 PROB30 2818/2820 4SM -RA BR OVC025 FM282000 30006KT P6SM -RA OVC025 FM282100 32006KT 6SM -RA BR OVC015 FM282200 33007KT 6SM -SN BR OVC016 KTRK 272320Z 2800/2824 05005KT P6SM SKC FM280200 VRB03KT P6SM SKC KTRM 272323Z 2800/2824 31006KT P6SM SKC FM280300 29011KT P6SM SKC FM280900 VRB05KT P6SM SKC KTTD 272354Z 2800/2824 09020G35KT P6SM SKC FM281200 09015G30KT P6SM SKC FM281500 09013G25KT P6SM SKC KTTN 280240Z 2803/2824 VRB03KT P6SM BKN100 FM281300 VRB03KT P6SM VCSH OVC050 FM281800 34005KT P6SM OVC030 KTUL 272320Z 2800/2824 VRB03KT P6SM FEW040 BKN250 FM281500 33008KT P6SM BKN250 KTUP 272330Z 2800/2824 02004KT P6SM SCT100 FM281400 35010KT P6SM BKN035 FM281800 34014KT P6SM BKN060 KTUS 272329Z 2800/2824 30007KT P6SM FEW250 FM280600 13009KT P6SM FEW250 FM281100 11015G23KT P6SM FEW250 WS020/11045KT FM281600 11019G27KT P6SM FEW250 FM282200 11013KT P6SM FEW250 KTVC 272320Z 2800/2824 35012G21KT 6SM -SHSN SCT025 OVC035 TEMPO 2800/2804 3SM -SHSN BKN025 FM280400 01009KT 3SM -SHSN OVC025 FM281800 VRB03KT P6SM VCSH OVC035 KTVF 272339Z 2800/2824 31010KT P6SM SKC FM280100 VRB06KT P6SM SCT250 FM281400 23007KT P6SM BKN035 FM281800 27006KT P6SM SCT040 KTVL 272320Z 2800/2824 04007KT P6SM SKC FM280100 VRB04KT P6SM SKC KTWF 272327Z 2800/2824 07005KT P6SM OVC007 FM280400 VRB03KT 1/2SM FZFG BKN002 FM281800 12007KT P6SM BKN015 KTXK 272320Z 2800/2824 35004KT P6SM BKN060 BKN250 TEMPO 2804/2808 BKN045 FM280800 34005KT P6SM BKN045 FM281000 34007KT P6SM SCT140 FM281600 35012G20KT P6SM SKC KTYR 272320Z 2800/2824 35004KT P6SM SCT060 BKN250 TEMPO 2802/2806 BKN050 FM280600 35004KT P6SM BKN050 FM281000 35006KT P6SM SCT140 FM281600 35013G23KT P6SM SKC KTYS 272341Z 2800/2824 00000KT P6SM BKN250 FM281100 00000KT P6SM OVC100 TEMPO 2817/2819 SCT025 OVC045 FM281900 33007KT P6SM OVC027 PROB30 2819/2823 5SM -RASN BR OVC015 FM282300 35010KT 4SM -SHSN OVC015 KUAO 272354Z 2800/2824 36008KT P6SM SKC FM280300 01005KT P6SM SKC FM281300 VRB03KT 6SM BR SKC FM281600 00000KT P6SM SKC KUES 272322Z 2800/2824 33009KT P6SM BKN045 FM280100 34009KT P6SM VCSH BKN060 FM280300 35009KT P6SM BKN080 FM281100 34006KT P6SM FEW250 FM282300 28004KT P6SM FEW200 KUIN 272334Z 2800/2824 32009KT P6SM OVC040 FM280400 33012G18KT P6SM BKN250 FM281400 34010KT P6SM SCT250 KUKI 272337Z 2800/2824 32008KT P6SM SKC FM280300 VRB03KT P6SM FEW250 KUNV 272324Z 2800/2824 22007KT P6SM BKN050 FM280800 25006KT P6SM OVC035 FM281400 32007KT 5SM -SHSN BKN015 OVC025 KUTS 272337Z 2800/2824 VRB04KT P6SM SCT040 BKN250 FM280200 VRB04KT P6SM BKN050 BKN200 FM280600 VRB03KT P6SM OVC060 FM281400 35012G18KT P6SM SKC KVAD 280100Z 2801/2907 04003KT 9999 SCT250 QNH3009INS BECMG 2815/2817 30010G15KT 9999 SCT030 SCT250 QNH2995INS TX13/2821Z TN04/2812Z KVBG 272300Z 2723/2905 34009KT 9999 FEW250 QNH3012INS BECMG 2801/2802 VRB06KT 9999 SCT250 QNH3014INS BECMG 2819/2820 33009KT 9999 BKN250 QNH3022INS BECMG 2901/2902 VRB06KT 9999 BKN250 QNH3016INS TX20/2821Z TN03/2815Z LAST NO AMDS AFT 2801 NEXT 2815 KVCT 272320Z 2800/2824 06007KT P6SM FEW035 OVC050 FM280700 02009KT P6SM -RA FEW035 OVC045 FM281200 35014G20KT P6SM OVC050 FM282000 36012G18KT P6SM BKN050 KVEL 280003Z 2800/2824 VRB04KT P6SM SKC FM280100 04004KT P6SM SKC FM281200 VRB03KT P6SM SKC KVGT 272322Z 2800/2824 06012G22KT P6SM SKC FM280400 34007KT P6SM SKC FM281900 04010G20KT P6SM FEW250 KVIS 272320Z 2800/2824 VRB03KT 6SM HZ SKC FM281000 VRB02KT 4SM BR SKC FM281800 VRB03KT 6SM HZ SKC KVLD 272334Z 2800/2824 06005KT P6SM FEW250 FM281200 06003KT P6SM BKN050 FM281800 32008KT P6SM BKN040 KVNY 272347Z 2800/2824 17006KT P6SM SKC FM280400 36006KT P6SM SKC FM281400 36015KT P6SM SKC FM281700 36020G30KT P6SM SKC KVOK 271700Z 2717/2823 33012G22KT 9999 FEW015 SCT025 BKN035 620357 510023 QNH3003INS BECMG 2723/2724 34009KT 9999 FEW025 SCT035 QNH3021INS TX00/2817Z TNM14/2813Z LAST NO AMDS AFT 2722 NEXT 2809 KVPS 280200Z 2802/2908 06005KT 9999 FEW220 QNH3014INS BECMG 2809/2810 35007KT 9999 SCT025 BKN055 BKN220 QNH3008INS BECMG 2818/2819 33012G18KT 9999 FEW060 BKN160 QNH3005INS BECMG 2822/2823 32015G30KT 9999 SKC QNH3011INS WND 33013KT AFT 2903 TX13/2820Z TN05/2812Z KVQQ 272343Z 2800/2824 04008KT P6SM SCT050 FM280700 36003KT P6SM SCT015 BKN060 OVC250 FM281800 33007KT P6SM SCT020 OVC050 KVRB 280203Z 2802/2824 34008KT P6SM OVC006 FM280400 34006KT P6SM VCSH SCT020 BKN035 FM281400 29009KT P6SM SCT040 BKN250 FM281800 30012G19KT P6SM FEW025 SCT060 SCT090 KVTN 272320Z 2800/2824 35007KT P6SM BKN050 FM280300 28004KT P6SM BKN050 FM281000 26004KT P6SM BKN100 FM281600 26006KT P6SM SCT250 FM281800 29009KT P6SM BKN250 KWJF 272350Z 2800/2824 08012KT P6SM SKC FM280500 VRB05KT P6SM SKC FM282000 08012KT P6SM SKC KWMC 272325Z 2800/2824 06006KT P6SM SKC KWRB 280100Z 2801/2907 VRB06KT 9999 SCT180 BKN250 QNH3023INS BECMG 2820/2821 29010KT 9999 SCT070 BKN150 QNH2995INS BECMG 2822/2823 31015G25KT 9999 SCT035 BKN050 QNH3000INS BECMG 2901/2902 31015G25KT 9999 SCT050 QNH3001INS TX11/2821Z TN00/2812Z KWRI 280200Z 2802/2908 21005KT 9999 SCT100 BKN250 QNH3016INS BECMG 2804/2805 22004KT 9999 BKN060 OVC100 620604 QNH3008INS BECMG 2813/2814 30006KT 9999 SCT025 OVC045 620456 QNH2999INS BECMG 2823/2824 01009KT 6000 -SN OVC015 620159 QNH2990INS BECMG 2905/2906 36010G18KT 1600 -SN BR OVC007 650079 QNH2984INS TX02/2819Z TNM07/2806Z KWRL 272320Z 2800/2824 VRB05KT P6SM SKC FM280200 14007KT P6SM SKC FM280700 VRB05KT P6SM SKC KWWR 272332Z 2800/2824 35011KT P6SM BKN150 FM280600 30007KT P6SM FEW200 FM281700 29014KT P6SM SKC KWYS 262329Z 2700/2724 20008KT P6SM BKN050 FM270300 VRB06KT P6SM BKN090 PROB30 2712/2715 4SM -SN BR OVC025 FM271900 21008KT P6SM BKN090 KXNA 272320Z 2800/2824 33007KT P6SM BKN030 FM280300 VRB03KT P6SM BKN250 FM281500 34010KT P6SM BKN250 KXWA 280240Z 2803/2824 21006KT P6SM BKN035 OVC180 TEMPO 2803/2804 SCT040 OVC160 FM280400 21008KT P6SM SCT100 OVC150 FM280600 20007KT P6SM BKN100 OVC140 FM281000 25009KT P6SM FEW180 SCT250 FM281900 26011KT P6SM SCT250 FM282200 23011KT P6SM BKN250 KYIP 280206Z 2802/2824 24012KT 3SM -SN OVC015 FM280300 35012G25KT 1 1/2SM -SN OVC010 FM280500 35012KT P6SM SCT030 BKN050 FM281000 36006KT P6SM SCT025 TEMPO 2812/2816 BKN025 FM281600 01008KT P6SM BKN028 KYKM 272320Z 2800/2824 26004KT P6SM OVC015 KYNG 272359Z 2800/2824 22006KT P6SM OVC025 FM280200 23007KT P6SM OVC015 FM280700 26005KT P6SM VCSH OVC008 TEMPO 2808/2811 4SM -SHSN BR OVC004 FM281700 36007KT P6SM BKN015 KZZV 272320Z 2800/2824 21010KT P6SM OVC025 FM280900 23005KT 5SM -SN OVC015 FM281800 01005KT P6SM BKN020 L 012240Z 0200/0224 03006KT CAVOK PROB40 TEMPO 0203/0206 4000 BR BECMG 0206/0208 SCT035 BKN100 BECMG 0214/0216 4000 HZ L 022240Z 0300/0324 VRB02KT CAVOK BECMG 0314/0316 4000 HZ BECMG 0318/0320 SCT035 BKN100 BECMG 0320/0322 9999 NSW L 032240Z 0400/0424 VRB02KT 9999 SCT035 BKN100 PROB30 TEMPO 0404/0407 4000 BR BECMG 0414/0416 4000 HZ L 042240Z 0500/0524 VRB02KT CAVOK TEMPO 0500/0504 4000 BR PROB40 TEMPO 0504/0507 4000 BR BECMG 0506/0508 SCT030 BECMG 0514/0516 4000 BR L 052240Z 0600/0624 VRB02KT 9999 SCT035 BKN100 TEMPO 0600/0603 -SHRA BKN035 BKN090 PROB40 TEMPO 0603/0606 4000 BR TEMPO 0608/0612 -SHRA BKN035 BKN090 BECMG 0614/0616 4000 BR BECMG 0621/0623 9999 NSW= LTAJ 052240Z 0600/0624 VRB02KT 4000 BR BKN020 BKN070 TEMPO 0600/0602 1200 -RA BCFG BKN005 BKN016 OVC070 TEMPO 0602/0606 1200 BCFG BKN002 BKN016 BECMG 0609/0612 9999 NSW SCT040 L 062240Z 0700/0724 VRB02KT CAVOK TEMPO 0705/0708 4000 BR BECMG 0713/0715 4000 BR L 072240Z 0800/0824 03008KT CAVOK PROB30 TEMPO 0803/0806 4000 BR L 082240Z 0900/0924 03010KT CAVOK PROB40 TEMPO 0906/0910 04015G25KT BECMG 0910/0912 SCT035 BKN100 BECMG 0916/0918 -SHRA BKN030 BKN090 TEMPO 0920/0924 -TSRA FEW025CB BKN030 L 092240Z 1000/1024 08012KT 9999 -SHRA SCT030 BKN090 TEMPO 1000/1003 VRB15G25KT -TSRA SCT025CB BKN030 TEMPO 1010/1014 VRB15G25KT 4000 TSRA SCT025CB BKN030 L 102240Z 1100/1124 07009KT 9999 -SHRA BKN030 BKN090 TEMPO 1100/1102 +TSRA SCT020CB BKN030 TEMPO 1102/1106 SHRA TEMPO 1111/1114 SHRA TEMPO 1118/1122 SHRA L 112240Z 1200/1224 03009KT 9999 -SHRA BKN030 BKN090 TEMPO 1204/1208 4000 SHRA TEMPO 1210/1214 4000 SHRA L 122240Z 1300/1324 02006KT 9999 SCT030 BKN090 PROB30 TEMPO 1303/1306 4800 BR BECMG 1315/1319 03016G26KT BECMG 1319/1321 CAVOK L 132240Z 1400/1424 01012KT 9999 SCT035 BKN100 BECMG 1400/1403 CAVOK L 142240Z 1500/1524 VRB02KT CAVOK PROB40 TEMPO 1503/1507 4000 BR L 152240Z 1600/1624 03009KT CAVOK TEMPO 1610/1614 02018G28KT L 162240Z 1700/1724 VRB02KT CAVOK PROB40 TEMPO 1703/1707 4000 HZ TEMPO 1714/1718 4000 HZ BECMG 1718/1720 SCT035 L 172240Z 1800/1824 03008KT 9999 SCT035 BKN100 BECMG 1808/1811 -SHRA BKN030 BKN090 TEMPO 1812/1816 -TSRA SCT025CB BKN030 L 182240Z 1900/1924 05013KT 9999 SCT030 BKN100 BECMG 1903/1905 CAVOK BECMG 1916/1918 VRB02KT L 192240Z 2000/2024 35009KT CAVOK TEMPO 2003/2007 34017G27KT L 202240Z 2100/2124 03008KT CAVOK PROB30 TEMPO 2103/2107 4800 HZ BECMG 2105/2108 SCT035 BKN100 TEMPO 2115/2119 4000 HZ L 212240Z 2200/2224 03009KT 9999 SCT035 BKN100 TEMPO 2202/2206 -SHRA BKN030 BKN090 TEMPO 2212/2216 -SHRA BKN030 BKN090 L 222240Z 2300/2324 03013KT 9999 -RA BKN030 OVC090 TEMPO 2303/2307 -SNRA BECMG 2310/2313 20015G25KT CAVOK BECMG 2318/2320 VRB02KT L 232240Z 2400/2424 VRB02KT CAVOK BECMG 2404/2406 01012KT L 242240Z 2500/2524 03012KT 9999 SCT030 BKN090 BECMG 2509/2512 -SHRA PROB40 TEMPO 2514/2518 03015G25KT TEMPO 2515/2519 SHRA BKN025 BKN080 L 252240Z 2600/2624 03008KT 9999 -RA BKN030 BKN090 PROB40 TEMPO 2604/2607 RA BECMG 2607/2609 SCT035 BKN100 L 262240Z 2700/2724 36008KT 9999 SCT030 BKN100 PROB30 TEMPO 2703/2706 4000 BR BECMG 2706/2708 CAVOK L 272240Z 2800/2824 02009KT 9999 SCT035 BECMG 2806/2808 CAVOK L 282240Z 2900/2924 VRB02KT CAVOK PROB40 TEMPO 2903/2906 4000 BR L 292240Z 3000/3024 05007KT CAVOK PROB40 TEMPO 3004/3007 4000 BR TEMPO 3007/3011 SCT040 BKN200 BECMG 3014/3016 4000 HZ TEMPO 3016/3019 2000 BECMG 3019/3021 CAVOK L 302240Z 3100/3124 03012KT CAVOK BECMG 3114/3116 4000 HZ PROB30 TEMPO 3116/3119 2000 BECMG 3121/3123 CAVOK L 312240Z 0100/0124 03006KT CAVOK PROB40 TEMPO 0104/0107 4000 BR BECMG 0114/0116 4000 HZ TEMPO 0116/0118 2000 BECMG 0118/0120 CAVOK LAKU 272300Z 2800/2824 VRB05KT 9999 SCT030 TX08/2812Z TNM06/2824Z TEMPO 2810/2820 20012KT -RA OVC050 BECMG 2821/2823 03015KT CAVOK LATI 272300Z 2800/2824 VRB05KT 9999 SCT040 TX12/2811Z TNM04/2824Z TEMPO 2810/2820 16010KT RA SCT025 OVC050 BECMG 2820/2822 35012KT CAVOK LBBG 272300Z 2800/2824 VRB04KT CAVOK BECMG 2806/2808 28018KT SCT040 TEMPO 2818/2820 28008KT LBGO 272300Z 2800/2824 VRB04KT CAVOK TEMPO 2800/2806 3000 BR SCT010 BECMG 2806/2808 27018KT SCT040 TEMPO 2812/2818 27020G30KT BECMG 2818/2820 27008KT LBPD 272300Z 2800/2824 VRB04KT 9999 SCT060 PROB40 TEMPO 2802/2806 4000 BR BECMG 2809/2811 28020KT TEMPO 2812/2818 BKN050 LBPG 271700Z 2718/2806 27006KT 9999 SKC TEMPO 2802/2806 5000 BR SCT030 BKN060 BY LBSA LBSF 272300Z 2800/2824 VRB04KT 9999 SCT050 TEMPO 2801/2806 3000 BR SCT010 PROB40 2803/2806 1200 BR BKN007 BECMG 2809/2811 28014KT LBWN 272300Z 2800/2824 VRB04KT CAVOK TEMPO 2802/2806 3000 BR SCT010 BECMG 2806/2808 28016KT SCT040 TEMPO 2810/2818 28016G26KT LCEN 272240Z 2800/2824 26010KT 9999 SCT030 PROB40 TEMPO 2812/2815 5000 SHRA FEW025CB BKN030 BKN080 LCLK 272330Z 2800/2824 33007KT 9999 FEW025 BECMG 2810/2812 25010KT BECMG 2815/2818 32006KT LCPH 272330Z 2800/2824 02005KT 9999 FEW020 SCT050 BECMG 2809/2813 29010KT BECMG 2816/2818 03005KT LCRA 280112Z 2803/2821 34003KT 9999 SCT045 TEMPO 2803/2807 03003KT BECMG 2809/2812 28015KT BECMG 2815/2818 32005KT LDDU 272325Z 2800/2900 08007KT CAVOK TX11/2812Z TN04/2801Z PROB30 TEMPO 2812/2815 29008KT RA BECMG 2815/2817 02020G30KT PROB30 TEMPO 2821/2900 VRB20G40KT LDLO 071030Z 0710/0806 CNL LDOS 272247Z 2722/2818 CNL LDPL 272325Z 2800/2900 VRB02KT 9999 SCT018 BKN025 TX10/2813Z TN00/2805Z PROB40 TEMPO 2800/2809 2000 BR BKN010 BECMG 2811/2813 30008KT BECMG 2816/2818 06010KT LDRI 272325Z 2800/2900 VRB02KT 9999 SCT020 OVC030 TX12/2813Z TNM00/2805Z BECMG 2811/2813 04010KT TEMPO 2813/2900 VRB10KT PROB30 TEMPO 2813/2900 04015G30KT LDSB 261230Z 2612/2712 CNL LDSP 272325Z 2800/2900 31007KT CAVOK TX12/2813Z TN05/2805Z TEMPO 2811/2813 03010KT BECMG 2813/2815 34010KT LDZA 272325Z 2800/2900 24007KT CAVOK TX10/2813Z TNM02/2805Z PROB30 TEMPO 2804/2808 04006KT 4000 -FZRA BECMG 2811/2813 01008KT LDZD 272325Z 2800/2900 VRB02KT 4000 BR SCT020 TX10/2812Z TN00/2802Z PROB30 TEMPO 2800/2803 0700 FG BECMG 2808/2810 CAVOK BECMG 2812/2814 34009KT BECMG 2816/2818 06010KT LEAB 272300Z 2800/2824 VRB04KT CAVOK TX14/2815Z TNM04/2807Z PROB40 TEMPO 2800/2810 2500 BCFG BKN004 PROB40 TEMPO 2800/2810 0200 FZFG VV001 LEAG 280200Z 2803/2903 09018KT 9999 SCT010 BKN020 TX16/2814Z TN13/2806Z TEMPO 2803/2903 09020G30KT TEMPO 2803/2815 BKN008 LEAL 272300Z 2800/2824 01005KT 9999 SCT015 TX15/2812Z TN06/2806Z PROB40 TEMPO 2803/2807 2000 BR BKN010 BECMG 2810/2812 08006KT BECMG 2819/2821 33005KT LEAM 272300Z 2800/2824 35009KT CAVOK TX17/2814Z TN12/2806Z BECMG 2807/2809 05020KT TEMPO 2808/2816 05022G35KT BECMG 2819/2821 35009KT LEAO 280200Z 2803/2903 06006KT CAVOK TX16/2815Z TNM01/2806Z PROB40 TEMPO 2803/2810 3000 BR BKN008 PROB30 TEMPO 2805/2809 0600 FZFG VV001 LEAS 280200Z 2803/2903 13007KT 9999 SCT020 TX11/2814Z TN04/2804Z PROB30 TEMPO 2804/2808 3000 BR BKN010 TEMPO 2811/2819 07010KT PROB30 TEMPO 2815/2817 09015G25KT PROB30 TEMPO 2820/2823 BKN014 LEBA 280200Z 2803/2903 08008KT CAVOK TX19/2815Z TN08/2807Z LEBB 272300Z 2800/2824 09006KT 9999 SCT020 TX12/2814Z TNM00/2807Z PROB30 TEMPO 2803/2809 3000 BR BKN010 PROB40 TEMPO 2820/2824 BKN012 LEBG 280200Z 2803/2903 05010KT CAVOK TX07/2815Z TNM06/2807Z PROB40 TEMPO 2822/2903 BKN006 PROB30 2900/2903 1200 BCFG BKN002 LEBL 272300Z 2800/2824 32010KT CAVOK TX17/2813Z TN04/2807Z TEMPO 2812/2818 22005KT LEBR 280200Z 2803/2903 29006KT CAVOK TX10/2814Z TNM02/2806Z PROB40 TEMPO 2803/2810 3000 BR BCFG PROB30 TEMPO 2810/2820 30016KT LEBZ 280200Z 2803/2903 08008KT CAVOK TX18/2815Z TN03/2807Z LECH 272300Z 2800/2824 VRB04KT 9999 FEW025 TX17/2813Z TNM01/2806Z LECO 280200Z 2803/2903 10006KT 8000 FEW003 TX14/2814Z TNM00/2807Z TEMPO 2803/2809 3000 BR BCFG TEMPO 2803/2809 1500 BCFG PROB40 TEMPO 2803/2808 0350 FZFG PROB30 TEMPO 2814/2817 02010KT LECV 272300Z 2800/2824 03007KT CAVOK TX13/2815Z TN03/2807Z LEDA 280200Z 2803/2903 VRB04KT 6000 FEW015 TX11/2813Z TNM04/2806Z TEMPO 2803/2812 2000 BR BKN010 PROB40 TEMPO 2803/2808 0150 FZFG VV001 PROB30 TEMPO 2817/2821 2000 BR BKN010 LEEC 280200Z 2803/2903 03008KT CAVOK TX20/2815Z TN08/2807Z= LELO 280200Z 2803/2903 27010KT CAVOK TX10/2815Z TNM02/2806Z LEGA 271100Z 2712/2812 VRB02KT 9999 FEW040 TX15/2715Z TN03/2806Z TEMPO 2715/2720 18010KT LEGE 280135Z 2801/2824 VRB04KT 9999 FEW015 TX18/2814Z TNM01/2806Z TEMPO 2801/2809 3000 BR BKN010 PROB40 TEMPO 2801/2806 0500 FG VV002 LEGR 272300Z 2800/2824 VRB02KT 9999 FEW040 TX17/2815Z TN02/2806Z TEMPO 2814/2820 17010KT LEGT 272300Z 2800/2824 VRB03KT CAVOK TX13/2815Z TNM00/2807Z LEHC 280200Z 2803/2903 VRB04KT 9999 FEW020 TX12/2813Z TNM04/2806Z TEMPO 2803/2808 2000 BR BKN010 PROB40 TEMPO 2803/2806 0200 FZFG VV001 TEMPO 2812/2818 27009KT LEIB 280200Z 2803/2903 VRB03KT 9999 FEW015 TX16/2812Z TN05/2806Z TEMPO 2803/2807 2000 BR BKN010 PROB40 TEMPO 2803/2806 0800 BCFG VV001 LEJR 280200Z 2803/2903 04004KT CAVOK TX19/2815Z TN07/2807Z BECMG 2810/2812 12012KT BECMG 2821/2823 04005KT LELC 272300Z 2800/2824 03009KT 9999 FEW020 SCT040 TX16/2813Z TN07/2806Z PROB40 TEMPO 2800/2810 BKN012 LELL 280200Z 2803/2903 27004KT 9999 FEW025 TX18/2813Z TNM02/2806Z TEMPO 2816/2819 35006KT LELN 280200Z 2803/2903 03006KT CAVOK TX13/2815Z TNM03/2806Z PROB40 TEMPO 2812/2818 09010KT LELO 280200Z 2803/2903 27010KT CAVOK TX10/2815Z TNM02/2806Z LEMD 272300Z 2800/2906 VRB04KT CAVOK TX15/2815Z TNM03/2807Z LEMG 272300Z 2800/2824 12008KT 9999 FEW020 SCT040 TX18/2813Z TN13/2806Z PROB30 TEMPO 2809/2815 12015G25KT LEMH 280200Z 2803/2903 30009KT 9999 FEW020 TX16/2812Z TN03/2806Z TEMPO 2803/2805 2000 BR BKN010 PROB40 TEMPO 2803/2806 0800 BCFG VV001 LEMI 272300Z 2800/2824 35008KT 9999 FEW040 TX16/2813Z TN07/2806Z PROB40 TEMPO 2800/2810 BKN010 BECMG 2810/2812 05010KT BECMG 2819/2821 35008KT LEMO 280200Z 2803/2903 06006KT CAVOK TX20/2815Z TN06/2807Z BECMG 2810/2812 13010KT BECMG 2820/2822 04006KT LEPA 280050Z 2800/2824 VRB03KT 9999 FEW015 TX17/2813Z TNM00/2806Z TEMPO 2800/2809 3000 BR PROB40 TEMPO 2800/2809 0150 BCFG VV001 BECMG 2810/2812 33010KT BECMG 2817/2819 VRB04KT LEPP 280200Z 2803/2903 33008KT 9999 FEW025 TX09/2814Z TNM03/2806Z PROB30 TEMPO 2812/2818 34018KT LERI 271700Z 2718/2818 04005KT 9999 FEW020 SCT040 TX17/2815Z TN05/2806Z PROB40 TEMPO 2722/2810 BKN010 LERL 280200Z 2803/2903 VRB03KT CAVOK TX16/2815Z TNM02/2806Z PROB40 TEMPO 2803/2810 3000 BR BKN008 PROB30 TEMPO 2805/2809 0600 FZFG VV001 TEMPO 2812/2818 07010KT LERS 280200Z 2803/2903 VRB03KT 9999 FEW025 TX19/2812Z TNM01/2806Z TEMPO 2812/2816 29009KT LERT 280200Z 2803/2903 06005KT CAVOK TX19/2815Z TN06/2807Z BECMG 2810/2812 13012KT BECMG 2823/2901 06006KT LESA 280200Z 2803/2903 VRB04KT CAVOK TX11/2815Z TNM04/2807Z TEMPO 2810/2818 06010KT LESO 272300Z 2800/2824 VRB04KT 9999 BKN018 TX09/2814Z TN02/2806Z TEMPO 2800/2808 BKN010 PROB30 TEMPO 2803/2808 3000 BR BCFG BKN005 PROB40 TEMPO 2819/2824 BKN010 LEST 272300Z 2800/2824 09007KT CAVOK TX14/2815Z TN02/2806Z PROB30 TEMPO 2802/2806 4500 BR LESU 280200Z 2803/2903 VRB04KT 9999 FEW025 TX16/2812Z TNM08/2806Z TEMPO 2812/2818 03006KT LETL 272300Z 2800/2824 29005KT 8000 FEW025 TX15/2814Z TNM05/2806Z PROB30 TEMPO 2800/2806 1500 BR LETO 272300Z 2800/2824 03005KT CAVOK TX15/2815Z TNM04/2807Z= LECV 272300Z 2800/2824 03007KT CAVOK TX13/2815Z TN03/2807Z LEVC 272300Z 2800/2824 30005KT 9999 FEW030 TX19/2814Z TNM01/2806Z TEMPO 2813/2819 15005KT LEVD 280200Z 2803/2903 05010KT CAVOK TX11/2815Z TNM04/2807Z LEVS 272300Z 2800/2824 VRB03KT CAVOK TX13/2815Z TN01/2807Z LEVT 280227Z 2802/2824 VRB05KT 6000 SCT001 TX08/2814Z TNM05/2806Z TEMPO 2802/2809 3000 BR BCFG BKN003 TEMPO 2802/2809 1500 BCFG BKN002 TEMPO 2802/2809 0350 FZFG VV001 TEMPO 2812/2818 02010KT PROB40 TEMPO 2820/2824 BKN010 PROB30 TEMPO 2822/2824 3000 BR BKN005 LEVX 272300Z 2800/2824 17007KT CAVOK TX15/2814Z TN03/2807Z LEXJ 280200Z 2803/2903 VRB06KT 9999 FEW015 SCT025 TX12/2814Z TN03/2807Z PROB30 TEMPO 2803/2809 3000 BR BKN010 PROB30 TEMPO 2804/2808 0800 BCFG BKN001 PROB40 TEMPO 2811/2818 06010KT PROB30 TEMPO 2819/2822 BKN014 LEZG 272300Z 2800/2824 29009KT 9999 FEW025 TX13/2814Z TNM02/2806Z LEZL 280200Z 2803/2903 06008KT CAVOK TX20/2815Z TN08/2807Z LFBC 271952Z 2719/2815 CNL LFBD 280120Z 2801/2906 VRB02KT 6000 OVC006 TX05/2814Z TNM02/2806Z TEMPO 2802/2810 3000 BR BKN004 PROB40 2804/2809 0300 FZFG VV/// BECMG 2810/2812 7000 NSW TEMPO 2814/2818 BKN015 TEMPO 2821/2906 0500 FG VV/// LFBE 272059Z 2720/2818 CNL= LFRI 272109Z 2721/2818 CNL LFBG 272202Z 2722/2821 CNL LFBH 272300Z 2800/2824 05005KT 6000 OVC016 TEMPO 2801/2813 3000 BR OVC010 PROB40 2800/2812 0400 FG VV/// PROB40 TEMPO 2802/2808 1500 -DZRA TEMPO 2814/2818 BKN015 LFBI 272300Z 2800/2824 03006KT 8000 BKN020 BECMG 2800/2802 3000 BR OVC010 PROB30 TEMPO 2800/2806 1500 -DZRA OVC003 PROB40 TEMPO 2802/2810 0300 FG VV/// PROB30 TEMPO 2814/2824 BKN010 LFBL 280122Z 2801/2824 03008KT 8000 BKN018 TEMPO 2801/2809 3000 BR BKN002 BKN009 PROB30 TEMPO 2806/2809 0500 FG VV/// PROB40 TEMPO 2809/2813 BKN003 BECMG 2813/2815 SCT016 BECMG 2817/2819 CAVOK PROB30 TEMPO 2822/2824 3000 BR LFBM 280200Z 2803/2903 VRB02KT 0600 FZFG VV/// TEMPO 2803/2808 0300 BECMG 2810/2812 2000 BR OVC001 BECMG 2812/2814 7000 NSW SCT006 BECMG 2815/2817 3000 BR BKN003 TEMPO 2818/2821 0600 FG VV/// LFBO 272300Z 2800/2906 32005KT 0600 FG VV/// TEMPO 2800/2807 0300 BECMG 2810/2812 6000 BKN004 BECMG 2813/2815 BKN012 TEMPO 2817/2906 3000 BR OVC003 BECMG 2818/2820 VRB02KT PROB30 TEMPO 2901/2906 0600 FG VV/// LFBP 272300Z 2800/2824 24005KT 0300 FG VV/// PROB40 TEMPO 2800/2806 3000 BR OVC008 PROB40 TEMPO 2804/2806 1500 -DZRA OVC003 BECMG 2806/2809 6000 NSW OVC020 PROB30 TEMPO 2814/2824 BKN015 LFBT 272300Z 2800/2824 VRB03KT CAVOK TEMPO 2800/2811 0300 FG VV/// BECMG 2818/2820 3000 BR BKN005 TEMPO 2822/2824 0600 FG VV/// LFBU 272100Z 2721/2818 CNL LFBZ 280122Z 2801/2824 26005KT 9999 OVC017 TEMPO 2801/2812 4000 BR BKN012 PROB30 TEMPO 2801/2810 0300 FG VV/// PROB40 2810/2812 4000 BR BKN005 LFCR 272300Z 2800/2824 VRB02KT CAVOK PROB30 TEMPO 2805/2812 3000 BR BKN002 BECMG 2811/2813 31008KT BECMG 2817/2819 VRB03KT 0600 FG VV/// PROB30 TEMPO 2820/2824 0300 LFJL 272300Z 2800/2824 24005KT 6000 OVC008 PROB40 TEMPO 2800/2809 0400 FG VV/// BECMG 2809/2812 BKN020 BECMG 2821/2824 OVC005 PROB30 TEMPO 2821/2824 0800 FG VV/// LFKB 280200Z 2803/2903 23005KT 9999 BKN030 TX15/2812Z TN04/2903Z BECMG 2808/2810 FEW025 BECMG 2810/2812 VRB03KT BECMG 2817/2819 24004KT LFKC 280200Z 2803/2903 19004KT 9999 FEW033 TX14/2812Z TN04/2805Z BECMG 2810/2812 35006KT BECMG 2816/2817 18005KT LFKF 280200Z 2803/2903 27007KT 9999 SCT030 TEMPO 2803/2809 BKN025 BECMG 2809/2811 26012KT FEW030 BECMG 2818/2820 05004KT LFKJ 280200Z 2803/2903 04006KT 9999 BKN030 BECMG 2810/2811 23008KT FEW030 BECMG 2817/2818 04005KT LFKS 271928Z 2719/2815 CNL LFLB 280200Z 2803/2903 36009KT 8000 OVC008 BECMG 2809/2812 SCT011 TEMPO 2900/2903 VRB02KT 0700 BCFG LFLC 272300Z 2800/2824 VRB02KT 8000 OVC008 TEMPO 2800/2807 4000 BR SCT008 OVC020 PROB40 TEMPO 2804/2807 -FZDZ TEMPO 2812/2824 SCT010 LFLL 272300Z 2800/2906 36005KT 8000 OVC007 TEMPO 2800/2807 4000 BR OVC003 PROB40 TEMPO 2805/2808 -FZDZ BECMG 2805/2807 36012KT BECMG 2812/2814 BKN012 TEMPO 2900/2906 2000 BR OVC004 LFLP 280200Z 2803/2903 VRB02KT 6000 SCT004 SCT050 TEMPO 2803/2807 2500 BR OVC002 BECMG 2805/2807 34008KT BECMG 2810/2812 CAVOK BECMG 2817/2819 VRB02KT TEMPO 2900/2903 0700 BCFG LFLS 280200Z 2803/2903 VRB02KT 8000 BKN008 TEMPO 2803/2809 2500 BR OVC004 BECMG 2809/2811 34008KT TEMPO 2813/2817 SCT010 BECMG 2900/2902 VRB02KT LFLX 272300Z 2800/2906 VRB03KT 4000 BR BKN008 TEMPO 2800/2804 2000 -RADZ OVC003 PROB40 TEMPO 2803/2810 0600 FG VV/// BECMG 2812/2814 6000 NSW BKN012 TEMPO 2814/2817 BKN016 BECMG 2817/2819 4000 BR BKN005 PROB40 TEMPO 2818/2906 0600 FG VV/// LFLY 272300Z 2800/2824 36004KT 7000 OVC012 TEMPO 2800/2807 4000 BR OVC004 PROB40 TEMPO 2805/2808 -FZDZ BECMG 2805/2807 36012KT LFMD 280200Z 2803/2903 01005KT CAVOK PROB30 TEMPO 2803/2808 BKN020 TEMPO 2811/2815 16005KT LFMH 161901Z 1619/1712 CNL LFMI 280200Z 2803/2903 35015KT CAVOK TX13/2813Z TN03/2803Z TEMPO 2803/2814 35018G28KT TEMPO 2814/2818 35025G35KT TEMPO 2823/2903 01005KT LFMK 280200Z 2803/2903 27013KT 7000 NSC TEMPO 2803/2810 3000 BR BKN002 PROB30 TEMPO 2803/2805 0800 FG VV/// BECMG 2810/2812 CAVOK TEMPO 2811/2818 26018G28KT PROB30 TEMPO 2820/2903 4000 BR BKN002 LFML 280200Z 2803/2909 33010KT CAVOK TX14/2814Z TNM01/2805Z BECMG 2803/2805 VRB03KT TEMPO 2814/2817 32010KT LFMN 280200Z 2803/2909 33010KT 9999 FEW030 TEMPO 2803/2807 BKN025 BECMG 2810/2812 15005KT NSC BECMG 2818/2820 34010KT LFMO 280200Z 2803/2903 35020G30KT CAVOK TX09/2813Z TN03/2803Z TEMPO 2803/2806 35025G40KT BECMG 2806/2808 35025G40KT PROB40 TEMPO 2808/2816 35030G50KT BECMG 2821/2823 35020G30KT LFMP 280200Z 2803/2903 30018G28KT CAVOK TEMPO 2812/2821 31020G33KT LFMT 280200Z 2803/2903 VRB04KT CAVOK BECMG 2809/2811 35010KT LFMU 280200Z 2803/2903 28013KT CAVOK TEMPO 2803/2813 28015G25KT LFMV 280200Z 2803/2903 34025G40KT CAVOK BECMG 2818/2820 35015G35KT BECMG 2820/2822 35015G25KT BECMG 2900/2902 35010KT LFMY 271618Z 2716/2815 CNL= LFOE 271616Z 2716/2815 25009KT 9999 OVC012 BECMG 2716/2717 4000 -DZ BKN008 BECMG 2719/2721 1500 -DZ BR OVC004 BECMG 2723/2801 6000 NSW FEW008 SCT015 BECMG 2801/2803 3000 BR BECMG 2803/2805 0600 FG VV/// BECMG 2809/2811 9000 NSW BKN009 BECMG 2814/2815 BKN015 LFOA 272148Z 2721/2821 CNL= LFOB 272140Z 2721/2818 VRB03KT 3000 BR SCT012 PROB40 2723/2810 0200 FG VV/// BECMG 2810/2813 7000 NSW OVC006 BECMG 2814/2817 BKN013 LFOB 272300Z 2800/2824 VRB03KT 0300 FG VV/// PROB40 TEMPO 2800/2810 2000 BR SCT002 BECMG 2810/2813 7000 NSW OVC006 BECMG 2814/2817 BKN013 TEMPO 2819/2824 BKN018 LFOC 180357Z 1803/1903 CNL= MDLR 180400Z 1806/1906 00000KT 9999 BKN018 PROB30 1806/1812 6000 TSRA FEW016CB BKN018 LFOE 280200Z 2803/2903 26010KT 0600 FG VV/// BECMG 2809/2811 9000 NSW BKN009 BECMG 2814/2815 BKN015 LFOH 271919Z 2719/2812 CNL LFOJ 271620Z 2716/2815 CNL= LFRB 271622Z 2716/2818 26010KT 9999 BKN030 BECMG 2716/2718 OVC008 TEMPO 2716/2720 3000 RADZ BKN005 PROB40 TEMPO 2718/2722 1200 DZ BKN002 BECMG 2720/2722 VRB03KT 3000 BR BKN003 TEMPO 2722/2810 0300 FG VV/// BECMG 2812/2814 9999 NSW BKN030 PROB40 TEMPO 2814/2818 3000 BR BKN005 LFOK 272300Z 2800/2824 24007KT 2000 BR OVC002 PROB40 TEMPO 2800/2810 0500 FG VV/// PROB30 2813/2824 7000 NSW OVC011 LFOP 272122Z 2721/2818 CNL LFOT 272300Z 2800/2824 VRB03KT 4000 BR BKN006 TEMPO 2800/2802 2000 -RADZ BKN003 PROB40 TEMPO 2802/2810 0600 FG VV/// BECMG 2812/2815 6000 NSW BKN012 TEMPO 2815/2820 BKN018 LFPB 272300Z 2800/2824 VRB03KT 4000 BR BKN005 BECMG 2800/2802 2000 BR BKN003 TEMPO 2802/2810 0800 FG VV/// BECMG 2810/2812 27005KT 8000 NSW BKN010 BECMG 2814/2816 BKN015 TEMPO 2817/2822 4000 BR BKN010 LFPG 280035Z 2800/2906 VRB03KT 1200 BR BKN002 TX07/2815Z TN05/2904Z TEMPO 2800/2810 0300 FG VV/// BECMG 2810/2812 27005KT 6000 NSW BKN006 BECMG 2814/2816 BKN012 TEMPO 2818/2823 4000 BR BECMG 2902/2904 21010KT BKN005 LFPO 272300Z 2800/2906 VRB03KT 4000 BR OVC006 TEMPO 2800/2808 2000 BR BKN003 PROB30 TEMPO 2800/2808 0600 FG VV/// BECMG 2811/2813 9999 NSW SCT006 BKN012 BECMG 2900/2902 22010KT BKN020 TEMPO 2903/2906 2500 -RADZ BKN006 LFPV 280200Z 2803/2903 VRB03KT 0300 FG VV/// TX06/2814Z TN04/2821Z TEMPO 2803/2805 2000 BR OVC002 BECMG 2809/2811 3000 BR OVC003 BECMG 2811/2813 7000 NSW BKN010 BECMG 2817/2819 4000 BR OVC003 TEMPO 2900/2903 2500 -RADZ LFQQ 272300Z 2800/2906 27005KT 6000 NSC BECMG 2800/2803 2000 BR PROB40 2803/2810 0200 FG VV/// BECMG 2810/2813 OVC003 BECMG 2813/2815 8000 NSW OVC008 BECMG 2815/2817 21010KT PROB30 TEMPO 2818/2822 BKN015 LFRB 272300Z 2800/2906 VRB05KT 3000 BR OVC003 TEMPO 2800/2810 0300 FG VV/// BECMG 2810/2813 6000 NSW SCT005 BKN015 PROB40 TEMPO 2813/2817 3000 BR BKN003 BECMG 2817/2820 3000 BR OVC003 PROB30 TEMPO 2820/2903 0400 FG VV/// LFRD 272300Z 2800/2824 VRB05KT 4000 BR OVC004 TEMPO 2800/2809 0300 FG VV/// BECMG 2809/2811 9999 NSW BKN020 TEMPO 2812/2824 BKN012 LFRH 272300Z 2800/2824 VRB03KT 6000 BKN015 OVC020 TEMPO 2800/2810 1500 BR BKN003 OVC006 PROB40 TEMPO 2800/2808 0400 -DZ FG VV/// BECMG 2810/2812 3000 BR BKN003 PROB40 TEMPO 2816/2824 0900 FG VV/// LFRI 272109Z 2721/2818 CNL LFRL 272051Z 2720/2812 CNL LFRM 271917Z 2719/2812 CNL LFRN 272300Z 2800/2824 VRB05KT 3000 BR OVC004 TEMPO 2800/2809 0300 FG VV/// BECMG 2810/2812 9999 NSW BKN020 PROB40 TEMPO 2812/2820 BKN012 TEMPO 2820/2824 3000 BR BKN003 LFRQ 272213Z 2722/2818 CNL= LFRS 272211Z 2722/2824 27005KT 5000 BR BKN025 BECMG 2722/2724 3000 BR BKN008 PROB40 TEMPO 2723/2802 1200 -DZ BR OVC002 PROB40 TEMPO 2802/2810 0500 FG VV/// PROB30 TEMPO 2805/2809 0300 FG BECMG 2811/2813 9999 NSW BKN005 BECMG 2813/2815 SCT015 BKN030 TEMPO 2818/2824 3000 BR BKN005 PROB30 TEMPO 2820/2824 0400 FG VV/// LFRS 272300Z 2800/2906 VRB03KT 2500 -DZRA BKN008 BKN014 BECMG 2800/2803 1400 BR OVC002 TEMPO 2803/2811 0400 FG VV/// BECMG 2811/2813 9999 NSW SCT003 BKN030 BECMG 2818/2820 4000 BR TEMPO 2820/2906 1400 BR OVC002 PROB40 TEMPO 2820/2906 0400 FG VV/// LFRZ 272300Z 2800/2824 VRB03KT 2000 BR OVC008 BECMG 2800/2802 OVC002 TEMPO 2802/2811 0300 FG VV/// BECMG 2811/2813 6000 NSW SCT006 BKN030 TEMPO 2813/2818 3000 BR BKN004 BKN025 BECMG 2818/2820 0400 FG VV/// LFSB 272300Z 2800/2824 27005KT 8000 FEW010 BKN020 TEMPO 2800/2806 4000 -RASN BKN012 TEMPO 2806/2812 BKN012 TEMPO 2821/2824 3000 BR LFSI 280200Z 2803/2903 VRB03KT 3000 BR BKN002 BKN005 BKN010 TEMPO 2803/2819 0600 FG VV/// TEMPO 2819/2901 18010KT BKN015 LFSO 272233Z 2722/2821 CNL LFST 272300Z 2800/2824 18004KT 9999 BKN020 TEMPO 2800/2807 3000 -RA BR BKN008 LFSX 271659Z 2716/2815 CNL LFTH 280200Z 2803/2903 34010KT CAVOK BECMG 2811/2813 14005KT TEMPO 2900/2903 34010KT LFTW 280200Z 2803/2903 35010KT CAVOK BECMG 2805/2807 36020G30KT PROB40 TEMPO 2813/2816 01025G40KT TEMPO 2820/2903 36015KT LFVP 262140Z 2621/2703 CNL LFYR 271614Z 2716/2815 CNL LGAV 272300Z 2800/2824 34010KT 9999 SCT025 TEMPO 2800/2806 FEW020 BKN030 BECMG 2810/2812 22008KT BECMG 2819/2821 FEW025 SCT070 LGEL 272300Z 2800/2824 33010KT 9999 SCT025 TEMPO 2800/2806 FEW020 BKN030 BECMG 2807/2809 21008KT BECMG 2819/2821 FEW025 SCT070 LGIR 272300Z 2800/2824 17010KT 9999 FEW018 BKN025 BECMG 2812/2814 SCT025 BECMG 2810/2812 31010KT LGKO 272300Z 2800/2824 35016KT 9999 FEW020 BECMG 2801/2803 SCT020 TEMPO 2809/2817 FEW016 BKN020 BECMG 2816/2818 04010KT LGKP 040753Z 0406/0418 33028G38KT 9999 SCT018 TEMPO 0406/0412 BKN018 PROB30 TEMPO 0406/0412 5000 RA LGKR 272300Z 2800/2824 VRB05KT 9999 FEW016 SCT025 BECMG 2816/2818 31010KT TEMPO 2806/2818 BKN025 PROB40 TEMPO 2818/2824 5000 RA FEW015 SCT025 BKN080 LGKV 272300Z 2800/2824 VRB03KT 9999 FEW030 BECMG 2820/2822 07010KT SCT025 BKN080 LGPZ 272300Z 2800/2824 09010KT 9999 FEW020 BECMG 2810/2812 27015KT BECMG 2816/2818 VRB05KT PROB40 TEMPO 2820/2824 5000 RA FEW010 BKN020 BKN080 LGRP 272300Z 2800/2824 34015KT 9999 FEW015 TEMPO 2815/2821 FEW015 BKN020 LGSA 272300Z 2800/2824 VRB05KT 9999 FEW015 SCT025 BKN080 TEMPO 2803/2811 FEW015 BKN025 TEMPO 2813/2818 FEW018 BKN025 BECMG 2810/2812 27010KT BECMG 2813/2815 28015G25KT LGSR 272300Z 2800/2824 33012KT 9999 SCT020 SCT080 BECMG 2819/2821 23010KT LGTS 272300Z 2800/2824 VRB03KT 9999 FEW030 BECMG 2820/2822 35015KT SCT025 LHBP 272315Z 2800/2824 31016G28KT 9999 BKN030 BECMG 2807/2810 32024G37KT BECMG 2815/2818 31018G30KT BECMG 2821/2824 31014KT CAVOK LHKE 222315Z 2300/2324 VRB03KT 0600 FG NSC TEMPO 2300/2306 0150 FG OVC002 BECMG 2306/2309 1500 BR BKN003 TEMPO 2308/2312 23005KT BECMG 2309/2311 5000 BR BKN005 TEMPO 2311/2315 8000 NSW SCT015 BECMG 2317/2320 1500 BR MIBCFG TEMPO 2321/2324 0800 FG LHPA 272315Z 2800/2824 33009KT CAVOK PROB30 TEMPO 2800/2804 8000 -RA SCT015 BKN030 BKN083 BECMG 2803/2807 32014G24KT PROB40 TEMPO 2809/2823 32024G35KT 9999 BKN040 PROB30 TEMPO 2812/2820 6000 -SHSN -SHSNRA SCT010 BKN030TCU LIBA 021700Z 0218/0306 14012KT 9999 SCT030 SCT060 TEMPO 0302/0306 7000 RA BKN030 BKN060 LIBC 271905Z 2718/2818 CNL LIBD 272300Z 2800/2824 26007KT 9999 FEW030 BECMG 2808/2810 36012KT TEMPO 2815/2821 36016G26KT RA LIBF 271632Z 2712/2812 CNL= LIBN 141100Z 1412/1424 35012KT 9999 SCT030 TEMPO 1412/1414 36015G25KT LIBP 272300Z 2800/2824 VRB05KT 1200 BR FEW020 TEMPO 2800/2807 0500 FG BKN002 BECMG 2807/2809 8000 BECMG 2812/2814 36010KT TEMPO 2812/2818 RA LIBR 272300Z 2800/2824 VRB05KT 9999 FEW020 BECMG 2809/2811 35013KT TEMPO 2815/2821 36016G26KT RA LIBV 0406/0418 15035G35KT 0800 FG OVC003 BECMG 0407/0409 4000 BR BKN007 BECMG 0410/0412 16018G28KT 5000 BR BKN010 SCT035 BECMG 0415/0417 16015KT TEMPO 0411/0415 SHRA LICA 272300Z 2800/2824 27007KT 9999 FEW040 LICB 272300Z 2800/2824 VRB05KT 9999 FEW040 BECMG 2810/2812 26012KT BECMG 2819/2821 VRB05KT LICC 272300Z 2800/2824 26006KT 9999 FEW060 BECMG 2812/2814 08010KT BECMG 2816/2818 26006KT LICD 272300Z 2800/2824 28008KT 9999 SCT030 BECMG 2814/2816 28018KT LICJ 272300Z 2800/2824 22006KT 9999 SCT025 BECMG 2812/2814 28010KT LICR 272300Z 2800/2824 36012KT 9999 FEW040 LICT 130800Z 1309/1321 26012KT 9999 SCT025 SCT040 TEMPO 1309/1313 SHRA FEW018CB BKN020 TEMPO 1313/1321 5000 TSRA BKN012 FEW018CB LICZ 272300Z 2800/2824 27006KT 9999 FEW020 LIEA 272300Z 2800/2824 20007KT 9999 FEW030 LIEE 272300Z 2800/2824 35005KT 9999 FEW030 BECMG 2808/2810 34015KT BECMG 2818/2820 35005KT LIEO 272300Z 2800/2824 23006KT 9999 FEW030 LIMC 272300Z 2800/2906 VRB05KT 0100 FZFG OVC001 BECMG 2808/2810 2000 BR BKN008 TEMPO 2812/2816 6000 BKN010 BECMG 2818/2821 0200 FZFG LIME 272300Z 2800/2824 VRB05KT 0100 FZFG OVC001 TEMPO 2800/2810 36010KT 3000 BR BKN007 BECMG 2810/2812 6000 NSC BECMG 2816/2818 2000 BR BKN004 LIMF 272300Z 2800/2824 VRB05KT 0300 FZFG OVC001 BECMG 2809/2811 2000 BR BKN008 TEMPO 2812/2818 6000 BKN012 BECMG 2820/2822 0400 FZFG BKN004 LIMG 271858Z 2718/2818 CNL LIMJ 272300Z 2800/2824 19008KT 9999 BKN020 BECMG 2806/2808 03010KT LIML 272300Z 2800/2824 VRB05KT 0200 FZFG OVC001 TEMPO 2808/2812 29010KT 3000 BR BKN010 BECMG 2816/2818 0400 FG BKN004 LIMP 271700Z 2718/2818 VRB05KT 1500 BR BKN006 BECMG 2718/2720 0400 FZFG OVC001 BECMG 2808/2810 3000 BR BKN008 TEMPO 2812/2818 6000 BKN013 LIMZ 272300Z 2800/2824 VRB04KT 2000 BR BKN006 TEMPO 2800/2807 0400 FZFG BECMG 2808/2810 6000 BKN012 LIPB 271700Z 2718/2818 VRB04KT CAVOK LIPE 272300Z 2800/2824 VRB05KT 0400 FG BKN004 BECMG 2808/2810 6000 SCT015 BECMG 2816/2818 3000 BR LIPH 272300Z 2800/2824 VRB05KT 4000 BR BKN015 TEMPO 2800/2807 0300 FZFG BKN002 BECMG 2810/2812 7000 BECMG 2818/2820 3000 BR LIPK 271100Z 2712/2812 VRB05KT 3000 BR BKN008 BECMG 2720/2722 0400 FZFG OVC001 BECMG 2808/2810 3000 BR BKN008 LIPL 120800Z 1209/1221 34003KT CAVOK LIPO 272300Z 2800/2824 VRB05KT 0400 FZFG BKN006 BECMG 2807/2809 3000 BR TEMPO 2812/2818 6000 BKN012 BECMG 2818/2820 0400 FZFG LIPQ 272300Z 2800/2824 VRB05KT 6000 BKN020 TEMPO 2800/2806 2000 BCFG LIPR 272300Z 2800/2824 VRB05KT 0800 FG BKN004 BECMG 2808/2810 6000 SCT015 BECMG 2816/2818 2000 BR LIPX 272300Z 2800/2824 VRB05KT 0600 FZFG BKN006 BECMG 2806/2808 3000 BR TEMPO 2812/2818 6000 BKN012 BECMG 2818/2820 0600 FZFG LIPY 272300Z 2800/2824 VRB05KT 4000 BR SCT010 TEMPO 2800/2808 0600 FG BKN002 BECMG 2808/2810 31010KT 7000 BECMG 2818/2820 2000 BR LIPZ 272300Z 2800/2906 VRB05KT 2000 BR BKN015 TEMPO 2800/2807 0400 FG BKN002 BECMG 2809/2811 6000 BECMG 2820/2822 3000 BR LIRA 272300Z 2800/2824 VRB05KT 9999 FEW040 LIRF 272300Z 2800/2906 VRB05KT 9999 FEW040 BECMG 2810/2812 30010KT BECMG 2820/2822 01010KT LIRH 051100Z 0512/0524 22006KT 9999 FEW040 TEMPO 0512/0516 20012KT SCT035 LIRM 251100Z 2512/2524 03008KT CAVOK LIRN 272300Z 2800/2824 VRB05KT CAVOK LIRP 272300Z 2800/2824 12005KT 9999 SCT025 BKN030 TEMPO 2800/2809 5000 BR PROB40 TEMPO 2800/2807 2000 MIFG LIRQ 272300Z 2800/2824 VRB05KT 8000 BKN040 BECMG 2800/2802 3000 BR TEMPO 2803/2807 0800 FG BKN006 BECMG 2808/2810 8000 LIRZ 272300Z 2800/2824 VRB05KT 8000 BKN030 TEMPO 2800/2808 1200 BR LJLJ 272300Z 2800/2824 30003KT 9999 FEW055 SCT080 PROB40 TEMPO 2806/2820 32010KT LJMB 272300Z 2800/2824 VRB02KT 9999 FEW050 BECMG 2806/2808 35010KT TEMPO 2813/2818 35015G30KT LKCV 272300Z 2800/2900 25015KT 9999 BKN030 TEMPO 2800/2900 28018G28KT TEMPO 2800/2811 6000 RA BKN020 PROB40 TEMPO 2800/2809 4000 RASN BKN013 PROB30 TEMPO 2805/2815 31022G32KT BECMG 2814/2816 SCT035 LKKB 272300Z 2800/2900 23018KT 9999 OVC020 TEMPO 2800/2812 27018G30KT 3000 RASN OVC010 BECMG 2812/2815 30015KT TEMPO 2813/2900 CAVOK LKKV 272300Z 2800/2906 27012KT 8000 -SHSN OVC007 TEMPO 2800/2818 30016G30KT TEMPO 2800/2816 3000 SHSN BKN003 PROB30 TEMPO 2800/2804 1200 SHSN BKN001 BKN008TCU PROB30 TEMPO 2804/2816 1400 SN BKN001 PROB30 TEMPO 2816/2903 4000 BR TEMPO 2903/2906 4000 SN BR BKN002 LKMT 272300Z 2800/2906 22012KT 9999 BKN020 TEMPO 2800/2810 24014G24KT TEMPO 2800/2818 7000 -RASN BKN012 PROB30 TEMPO 2800/2804 3000 SHRA BKN009 BKN012TCU BECMG 2810/2812 34012KT TEMPO 2812/2822 35014G26KT PROB30 TEMPO 2810/2818 4000 SHRA BKN009 SCT015TCU BECMG 2818/2819 SCT030 BECMG 2822/2901 21008KT LKNA 272300Z 2800/2900 26016KT 9999 BKN020 PROB30 TEMPO 2800/2812 6000 SHRASN BKN010 BECMG 2806/2810 29020G36KT PROB40 TEMPO 2807/2812 3000 SNRA BKN008 BECMG 2816/2820 28015KT SCT035 LKPD 272300Z 2800/2900 26014KT 9999 BKN030 TEMPO 2800/2815 28020G30KT 7000 RA OVC015 PROB40 TEMPO 2800/2810 3000 SNRA BKN006 OVC010 LKPR 272300Z 2800/2906 27018KT 9999 BKN025 TEMPO 2800/2811 4000 -RASN BKN014 PROB30 TEMPO 2800/2804 1400 SHSNRA BKN009 SCT015TCU PROB30 TEMPO 2804/2811 -SHRA BKN009 TEMPO 2800/2808 28020G34KT BECMG 2808/2810 30014KT TEMPO 2810/2816 32020G34KT BECMG 2900/2902 23012KT TEMPO 2904/2906 24014G26KT -SNRA LKTB 272300Z 2800/2906 26008KT 9999 BKN023 BECMG 2800/2803 31014KT TEMPO 2800/2812 7000 -SHRA BKN012 PROB30 TEMPO 2800/2806 4000 SHRASN BKN009 BKN012TCU TEMPO 2803/2819 33016G26KT PROB30 TEMPO 2810/2816 32018G34KT BECMG 2814/2816 SCT035 LLBG 272310Z 2800/2824 18010KT 9999 -RA BKN040 TEMPO 2800/2812 24015G25KT 6000 RA FEW020TCU BKN030 PROB40 TEMPO 2812/2819 25020G30KT 5000 TSRA SCT015 FEW020CB BKN030 PROB30 TEMPO 2819/2824 6000 RA FEW020TCU BKN030 TX11/2812Z TN07/2804Z LLER 272309Z 2800/2824 29006KT 9999 SCT045 BECMG 2809/2811 02009KT CAVOK TX15/2812Z TN07/2804Z LLHA 272311Z 2800/2824 22010KT 9999 -RA BKN030 TEMPO 2800/2812 25015G25KT 6000 RA FEW020TCU BKN030 PROB40 TEMPO 2812/2818 27020G30KT 5000 TSRA SCT015 FEW020CB BKN030 PROB40 TEMPO 2818/2824 24012G22KT 6000 RA FEW020TCU BKN030 TX13/2812Z TN08/2804Z LLHZ 272313Z 2800/2824 22010KT 9999 -RA BKN040 TEMPO 2800/2812 24015G25KT 6000 RA FEW015TCU BKN025 PROB40 TEMPO 2812/2819 25020G30KT 5000 TSRA SCT015 FEW020CB BKN030 PROB30 TEMPO 2819/2824 6000 RA FEW020TCU BKN030 TX12/2812Z TN09/2804Z LLIB 271617Z 2712/2812 CNL LMML 272300Z 2800/2824 29010KT 9999 FEW025 BECMG 2815/2818 31020G30KT LO SPJC 252300Z 2600/2624 17010KT 8000 OVC010 TX18/2619Z TN14/2611Z BECMG 2603/2606 OVC007 TEMPO 2610/2613 4500 BR OVC004 BECMG 2613/2615 OVC012 BECMG 2618/2620 OVC016 LOWG 272315Z 2800/2824 VRB03KT CAVOK TX07/2814Z TNM04/2800Z TEMPO 2800/2808 0300 BCFG FZFG BECMG 2809/2812 35010KT TEMPO 2811/2817 35015G25KT LOWI 272315Z 2800/2824 27003KT 6000 -SN SCT030 BKN070 TX04/2814Z TNM01/2803Z TEMPO 2802/2805 3000 SN VV010 TEMPO 2808/2816 28015G25KT NSW LOWK 280013Z 2800/2824 VRB02KT CAVOK TX05/2814Z TNM05/2806Z TEMPO 2800/2809 0700 BCFG FZFG PROB30 TEMPO 2800/2808 0400 FZFG BKN001 BECMG 2809/2812 34010KT TEMPO 2812/2817 36015G25KT LOWL 272315Z 2800/2824 27010KT 9000 SCT012 BKN025 TX04/2813Z TN02/2823Z PROB40 2800/2806 30015G25KT 2000 -RASN OVC004 TEMPO 2806/2814 31017G30KT 4000 -SHRA BKN012 LOWS 272315Z 2800/2824 32007KT 9999 SCT015 BKN025 TX04/2814Z TN01/2800Z TEMPO 2800/2803 28015G25KT 4500 SHRASN BKN012 TEMPO 2803/2818 29020G30KT 1400 SHSN SCT008 BKN012TCU TEMPO 2818/2824 29015KT 3000 -SHSN LOWW 280215Z 2803/2909 28020G30KT CAVOK TX06/2813Z TN02/2903Z TEMPO 2810/2817 34030G45KT PROB30 TEMPO 2812/2817 SHRAGS BECMG 2901/2903 30010KT TEMPO 2903/2909 24005KT LPAR 141401Z 1415/1424 04010KT CAVOK= LPST 141400Z 1415/1424 09010KT CAVOK LPAZ 272300Z 2800/2906 06012KT 9999 SCT020 TEMPO 2800/2812 BKN035 LPBJ 272301Z 2800/2824 06008KT CAVOK LPFR 272300Z 2800/2824 06010KT CAVOK BECMG 2808/2810 09015KT LPHR 070630Z 0706/0724 33008KT 9999 FEW015 SCT030 PROB30 TEMPO 0706/0712 5000 SHRA SCT006 BKN012 FEW015CB LPLA 272301Z 2800/2824 04008KT 9999 FEW020 SCT030 PROB30 TEMPO 2800/2805 7000 -SHRA SCT014 BKN022 PROB30 TEMPO 2811/2815 7000 -SHRA SCT014 BKN022 LPMA 272300Z 2800/2824 35010KT 9999 SCT016 TEMPO 2800/2824 8000 SHRA BKN013 FEW018TCU BECMG 2803/2806 VRB05KT TEMPO 2809/2818 12007KT LPMR 272300Z 2800/2824 07008KT CAVOK PROB30 TEMPO 2810/2815 08010G22KT LPMT 272300Z 2800/2824 03010KT CAVOK LPOV 271706Z 2718/2818 05010KT CAVOK PROB30 TEMPO 2803/2812 06010G22KT LPPD 272300Z 2800/2824 06010KT 9999 SCT020 TEMPO 2800/2812 BKN035 BECMG 2808/2811 04013KT LPPR 272300Z 2800/2824 08010KT CAVOK TEMPO 2815/2821 VRB05KT LPPS 272300Z 2800/2906 03012KT 9999 SCT015 TEMPO 2800/2906 8000 SHRA BKN012 FEW016TCU BECMG 2800/2803 09010KT BECMG 2806/2809 12010KT BECMG 2820/2823 06010KT LPPT 272300Z 2800/2906 05010KT CAVOK LPST 270806Z 2709/2718 23010KT 9999 SCT022 TEMPO 2709/2716 24012G22KT 4000 -SHRA BR BKN014 BECMG 2715/2717 SCT006 BKN012 TEMPO 2716/2718 2000 -DZ BR BKN004 LQBK 272300Z 2800/2824 20005KT 9999 SCT045 TX06/2813Z TNM04/2803Z TEMPO 2800/2808 3000 BR PROB30 TEMPO 2801/2806 1200 BCFG PROB40 TEMPO 2808/2812 4000 -RA BR TEMPO 2812/2824 33010KT LQMO 272300Z 2800/2824 VRB02KT CAVOK TX10/2813Z TNM03/2806Z BECMG 2814/2816 02013KT PROB40 TEMPO 2815/2824 02015G25KT LQSA 272300Z 2800/2824 VRB02KT 1000 BR BCFG NSC TX03/2810Z TNM08/2804Z PROB30 TEMPO 2800/2807 0300 FZFG BKN001 PROB30 TEMPO 2807/2811 BKN003 PROB30 TEMPO 2811/2814 VRB10KT 1000 SHSN FEW017TCU BKN023 PROB30 TEMPO 2814/2824 30012KT 1500 SN BKN004 BKN017 LQTZ 272300Z 2800/2824 20005KT 6000 SCT045 TX04/2813Z TNM05/2803Z TEMPO 2800/2808 3000 BR PROB40 TEMPO 2809/2812 4000 -RA BR TEMPO 2810/2824 30010KT PROB30 TEMPO 2818/2824 3000 SN BR BKN014 BKN030 LRB0 102300Z 1100/1200 04016KT 2000 BR BKN010 OVC020 TEMPO 1106/1108 5000 BR BECMG 1108/1110 03006KT 8000 SCT020 BKN040 LRBO 272300Z 2800/2900 23006KT 9999 SCT120 TEMPO 2804/2807 5000 BR SCT050 BKN100 BECMG 2808/2810 30016KT 9999 SCT060 TEMPO 2812/2816 33014G24KT BECMG 2816/2818 34006KT SCT100 LRBS 272300Z 2800/2900 23010KT CAVOK TEMPO 2801/2805 5000 BR BECMG 2814/2816 29012KT LRCK 272300Z 2800/2900 25012KT CAVOK LRCT 272300Z 2800/2900 VRB03KT 3500 BR SCT010 BKN035 BKN100 PROB40 TEMPO 2800/2803 1000 BR BKN002 LRFT 272300Z 2800/2900 23010KT 9999 SCT100 BECMG 2807/2809 24008G18KT SCT040 BKN100 LROP 272300Z 2800/2900 23010KT CAVOK TEMPO 2801/2805 5000 BR BECMG 2814/2816 29012KT LRSB 272300Z 2800/2900 29006KT 9999 BKN020 BECMG 2805/2807 31016KT TEMPO 2808/2814 32020G30KT BECMG 2818/2820 30006KT 5000 -SN BKN015 OVC035 LRTR 272300Z 2800/2900 13006KT 5000 BR BKN040 PROB40 TEMPO 2800/2807 1500 -FZRA BR BKN010 OVC030 BECMG 2807/2809 28012KT 7000 NSW PROB40 TEMPO 2816/2900 5000 -SHSN BKN015 FEW030CB BKN040 LRTZ 272300Z 2800/2900 21006KT 9999 SCT100 BECMG 2805/2807 BKN060 BECMG 2811/2813 30010KT LSGG 280225Z 2803/2909 VRB02KT 6000 BKN050 TX05/2814Z TNM02/2806Z TNM03/2906Z PROB30 TEMPO 2805/2808 0500 FZFG VV002 BECMG 2811/2813 05008KT BECMG 2816/2818 VRB02KT TEMPO 2903/2909 BKN010 LSMA 271625Z 2717/2823 VRB02KT CAVOK PROB30 2719/2721 4000 BR FEW070 BECMG 2721/2723 BKN030 PROB30 2722/2801 -FZRA TEMPO 2722/2808 4000 -SN BKN009 PROB30 2723/2803 2000 SN BKN004 PROB30 2814/2820 CAVOK LSMD 271625Z 2717/2823 VRB02KT CAVOK BECMG 2718/2722 9999 BKN030 TEMPO 2720/2804 3000 -SNRA BKN008 PROB30 2720/2723 1500 -FZRA PROB40 2815/2823 CAVOK LSME 271625Z 2717/2823 VRB02KT 8000 NSC BECMG 2720/2723 BKN030 PROB30 2721/2724 -FZRA TEMPO 2721/2808 4000 -SNRA BKN012 PROB30 2816/2823 CAVOK LSMM 271625Z 2717/2823 VRB01KT CAVOK BECMG 2721/2723 9999 BKN070 TEMPO 2802/2809 3000 -SN BKN009 BECMG 2813/2815 CAVOK LSMP 271930Z 2719/2823 VRB02KT 3700 BR FEW004 PROB40 2719/2722 0200 FZFG VV002 BECMG 2722/2724 RA BKN014 BECMG 2801/2803 6000 NSW BKN020 LSZH 280225Z 2803/2909 24006KT 6000 SCT008 BKN012 TX05/2814Z TN01/2803Z TNM01/2904Z PROB40 TEMPO 2803/2805 -SN PROB40 2803/2808 BKN008 BECMG 2809/2812 BKN015 PROB40 TEMPO 2812/2815 28008KT BECMG 2815/2818 CAVOK LTAC 272240Z 2800/2824 VRB02KT 7000 BKN012 PROB40 TEMPO 2803/2807 4000 BR BKN008 BECMG 2808/2811 BKN018 BECMG 2816/2819 BKN013 LTAG 272240Z 2800/2824 02006KT CAVOK LTAI 272240Z 2800/2824 34009KT CAVOK LTAJ 272240Z 2800/2824 31006KT CAVOK BECMG 2807/2809 SCT040 BECMG 2816/2818 BKN040 LTAP 272240Z 2800/2824 VRB02KT 9999 SCT040 BECMG 2800/2803 2000 BR PROB30 TEMPO 2803/2806 0500 FZFG VV005 BECMG 2806/2808 9999 NSW LTAT 272240Z 2800/2824 21007KT CAVOK BECMG 2809/2811 SCT040 BECMG 2815/2817 CAVOK LTAU 272240Z 2800/2824 VRB02KT 6000 SCT008 SCT025 TEMPO 2800/2803 2000 BR PROB40 TEMPO 2803/2807 1100 BCFG BKN008 LTAZ 272240Z 2800/2824 VRB02KT 2000 BR FEW010 SCT035 TEMPO 2800/2804 1100 BCFG BKN010 TEMPO 2804/2807 1100 BCFG BKN010 BECMG 2807/2810 8000 LTBA 272240Z 2800/2906 21013KT CAVOK TEMPO 2800/2804 FEW020 SCT060 BECMG 2812/2815 SCT020 BKN100 LTBJ 272240Z 2800/2824 VRB02KT CAVOK BECMG 2800/2803 FEW030 SCT080 PROB40 2803/2806 4000 BR BECMG 2806/2809 CAVOK BECMG 2809/2812 SCT030 LTBR 272240Z 2800/2824 VRB02KT 0200 FZFG VV001 BECMG 2807/2810 2500 BR NSC BECMG 2810/2813 6000 BECMG 2814/2818 3500 BR FEW035 SCT090 BECMG 2820/2823 BKN030 BKN080 LTBS 272240Z 2800/2824 01012KT CAVOK LTBU 272240Z 2800/2824 VRB02KT CAVOK BECMG 2805/2809 21012KT BECMG 2812/2814 SCT035 BKN100 LTCC 272240Z 2800/2824 30009KT CAVOK PROB30 TEMPO 2803/2807 2000 BR BECMG 2814/2816 SCT040 BKN100 LTCE 272240Z 2800/2824 VRB02KT 9999 SCT035 BKN070 BECMG 2800/2802 SCT040 TEMPO 2801/2804 4500 BR BECMG 2804/2806 CAVOK BECMG 2811/2813 SCT040 LTCG 272240Z 2800/2824 VRB02KT 9999 SCT100 BECMG 2804/2808 CAVOK LTCJ 272240Z 2800/2824 VRB02KT CAVOK PROB30 TEMPO 2803/2807 2500 BR BECMG 2817/2819 SCT040 BKN100 LTCS 272240Z 2800/2824 VRB02KT CAVOK BECMG 2804/2806 34012KT TEMPO 2811/2814 SCT040 BECMG 2818/2820 BKN025 PROB40 TEMPO 2820/2824 4000 -SN BR LTCV 272240Z 2800/2824 09009KT 9999 FEW010 BKN030 OVC090 BECMG 2801/2803 -SNRA BECMG 2808/2810 -RA BECMG 2816/2819 SCT040 BKN100= LTFC 272240Z 2800/2824 VRB02KT CAVOK LTFE 272240Z 2800/2824 VRB02KT CAVOK LTFJ 272240Z 2800/2824 VRB02KT 9999 SCT030 BKN090 BECMG 2800/2802 CAVOK BECMG 2805/2808 21012KT BECMG 2810/2813 SCT035 BKN100 PROB40 TEMPO 2816/2820 24015G25KT -SHRA SCT012 BKN025 LTFM 272240Z 2800/2906 20008KT CAVOK BECMG 2806/2809 20018KT BECMG 2811/2814 SCT035 BKN100 PROB30 TEMPO 2815/2818 -SHRA BECMG 2819/2822 24006KT LUKK 272320Z 2800/2824 24006KT CAVOK TEMPO 2808/2812 3000 SNRA BKN008 BECMG 2819/2821 29012KT LWOH 272330Z 2800/2824 34005KT CAVOK LWSK 272330Z 2800/2824 VRB02KT CAVOK BECMG 2810/2812 36010KT SCT040 BKN080 LXGB 281618Z 2818/2923 28018G28KT 9999 SCT035 PROB40 TEMPO 2818/2820 7000 -SHRA SCT020 LYBE 272300Z 2800/2824 23004KT 7000 SCT040 TX06/2814Z TNM02/2802Z TEMPO 2800/2803 3000 BR PROB40 TEMPO 2804/2807 4000 -FZRA BKN015 BKN030 BECMG 2808/2810 29012KT LYBT 272300Z 2800/2824 21004KT 5000 BR SCT040 TX03/2813Z TNM04/2801Z TEMPO 2800/2802 2500 PROB40 TEMPO 2804/2807 -FZRA BKN015 BKN030 BECMG 2808/2810 27010KT 8000 NSW LYKV 272300Z 2800/2824 VRB02KT 9999 SCT040 TX03/2814Z TNM06/2802Z BECMG 2801/2803 5000 BR PROB30 2804/2807 0600 FZFG TEMPO 2809/2812 RA BKN012 BKN027 BECMG 2812/2814 8000 NSW LYNI 272300Z 2800/2824 14004KT 2500 BR NSC TX05/2813Z TNM04/2805Z TEMPO 2800/2802 0600 FZFG BECMG 2807/2809 31010KT 7000 NSW PROB30 TEMPO 2808/2809 -FZRA TEMPO 2813/2816 31020KT 3000 SHRASN FEW027TCU BKN033 LYPG 272300Z 2800/2824 36005KT 9999 SCT030 SCT080 TX08/2813Z TNM03/2804Z PROB30 TEMPO 2815/2822 5000 TSRA FEW030CB SCT040 BKN070 BECMG 2818/2821 02015G30KT LYTV 271100Z 2712/2812 32008KT 9999 FEW050 SCT080 TX12/2713Z TN01/2805Z LYUZ 032305Z 0318/0418 CNL LYVR 272300Z 2800/2824 16008KT CAVOK TX04/2814Z TNM01/2804Z TEMPO 2800/2802 16015G25KT TEMPO 2804/2807 4000 FZRA BKN015 BKN030 BECMG 2810/2812 31010KT LZIB 272300Z 2800/2900 25011KT 9999 SCT020 SCT030 BKN035 TEMPO 2800/2803 27025G40KT SHRA SCT015 BKN020 TEMPO 2803/2900 27020G35KT LZKZ 272300Z 2800/2900 VRB02KT 6000 BKN020 TEMPO 2800/2807 VRB02KT 1200 BR BKN004 PROB30 TEMPO 2800/2807 0700 FZFG OVC002 BECMG 2807/2809 25007KT 9999 BKN040 BECMG 2816/2818 35011KT LZSL 271630Z 2718/2806 VRB03KT 9999 BKN030 BKN060 TEMPO 2718/2806 3000 -SN SNRA SCT012 BKN020 OVC035 BECMG 2801/2803 32012KT LZTT 272300Z 2800/2900 24015KT 9999 SCT020 BKN035 TEMPO 2800/2814 24020G35KT TEMPO 2800/2808 4000 -SHSN SCT010 BKN020 TEMPO 2808/2822 2000 SHSN BKN008 BKN016 BECMG 2814/2816 30005KT MBGT 272255Z 2800/2900 10006KT 9999 SCT020 BKN240 MBPV 272255Z 2800/2900 12005KT 9999 SCT020 BKN240 MDBH 272200Z 2800/2900 13010KT 9999 FEW018 SCT080 BECMG 2808/2810 00000KT MDCY 272200Z 2800/2900 00000KT 9999 FEW018 PROB30 2702/2708 8000 -SH SCT016 SCT070 MDJB 272200Z 2800/2900 15005KT 9999 SCT018 PROB30 2800/2805 7000 -RA SCT018 BECMG 2801/2803 00000KT MDLR 272200Z 2800/2900 00000KT 9999 SCT018 BECMG 2813/2815 07010KT MDPC 272200Z 2800/2900 06004KT 9999 FEW018 PROB30 2804/2810 8000 -SHRA BKN016 BECMG 2803/2805 00000KT MDPP 272200Z 2800/2900 07010KT 9999 FEW020 BECMG 2800/2802 00000KT MDSD 272200Z 2800/2900 03005KT 9999 SCT018 PROB30 2802/2808 8000 -RA SCT014 MDST 272200Z 2800/2900 12010KT 9999 FEW020 BECMG 2802/2804 VRB03KT METAR SMZO 150400Z 1506/1606 06004KT CAVOK TX31/1517Z TN23/1509Z PROB30 TEMPO 1508/1510 VRB02KT 4000 BR SCT003 BECMG 1511/1513 07008KT SCT020 PROB30 TEMPO 1512/1516 5000 SHRA BKN018 FM152200 04005KT CAVOK MGGT 272300Z 2800/2824 36018KT 9999 FEW018 TX25/2820Z TN14/2812Z BECMG 2801/2803 FEW016 BECMG 2806/2808 SCT016 BECMG 2815/2817 36016KT FEW018 TEMPO 2820/2824 SCT018 MGMM 182300Z 1900/1924 00000KT 9999 BKN012 TX33/1920Z TN21/1912Z BECMG 1915/1917 VRB03KT SCT018 TEMPO 1820/1924 05008KT 8000 VCTSRA FEW025CB MGPB 272300Z 2800/2824 00000KT 9999 FEW018 TX33/2820Z TN20/2812Z BECMG 2806/2808 SCT016 BECMG 2815/2817 31008KT FEW018 TEMPO 2820/2824 SCT018 MGSJ 272300Z 2800/2824 00000KT CAVOK TX34/2820Z TN21/2812Z BECMG 2815/2817 18008KT 8000 SKC TEMPO 2819/2824 23010KT 5000 FU FEW020 MHLC 272324Z 2800/2824 VRB05KT 9999 SCT024 TX28/2822Z TN23/2812Z BECMG 2819/2823 8000 VCSH BKN080 MHLM 272324Z 2800/2824 VRB04KT 9999 SCT028 TX32/2821Z TN20/2812Z BECMG 2819/2821 03010KT 8000 VCSH BKN080 MHPR 272300Z 2800/2824 36014KT 9999 SCT046 TX30/2821Z TN19/2812Z TEMPO 2803/2807 8000 VCSH MHRO 272324Z 2800/2824 09012KT 9999 SCT022 TX28/2820Z TN25/2812Z TEMPO 2802/2806 7000 RA BKN080 BECMG 2815/2817 VRB04KT SCT024 MHSC 062200Z 0622/0802 36012KT 9000 -SHRA SCT050 SCT060 QNH2991INS TEMPO 0622/0706 36010G15KT 6000 -TSRA SCT040CB BKN055 BECMG 0705/0706 35006KT 9999 NSW FEW040 FEW050 QNH2995INS BECMG 0715/0716 36009KT 9999 FEW060 SCT180 QNH2995INS BECMG 0718/0719 35012KT 9000 -SHRA SCT060 BKN080 QNH2994INS TEMPO 0720/0724 6000 -TSRA SCT040CB BKN050 TX30/0622Z TN23/0712Z LAST NO AMDS AFT 0702Z NEXT 0714Z MHTG 272324Z 2800/2824 VRB04KT 9999 BKN028 TX29/2822Z TN16/2812Z BECMG 2816/2818 03010KT SCT028 MIL LRFT 170500Z 1706/1806 21012KT 9999 SCT150 BECMG 1716/1718 BKN100 BECMG 1722/1800 BKN010 BKN020 OVC070 TEMPO 1802/1806 2000 SN BR BKN005 OVC010 MKJP 272315Z 2800/2824 35005KT 9999 FEW022 BECMG 2816/2818 20010KT MKJS 272315Z 2800/2824 12005KT 9999 FEW022 BECMG 2815/2817 05010KT MMAA 272257Z 2800/2906 23010KT P6SM SCT015 TX29/2820Z TN22/2812Z FM280600 00000KT P6SM SKC FM281800 23010KT P6SM SKC FM290000 34005KT P6SM SCT020 MMAN 271955Z 2718/2818 00000KT 1SM DZ BR VV003 FM272000 02010KT 2SM DZ BR BKN003 OVC010 FM280300 00000KT 1SM BR DZ BKN003 OVC005 FM281500 34015KT 3SM BR DZ OVC010 MMAS 271632Z 2718/2818 23010KT P6SM BKN200 BECMG 2720/2721 25015KT FM280300 27006KT P6SM BKN200 BECMG 2817/2818 30010KT MMBT 271622Z 2718/2818 16010KT P6SM SCT220 FM280200 00000KT P6SM SCT100 BECMG 2817/2818 16010KT MMCB 271622Z 2718/2818 17010KT P6SM SKC BECMG 2801/2802 00000KT FM281700 16010KT P6SM SCT200 MMCE 272134Z 2722/2818 03010KT 6SM HZ SCT025 FM280000 02020KT 6SM HZ BKN015 OVC040 FM281000 09005KT 5SM HZ OVC015 FM281700 03010KT 6SM HZ BKN015 OVC060 MMCL 271647Z 2718/2818 23010KT P6SM SCT250 FM280300 00000KT P6SM SCT200 MMCM 271657Z 2718/2818 36005KT P6SM BKN010 FM272000 12010KT P6SM SCT030 FM280200 10005KT P6SM SCT020 PROB40 2810/2814 4SM RA OVC015 MMCN 271639Z 2718/2818 29010KT P6SM SCT100 SCT200 FM280100 00000KT P6SM BKN200 BECMG 2817/2818 32010KT MMCP 272137Z 2722/2818 34010G20KT 6SM HZ SCT025 BKN080 FM280100 36015KT P6SM BKN015 OVC070 FM280900 06006KT 6SM HZ OVC015 TEMPO 2811/2815 5SM HZ OVC010 MMCS 271726Z 2718/2818 35012KT P6SM SCT250 FM280600 06012KT P6SM SKC FM281200 09010KT P6SM SKC MMCU 271726Z 2718/2818 20010KT P6SM BKN040 BKN200 FM280300 02010KT P6SM SCT025 BKN200 FM281300 02010KT 5SM DZ OVC015 MMCV 271718Z 2718/2818 34006KT P6SM BKN020 OVC050 FM280300 34005KT 6SM HZ OVC015 TEMPO 2811/2815 2SM BR OVC008 MMCZ 280153Z 2802/2906 02010KT 3SM RA BKN015CB FM280500 04010KT P6SM VC RA BKN015 BKN080 FM280900 02010KT P6SM BKN015 PROB40 2815/2819 3SM RA BKN010CB FM282100 02010KT P6SM SCT015 BKN100 MMDO 271639Z 2718/2818 25015KT P6SM BKN200 FM280600 25006KT P6SM SCT200 FM281700 34010KT P6SM SKC MMEP 271632Z 2718/2818 30010KT P6SM BKN250 BECMG 2801/2802 00000KT TEMPO 2810/2814 3SM BR BKN010 FM281700 34010KT P6SM BKN250 MMGL 272302Z 2800/2906 24010KT P6SM BKN080 BKN300 TX27/2821Z TN08/2812Z FM280600 00000KT P6SM BKN200 FM281300 00000KT 5SM HZ BKN200 FM282000 24010KT P6SM SCT030 BKN200 MMGM 271639Z 2718/2818 30010KT P6SM BKN100 BKN200 FM280200 00000KT P6SM BKN200 FM281700 32010KT P6SM SCT200 MMHO 271647Z 2718/2818 24010KT P6SM BKN100 FM280600 04008KT P6SM BKN100 FM281500 00000KT P6SM SCT100 MMIA 271632Z 2718/2818 23010KT 6SM HZ BKN150 FM280200 00000KT P6SM BKN200 BECMG 2817/2818 23010KT MMIO 271726Z 2718/2818 00000KT 3SM BR BKN010 FM272100 02010KT P6SM SCT025 BKN200 FM280300 00000KT 2SM BR OVC005 FM280900 00000KT 1/4SM FG DZ VV003 MMLM 271639Z 2718/2818 32015KT P6SM SCT220 TEMPO 2811/2815 3SM BR FM281700 32015KT P6SM SKC MMLO 271632Z 2718/2818 26010KT P6SM SCT030 BKN220 FM280300 00000KT P6SM BKN220 BECMG 2817/2818 25010KT MMLP 271647Z 2718/2818 02015KT P6SM SCT100 FM280600 23010KT P6SM SCT100 MMLT 271639Z 2718/2818 34015KT P6SM SCT240 BECMG 2800/2801 34006KT FM281700 34012KT P6SM SKC MMMA 272153Z 2722/2818 08006KT P6SM BKN025 OVC080 FM280300 09005KT 5SM HZ BKN015 OVC070 FM280900 03010KT 3SM BR OVC010 FM281200 03020G30KT 3SM RA OVC008 FM281700 34015KT 5SM HZ OVC010 MMMD 272308Z 2800/2906 36015KT P6SM SCT020 BKN300 TX29/2820Z TN20/2812Z FM280600 02010KT P6SM SCT015 FM281200 00000KT 5SM HZ BKN010 FM281600 04010KT P6SM BKN020 FM282100 34015KT P6SM SCT030 BKN100 MMML 271647Z 2718/2818 30012KT P6SM SKC FM280600 30015KT P6SM BKN200 FM281200 04012KT P6SM BKN200 MMMM 272302Z 2800/2906 18010KT P6SM SCT030 BKN120 FM280600 00000KT P6SM BKN200 FM282000 23010KT P6SM SCT025 BKN200 TEMPO 2821/2901 BKN025 MMMT 272151Z 2722/2818 36010KT P7SM OVC020 FM280300 34006KT 5SM HZ OVC015 TEMPO 2810/2814 3SM DZ BR OVC010 MMMV 271907Z 2718/2818 00000KT 2SM BR DZ VV004 FM272100 04005KT 5SM HZ BKN015 FM280300 00000KT 2SM BR DZ BKN005 OVC010 FM281200 00000KT 1SM DZ BR VV005 MMMX 272257Z 2800/2906 20010G20KT P6SM SCT030 TX23/2821Z TN10/2812Z TEMPO 2800/2802 BKN030 FM280300 00000KT P6SM SCT200 FM281300 00000KT 5SM HZ SCT200 FM282100 04012KT P6SM SCT030 TEMPO 2822/2902 BKN030 VC CB MMMY 272311Z 2800/2906 00000KT 2SM BR DZ BKN003 OVC005 TX14/2820Z TN10/2812Z FM280300 00000KT 1SM DZ BR BKN002 OVC005 FM281600 34008KT 2SM DZ BR BKN004 OVC010 FM282000 34015KT 5SM RA OVC010 FM282200 34015KT P6SM SCT030 BKN070 MMMZ 272303Z 2800/2906 23010KT P6SM BKN200 TX25/2820Z TN12/2812Z FM280600 00000KT P6SM BKN200 TEMPO 2810/2814 3SM BR SCT015 FM281800 24010KT P6SM BKN200 MMNL 280104Z 2801/2818 00000KT 3SM -DZ BR BKN015 OVC020 TEMPO 2810/2814 2SM RA OVC006 MMOX 271622Z 2718/2818 14010KT P6SM SCT025 FM280300 03005KT P6SM SKC TEMPO 2810/2814 BKN020 FM281700 10010KT P6SM SCT030 MMPA 271718Z 2718/2818 00000KT 4SM HZ BKN015 OVC040 TEMPO 2811/2815 2SM DZ BR OVC010 MMPB 271622Z 2718/2818 20010KT P6SM SKC BECMG 2802/2803 00000KT FM281700 23010KT P6SM SCT020 MMPG 271718Z 2718/2818 13006KT P6SM OVC030 FM280200 00000KT 5SM HZ OVC015 FM280600 03010KT 4SM RA OVC010 TEMPO 2810/2814 1SM DZ BR OVC004 MMPN 271632Z 2718/2818 18010KT P6SM BKN090 BECMG 2719/2720 SCT030CB BKN240 FM280100 00000KT P6SM BKN240 BECMG 2817/2818 18010KT MMPQ 271657Z 2718/2818 03010KT 5SM HZ BKN030 BECMG 2801/2802 00000KT TEMPO 2812/2816 3SM BR OVC010 MMPR 272302Z 2800/2906 20010KT P6SM SCT020 BKN250 TX25/2820Z TN18/2812Z TEMPO 2802/2806 BKN015 FM281200 00000KT P6SM BKN200 FM282000 20010KT P6SM BKN200 MMPS 271622Z 2718/2818 22010KT P6SM SKC FM280200 00000KT P6SM SCT100 FM281700 20010KT P6SM SCT030 MMQT 271632Z 2718/2818 27010KT P6SM SCT020 SCT200 BECMG 2721/2722 27015KT FM280300 00000KT P6SM BKN200 BECMG 2817/2818 30010KT MMRX 280100Z 2801/2818 00000KT 3SM RA OVC030 FM280300 00000KT 2SM BR OVC008 FM280900 01015KT 2SM RA OVC005 TEMPO 2810/2814 03015G25KT MMSD 271639Z 2718/2818 14010KT P6SM BKN220 FM280200 00000KT P6SM SCT220 BECMG 2817/2818 20010KT MMSL 271639Z 2718/2818 23010KT P6SM SCT240 BECMG 2801/2802 00000KT FM281700 24010KT P6SM SKC MMSM 272257Z 2800/2906 24010KT 6SM HZ SCT020 FM281300 00000KT 4SM HZ SCT015 FM282100 04010KT P6SM BKN025 FM290300 04010KT P6SM SCT020 BKN080 MMSP 272302Z 2800/2906 03010KT P6SM SCT030 BKN250 TX23/2821Z TN06/2812Z FM280900 00000KT 2SM BR OVC005 TEMPO 2811/2815 1/2SM FG VV002 FM281700 04010KT P6SM SCT020 BKN200 MMTC 271726Z 2718/2818 06010KT P6SM SCT100 BKN200 FM280900 00000KT 5SM HZ BKN015 FM281500 04010KT 5SM DZ OVC010 MMTG 271710Z 2718/2818 34010KT P6SM SCT030 FM272100 30010G20KT P6SM BKN025 FM280300 30010KT P6SM SCT020 TEMPO 2812/2816 3SM BR BKN015 MMTJ 272303Z 2800/2906 24010KT P6SM SKC TX23/2821Z TN10/2812Z FM281200 09010KT P6SM SKC FM282000 09012KT P6SM BKN200 MMTM 271627Z 2718/2818 05005KT 6SM HZ SCT015 OVC070 TEMPO 2720/2724 BKN015 FM280600 00000KT 3SM BR OVC015 FM281200 34005KT 2SM DZ BR BKN005 OVC010 MMTO 272257Z 2800/2906 24008KT P6SM SCT020 TX21/2821Z TN02/2812Z FM281200 00000KT 2SM BR BKN010 FM281600 00000KT 5SM HZ SCT200 FM282100 23010KT P6SM BKN020 FM290300 00000KT 6SM HZ SCT015 BKN070 MMTP 272308Z 2800/2906 24010KT P6SM SCT070 FM281800 23010KT P6SM SCT030 FM290300 00000KT P6SM SCT080 MMUN 272308Z 2800/2906 02010KT P6SM VC RA SCT015 BKN080 TX28/2820Z TN21/2812Z TEMPO 2800/2802 5SM RA BKN010CB FM280300 02010KT P6SM SCT015 FM281500 04010KT P6SM BKN015 PROB40 2818/2822 5SM RA SCT010CB FM290000 02010KT P6SM SCT015 BKN100 MMVA 271657Z 2718/2818 03010KT 4SM HZ SCT006 OVC015 TEMPO 2718/2722 3SM -DZ OVC006 FM280100 00000KT 3SM BR OVC010 FM281700 32010KT 4SM HZ OVC015 MMVR 271627Z 2718/2818 36010KT 6SM HZ BKN015 OVC020 TX25/2720Z TN20/2812Z TEMPO 2720/2724 4SM DZ FM280600 00000KT 4SM DZ BKN010 OVC070 FM281500 00000KT 5SM HZ OVC015 MMZC 272302Z 2800/2906 25012KT P6SM BKN200 TX21/2821Z TN08/2812Z FM280600 00000KT P6SM BKN200 FM281800 04010KT P6SM SCT030 BKN200 MMZH 271622Z 2718/2818 23010KT P6SM SKC FM280200 00000KT P6SM SCT020 FM281700 23010KT P6SM SKC MMZO 271640Z 2718/2818 24010KT P6SM BKN250 FM280600 00000KT P6SM SCT015 BKN200 MNBL 271600Z 2718/2818 07010KT 6000 VCRA/DZ BKN016 FM280300 09004KT 9999 FEW018 BECMG 2812/2815 36004KT 6000 VCRA SCT016TCU SCT070 MNMG 271600Z 2718/2818 07016G24KT 9999 FEW025 BECMG 2802/2805 12004KT 9999 FEW020 FM281600 07012G22KT FEW024 MNPC 271600Z 2718/2818 VRB08KT 8000 HZ SCT018 TEMPO 2803/2807 36004KT 6000 VCRA BKN017TCU BECMG 2813/2816 7000 HZ FEW016 MP20 081100Z 0812/0824 22007KT 9999 SCT018 PROB40 0821/0824 6000 TSRA SCT015CB BKN090 MPDA 280300Z 2800/2812 CNL MPMG 280300Z 2800/2812 CNL MPPA 280300Z 2800/2906 CNL= MPMG 280300Z 2800/2812 CNL MPSM 272100Z 2718/2824 CNL MPSN 211040Z 2112/2218 32006KT 9999 SCT018 SCT090 PROB30 TEMPO 2117/2121 18008KT 6000 TSRA SCT015CB BKN080 MPTO 272300Z 2800/2906 34005KT 9999 SCT020 TEMPO 2802/2806 29005KT TEMPO 2813/2815 15005KT TEMPO 2818/2822 35012KT MRLB 272300Z 2800/2824 08013KT CAVOK TX34/2820Z TN22/2811Z TEMPO 2810/2814 28003KT TEMPO 2815/2820 08015G25KT TEMPO 2821/2824 27005KT MRLM 272300Z 2800/2824 25005KT 9999 FEW030 TX30/2821Z TN21/2811Z TEMPO 2810/2815 DZ FEW020TCU BECMG 2816/2818 05008KT MROC 272300Z 2800/2824 10012KT CAVOK TX30/2819Z TN19/2811Z TEMPO 2812/2818 10010G20KT TEMPO 2820/2824 25008KT MRPV 272300Z 2800/2900 09015KT 9999 FEW045 TX26/2818Z TN17/2810Z MSLP 122125Z 1300/1324 03008KT CAVOK TX35/1318Z TN24/1312Z TEMPO 1314/1318 03010G20KT FM131800 20008KT 9999 SCT070 MSSS 271525Z 2718/2818 18005KT 9999 FEW040 TX29/2719Z TN20/2811Z FM280600 36004KT 9999 FEW040 MTCH 271700Z 2718/2818 02010KT 9999 SCT025 FM280600 12005KT 7000 FEW020 BECMG 2814/2818 03014KT MTPP 271700Z 2718/2818 VRB02KT 9999 FEW025 BECMG 2718/2722 28010KT SCT024CB PROB30 TEMPO 2800/2805 4600 -SHRA FM280600 VRB02KT 8000 FEW020 BECMG 2812/2816 10012KT MUCC 272300Z 2800/2824 VRB03KT 9000 SCT020 TEMPO 2808/2814 5000 BR FEW040 MUCF 271700Z 2718/2806 22007KT 9000 SCT020 BECMG 2800/2802 VRB03KT MUCL 271700Z 2718/2806 VRB03KT 9000 SCT020 BECMG 2801/2803 35008KT MUCM 272300Z 2800/2824 03008KT 9000 SCT020 BECMG 2801/2803 VRB03KT BECMG 2808/2809 3000 BR FEW040 TEMPO 2810/2814 0800 FG FM281500 VRB03KT 9000 SCT020 MUCU 272300Z 2800/2824 VRB03KT 9000 SCT020 MUGM 2723/2823 10010KT 9999 FEW030 FEW120 QNH2998INS BECMG 2800/2802 35006KT 9999 FEW030 QNH2996INS BECMG 2816/2818 17010KT 9999 FEW030 FEW060 QNH2991INS T21/2810Z T29/2818Z FN20069 MUHA 272300Z 2800/2824 VRB03KT 9000 SCT025 BECMG 2813/2815 05010KT MUHG 272300Z 2800/2824 03010KT 9000 SCT030 BECMG 2801/2803 VRB03KT BECMG 2808/2809 3000 BR FEW040 TEMPO 2810/2814 0800 FG FM281500 VRB03KT 9000 SCT020 MUMZ 221700Z 2218/2306 26010KT 9000 SCT020 MUNG 221700Z 2218/2306 34010KT 9000 SCT020 MUPB 271700Z 2718/2818 VRB03KT 9000 SCT030 TEMPO 2718/2724 VRB10KT 4000 TSRA SCT018CB BKN020 BECMG 2801/2803 01007KT TEMPO 2808/2814 2000 BR MUSA 142300Z 1500/1524 04010KT 9000 SCT020 TEMPO 1500/1501 VRB10KT 5000 RA SCT018CB BKN020 BECMG 1502/1504 VRB03KT MUSC 272300Z 2800/2824 VRB03KT 9000 SCT030 BECMG 2808/2809 3000 BR FEW040 TEMPO 2810/2814 0800 FG FM281500 VRB03KT 9000 SCT020 MUVR 272300Z 2800/2824 VRB03KT 9000 BKN020 BECMG 2815/2817 33008KT MWCB 280000Z 2718/2818 CNL MWCR 272300Z 2800/2824 04005KT 9999 FEW020= SCAR 272220Z 2800/2824 18004KT CAVOK TN19/2809Z TX23/2818Z BECMG 2814/2816 21014KT BECMG 2823/2824 17004KT BKN040 MYGF 272255Z 2800/2900 36006KT 9999 FEW018 SCT050 PROB30 TEMPO 2806/2812 05005KT 9999 VCSH SCT025 FM281800 25006KT 9999 SCT025 BKN050 MYNN 272255Z 2800/2900 31003KT 9999 SCT020 SCT060 FM281200 25006KT 9999 VCSH FEW020 BKN050 MZBZ 272200Z 2800/2824 09005KT 9999 SCT023 SCT045 PROB30 TEMPO 2803/2807 5000 SHRA BKN015 BECMG 2804/2806 VRB02KT BECMG 2816/2818 07006KT NCRG 272329Z 2800/2824 08009KT 9999 FEW015 PROB30 TEMPO 2800/2806 5000 SHRA BKN015 PROB30 TEMP0 2806/2812 5000 TSRA BKN015 FEW018CB NDSU 142300Z 1500/1606 VRB02KT 7000 SCT008 TEMPO 1505/1508 3000 BR BECMG 1508/1510 20010KT BKN012 FEW020CB TEMPO 1512/1516 TS BECMG 1517/1519 VRB02KT SCT010 NFFN 272328Z 2800/2824 04010KT 9999 FEW027 SCT100 PROB40 TEMPO 2800/2802 5000 TSRA BKN015 FEW018CB TEMPO 2802/2812 3000 TSRA BKN012 FEW015CB PROB30 TEMPO 2812/2818 5000 SHRA SCT009 BKN015 NFNA 272323Z 2800/2824 08008KT 9999 -SHRA SCT020 BKN100 PROB40 TEMPO 2800/2806 5000 TSRA BKN015 FEW018CB TEMPO 2806/2815 5000 TSRA BKN015 FEW016CB PROB40 TEMPO 2820/2824 5000 SHRA BKN015 NFTF 272326Z 2800/2824 08009KT 9999 FEW022 PROB30 TEMPO 2800/2806 5000 SHRA BKN015 PROB40 TEMPO 2806/2824 5000 TSRA BKN015 FEW018CB NFTV 272331Z 2800/2824 08007KT 9999 FEW018 PROB30 TEMPO 2800/2818 5000 TSRA BKN015 FEW018CB NGFU 272308Z 2800/2824 01009KT 9999 FEW020 BKN100 PROB40 TEMPO 2800/2824 5000 TSRA BKN015 FEW018CB NGTA 272315Z 2800/2824 09009KT 9999 FEW020 PROB30 TEMPO 2806/2814 5000 TSRA BKN015 FEW018CB NIL= UGSB 311700Z 3118/0118 13008KT 9999 FEW020 BKN100 TX10/3110Z TN07/0103Z BECMG 3121/3124 -RA SCT020 BKN050 TEMPO 0100/0109 18013KT 6000 SHRA SCT013 BKN025CB NIUE 272304Z 2800/2824 04009KT 9999 BKN018 PROB30 TEMPO 2808/2812 5000 SHRA BKN015 NLWF 272300Z 2800/2824 09010KT 9999 FEW018 TEMPO 2804/2824 SHRA FEW020TCU PROB40 TEMPO 2810/2820 2000 SHRA BKN009 SCT016CB NLWW 272300Z 2800/2824 09008KT 9999 FEW020TCU SCT025 TEMPO 2800/2812 2000 TSRA BKN010 SCT016CB SCT018TCU TEMPO 2812/2824 4000 SHRA BKN014 FEW018CB NMBL 231705Z 2318/2418 10006KT 8000 VCRA BKN017 SCT070 TEMPO 2320/2400 14010KT 5000 TSRA/DZ SCT016CB SCT060 NNNN ZCZC 002 FCIN90 VIDP 011100 VIDN 011100Z 0112/0121 29008KT 4000 HZ NSC BECMG 0118/0120 02005KT 2200 HZ NSC BECMG 1601/1603 24007KT 2500 HZ BECMG 1604/1606 4000 FU BECMG 1607/1609 26008KT 6000 BECMG 1613/1615 24006KT 4000 FU BECMG 1516/1518 29006KT BECMG 1622/1624 3000 HZ BECMG 1702/1704 32006KT 2500 HZ BECMG 1704/1706 6000 NSFA 272325Z 2800/2824 04015KT 9999 SCT018 OVC100 PROB40 TEMPO 2800/2824 02015G25KT 3000 TSRA BKN010 FEW015CB NSTU 280253Z 2803/2824 05014G22KT P6SM -SHRA SCT015 SCT025 BKN040 TEMPO 2803/2805 02012G22KT 4SM SHRA BKN015 BKN040 FM280600 05012KT P6SM -SHRA SCT015 SCT025 BKN045 NTAA 280122Z 2801/2906 22010KT 9999 FEW023 SCT050 TEMPO 2808/2815 07015G30KT 4000 SHRA FEW015CB BKN040 PROB30 TEMPO 2808/2815 2000 TSRA SCT015CB BKN040 NVSC 272220Z 2800/2824 31010KT 9999 SCT020 INTER 2800/2806 8000 SHRA FEW010 BKN018 OVC100 PROB40 INTER 2718/2722 5000 -TSRA SCT008 BKN018 FEW022CB OVC100 NVSG 272220Z 2800/2824 34010KT 9999 SCT020 INTER 2800/2806 8000 SHRA FEW010 BKN018 OVC100 PROB40 INTER 2718/2722 5000 -TSRA SCT008 BKN018 FEW022CB OVC100 NVSL 272220Z 2800/2824 03008KT 9999 SCT020 INTER 2800/2806 8000 SHRA FEW010 BKN018 OVC100 PROB40 INTER 2718/2722 5000 TSRA SCT008 BKN018 FEW022CB OVC100 NVSP 272220Z 2800/2824 02008KT 9999 SCT020 INTER 2800/2806 8000 SHRA FEW010 BKN018 OVC100 PROB40 INTER 2718/2722 5000 -TSRA SCT008 BKN018 FEW022CB OVC100 NVSS 272220Z 2800/2824 36010KT 9999 SCT020 INTER 2800/2806 8000 SHRA FEW010 BKN018 OVC100 PROB40 INTER 2718/2722 5000 -TSRA SCT008 BKN018 FEW022CB OVC100 NVVA 272220Z 2800/2824 09010KT 9999 SCT020 BKN100 INTER 2800/2806 8000 SHRA FEW010 BKN018 OVC100 PROB40 INTER 2718/2722 5000 TSRA SCT008 BKN018 FEW022CB OVC100 NVVV 272220Z 2800/2824 04008KT 9999 SCT020 INTER 2800/2806 8000 SHRA FEW010 BKN018 OVC100 PROB40 INTER 2718/2722 5000 TSRA SCT008 BKN018 FEW022CB OVC100 NVVW 272220Z 2800/2824 08010KT 9999 SCT020 BKN100 INTER 2800/2806 8000 SHRA FEW010 BKN018 OVC100 PROB40 INTER 2718/2722 5000 TSRA SCT008 BKN018 FEW022CB OVC100 NWWD 272300Z 2800/2824 10010KT 9999 FEW025 BKN050 TEMPO 2801/2815 4000 SHRA BKN014 SCT020TCU PROB40 TEMPO 2803/2810 2000 TSRA BKN009 SCT016CB BECMG 2805/2808 VRB02KT NWWE 271912Z 2719/2818 14012KT 9999 SCT015 BKN030 TEMPO 2719/2806 4000 SHRA BKN008 FEW015CB SCT018TCU PROB40 TEMPO 2800/2806 1500 TSRA BKN007 SCT015CB TEMPO 2806/2818 4000 SHRA BKN006 SCT018TCU NWWK 272300Z 2800/2824 14010KT 9999 FEW030 SCT045 TEMPO 2800/2815 4000 SHRA BKN014 SCT020TCU PROB40 TEMPO 2802/2810 2000 TSRA BKN009 SCT016CB NWWL 271700Z 2718/2818 14012KT 9999 BKN015 BKN150 TEMPO 2718/2818 3000 SHRA BKN012 FEW015CB SCT018TCU BKN100 PROB30 TEMPO 2718/2818 VRB15G25KT 1200 +TSRA BKN008 SCT015CB BKN080 NWWM 271911Z 2719/2818 10015KT 9999 SCT020 BKN040 BKN120 TEMPO 2719/2801 4000 SHRA BKN010 SCT020TCU BKN080 PROB40 TEMPO 2801/2806 3000 SHRA BKN008 SCT015CB SCT018TCU BKN060 NWWR 271700Z 2718/2818 12010KT 9999 SCT015 BKN030 BKN150 TEMPO 2718/2818 3000 SHRA BKN012 FEW015CB SCT018TCU BKN100 PROB30 TEMPO 2718/2818 VRB15G25KT 1200 +TSRA BKN008 SCT015CB BKN080 NWWU 271700Z 2718/2818 15013KT 9999 BKN015 BKN100 TEMPO 2718/2818 4000 SHRA BKN012 FEW015CB SCT018TCU BKN100 PROB40 TEMPO 2718/2809 VRB15G25KT 1200 +TSRA BKN008 SCT015CB BKN080 NWWV 270825Z 2708/2806 CNL NWWW 272300Z 2800/2824 10010KT 9999 SCT025 BKN045 TEMPO 2800/2812 4000 SHRA BKN010 SCT020TCU BKN080 PROB40 TEMPO 2800/2809 1000 TSRA BKN008 SCT016CB NZAA 272310Z 2800/2900 10008KT 9999 FEW050 BECMG 2802/2804 04010KT BECMG 2808/2810 10005KT NZCH 272313Z 2800/2900 03012KT 9999 FEW040 BECMG 2808/2810 09005KT PROB30 2816/2818 2000 BR NZFX 280257Z 2803/2903 08008KT 9999 FEW010 QNH2913INS GRID25008KT NZQN 271706Z 2718/2812 VRB02KT 9999 SKC BECMG 2722/2800 25010KT BECMG 2807/2809 VRB02KT NZSP 280257Z 2803/2903 12012KT 9999 FEW090 QNH2858INS ALL WINDS GRID NZWD 280257Z 2803/2903 07008KT 9999 FEW010 QNH2915INS GRID24008KT NZWN 272310Z 2800/2900 17012KT 9999 FEW035 BECMG 2812/2814 36010KT OAHR 280500Z 2806/2906 28008KT CAVOK BECMG 2808/2810 36010G20KT BECMG 2816/2818 05008KT BECMG 2822/2824 VRB03KT OAIX 040700Z 0407/0513 14009KT 9999 BKN110CB QNH2978INS TEMPO 0409/0413 18012G18KT 8000 -TSRA BECMG 0414/0415 14009KT 9999 NSW BKN110 QNH2984INS BECMG 0420/0421 VRB06KT 9999 SCT110 QNH2992INS BECMG 0505/0506 14009KT 5000 TSRA BKN110CB QNH2980INS TEMPO 0507/0513 14010G15KT TX34/0409Z TN21/0500Z LAST NO AMD OAKB 020900Z 0209/0315 04010G15KT 9999 SKC QNH3001INS TEMPO 0209/0212 VCTS SCT140CB BECMG 0214/0215 VRB06KT 9999 FEW140 QNH2998INS BECMG 0304/0305 04010G15KT 9999 SKC QNH3004INS TEMPO 0309/0312 VCTS SCT140CB BECMG 0314/0315 VRB06KT 9999 SKC QNH2993INS TX28/0211Z TN11/0301Z LAST OAKN 111215Z 1112/1213 26012G18KT 9999 SKC QNH2975INS TEMPO 1112/1113 27018G25KT 6000 HZ BECMG 1115/1116 22009KT 9999 FEW090 QNH2977INS BECMG 1205/1206 24010G15KT 9999 SKC QNH2970INS TEMPO 1210/1213 26018G25KT 6000 HZ TX34/1210Z TN22/1123Z LAST NO AMDS AFT 1112 OAMS 250500Z 2506/2606 23012KT 9999 NSW SKC BECMG 2523/2601 VRB03KT 9999 NSW SKC BY ETGL OBBI 272300Z 2800/2906 33015G27KT CAVOK TEMPO 2803/2812 5000 DU FEW030 SCT080 PROB30 TEMPO 2803/2810 2000 OEAB 272300Z 2800/2906 VRB03KT 7000 FEW020 TEMPO 2800/2806 3500 BR FEW010 BECMG 2808/2810 20012KT 8000 FEW020 BECMG 2818/2820 VRB03KT OEAH 272200Z 2800/2906 35015KT 5000 BLDU NSC PROB30 TEMPO 2802/2815 3000 PROB30 TEMPO 2804/2809 1000 BECMG 2816/2818 35007KT OEAO 272300Z 2800/2906 35010KT CAVOK BECMG 2806/2808 04010KT BECMG 2816/2818 34012KT OEBA 272300Z 2800/2906 VRB03KT 7000 FEW020 BECMG 2808/2810 13010KT FEW020 BECMG 2810/2812 20012KT BECMG 2818/2820 14008KT OEBH 272300Z 2800/2906 VRB03KT 7000 NSC BECMG 2806/2808 07010KT CAVOK BECMG 2818/2820 VRB03KT OEDF 272200Z 2800/2906 33015KT 5000 BLDU NSC PROB30 TEMPO 2802/2815 3000 PROB30 TEMPO 2804/2809 1000 BECMG 2816/2818 30007KT OEDM 271140Z 2711/2720 34015KT 7000 NSC TEMPO 2712/2720 3000 BLDU BECMG 2716/2718 02008KT OEDR 272200Z 2800/2906 33015KT 5000 BLDU NSC PROB30 TEMPO 2802/2815 3000 PROB30 TEMPO 2804/2809 1000 BECMG 2816/2818 30007KT OEGN 272300Z 2800/2906 VRB03KT 7000 FEW030 SCT100 PROB40 TEMPO 2800/2808 FEW035CB BECMG 2807/2809 29010KT BECMG 2818/2820 35006KT OEGS 280200Z 2802/2906 04006KT 7000 NSC TEMPO 2802/2808 4000 DU BECMG 2812/2814 06012KT BECMG 2818/2820 VRB03KT OEGT 272300Z 2800/2906 22006KT 7000 SCT020 BKN080 TEMPO 2800/2806 SN BKN020 BECMG 2808/2810 29012KT BECMG 2818/2820 VRB03KT OEHL 272300Z 2800/2906 35006KT 8000 NSC BECMG 2806/2808 11010KT BECMG 2818/2820 VRB03KT OEJN 272300Z 2800/2906 02006KT 9999 FEW040 BECMG 2806/2808 33013KT BECMG 2900/2902 02006KT 7000 OEKJ 272300Z 2800/2906 36006KT 7000 NSC BECMG 2806/2808 04012KT TEMPO 2806/2816 4000 DU BECMG 2818/2820 VRB03KT OEKK 300500Z 3006/3020 18006G16KT 7000 NSC TEMPO 3009/3018 4500 DU BLDU OEKM 272300Z 2800/2906 VRB03KT 7000 FEW020 TEMPO 2800/2806 3500 BR FEW010 BECMG 2808/2810 20012KT 8000 FEW020 BECMG 2818/2820 VRB03KT OEMA 272300Z 2800/2906 10010KT CAVOK BECMG 2900/2902 VRB03KT OENG 272300Z 2800/2906 VRB03KT 7000 NSC BECMG 2808/2810 09010KT PROB40 TEMPO 2808/2818 4000 DU BECMG 2818/2820 VRB03KT OENI 132200Z 1400/1424 13010KT 8000 NSC BECMG 1409/1412 14010G20KT 3000 BLDU SCT030 BKN080 TEMPO 1416/1420 SHRA ORER 132200Z 1400/1424 13010KT 8000 NSC BECMG 1413/1415 G20KT 5000 TSSHRA FEW025CB ORMM 132200Z 1400/1424 17005KT 8000 NSC TEMPO 1406/1423 FEW040 SCT100 OVC200 OEPA 272200Z 2800/2906 34010KT 5000 DU NSC PROB30 TEMPO 2800/2805 2000 BECMG 2815/2817 05010KT 7000 OEPS 280100Z 2801/2907 03012KT 9999 SKC QNH3022INS BECMG 2805/2806 03012G18KT 8000 HZ SCT080 QNH3014INS BECMG 2817/2818 04009KT 8000 HZ SKC QNH3015INS BECMG 2823/2824 VRB06KT 8000 HZ SKC QNH3016INS TX19/2812Z TN07/2900Z OERF 272300Z 2800/2906 26010KT 7000 FEW040 SCT100 BECMG 2806/2808 31010KT BECMG 2818/2820 VRB03KT OERK 272300Z 2800/2906 VRB03KT CAVOK BECMG 2806/2808 36010KT 7000 NSC TEMPO 2806/2814 3000 DU OERR 272300Z 2800/2906 26010KT 7000 FEW040 SCT100 BECMG 2806/2808 31010KT BECMG 2818/2820 VRB03KT OERY 172300Z 1800/1906 VRB03KT CAVOK BECMG 1808/1810 16012KT BECMG 1821/1823 VRB03KT OESH 272300Z 2800/2906 VRB03KT CAVOK BECMG 2808/2810 04012KT 7000 NSC BECMG 2820/2822 VRB03KT OESK 272300Z 2800/2906 27006KT 7000 FEW040 SCT100 BECMG 2806/2808 22010KT BECMG 2818/2820 VRB03KT OETB 272300Z 2800/2906 VRB03KT 8000 NSC BECMG 2806/2808 11010KT CAVOK BECMG 2818/2820 VRB03KT OETF 272300Z 2800/2906 VRB03KT 8000 FEW020 BECMG 2806/2808 10010KT 9999 SCT030 BECMG 2810/2812 30008KT BECMG 2820/2822 14006KT OETR 272300Z 2800/2906 26008KT 7000 SCT020 TEMPO 2800/2806 SN BKN020 BECMG 2806/2808 21010KT BECMG 2818/2820 VRB03KT OEWD 272300Z 2800/2906 VRB03KT CAVOK BECMG 2806/2808 10016KT 7000 NSC TEMPO 2808/2818 3000 BLDU OEWJ 272300Z 2800/2906 02010KT 9999 FEW030 BECMG 2806/2808 34018KT 7000 BECMG 2820/2822 VRB03KT OEYN 272300Z 2800/2906 VRB03KT CAVOK BECMG 2806/2808 30012KT 8000 NSC BECMG 2820/2822 VRB03KT CAVOK OIAA 272300Z 2800/2906 28010KT 1500 DU NSC TEMPO 2800/2805 0800 DU BECMG 2805/2807 6000 TEMPO 2807/2814 32016KT BECMG 2820/2822 5000 HZ/BR TEMPO 2900/2805 3000 BR OIAW 272300Z 2800/2906 28008KT 2500 DU NSC TEMPO 2800/2805 1000 DU BECMG 2805/2807 6000 BECMG 2820/2822 4000 HZ/BR TEMPO 2900/2904 3000 BR OIBB 090530Z 0906/0918 07006KT 4000 HZ NSC BECMG 0908/0910 33008KT 7000 OIBK 272300Z 2800/2906 06008KT 5000 BR NSC TEMPO 2800/2805 3000 BR/HZ BECMG 2805/2807 7000 BECMG 2808/2810 28016KT TEMPO 2810/2818 32018G26KT 4000 SA BECMG 2820/2822 32010KT OIBP 041910Z 0421/0512 30004KT 6000 NSC TEMPO 0500/0503 4000 HZ BR SCT020 OICC 090530Z 0906/0918 09010KT 8000 FEW045 BKN100 TEMPO 0906/0912 22014KT SHRA FEW035CB SCT040 BKN100 OICI 272300Z 2800/2906 16008KT 7000 FEW035 SCT100 TEMPO 2800/2803 3000 BR PROB40 TEMPO 2803/2809 3000 DU BECMG 2822/2824 SCT035 BKN100 OIFM 272300Z 2800/2906 28008KT 7000 FEW035 TEMPO 2801/2806 4000 HZ TEMPO 2808/2814 34016KT BECMG 2822/2824 4000 HZ/BR TEMPO 2901/2904 3000 BR OIGG 090530Z 0906/0918 24010KT 1500 BR BKN005 BECMG 0907/0909 7000 SCT020 OIIE 272300Z 2800/2906 28010KT 7000 FEW040 SCT100 TEMPO 2800/2804 32016KT BECMG 2804/2806 32016KT TEMPO 2806/2814 32018G26KT BECMG 2814/2816 28010KT OIII 272300Z 2800/2906 28010KT 7000 FEW040 SCT100 PROB30 TEMPO 2802/2806 4000 BR TEMPO 2806/2812 32018KT TEMPO 2900/2905 4000 HZ OIIP 090530Z 0906/0918 14012KT 3000 HZ FEW040 OIKB 272300Z 2800/2906 03008KT 5000 HZ/BR NSC TEMPO 2800/2805 3000 HZ/BR BECMG 2805/2807 7000 TEMPO 2809/2815 20016KT BECMG 2816/2818 3000 HZ/BR TEMPO 2820/2904 1500 BR SCT020 OIKK 272300Z 2800/2906 20010KT 7000 FEW035 BECMG 2806/2808 20016KT TEMPO 2808/2814 26018G30KT 5000 SA BECMG 2814/2816 26008KT BECMG 2900/2902 SCT040 SCT100 OIMM 272300Z 2800/2906 20008KT 7000 FEW035 SCT100 TEMPO 2800/2804 3000 BR TEMPO 2807/2814 06014G22KT FEW030CB SCT035 BKN090 BECMG 2818/2820 4000 BR SCT020 TEMPO 2822/2905 1000 BR BKN010 OING 090530Z 0906/0918 24010KT 7000 FEW040 OINZ 090530Z 0906/0918 22010KT 7000 NSC OISL 272300Z 2800/2906 20006KT 8000 NSC TEMPO 2809/2814 26016KT BECMG 2820/2822 FEW035 SCT100 OISS 272300Z 2800/2906 20008KT 7000 FEW035 SCT100 TEMPO 2800/2805 3000 BR TEMPO 2809/2815 26014KT BECMG 2822/2824 SCT040 SCT100 OITL 090530Z 0906/0918 19016G28KT 9999 FEW035 SCT045CB SCT080 TEMPO 0906/0912 22020G34KT OITR 272300Z 2800/2906 25008KT 3000 BR FEW025 SCT035 SCT090 TEMPO 2800/2805 1000 BR BKN010 FEW020 FEW030CB BKN080 PROB40 TEMPO 2801/2804 0500 FG BECMG 2805/2807 6000 FEW030 SCT100 BECMG 2818/2820 4000 BR TEMPO 2822/2904 2000 BR SCT020 OITT 272300Z 2800/2906 32008KT 2000 BR SCT010 SCT030 BKN080 TEMPO 2800/2804 0500 SN FG BKN010 FEW030CB SCT030 OVC070 BECMG 2804/2806 4000 BR SCT020 SCT100 BECMG 2806/2808 6000 FEW030 BECMG 2818/2820 4000 BR SCT020 TEMPO 2822/2904 2000 BR OIYY 090530Z 0906/0918 17006KT CAVOK OIZC 272300Z 2800/2906 28006KT 7000 NSC TEMPO 2800/2804 4000 HZ/BR TEMPO 2809/2815 20018KT PROB30 TEMPO 2811/2815 5000 SA BECMG 2818/2820 4000 HZ/BR TEMPO 2900/2904 1500 BR OIZH 272300Z 2800/2906 20014KT 7000 NSC TEMPO 2800/2805 26020KT TEMPO 2806/2814 25018G24KT 4000 SA BECMG 2817/2819 12008KT OJAI 272250Z 2800/2906 25010KT 5000 BR SCT020 BKN025 TEMPO 2800/2818 27020KT 2000 RA BR FEW020TCU SCT020 BKN025 PROB30 2802/2808 0800 FG OJAM 272250Z 2800/2906 26010KT 5000 BR SCT020 BKN025 TEMPO 2800/2818 27018KT 2000 RA BR FEW020TCU SCT020 BKN025 PROB30 2802/2807 1000 OJAQ 272250Z 2800/2906 VRB02KT 9999 FEW040 BECMG 2812/2814 36010KT OKAS 280145Z 2801/2905 28010G15KT 0800 DS SKC QNH3013INS BECMG 2803/2804 28010G15KT 5000 BLDU SKC QNH3015INS BECMG 2807/2808 30012KT 8000 HZ SKC QNH3018INS BECMG 2814/2815 33009KT 9999 NSW SKC QNH3020INS TX16/2812Z TN06/2803Z OKBK 272245Z 2800/2906 32010G25KT 2000 BLDU NSC TEMPO 2800/2806 1200 BLDU PROB30 TEMPO 2800/2803 0500 DU OLBA 271000Z 2712/2818 27010G20KT 8000 FEW020CB SCT025 BECMG 2715/2718 16010G20KT 9999 BKN030 BECMG 2718/2721 CAVOK BECMG 2800/2803 22015G25KT 6000 RA BKN024 TEMPO 2800/2818 3000 TSRA FEW020CB BKN023 OMAA 272300Z 2800/2906 12006KT 7000 NSC PROB40 2800/2806 4000 HZ BECMG 2806/2808 32015KT PROB30 TEMPO 2806/2812 4000 DU BECMG 2822/2900 22005KT BECMG 2905/2906 32012KT OMAD 272300Z 2800/2906 12005KT 7000 NSC PROB40 2800/2805 4000 HZ BECMG 2805/2807 32012KT PROB30 TEMPO 2805/2812 4000 DU BECMG 2822/2900 22005KT BECMG 2904/2906 32010KT OMAL 272300Z 2800/2906 12005KT 8000 NSC BECMG 2807/2809 32010KT BECMG 2821/2823 VRB02KT PROB30 TEMPO 2823/2905 3000 BR OMDB 272300Z 2800/2906 15005KT 7000 NSC PROB30 2800/2805 4000 HZ BECMG 2806/2808 30010KT BECMG 2819/2821 21005KT OMDW 272300Z 2800/2906 15005KT 4000 HZ NSC PROB30 2800/2805 1500 BR BECMG 2804/2806 7000 NSW BECMG 2806/2808 30010KT BECMG 2819/2821 20005KT PROB30 2900/2905 3000 HZ OMER 091000Z 0912/1012 14005KT 8000 NSC BECMG 0916/0918 VRB02KT BECMG 1008/1010 18006KT OMFJ 272300Z 2800/2906 29006KT 8000 NSC BECMG 2806/2808 09006KT BECMG 2809/2811 31012KT OMRK 280202Z 2801/2906 VRB02KT 7000 NSC PROB30 2802/2806 3000 BR BECMG 2806/2808 30010KT BECMG 2816/2818 VRB02KT PROB30 2822/2905 3000 BR OMSJ 272300Z 2800/2906 15005KT 6000 NSC PROB30 2800/2806 3000 HZ BECMG 2806/2808 30010KT BECMG 2818/2820 20005KT PROB30 2900/2905 4000 HZ OODQ 271700Z 2718/2818 07010KT 8000 NSC PROB30 TEMPO 2800/2807 SCT020 OOMS 272300Z 2800/2906 23005KT CAVOK BECMG 2806/2808 05012KT BECMG 2816/2818 22010KT OOSA 272340Z 2800/2906 35006KT 9999 FEW030 BECMG 2806/2808 14010KT BECMG 2814/2816 VRB03KT OOSH 272300Z 2800/2906 VRB02KT 8000 NSC BECMG 2806/2808 08012KT BECMG 2815/2817 VRB02KT OPBW 270945Z 2712/2806 23005KT 3500 FU FEW120 TN06/2801Z FM271800 18005KT 2000 BR NSC PROB30 TEMPO 2801/2804 VRB03KT 0800 FG FEW120 OPDG 240345Z 2406/2424 05005KT 5000 FU NSC TX22/2410Z OPFA 272145Z 2800/2818 29004KT 4000 FU NSC TX20/2810Z TN20/2802Z TEMPO 2801/2804 00000KT 1500 BR NSC FM280800 31004KT 4000 HZ FEW100 OPGD 272200Z 2800/2824 24010KT 5000 HZ NSC TEMPO 2800/2804 27005KT 1500 BR NSC BECMG 2814/2816 VRB03KT 4000 HZ NSC FM 282000 24008KT 2500 FU NSC OPIS 272145Z 2800/2906 23007KT 3000 BR NSC BECMG 2801/2803 1500 BR FEW040 BECMG 2803/2804 27008KT 3500 FU FM280600 31008G18KT 6000 NSC FM281200 23006KT 5000 HZ NSC FM281800 05005KT 2500 BR NSC TEMPO 2900/2903 VRB02KT 1500 BR BECMG 2904/2906 29008KT 3000 FU OPKC 272200Z 2800/2906 06008KT 3000 FU NSC BECMG 2808/2810 30006KT 4000 HZ FM 281600 27008KT 5000 HZ NSC TEMPO 2900/2904 27008KT 1500 BR NSC OPLA 272145Z 2800/2906 32003KT 2000 BR NSC TX20/2810Z TN04/2801Z TN04/2901Z TEMPO 2800/2804 1000 BECMG 2804/2806 32005KT 2000 FU BECMG 2807/2808 31006KT 4000 FU TEMPO 2822/2824 00000KT 2000 BR BECMG 2901/2903 00000KT 1000 BR BECMG 2904/2905 29004KT 2000 FU OPMT 272145Z 2800/2818 23005KT 2000 BR NSC TN06/2801Z TX21/2810Z PROB30 TEMPO 2801/2805 00000KT 0800 FG FEW120 FM 280700 18005KT 4000 FU FEW120 OPNH 272200Z 2800/2906 34006KT 4000 FU NSC TEMPO 2800/2804 00000KT 1000 BR NSC BECMG 2814/2816 23006KT 4000 FU NSC FM 282000 18007KT 2500 FU NSC TEMPO 2900/2904 23005KT 1200 BR NSC OPPS 272130Z 2800/2906 18004KT 4000 FU FEW100 FM280200 13004KT 5000 HZ FEW060 SCT100 BECMG 2812/2817 23004KT 4000 FU FEW100 BECMG 2903/2905 13006KT 6000 NSC OPRK 270945Z 2712/2806 23005KT 4000 FU FEW120 TN05/2801Z FM272100 00000KT 2000 BR NSC PROB30 TEMPO 2801/2805 VRB03KT 1000 BR FEW120 OPSK 272200Z 2800/2824 00000KT 4000 HZ TEMPO 2800/2804 00000KT 1500 BR NSC FM 280800 VRB03KT 3000 FU NSC BECMG 2812/2814 00000KT 4000 HZ NSC BECMG 2820/2822 14005KT 2000 FU NSC OPST 272145Z 2800/2906 31004KT 4000 FU NSC TX19/2810Z TN04/2801Z BECMG 2800/2805 00000KT 0100 FG VV/// BECMG 2805/2807 VRB03KT 1500 BR ORBI 272300Z 2800/2824 30006KT 8000 SCT035 OREER 161700Z 1618/1718 VRB02KT 7000 NSC BECMG 1710/1712 32006KT ORER 272200Z 2800/2824 14008KT 9000 SCT030 BKN090 TEMPO 2801/2812 -RA BECMG 2814/2816 VRB03KT SCT040 ORMM 272200Z 2800/2824 25006KT 1500 DU NSC BECMG 2806/2808 6000 ORNI 272300Z 2800/2824 30007KT 7000 FEW040 ORSU 272300Z 2800/2824 14006KTKT 7000 BKN040 BKN070 PROB40 TEMPO 2801/2806 3000 BR TEMPO 2808/2815 -RA BECMG 2816/2818 VRB02KT 5000 BR NSC OSAP 2800/2824 30008KT 5000 OSDI 2800/2906 22008KT 7000 PROB30 TEMPO 2801/2806 0200 FG BECMG 2807/2809 22012KT 9999 FEW030 SCT100 OSLK 2800/2824 10015KT 9999 FEW026 TCU SCT030 BKN080 TEMPO 2808/2818 24015KT 4000 RA FEW025 CB SCT030 BKN090 OTBD 272305Z 2800/2906 34015KT 8000 NSC TEMPO 2803/2815 35016G26KT 5000 BLDU PROB30 TEMPO 2804/2815 1500 BLDU OTBH 2800/2906 33018KT 9000 HZ SKC QNH3005INS TEMPO 2800/2805 33018G25KT 8000 HZ BECMG 2805/2806 34015G25KT 6000 HZ BLDU SKC QNH3012INS BECMG 2809/2810 34015G25KT 4000 HZ BLDU SKC QNH3012INS BECMG 2818/2819 33015KT 8000 HZ SKC QNH3014INS TX22/2811Z TN15/2802Z OTHH 271704Z 2718/2824 33014KT 7000 NSC PROB30 TEMPO 2718/2720 18010KT 2000 DU TEMPO 2800/2815 35015G25KT 5000 BLDU PROB30 TEMPO 2806/2815 2000 DU PAAQ 272337Z 2800/2824 03008KT P6SM VCSH SCT020 OVC050 TEMPO 2800/2804 04010G18KT FM280600 03008KT 5SM -SHSN SCT020 BKN040 FM281200 VRB05KT P6SM SCT030 BKN050 PABE 272322Z 2800/2824 02025G35KT P6SM SKC FM280700 36015KT P6SM SKC FM281800 36020G30KT P6SM SKC PABI 280230Z 2802/2904 VRB06KT 3600 -SN BKN025 BKN120 630259 QNH2976INS TEMPO 2802/2807 1600 -SN BECMG 2807/2808 VRB06KT 4800 -SN BKN025 630259 QNH2973INS TEMPO 2808/2812 1600 -SN BECMG 2811/2812 VRB06KT 4800 -SN BKN045 630457 QNH2975INS TXM16/2808Z TNM19/2818Z PABR 272336Z 2800/2824 26010KT P6SM FEW100 FM281800 25013KT 5SM BR BKN015 PABT 272336Z 2800/2824 33004KT P6SM FEW002 PACD 272322Z 2800/2824 35015KT P6SM BKN025 TEMPO 2800/2804 SCT025 FM280400 36015G25KT P6SM SKC FM282000 34020G30KT P6SM SKC PACV 272337Z 2800/2824 10012G22KT 6SM -RA BR OVC025 WS020/11035KT FM280300 09006KT 4SM -RA BR FEW015 OVC020 FM280700 10007KT 5SM -RA BR OVC025 FM281800 10010G20KT 4SM -RA BR OVC020 PADL 272322Z 2800/2824 02030G45KT P6SM SKC FM280400 36020G30KT P6SM SKC FM281000 34012KT P6SM SKC FM282100 33015G25KT P6SM SKC PADQ 272337Z 2800/2824 32012KT 4SM -RASN BR OVC015 FM280900 32011G18KT 5SM -SHSN BR SCT009 OVC025 PADU 272322Z 2800/2824 33012KT P6SM OVC025 TEMPO 2800/2804 BKN050 FM280400 36010G20KT P6SM SCT050 PAED 280000Z 2800/2901 01012KT 9999 VCSH FEW010 SCT019 BKN025 BKN050 620259 QNH2937INS BECMG 2806/2807 01010G15KT 4800 -SN BR SCT005 BKN015 OVC020 640159 QNH2929INS BECMG 2815/2816 01010G15KT 8000 -SN BKN008 OVC015 620082 QNH2929INS TXM04/2800Z TNM08/2819Z PAEI 280234Z 2802/2904 VRB03KT 4800 -SN BR SCT007 OVC030 620307 QNH2986INS TEMPO 2802/2808 2400 -SN BR BKN007 OVC030 620079 BECMG 2811/2812 VRB06KT 9999 VCSH SCT025 BKN035 620356 QNH2984INS BECMG 2812/2813 03006KT 9999 NSW SCT035 BKN100 QNH2988INS BECMG 2903/2904 03006KT 9999 SKC QNH2991INS TXM20/2804Z TNM24/2818Z PAEN 280251Z 2803/2824 02015KT P6SM VCSH SCT015 OVC050 TEMPO 2803/2806 3SM -SN BR BKN015 FM280600 02015KT 2SM -SN BR SCT010 OVC020 FM281100 02012KT 1SM -SN BR OVC015 PAFA 272336Z 2800/2906 02005KT P6SM VCSH SCT025 BKN050 FM280300 02006KT 3SM -SN BKN025 OVC040 FM282000 03006KT P6SM VCSH BKN050 PAFB 272300Z 2723/2905 VRB06KT 9999 SCT040 BKN055 620406 QNH2993INS BECMG 2801/2802 VRB06KT 9999 VCSH BKN025 OVC035 620258 QNH2990INS BECMG 2802/2803 VRB06KT 4800 -SN BKN025 OVC035 620259 QNH2989INS TEMPO 2804/2807 2400 -SN BKN015 OVC030 620159 BECMG 2806/2807 04009KT 4800 -SN SCT025 OVC035 620357 QNH2988INS BECMG 2811/2812 05009KT 9999 VCSH SCT025 OVC035 620357 QN2989INS BECMG 2813/2814 05009KT 9999 NSW SCT035 OVC050 620505 QNH2990INS BECMG 2819/2820 05009KT 9999 FEW035 BKN060 620604 QNH2992INS TXM18/2806Z TNM25/2723Z PAGA 272336Z 2800/2824 32006KT P6SM SKC PAGK 272337Z 2800/2824 00000KT 1SM -SN BR OVC015 FM280900 VRB03KT 3SM -SN BR FEW008 OVC015 PAGS 272323Z 2800/2824 14013G23KT P6SM -RA BKN030 OVC050 WS020/14035KT FM280600 14015G25KT 4SM -RA BR SCT003 OVC015 WS020/14035KT LTD TO CLD VIS AND WIND PAGY 272323Z 2800/2824 20020G30KT P6SM VCSH OVC050 FM280300 21020G30KT 5SM -RA BR BKN030 OVC050 FM280900 20020G30KT 4SM -RA BKN015 OVC025 FM281500 21015G25KT 4SM -RA SCT015 OVC025 LTD TO CLD VIS AND WIND PAHN 272323Z 2800/2824 10013G23KT P6SM -RA SCT015 BKN025 OVC050 WS020/16035KT FM280900 12015G25KT 4SM -RA BKN008 OVC015 WS020/18040KT FM281700 10010G20KT 3SM -RA BR OVC015 LTD TO CLD VIS AND WIND PAHO 280212Z 2802/2824 04005KT 6SM -SHSN BR OVC025 TEMPO 2802/2804 1/2SM -SN FZFG OVC008 FM280600 03006KT 2SM -SN BR SCT010 OVC025 FM281400 03006KT 1SM -SN BR BKN010 OVC020 PAIL 272322Z 2800/2824 34006KT P6SM OVC070 FM281600 33008KT P6SM VCSH OVC025 FM281900 32008KT 2SM -SN BR OVC015 PAJN 272323Z 2800/2824 12020G30KT P6SM -RA FEW014 BKN035 OVC060 WS020/15035KT FM281200 11015G25KT 4SM -RA BR OVC015 WS020/15035KT PAKN 272322Z 2800/2824 01020G30KT P6SM OVC060 FM280900 35012KT P6SM SKC FM282100 35012G22KT P6SM OVC050 PAKT 272323Z 2800/2824 11015KT P6SM VCSH SCT020 OVC050 WS020/16035KT TEMPO 2800/2803 12015G25KT P6SM -RA BKN020 OVC040 FM280300 15020G30KT 6SM -RA BR BKN020 OVC040 WS020/16040KT FM280900 15015G25KT 4SM -RA SCT005 BKN015 OVC025 WS020/17030KT FM281800 15010KT 5SM -RA BR SCT015 OVC025 LTD TO CLD VIS AND WIND 2806/2815 PAKW 272323Z 2800/2824 19010KT P6SM -RA OVC017 WS020/16035KT TEMPO 2800/2804 19012G22KT FM280400 19012G22KT 6SM -RA BR OVC015 FM281200 19005KT 5SM -RA BR SCT015 OVC025 LTD TO CLD VIS AND WIND PAMC 272336Z 2800/2824 35005KT P6SM -SN OVC015 TEMPO 2800/2803 SCT015 NOT SKED PANC 272337Z 2800/2906 36012KT P6SM VCSH SCT030 BKN060 TEMPO 2800/2802 6SM -SHSN SCT015 OVC030 FM280400 36012KT 4SM -SHSN SCT015 OVC030 FM280800 36010KT 2SM -SN BR OVC015 FM281500 36008KT 5SM -SN BR BKN010 OVC030 FM281800 01009KT P6SM SCT030 BKN050 PAOM 272336Z 2800/2824 33005KT P6SM SKC PAOR 272336Z 2800/2824 32003KT 1SM -SN BR OVC025 TEMPO 2800/2804 3/4SM -SN OVC015 FM281200 31005KT 5SM -SN OVC025 PAOT 272336Z 2800/2824 34008KT P6SM SKC PAPG 272323Z 2800/2824 VRB05KT P6SM VCSH OVC045 WS020/16030KT FM280900 14006KT 4SM -RA BR BKN015 OVC025 WS020/16030KT FM281800 14007KT 2SM -RA BR SCT007 OVC015 LTD TO CLD VIS AND WIND 2806/2815 PAQT 272336Z 2800/2824 21010KT 6SM BR SCT002 FM281800 25018KT 5SM BR BKN015 NOT SKED PART 1 OF 2 SBBG 272100Z 2800/2812 13005KT CAVOK TN14/2808Z TX20/2812Z RMK PDW PASC 272336Z 2800/2824 23014KT 3SM BR FEW001 FM281800 25018KT 5SM BR BKN015 PASD 272322Z 2800/2824 34020G30KT P6SM FEW035 FM281200 34015KT P6SM SKC FM281900 33025G35KT P6SM SKC LTD TO CLD VIS AND WIND PASI 272323Z 2800/2824 12015KT P6SM VCSH OVC045 WS020/16030KT TEMPO 2800/2804 12015G25KT 5SM -RA BR OVC025 FM280400 12015G25KT 5SM -RA BR OVC025 FM281800 12015G25KT 3SM -RA BR OVC015 PASN 272322Z 2800/2824 06020G30KT P6SM SKC FM281500 05015KT P6SM SKC PASY 280250Z 2802/2904 13025G35KT 3200 BR SCT009 BKN020 OVC030 620208 520003 QNH2923INS BECMG 2804/2805 14025KT 9999 NSW SCT010 OVC020 620206 QNH2926INS BECMG 2808/2809 17020G25KT 9999 SCT025 BKN040 OVC055 620403 510004 QNH2938INS BECMG 2818/2819 12012KT 9000 -RA BKN020 OVC030 620205 QNH2956INS BECMG 2823/2824 05020KT 9999 NSW SCT020 SCT025 BKN040 620405 510053 QNH2944INS TX04/2802Z TN02/2805Z LIMITED METWATCH 2802 TIL 2810 PATA 272336Z 2800/2824 VRB05KT P6SM BKN080 PATK 272337Z 2800/2824 02008KT 6SM -SHSN BR SCT025 OVC035 FM280400 03008KT 2SM -SN BR OVC025 FM281500 02006KT P6SM VCSH OVC030 PAUN 272336Z 2800/2824 11008KT P6SM SKC PAVD 272337Z 2800/2824 VRB02KT 4SM -SN SCT015 BKN030 TEMPO 2800/2804 VRB02KT 2SM -SN OVC010 FM280500 VRB02KT 4SM -SN OVC015 LTD TO CLD VIS PAWG 272323Z 2800/2824 VRB05KT P6SM VCSH BKN035 OVC050 FM280300 12010KT P6SM -RA BKN025 OVC050 WS020/15035KT FM280900 13014KT 4SM -RA BR BKN015 OVC025 WS020/16035KT FM282100 13009KT 3SM -RA BR SCT007 OVC015 LTD TO CLD VIS AND WIND 2806/2815 PAYA 272323Z 2800/2824 11015G30KT 3SM RA BR BKN014 OVC018 WS020/13045KT FM280400 10012G22KT 3SM RA BR BKN007 BKN015 OVC025 WS020/14050KT LTD TO CLD VIS AND WIND PEPA 090900Z 0912/1018 03012KT CAVOK BECMG 1000/1002 33008KT BECMG 1012/1014 02010KT PGRO 272323Z 2800/2824 03012KT P6SM SCT014 BKN080 PGSN 272323Z 2800/2824 04012KT P6SM FEW022 PGUA 280200Z 2802/2908 06010G15KT 9999 SCT015 BKN030 QNH2985INS TEMPO 2802/2816 08015G20KT 6000 -SHRA BKN015 TX29/2901Z TN24/2818Z PGUM 272323Z 2800/2906 05013KT P6SM VCSH FEW020 FM280100 06010G20KT P6SM SCT022 PGWT 272323Z 2800/2824 05013KT P6SM FEW030 SCT120 PHHI 272300Z 2723/2905 10009KT 9999 FEW025 SCT045 QNH3000INS BECMG 2806/2807 13005KT 9999 SKC QNH3008INS BECMG 2817/2818 01006KT 9999 FEW025 SCT045 QNH3005INS TX25/2723Z TN15/2815Z PHJH 272337Z 2800/2824 05012G18KT P6SM SCT030 SCT050 FM280400 06009KT P6SM SCT035 FM281000 VRB03KT P6SM FEW035 NOT SKED PHJR 272337Z 2800/2824 20008KT P6SM SCT045 FM280400 VRB05KT P6SM FEW045 FM282100 16008KT P6SM FEW025 PHKO 272337Z 2800/2824 23010KT P6SM FEW030 SCT050 FM280200 VRB05KT P6SM SCT025 SCT045 FM280600 11005KT P6SM SKC FM282000 22007KT P6SM FEW025 PHLI 272337Z 2800/2824 10007KT P6SM FEW025 FM280400 09007KT P6SM SCT025 SCT035 FM280900 26006KT P6SM SCT030 FM282000 09007KT P6SM FEW030 PHMK 272337Z 2800/2824 16009KT P6SM SCT025 BKN045 FM280300 VRB05KT P6SM SCT025 FM280900 VRB03KT P6SM FEW025 FM282100 04007KT P6SM SCT025 PHNG 2801/2821 08012KT 9999 FEW025 SCT030 QNH2997INS TEMPO 2801/2806 VRB05KT BKN030 T26/2802Z T20/2816Z 0114 PHNL 280256Z 2803/2906 05009KT P6SM FEW025 BKN045 FM280600 VRB05KT P6SM FEW025 FEW045 FM282100 13008KT P6SM SCT025 FM290300 08006KT P6SM FEW025 PHNY 280239Z 2803/2824 VRB04KT P6SM BKN021 FM280400 VRB04KT P6SM SCT025 FM280900 VRB04KT P6SM SKC FM282000 VRB06KT P6SM SCT025 PHOG 272337Z 2800/2824 05010KT P6SM SCT030 SCT050 FM280600 VRB05KT P6SM FEW035 FM282100 04010KT P6SM FEW035 PHTO 272337Z 2800/2824 11010KT P6SM FEW025 FM280600 23006KT P6SM FEW035 FM281300 22010KT P6SM SKC PKMJ 272323Z 2800/2824 06015KT P6SM VCSH SCT017 BKN120 PKWA 272323Z 2800/2824 06017KT P6SM VCSH SCT022 PLCH 272310Z 2800/2824 10009KT 9999 FEW020 PMDY 272337Z 2800/2824 13010KT P6SM SCT025 BKN045 FM280900 14013G21KT P6SM VCSH SCT025 BKN050 FM281800 15018G27KT P6SM -SHRA BKN025 BKN040 PROB30 TEMPO 2505/2509 4000 BR PRVD 311100Z 3112/0112 02010KT 9999 FEW015 SCT070 BKN220 TEMPO 3112/3118 01010G20KT -RA SCT015 BKN220 TEMPO 0100/0106 02012G24KT -RA SCT017 OVC070 PRVP 261100Z 2612/2712 12007KT 9999 FEW019 SCT240 TEMPO 2612/2618 VCSH FEW017CB FEW019 SCT080 PTKK 272323Z 2800/2824 05012KT P6SM FEW018 PTPN 262320Z 2700/2724 07013KT P6SM SCT018 FM270900 07010KT P6SM VCSH SCT018 PTRO 280100Z 2801/2824 05010G15KT P6SM VCSH SCT016 BKN120 TEMPO 2801/2803 BKN015 PTSA 272323Z 2800/2824 06011KT P6SM -SHRA BKN020 BKN130 OVC300 TEMPO 2800/2802 2SM SHRA BKN015 FM280200 06011KT P6SM VCSH SCT030 BKN130 OVC300 PTYA 272323Z 2800/2824 08010KT P6SM VCSH SCT018 BKN130 PWAK 280235Z 2802/2904 20012KT 9000 -SHRA SCT020 BKN040 QNH2980INS TEMPO 2821/2901 9000 -SHRA VCTS BKN030CB TX29/2803Z TN22/2814Z FOR MIL USE ONLY RCFN 272300Z 2800/2824 01005KT 9999 FEW016 BKN032 TEMPO 2801/2805 07010KT FEW010 BKN020 TEMPO 2805/2811 03010KT 3300 RA FEW009 BKN017 TEMPO 2811/2816 4000 RA FEW010 BKN018 TEMPO 2820/2824 01010KT 4000 RA FEW007 BKN017 RCKH 272300Z 2800/2906 35005KT 3500 HZ FEW016 BKN032 TEMPO 2800/2803 2200 BR TEMPO 2803/2807 27008KT 6000 NSW TEMPO 2807/2813 32008KT 2700 RA FEW009 BKN018 TEMPO 2813/2819 02008KT 3200 RA FEW008 BKN017 TEMPO 2819/2901 05005KT 2200 RA BR FEW007 BKN017 RCMQ 272325Z 2800/2824 01012KT 6000 BKN003 BKN010 TX22/2805Z TN14/2820Z BECMG 2801/2802 36015KT 8000 SCT006 BKN020 BECMG 2803/2806 9999 FEW006 SCT020 BKN040 TEMPO 2808/2813 7000 -RA SCT006 BKN020 BKN040 BECMG 2814/2817 36012KT 4800 -RA BR TEMPO 2818/2823 2400 -RA BR BKN006 BKN020 RCNN 272300Z 2800/2824 01006KT 5000 BR FEW012 BKN060 TX23/2805Z TN15/2820Z BECMG 2801/2804 7000 BECMG 2806/2809 5000 -RA BR FEW012 BKN020 BKN050 BECMG 2811/2814 01004KT 3200 -RA BR FEW012 BKN020 BKN050 TEMPO 2815/2819 7000 FEW010 SCT030 BKN060 BECMG 2822/2823 35006KT 7000 FEW010 SCT030 BKN060 RCSS 272339Z 2800/2824 10012KT 9999 FEW012 BKN022 TEMPO 2803/2808 10018KT FEW016 BKN032 TEMPO 2808/2814 FEW015 BKN032 TEMPO 2814/2820 5000 RA FEW007 BKN015 TEMPO 2820/2824 10007KT 4000 RA FEW010 BKN013 RCTP 272339Z 2800/2906 04018KT 9000 FEW005 BKN007 TEMPO 2802/2808 04023KT FEW006 BKN012 TEMPO 2808/2814 FEW006 BKN012 TEMPO 2814/2820 5000 RA FEW003 BKN004 TEMPO 2820/2901 05012KT 5000 BR FEW003 BKN004 RJAA 280230Z 2802/2906 20004KT 9999 FEW030 BECMG 2804/2806 34010KT BECMG 2903/2906 16006KT RJAH 272305Z 2800/2906 36004KT 9999 FEW030 BECMG 2801/2803 24006KT BECMG 2804/2806 30010KT BECMG 2808/2810 36004KT BECMG 2900/2903 20005KT RJBB 280200Z 2802/2906 29008KT 9999 FEW020 SCT045 BECMG 2806/2808 35007KT BECMG 2900/2903 26008KT RJCB 272305Z 2800/2906 01006KT 9999 FEW030 BKN050 BECMG 2812/2815 19005KT BECMG 2900/2903 28005KT RJCC 272305Z 2800/2906 34003KT 9999 FEW008 SCT015 BECMG 2800/2802 16006KT TEMPO 2804/2809 2000 -SHSN FEW005 BKN008 TEMPO 2815/2818 2000 -SHSN FEW005 BKN008 BECMG 2900/2903 28008KT RJCH 272305Z 2800/2906 29010KT 8000 -SHSN FEW006 BKN015 TEMPO 2800/2806 0700 SHSN VV006 TEMPO 2806/2812 3000 -SHSN TEMPO 2812/2818 1500 -SHSN FEW004 BKN006 TEMPO 2818/2906 2000 -SHSN FEW005 BKN008 RJCK 272305Z 2800/2906 02005KT 9999 FEW015 BKN030 BECMG 2801/2803 12005KT BECMG 2805/2807 34005KT TEMPO 2806/2809 2000 -SHSN FEW004 BKN006 TEMPO 2809/2812 FEW005 BKN008 RJCM 272305Z 2800/2906 17005KT 9999 FEW020 BKN040 BECMG 2801/2803 06004KT BECMG 2805/2807 20005KT RJEC 272305Z 2800/2906 18010KT 9999 FEW006 BKN015 TEMPO 2800/2802 3000 -SHSN TEMPO 2805/2812 1500 -SHSN FEW003 BKN006 TEMPO 2815/2900 2000 -SHSN FEW005 BKN008 TEMPO 2900/2906 3000 -SHSN RJFF 272305Z 2800/2906 14004KT 9999 FEW030 BECMG 2801/2803 32011KT BECMG 2810/2812 13003KT BECMG 2818/2821 32011KT RJFK 272305Z 2800/2906 33010KT 9000 FEW035 RJFM 272305Z 2800/2906 29008KT 9000 FEW030 BECMG 2802/2804 13010KT BECMG 2809/2811 26011KT BECMG 2903/2906 08007KT RJFO 272305Z 2800/2906 31011KT 8000 FEW030 BECMG 2815/2818 26005KT BECMG 2900/2903 31013KT RJFR 272305Z 2800/2906 30013KT 8000 FEW030 RJFS 272305Z 2800/2906 02003KT 4000 BR FEW015 BECMG 2800/2802 34005KT 6000 NSW RJFT 272305Z 2800/2906 06003KT 6000 FEW015 SCT035 BECMG 2800/2802 29006KT BECMG 2809/2811 36003KT BECMG 2900/2903 31007KT RJFU 272305Z 2800/2906 04004KT 8000 FEW030 BECMG 2801/2803 32010KT RJGG 272305Z 2800/2906 34008KT 9999 FEW020 BECMG 2804/2806 32018KT BECMG 2815/2818 36008KT RJNK 272305Z 2800/2906 04006KT 8000 -SHSNRA FEW015 BKN030 TEMPO 2800/2803 4000 -SHSN FEW005 BKN008 TEMPO 2812/2818 4000 -SHSN FEW005 BKN008 BECMG 2821/2900 20012KT RJNS 272305Z 2800/2906 27016KT 9999 FEW030 RJNT 272305Z 2800/2906 22004KT 6000 -SHSN FEW006 BKN012 TEMPO 2800/2806 2000 -SHSN FEW005 BKN008 TEMPO 2811/2818 2000 -SHSN FEW005 BKN008 TEMPO 2903/2906 4000 -SHRASN BR RJOA 272305Z 2800/2906 30008KT 9999 FEW025 SCT045 RJOB 272305Z 2800/2906 30007KT 9999 FEW025 BKN045 RJOC 272305Z 2800/2906 30008KT 9999 FEW015 BKN035 BECMG 2800/2802 34007KT BECMG 2808/2810 17006KT BECMG 2900/2903 28012KT RJOH 272305Z 2800/2906 28008KT 9000 -SHRA FEW010 SCT020 BKN030 BECMG 2800/2802 04008KT BECMG 2809/2811 18005KT BECMG 2900/2903 26012KT RJOI 2721/2821 31006KT 9999 FEW030 SCT230 522307 QNH3009INS BECMG 2800/2802 03008KT 9999 FEW030 522009 QNH3004INS FM280500 17008KT 9999 FEW030 522009 QNH3001INS BECMG 2809/2811 30006KT 9999 FEW030 BKN240 522009 QNH3007INS FM281800 31006KT 9999 FEW030 BKN150 BKN230 522009 QNH3003INS T04/2721Z T12/2804Z RJOK 272305Z 2800/2906 35014KT 9999 FEW030 TEMPO 2800/2808 35016G26KT BECMG 2900/2903 20006KT RJOM 272305Z 2800/2906 12005KT 9999 FEW030 SCT050 BECMG 2800/2802 35007KT BECMG 2812/2815 12005KT BECMG 2821/2900 28009KT RJOO 272305Z 2800/2906 34008KT 9999 FEW020 BKN040 RJOT 272305Z 2800/2906 25008KT 9999 FEW025 BKN040 BECMG 2810/2812 15005KT BECMG 2821/2900 26008KT RJSA 272306Z 2800/2906 26012KT 8000 -SHSN FEW010 BKN020 BKN030 TEMPO 2800/2809 1500 -SHSN FEW005 BKN008 BKN015 TEMPO 2809/2818 0700 SHSN FEW002 BKN005 BKN008 TEMPO 2818/2900 1500 -SHSN FEW005 BKN008 BKN015 TEMPO 2900/2906 26020G30KT 1500 -SHSN FEW005 BKN008 BKN015 RJSF 272306Z 2800/2906 32010KT 9999 FEW020 BKN030 BECMG 2812/2815 14004KT BECMG 2900/2903 32008KT RJSI 272305Z 2800/2906 02004KT 9999 FEW020 SCT040 BECMG 2800/2802 19005KT BECMG 2812/2815 02004KT BECMG 2900/2903 24005KT RJSK 272306Z 2800/2906 14004KT 6000 -SHSN FEW010 BKN020 BKN030 TEMPO 2800/2806 0700 SHSN FEW002 BKN005 BKN008 BECMG 2801/2803 30008KT TEMPO 2806/2809 3000 -SHSN TEMPO 2809/2818 1500 -SHSN FEW005 BKN008 BKN015 TEMPO 2818/2906 3000 -SHSN RJSN 272305Z 2800/2906 28020KT 9999 FEW015 BKN030 BECMG 2900/2903 24008KT TEMPO 2903/2906 2000 -SHSN RJSS 280256Z 2802/2906 12008KT 9999 FEW020 BECMG 2802/2804 28013KT TEMPO 2804/2806 28015G25KT RJTT 272306Z 2800/2906 02006KT 9999 FEW030 SCT050 BECMG 2803/2805 15005KT BECMG 2808/2810 36018KT BECMG 2900/2903 12005KT RJTY 272100Z 2721/2903 VRB06KT 9999 SCT060 520708 QNH2998INS BECMG 2802/2803 03012KT 9999 BKN050 620503 520708 QNH2995INS BECMG 2810/2811 35006KT 9999 SCT040 520708 QNH2990INS BECMG 2818/2819 20006KT 9999 FEW050 QNH2992INS TX09/2805Z TN02/2721Z RKJB 272300Z 2800/2906 02007KT 9999 BKN030 BKN150 TX04/2805Z TNM03/2822Z TX03/2905Z BECMG 2802/2803 35015G25KT FEW030 BKN200 BECMG 2810/2811 01008KT BECMG 2818/2819 BKN030 BKN150 BECMG 2900/2901 FEW030 BKN200 BECMG 2902/2903 35015G25KT RKJK 280000Z 2800/2906 34012G18KT 9999 SCT180 QNH3023INS BECMG 2812/2813 34008KT 9999 FEW030 SCT180 QNH3020INS BECMG 2903/2904 34012G18KT 9999 FEW180 QNH3021INS TX07/2804Z TNM04/2821Z RKNY 272300Z 2800/2906 27010KT CAVOK TX04/2805Z TNM03/2821Z TX04/2905Z BECMG 2801/2802 03006KT BECMG 2809/2810 25010KT BECMG 2813/2814 25015G25KT BECMG 2903/2904 27017G35KT RKPC 272300Z 2800/2906 35008KT 9999 BKN030 BKN150 TX06/2805Z TN03/2822Z TX05/2905Z TEMPO 2803/2812 SCT035 BKN150 BECMG 2902/2903 SCT035 BKN150 RKPK 272300Z 2800/2906 33006KT CAVOK TX09/2806Z TNM01/2821Z RKPU 190500Z 1906/2012 18010KT CAVOK TN14/1921Z TX19/2001Z BECMG 1912/1913 35007KT 6000 NSC TEMPO 1917/1921 4000 BR BECMG 1923/1924 BKN025 OVC080 BECMG 2001/2002 4000 -RA TEMPO 2003/2007 05010KT RKSG 280300Z 2803/2909 31009KT 9999 SKC 510063 QNH3016INS TX02/2805Z TNM06/2823Z RKSI 272300Z 2800/2906 33010KT CAVOK TX01/2806Z TNM05/2822Z TX01/2906Z TEMPO 2805/2808 27008KT RKSM 272300Z 2800/2906 27006KT 9999 SCT200 TX05/2806Z TNM07/2822Z RKSO 272100Z 2721/2903 31006KT 9999 FEW200 QNH3024INS BECMG 2800/2801 30006KT 9999 SKC QNH3023INS BECMG 2804/2805 30012KT 9999 SKC QNH3023INS WND 30006KT AFT 2811 BECMG 2814/2815 30006KT 9999 SCT180 QNH3022INS TX02/2805Z TNM06/2721Z RKSS 272300Z 2800/2906 32006KT CAVOK TX03/2805Z TNM10/2822Z TX02/2905Z RKTH 212300Z 2200/2306 24010KT 9999 SCT030 SCT200 TX21/2206Z TN00/2221Z BECMG 2205/2206 27010G20KT RKTN 272300Z 2800/2906 30006KT CAVOK TX07/2806Z TNM04/2821Z RKTU 272300Z 2800/2906 30006KT 9999 SCT030 SCT200 TX04/2806Z TNM11/2822Z ROAH 272309Z 2800/2906 01014KT 9999 FEW020 BKN045 TEMPO 2903/2906 4000 SHRA RODN 280000Z 2800/2906 06009KT 9999 VCSH SCT030 QNH3002INS BECMG 2803/2804 06009KT 9999 VCSH BKN025 QNH3001INS TEMPO 2804/2807 9000 -SHRA BECMG 2817/2818 08009KT 8000 -SHRA BR SCT015 BKN020 QNH2994INS TX24/2804Z TN16/2817Z ROIG 272309Z 2800/2906 07012KT 9999 FEW010 BKN030 TEMPO 2821/2903 4000 SHRA ROTM 2723/2821 VRB06KT 9999 FEW030 510005 QNH3009INS BECMG 2723/2801 06010KT 9999 SCT020 BKN030 510005 QNH3009INS TEMPO 2802/2808 07010G15KT FM281500 VRB06KT 9999 FEW030 SCT080 SCT180 500000 QNH3004INS BECMG 2819/2821 9000 SHRA BR SCT030 BKN050 OVC080 QNH2999INS T23/2803Z T17/2826Z 2312 RPLB 272300Z 2800/2824 08008KT 9999 FEW020 SCT300 TX33/2806Z TN25/2821Z TEMPO 2800/2806 07014G28KT FEW018CB FEW020 SCT080 RPLC 060500Z 0606/0712 20006KT 7000 SCT020 BKN100 TX32/0606Z TN24/0621Z TEMPO 0606/0612 18008KT 5000 TS -SHRA FEW015CB SCT020 OVC100 RPLI 272300Z 2800/2824 04005KT 9999 FEW018 SCT100 BKN290 TEMPO 2800/2806 36009KT -SHRA FEW018 BKN090 RPLL 272300Z 2800/2906 10005KT 9999 FEW023 BKN100 TX30/2806Z TN26/2821Z TEMPO 2800/2806 12010KT -SHRA SCT022 BKN090 TEMPO 2806/2812 14008KT SCT023 BKN100 RPMD 272300Z 2800/2824 35005KT 9999 FEW016 SCT290 TEMPO 2800/2806 02007KT 8000 -SHRA SCT015CB BKN090 RPMR 060500Z 0606/0706 15006KT 9999 FEW018 BKN080 TEMPO 0606/0612 02012KT 9000 -TSRA SCT017CB OVC080 RPMZ 272300Z 2800/2824 11006KT 9999 FEW017 SCT090 BKN300 TEMPO 2800/2806 9000 -TSRA FEW016CB FEW017 BKN090 RPVD 060500Z 0606/0706 04006KT 9999 FEW015 SCT070 BKN220 TEMPO 0606/0612 20012KT 9000 -TSRA FEW014CB SCT015 BKN070 RPVK 060500Z 0606/0706 12005KT 9999 FEW016 SCT070 BKN240 TEMPO 0606/0612 20009KT 8000 -TSRA SCT015CB OVC070 RPVM 272300Z 2800/2906 05005KT 9999 FEW020 SCT300 TEMPO 2806/2812 07008KT FEW018CB BKN300 TEMPO 2806/2812 -SHRA FEW018CB BKN100 RPVP 060500Z 0606/0706 18004KT 9999 FEW019 BKN080 TEMPO 0606/0612 27010KT 8000 -TSRA FEW017CB SCT019 OVC080 RRA VOBL 172300Z 1800/1906 11005KT 3000 BR SCT008 TEMPO 1800/1803 0800 FG BKN005 SCT012 BECMG 1805/1806 6000 SCT012 BECMG 1822/1823 VRB02KT 3000 BR SCT008 TEMPO 1900/1903 1500 BR SCT005 BECMG 1905/1906 11005KT 6000 SCT012 RRB VOCB 012300Z 0200/0306 01005KT 3000 BR SCT015 SCT080 TEMPO 0200/0203 2000 BR BECMG 0206/0207 07010KT 6000 TEMPO 0209/0215 SCT015 FEW020TCU/CB BKN080 BECMG 0212/0213 5000 HZ BECMG 0215/0216 01005KT BECMG 0305/0306 07010KT 6000 rt MTPP 181100Z 1812/1912 13008KT 9000 FEW020 BECMG 1816/1820 09012G22KT FM190400 10005KT 8000 NSC RTD LCEN 241040Z 2412/2512 04010KT 9999 SCT030 BECMG 2418/2421 28010KT S K UERP 202300Z 2100/2124 12003G08MPS 9999 SCT023 OVC100 TEMPO 2100/2112 15003G08MPS S?K UERP 202300Z 2100/2124 12003G08MPS 9999 SCT023 OVC100 TEMPO 2100/2112 15003G08MPS SAAP 232300Z 2400/2424 14010KT 9999 SCT030 TX30/2418Z TN22/2408Z BECMG 2405/2407 14005KT 9000 -DZ SCT025 TEMPO 2409/2415 5000 SHRA SCT025 OVC035 BECMG 2418/2420 18010KT CAVOK SAAR 272300Z 2800/2824 14010KT CAVOK TX27/2819Z TN13/2810Z BECMG 2803/2806 09005KT SAAV 232300Z 2400/2424 14010KT CAVOK TX30/2418Z TN22/2408Z BECMG 2405/2407 14005KT 9000 -DZ SCT025 TEMPO 2409/2415 5000 SHRA SCT025 OVC035 BECMG 2418/2420 18010KT CAVOK SABE 272300Z 2800/2824 11015KT CAVOK TX24/2819Z TN17/2810Z BECMG 2806/2808 05010KT BECMG 2814/2816 09010KT SACO 272300Z 2800/2824 36005KT CAVOK TX27/2818Z TN14/2809Z BECMG 2811/2813 05010KT SADF 272300Z 2800/2824 09010KT CAVOK TX24/2819Z TN15/2810Z BECMG 2806/2808 05005KT BECMG 2814/2816 09010KT SADP 232300Z 2400/2424 23005KT CAVOK TX30/2418Z TN19/2408Z PROB40 2407/2411 5000 BR NSC BECMG 2412/2414 12005KT 9999 BKN020 SAEZ 272300Z 2800/2824 10006KT CAVOK TX25/2818Z TN14/2809Z PROB30 TEMPO 2808/2810 VRB03KT 5000 MIFG BECMG 2816/2818 05008KT SAME 272300Z 2800/2824 02005KT 9999 FEW025 FEW030TCU SCT100 TX30/2820Z TN16/2810Z BECMG 2802/2804 28005KT 9999 BKN025 PROB30 TEMPO 2805/2809 16005KT 6000 DZRA BKN020 SCT030 BECMG 2813/2815 36005KT 9999 SCT040 SAMR 130500Z 1306/1406 23005KT CAVOK TX42/1319Z TN21/1309Z BECMG 1311/1313 36010KT BECMG 1320/1322 9999 SCT045 BECMG 1401/1403 20010KT CAVOK SANC 171100Z 1712/1812 18005KT 9999 SCT045 TX39/1719Z TN20/1809Z BECMG 1716/1718 05010KT 9999 SCT040 FEW050CB BECMG 1720/1722 5000 TSRA BKN040 FEW050CB BECMG 1802/1805 CAVOK BECMG 1806/1808 20015KT 9999 SCT020 SANE 171100Z 1712/1712 18010KT CAVOK TX42/1719Z TN24/1809Z BECMG 1719/1721 16015KT 9999 BKN040 FEW050CB BECMG 1722/1800 23020G30KT 3000 TSRA BKN030 FEW040CB BECMG 1804/1806 18015KT 9999 BKN020 SANL 171100Z 1712/1712 23005KT 9999 FEW050 TX40/1719Z TN20/1809Z BECMG 1716/1718 05010KT 9999 SCT040 FEW050CB PROB TEMPO 1719/1723 7000 TSRA BKN030 FEW040CB BECMG 1804/06 20015KT 7000 RA OVC020 SANR 272300Z 2800/2824 09005KT 9999 BKN030 TX28/2818Z TN19/2809Z PROB40 TEMPO 2801/2805 7000 -RA BR BKN015 BECMG 2811/2814 CAVOK SANT 272300Z 2800/2824 20005KT 5000 RA BR BKN020 FEW040TCU TX26/2818Z TN19/2809Z BECMG 2801/2804 OVC015 BECMG 2811/2814 14005KT 9999 NSW BKN030 FEW040TCU SANU 130500Z 1306/1406 34010KT CAVOK TX43/1320Z TN26/1310Z BECMG 1316/1318 9999 FEW050 TEMPO 1320/1323 SCT040 FEW050TCU BECMG 1402/1404 CAVOK SAOC 171100Z 1712/1712 20010KT 5000 RA BKN015 FEW050CB TX29/1718Z TN15/1809Z BECMG 1714/1716 18015KT 9999 SCT040 BECMG 1800/1802 09015KT 7000 RA BKN015 OVC040 SAOU 130500Z 1306/1406 36010KT CAVOK TX41/1320Z TN28/1307Z BECMG 1309/1311 36015KT BECMG 1321/1323 36010KT SAR1 101100Z 1012/1112 05005KT 6000 NSC TX31/1018Z TN20/1109Z BECMG 1013/1015 3000 TSRA SCT030 BKN040 FEW050CB SARC 182123Z 1822/1918 18010KT 6000 SCT025 TX30/1919Z TN21/1909Z BECMG 1906/1908 5000 TSRA SCT020 FEW050CB SARE 272300Z 2800/2824 14010KT CAVOK TX30/2819Z TN20/2810Z SARF 272300Z 2800/2824 18010KT 4000 FU SCT020 BKN100 TX30/2819Z TN21/2810Z BECMG 2804/2806 CAVOK SARI 272300Z 2800/2824 20010KT 9999 SCT030 TX32/2819Z TN18/2810Z PROB40 2804/2808 00000KT 5000 BR SARP 272300Z 2800/2824 20010KT 9999 SCT030 BKN100 TX28/2819Z TN20/2810Z BECMG 2804/2806 CAVOK SASA 272300Z 2800/2824 36005KT 8000 BKN017 FEW030TCU TX23/2818Z TN15/2809Z BECMG 2802/2805 7000 -RA BR OVC007 BECMG 2812/2815 07010KT 9999 NSW BKN020 FEW030TCU SASJ 272300Z 2800/2824 23010KT 9999 BKN030 FEW040TCU TX25/2818Z TN17/2809Z PROB40 TEMPO 2807/2811 7000 -RA BR OVC015 BECMG 2813/2817 14005KT SATN41 HTDA 170500 METAR HTGW 170500Z 10008KT 9999 FEW022 15/09 Q1026 NOSIG SAVC 272300Z 2800/2824 05012KT CAVOK TX21/2819Z TN16/2810Z PROB40 TEMPO 2801/2804 VRB05KT BECMG 2805/2807 18010KT 9999 SCT025 PROB40 TEMPO 2806/2810 BKN020 BECMG 2817/2819 09015KT FEW030 SAVE 311700Z 3118/0118 30020G30KT 9999 -RA BKN030 OVC050 TX18/3119Z TN08/3110Z BECMG 3123/0101 30015G25KT SAVT 311700Z 3118/0118 30018KT CAVOK TX29/3120Z TN16/0110Z BECMG 3121/3123 9999 SCT030 SCT090 SAVV 311700Z 3118/0118 VRB07KT CAVOK TX31/3120Z TN18/0110Z BECMG 0100/0102 02015KT BECMG 0104/0106 27012KT SCT030 SAWB 251100Z 2512/2612 18015KT 0100 FZFG OVC002TX00/2515Z TNM02/2523Z BECMG 2603/2606 1500 BR BKN005 OVC010 SAWC 311700Z 3118/0118 27020G30KT 9999 -SHRA BKN020 SCT030TCU TX14/3119Z TN07/0110Z BECMG 3121/3123 29012KT NSW FEW030 SCT090 SAWE 272300Z 2800/2824 21010KT 9999 FEW020 SCT090 TX12/2819Z TN09/2810Z BECMG 2802/2804 VRB05KT BKN012 BECMG 2810/2812 02010KT BKN020 BECMG 2820/2822 34018KT SCT020 SAWG 272300Z 2800/2824 05012KT 9999 SCT030 TX18/2819Z TN12/2810Z BECMG 2802/2804 VRB05KT CAVOK BECMG 2810/2812 05015KT SAWH 272300Z 2800/2824 VRB05KT 9999 BKN025 TX17/2819Z TN07/2810Z BECMG 2810/2812 SCT030 BKN090 SAZB 232300Z 2400/2424 25010KT CAVOK TX32/2418Z TN16/2408Z SAZM 272300Z 2800/2824 14010KT CAVOK TX23/2819Z TN10/2810Z BECMG 2805/2804 34005KT BECMG 2809/2811 34010KT BECMG 2816/2818 05015KT SAZN 272300Z 2800/2824 02010KT CAVOK TX33/2819Z TN18/2810Z BECMG 2805/2807 09005KT BECMG 2817/2819 02010KT SAZR 232300Z 2400/2424 07005KT CAVOK TX33/2418Z TN16/2408Z PROB40 2403/2406 6000 -TSRA FEW050CB BECMG 2407/2409 VRB03KT 5000 BR NSC BECMG 2411/2413 12005KT CAVOK SAZS 272300Z 2800/2824 29005KT CAVOK TX29/2819Z TN15/2810Z BECMG 2801/2804 VRB03KT BECMG 2814/2816 29020KT SAZY 232300Z 2400/2424 27020G30KT 9999 BKN035 TX24/2418Z TN06/2408Z BECMG 2410/2412 27015KT CAVOK SBAC 041215Z 0412/0424 04010KT 9999 SCT020 TX31/0416Z TN26/0424Z BECMG 0412/0414 02012KT BECMG 0418/0421 05012KT RMK PGW SBAF 272100Z 2800/2812 01007KT CAVOK TN27/2806Z TX32/2812Z RMK PDW SBAN 272100Z 2800/2812 34005KT 9999 FEW030 FEW035TCU TN18/2807Z TX22/2812Z PROB40 TEMPO 2800/2801 VCTS SCT030 FEW035CB BECMG 2801/2803 5000 BR BKN004 PROB40 2806/2810 0800 FG BKN002 BECMG 2810/2812 9999 NSW FEW015 RMK PDW SBAR 272145Z 2800/2824 10010KT 9999 SCT025 TN25/2809Z TX30/2818Z BECMG 2803/2805 29005KT BKN020 TEMPO 2806/2809 01010KT 4000 TSRA BKN015 FEW025CB BECMG 2809/2811 07007KT 7000 SHRA SCT015 FEW020TCU BECMG 2814/2816 10015KT 9999 NSW SCT025 BECMG 2818/2820 10007KT FEW020 RMK PFV SBAT 272030Z 2800/2812 03007KT 9999 SCT025 TN23/2809Z TX26/2812Z BECMG 2810/2812 35007KT 5000 RA BR SCT007 OVC020 RMK PGB SBBE 272030Z 2800/2824 10005KT 8000 FEW025 TN23/2809Z TX27/2816Z BECMG 2806/2809 06005KT 6000 DZ SCT007 BKN020 BECMG 2812/2814 09010KT 8000 NSW BKN025 BECMG 2816/2818 02010KT SCT017 FEW035TCU PROB40 2818/2821 36015KT 4000 TSRA BKN015 FEW030CB BECMG 2822/2824 08007KT BKN023 RMK PGB SBBG 272100Z 2800/2812 13005KT CAVOK TN14/2808Z TX20/2812Z RMK PDW SBBI 272100Z 2800/2812 14008KT 9999 BKN010 TX20/2800Z TN16/2812Z PROB40 TEMPO 2800/2811 5000 RADZ BR OVC006 RMK PDW SBBR 272119Z 2800/2824 35004KT 9999 SCT025 TN18/2809Z TX27/2816Z BECMG 2802/2804 34002KT FEW025 BECMG 2812/2814 34006KT SCT025 TEMPO 2818/2821 TSRA BKN025 FEW045CB RMK PGM SBBU 272200Z 2800/2812 36007KT 9999 SCT040 TN22/2808Z TX24/2811Z TEMPO 2800/2803 4000 RA BR PROB40 TEMPO 2803/2806 RA SCT005 TEMPO 2806/2812 36012KT 4000 TSRA BKN030 FEW040CB RMK PHH SBBV 272030Z 2800/2824 08010KT 9999 SCT030 TN24/2809Z TX34/2819Z BECMG 2804/2805 CAVOK PROB40 2807/2811 8000 SCT015 BKN035 BECMG 2812/2814 11015KT 9999 FEW030 BECMG 2816/2818 09015KT BKN035 FEW045TCU BECMG 2820/2822 11010KT SCT040 RMK PGB SBBW 272119Z 2800/2812 10002KT 8000 FEW018 TX27/2800Z TN22/2808Z RMK PGM SBCB 272145Z 2800/2812 04015KT CAVOK TN24/2809Z TX26/2812Z BECMG 2809/2811 05005KT RMK PFV SBCF 272119Z 2800/2824 01007KT 8000 SCT025 TN19/2809Z TX30/2819Z BECMG 2801/2803 06006KT BECMG 2804/2806 06004KT BECMG 2811/2813 02006KT FEW018 BECMG 2813/2815 33007KT SCT025 BECMG 2818/2820 30006KT BECMG 2821/2823 FEW025 RMK PGM SBCG 272119Z 2800/2824 34006KT 9999 FEW025 TN21/2809Z TX28/2816Z BECMG 2801/2803 01006KT FEW025 BECMG 2807/2809 33008KT BECMG 2812/2814 33010KT BECMG 2815/2817 SCT025 TEMPO 2817/2820 TSRA BKN025 FEW040CB BECMG 2820/2822 02007KT RMK PGM SBCJ 272030Z 2800/2812 07010KT 8000 SCT025 TN22/2810Z TX23/2812Z BECMG 2804/2806 06007KT SCT012 BKN025 BECMG 2809/2811 03007KT 5000 RA BKN010 OVC020 RMK PGB SBCO 272100Z 2800/2812 13008KT 9999 SCT040 TN17/2808Z TX22/2812Z RMK PDW SBCP 272145Z 2800/2812 05010KT 9999 FEW020 TN24/2809Z TX31/2812Z BECMG 2809/2811 33007KT RMK PFV SBCR 272119Z 2800/2824 29005KT 9999 FEW013 TN22/2809Z TX32/2816Z BECMG 2813/2815 SCT023 BECMG 2815/2817 23011KT SCT025 BECMG 2817/2819 23013KT BECMG 2819/2821 22006KT FEW025 RMK PGM SBCT 272100Z 2800/2824 12008KT 9999 BKN010 TX20/2800Z TN14/2824Z PROB40 TEMPO 2800/2811 5000 RADZ BR BKN005 OVC008 BECMG 2814/2816 BKN015 BECMG 2817/2819 BKN010 RMK PDW SBCY 272030Z 2800/2824 36007KT 8000 SCT030 FEW035TCU TN23/2809Z TX30/2818Z BECMG 2802/2804 9999 FEW025 BECMG 2808/2810 32005KT 7000 SCT015 BECMG 2812/2814 30015KT SCT020 BECMG 2816/2818 33010KT 9999 BKN023 FEW030TCU PROB40 TEMPO 2818/2823 4000 SHRA RMK PGB SBCZ 272030Z 2800/2824 35007KT 9999 SCT020 TN25/2812Z TX30/2818Z BECMG 2810/2812 02005KT 7000 SCT012 BKN030 BECMG 2815/2817 32015KT 9999 SCT015 FEW030TCU PROB40 2818/2820 30010KT 6000 TSRA BKN017 FEW025CB RMK PGB SBDN 272200Z 2800/2812 33010KT 9999 FEW045TCU TN22/2808Z TX24/2811Z PROB30 2800/2803 SHRA TEMPO 2806/2812 36012KT 4000 TSRA BKN030 FEW040CB RMK PHH SBEG 272030Z 2800/2824 07005KT 9999 SCT030 TN24/2809Z TX29/2817Z BECMG 2804/2806 32005KT SCT017 BECMG 2809/2810 03005KT 7000 SCT010 BKN030 BECMG 2813/2815 36010KT 9999 BKN023 FEW030TCU PROB40 2817/2821 5000 TSRA BKN015 FEW030CB BECMG 2821/2823 27007KT RMK PGB SBFI 272100Z 2800/2824 22007KT 9999 SCT020 TN23/2809Z TX31/2818Z BECMG 2806/2808 BKN020 BECMG 2814/2816 14007KT SCT030 RMK PDW SBFL 272100Z 2800/2824 16008KT 9999 SCT015 BKN030 TN20/2808Z TX22/2815Z PROB40 TEMPO 2800/2810 8000 RA BKN010 BKN030 BECMG 2812/2814 BKN030 RMK PDW SBFN 272145Z 2800/2812 10005KT 7000 RA SCT015 BKN020 TN25/2809Z TX29/2812Z TEMPO 2800/2803 09010KT 3000 TSRA SCT010 BKN015 FEW030CB BECMG 2804/2806 NSW BKN020 BECMG 2806/2808 09010KT 4500 TSRA BKN015 FEW030CB BECMG 2809/2811 12010KT 8000 RA SCT017 BKN030 RMK PFV SBFZ 272145Z 2800/2824 09007KT 9999 SCT020 TN26/2809Z TX29/2818Z BECMG 2802/2804 BKN020 TEMPO 2806/2812 15010KT 4000 TSRA BKN012 FEW025CB BECMG 2812/2814 10012KT BKN020 FEW025TCU TEMPO 2815/2818 8000 SHRA BKN020 FEW025TCU BECMG 2820/2822 08007KT SCT025 RMK PFV SBGL 272145Z 2800/2906 26007KT 9999 FEW025 TN26/2809Z TX33/2818Z BECMG 2801/2804 31005KT BECMG 2816/2817 28010KT BECMG 2817/2818 23015G25KT FEW020 FEW030TCU BECMG 2818/2819 8000 TS SCT020 FEW030CB TEMPO 2819/2822 20015KT 7000 TSRA SCT017 FEW030CB BECMG 2822/2824 18005KT 9999 NSW FEW020 BKN040 BECMG 2903/2905 25002KT FEW030 RMK PFV SBGO 272119Z 2800/2824 34006KT 9999 SCT025 TN20/2809Z TX29/2819Z BECMG 2803/2805 34004KT FEW025 BECMG 2806/2808 34002KT BECMG 2813/2815 34007KT SCT025 BECMG 2817/2819 30007KT RMK PGM SBGR 272200Z 2800/2906 33010KT 9999 SCT040 FEW045TCU TN21/2809Z TX25/2816Z TEMPO 2803/2806 VCTS BKN023 FEW030CB TEMPO 2806/2812 TSRA BKN020 FEW030CB TEMPO 2812/2818 8000 RA BKN020 TEMPO 2818/2821 24010KT 4000 TSRA BKN023 FEW045CB BECMG 2821/2822 18005KT 3000 RA BR BKN010 BECMG 2822/2824 2000 RA BR BKN008 RMK PHH SBGW 270900Z 2712/2724 33008KT 9999 SCT030 TX32/2718Z TN21/2723Z RMK PEC SBIH 272030Z 2800/2812 00000KT 9999 FEW020 TN23/2810Z TX26/2812Z BECMG 2805/2807 34005KT 8000 SCT015 BECMG 2810/2812 05010KT 6000 DZ SCT005 OVC017 RMK PGB SBIL 272119Z 2800/2812 10004KT 7000 SCT017 TX26/2800Z TN23/2808Z BECMG 2809/2811 25006KT VCSH BKN018 FEW025TCU RMK PGM SBIZ 272030Z 2800/2812 15010KT 8000 SCT023 TN23/2809Z TX25/2812Z BECMG 2804/2806 06007KT SCT012 BKN025 BECMG 2809/2811 09007KT 6000 SHRA BKN015 FEW020TCU RMK PGB SBJE 041215Z 0412/0424 10006KT 9999 SCT020 TX32/0416Z TN26/0424Z BECMG 0412/0415 08010KT BECMG 0418/0421 06013KT RMK PGW SBJP 272145Z 2800/2824 18005KT 9999 SCT020 TN24/2809Z TX29/2818Z TEMPO 2803/2806 15007KT 6000 TSRA BKN020 FEW025CB BECMG 2810/2812 11010KT BKN020 BECMG 2812/2814 8000 SHRA BKN020 FEW025TCU TEMPO 2815/2818 04015KT 6000 TSRA BKN015 FEW025CB BECMG 2821/2823 14005KT 9999 NSW SCT020 RMK PFV SBJV 272100Z 2800/2812 22008KT 9999 SCT010 BKN020 TX21/2800Z TN19/2809Z TEMPO 2800/2812 5000 RA BR BKN010 RMK PDW SBKG 272145Z 2800/2812 10010KT 9999 FEW010 TN21/2809Z TX26/2812Z BECMG 2804/2806 12005KT BKN010 BECMG 2810/2812 14010KT SCT010 BKN017 RMK PFV SBKP 272200Z 2800/2824 33008KT 9999 SCT040 FEW045TCU TN21/2809Z TX24/2818Z BECMG 2800/2802 04005KT FEW045 TEMPO 2804/2806 35005KT TSRA SCT040 FEW045CB TEMPO 2806/2812 34005KT TSRA BKN030 FEW040CB TEMPO 2812/2818 8000 RA BKN020 TEMPO 2818/2824 18010KT 3000 TSRA BKN020 FEW040CB RMK PHH SBLO 272200Z 2800/2812 35010KT CAVOK TN21/2808Z TX23/2811Z PROB30 2800/2803 18005KT 4000 SHRA BKN005 BKN020 TEMPO 2803/2806 06005KT 3000 RA FEW005 BKN020 TEMPO 2806/2812 5000 RA BR BKN010 RMK PHH SBMA 272030Z 2800/2812 12010KT 8000 SCT023 TN23/2809Z TX25/2812Z BECMG 2804/2806 01007KT SCT012 BKN020 BECMG 2808/2810 33007KT 6000 SHRA BKN015 FEW020TCU RMK PGB SBME 272145Z 2800/2812 03010KT 9999 FEW020 TN25/2809Z TX30/2812Z BECMG 2809/2811 03007KT RMK PFV SBMN 272100Z 2800/2812 05005KT 9999 FEW006 TN24/2806Z TX26/2812Z PROB40 TEMPO 2809/2812 BKN006 RMK PDW SBMO 272145Z 2800/2824 07007KT 9999 SCT020 TN24/2809Z TX31/2815Z BECMG 2805/2807 06007KT 6000 RA BKN015 BECMG 2807/2809 29003KT 9999 NSW BKN017 BECMG 2809/2812 09010KT BKN020 FEW025TCU BECMG 2812/2814 BKN025 TEMPO 2818/2821 12015KT 7000 TSRA BKN020 FEW030CB BECMG 2821/2823 07007KT SCT020 RMK PFV SBMQ 272030Z 2800/2824 01005KT 9999 SCT015 TN24/2809Z TX29/2816Z BECMG 2802/2805 34005KT 7000 SCT010 BKN017 PROB40 2809/2812 01007KT 5000 DZ BR SCT007 OVC023 BECMG 2814/2816 04015KT 8000 SCT020 FEW035TCU PROB40 2817/2822 4000 TSRA BKN015 FEW025CB BECMG 2822/2823 04010KT SCT020 RMK PGB SBNF 272100Z 2800/2824 22010KT 9999 BKN015 TN20/2809Z TX22/2814Z PROB40 TEMPO 2800/2810 6000 RA BKN008 BECMG 2812/2814 BKN020 RMK PDW SBNT 272145Z 2800/2812 13007KT 9999 FEW020 TN23/2809Z TX24/2812Z BECMG 2803/2805 21010KT 4500 TSRA BKN015 FEW025CB BECMG 2806/2808 16005KT 9999 NSW BKN020 BECMG 2810/2812 14010KT 7000 SHRA SCT020 FEW025TCU RMK PFV SBOI 272030Z 2800/2812 01005KT 9999 SCT020 BKN030 TN23/2810Z TX25/2812Z BECMG 2802/2805 34005KT 7000 SCT010 BKN017 PROB40 2809/2812 02007KT 5000 DZ BR SCT007 OVC023 RMK PGB SBPA 272100Z 2800/2824 11008KT 9999 SCT040 TN18/2808Z TX26/2818Z BECMG 2820/2822 CAVOK RMK PDW SBPB 272145Z 2800/2812 07007KT 8000 RA BKN015 TN24/2809Z TX25/2812Z TEMPO 2809/2812 10012KT 4000 TSRA BKN015 FEW025CB RMK PFV SBPJ 272145Z 2800/2824 13007KT 9999 FEW020 FEW025TCU TN23/2810Z TX29/2818Z TEMPO 2800/2803 7000 TS SCT015 FEW035CB BECMG 2806/2808 10003KT FEW015 BECMG 2812/2814 22005KT FEW015 SCT025 BECMG 2814/2816 30007KT SCT025 FEW035TCU TEMPO 2816/2820 15010KT 4000 TSRA SCT017 FEW033CB RMK PFV SBPK 271500Z 2718/2818 16015KT 9999 BKN040 TN18/2808Z TX27/2816Z BECMG 2720/2722 16010KT SCT040 BECMG 2800/2802 24005KT BECMG 2812/2814 11010KT RMK PDW SBPL 272145Z 2800/2824 07005KT 7000 RA BKN015 TN21/2809Z TX25/2812Z TEMPO 2800/2806 13010KT 4000 TSRA BKN025 FEW035CB BECMG 2809/2811 15007KT 9999 NSW BKN020 BECMG 2815/2817 8000 RA BKN030 BECMG 2818/2820 11010KT 9999 NSW BKN025 FEW035TCU BECMG 2820/2822 16005KT SCT030 RMK PFV SBPP 272200Z 2800/2824 33008KT 9999 BKN020 FEW025TCU TN22/2809Z TX25/2818Z TEMPO 2800/2806 26005KT 8000 VCTS BKN020 FEW030CB TEMPO 2808/2812 27002KT 3000 RA FEW005 BKN020 TEMPO 2815/2821 27015KT 6000 TSRA BKN020 FEW025CB TEMPO 2821/2824 23010KT 4000 RA BKN020 RMK PHH SBPS 272145Z 2800/2824 06007KT 9999 FEW015 TN23/2809Z TX29/2818Z BECMG 2803/2805 01005KT SCT015 BECMG 2805/2807 22003KT 4500 BR SCT005 BECMG 2807/2809 26007KT 7000 RA SCT020 BKN030 BECMG 2809/2811 35010KT 8000 NSW BKN015 BECMG 2812/2814 05007KT 9999 SCT020 BECMG 2815/2817 07015KT FEW015 BECMG 2818/2820 10007KT SCT017 RMK PFV SBPV 272030Z 2800/2824 35007KT 9999 SCT020 TN23/2809Z TX30/2818Z BECMG 2810/2812 7000 DZ SCT012 BKN030 BECMG 2815/2817 32015KT 9999 NSW SCT017 FEW035TCU TEMPO 2818/2823 28015KT 5000 TSRA BKN020 FEW030CB RMK PGB SBRB 272030Z 2800/2812 34007KT 9999 SCT030 TN23/2809Z TX25/2812Z BECMG 2803/2805 02007KT FEW025 BECMG 2809/2811 32007KT 5000 SHRA BKN012 FEW020TCU RMK PGB SBRF 272145Z 2800/2824 14010KT 9999 BKN020 TN26/2809Z TX29/2818Z BECMG 2803/2805 19005KT 8000 SHRA SCT025 BKN040 BECMG 2806/2808 23003KT 9999 NSW SCT017 BECMG 2809/2812 12007KT SCT020 BKN040 BECMG 2815/2817 05010KT SCT020 FEW025TCU BECMG 2817/2818 07015KT 7000 TSRA BKN020 FEW025CB BECMG 2821/2823 11007KT 9999 NSW SCT025 RMK PFV SBRJ 272145Z 2800/2812 14005KT 9999 FEW025 TN25/2809Z TX29/2812Z BECMG 2803/2805 30003KT BECMG 2809/2811 22005KT RMK PFV SBRP 272119Z 2800/2812 01007KT 9999 FEW025 TX24/2800Z TN23/2808Z BECMG 2801/2803 07002KT BECMG 2806/2808 10002KT RMK PGM SBSC 272100Z 2800/2812 34009KT CAVOK TN27/2806Z TX32/2812Z RMK PDW SBSG 271655Z 2718/2818 15015KT 9999 SCT025 FEW030TCU TX30/2718Z TN24/2809Z BECMG 2719/2722 17007KT SCT030 BECMG 2723/2801 23005KT FEW020 BECMG 2803/2806 14010KT 6000 SHRA BKN015 FEW025TCU BECMG 2806/2808 8000 RA SCT010 BKN020 FEW025TCU TEMPO 2812/2815 15015KT 4000 TSRA BKN017 FEW030CB RMK PFV SBSJ 272200Z 2800/2812 34010KT 9999 SCT045 FEW050TCU TN20/2808Z TX25/2811Z TEMPO 2802/2806 VCTS BKN023 FEW030CB PROB40 TEMPO 2806/2812 TSRA BKN020 FEW030CB RMK PHH SBSL 272145Z 2800/2824 07007KT 6000 TSRA BKN015 FEW025CB TN23/2809Z TX28/2818Z TEMPO 2800/2803 04015KT 3000 TSRA BKN012 FEW025CB BECMG 2806/2808 07010KT NSW SCT017 BECMG 2812/2814 8000 RA BKN020 BECMG 2816/2818 05015KT 6000 SHRA BKN017 FEW025TCU TEMPO 2818/2821 04015KT 3000 TSRA BKN012 FEW025CB RMK PFV SBSM 272100Z 2800/2812 12006KT 9999 SCT030 TN15/2808Z TX20/2812Z RMK PDW SBSN 272030Z 2800/2824 21005KT 9999 FEW020 TN23/2809Z TX28/2818Z BECMG 2805/2807 09005KT 7000 SCT017 FEW025TCU BECMG 2808/2809 07010KT 4500 TSRA BKN012 FEW020CB BECMG 2811/2813 05010KT 9999 NSW SCT020 BECMG 2817/2819 02010KT BECMG 2820/2822 10010KT 8000 SCT016 FEW027TCU RMK PGB SBSP 272200Z 2800/2812 33008KT 9999 SCT040 FEW045TCU TN20/2808Z TX23/2811Z TEMPO 2803/2806 VCTS BKN023 FEW030CB TEMPO 2806/2812 TSRA BKN020 FEW030CB RMK PHH SBSV 272119Z 2800/2824 10008KT 9999 SCT020 TN26/2809Z TX31/2817Z BECMG 2801/2803 05005KT BECMG 2806/2808 35002KT TEMPO 2808/2811 RA BECMG 2812/2814 10009KT RMK PGM SBTD 271000Z 2712/2724 01010KT 9999 SCT040 FEW045TCU TX32/2715Z TN23/2723Z TEMPO 2715/2718 6000 TSRA SCT040 FEW045CB TEMPO 2718/2724 23004KT 8000 TSRA SCT040 FEW045CB RMK PGL SBTE 272145Z 2800/2812 02007KT 9999 TS FEW030 FEW040CB TN22/2809Z TX25/2812Z TEMPO 2800/2803 01010KT 6000 TSRA BKN020 FEW030CB BECMG 2804/2806 19002KT 8000 RA SCT006 BKN040 BECMG 2809/2811 00000KT BKN020 RMK PFV SBTF 272030Z 2800/2812 07010KT 9999 FEW020 TN23/2809Z TX26/2812Z BECMG 2810/2812 04005KT 5000 DZ BR SCT007 OVC025 RMK PGB SBTT 272030Z 2800/2824 35007KT 9999 SCT020 TN25/2812Z TX30/2819Z BECMG 2810/2812 7000 DZ SCT012 BKN030 BECMG 2814/2816 09010KT 9999 NSW SCT017 PROB40 TEMPO 2817/2822 33010KT 7000 TS SCT017 FEW030CB RMK PGB SBUG 271500Z 2718/2806 16012KT 9999 SCT035 TX29/2719Z TN22/2806Z BECMG 2720/2722 12008KT CAVOK RMK PDW SBUL 272119Z 2800/2812 03007KT 9999 FEW025 TX23/2800Z TN19/2809Z RMK PGM SBUR 272119Z 2800/2812 02006KT 9999 FEW025 TX23/2800Z TN19/2808Z BECMG 2809/2811 02008KT RMK PGM SBVH 272030Z 2800/2812 22007KT 9999 SCT025 TN23/2810Z TX24/2812Z BECMG 2810/2812 30010KT 5000 SHRA BKN010 FEW020TCU RMK PGB SBVT 272145Z 2800/2824 03010KT CAVOK TN23/2808Z TX32/2818Z BECMG 2803/2805 33005KT BECMG 2811/2813 02010KT BECMG 2814/2816 04015KT BECMG 2816/2818 06015G25KT BECMG 2822/2824 04015KT RMK PFV SBYS 272100Z 2800/2812 32007KT 9999 SCT040 FEW045TCU TN22/2808Z TX26/2812Z PROB40 TEMPO 2800/2802 RA BECMG 2802/2804 FEW035 RMK PDW SCAR 272220Z 2800/2824 18004KT CAVOK TN19/2809Z TX23/2818Z BECMG 2814/2816 21014KT BECMG 2823/2824 17004KT BKN040 SCAT 272220Z 2800/2824 24010KT 9999 OVC020 TN17/2809Z TX21/2818Z BECMG 2802/2804 36004KT OVC015 TEMPO 2806/2812 7000 -DZ BKN008 OVC012 BECMG 2813/2815 32014KT OVC025 BECMG 2817/2819 26010KT SCT030 BECMG 2822/2824 OVC020 SCBA 272229Z 2800/2824 27010KT CAVOK TN09/2809Z TX28/2820Z BECMG 2814/2816 29020KT SCCF 272220Z 2800/2824 27020KT CAVOK TN08/2809Z TX24/2818Z BECMG 2801/2803 26010KT BECMG 2804/2806 11012KT BECMG 2816/2818 27022KT TEMPO 2818/2822 28025G35KT SCCI 272201Z 2800/2900 16005KT 9999 FEW045 TN07/2808Z TX19/2818Z TEMPO 2805/2811 VRB03KT 5000 BR SCT010 PROB30 TEMPO 2807/2810 05005KT 0800 FG BKN008 BECMG 2812/2814 33010KT BECMG 2819/2821 32005KT SCT045 BKN080 SCCY 271728Z 2718/2806 18007KT CAVOK TX30/2720Z TN12/2806Z BECMG 2723/2801 VRB02KT SCDA 272220Z 2800/2824 21010KT CAVOK TN18/2809Z TX23/2818Z BECMG 2804/2806 14004KT BECMG 2814/2816 21016KT SCEL 272210Z 2800/2824 20013KT CAVOK TX29/2819Z TN13/2810Z BECMG 2801/2803 15007KT BECMG 2808/2810 FEW008 TEMPO 2808/2813 VRB02KT 6000 SCT005 BKN008 BECMG 2814/2816 CAVOK BECMG 2816/2818 21015KT SCFA 272220Z 2800/2824 20012KT 9999 FEW015 TN15/2809Z TX21/2818Z BECMG 2804/2806 17004KT BECMG 2814/2816 20014KT FEW025 SCIE 272210Z 2800/2824 30005KT 9999 OVC012 TX17/2818Z TN14/2810Z BECMG 2805/2807 7000 OVC008 TEMPO 2811/2815 5000 -DZ SCT008 OVC012 BECMG 2814/2816 29010KT BKN010 OVC015 BECMG 2819/2821 SCT012 BKN018 SCIP 272231Z 2800/2900 30013KT 9999 BKN020 TX25/2819Z TN20/2807Z BECMG 2801/2803 29017KT 5000 SHRA SCT010 BKN025 TEMPO 2806/2810 28017G27KT 4000 +RA BKN008 BKN015 BECMG 2812/2814 17016KT 9999 NSW SCT018 BKN035 TEMPO 2814/2821 7000 -SHRA SCJO 271720Z 2718/2806 17007KT CAVOK TX31/2719Z TN16/2806Z BECMG 2801/2803 VRB02KT SCNT 271004Z 2712/2800 26008KT 9999 SCT030 TN08/2712Z TX21/2718Z TEMPO 2712/2714 26019KT BECMG 2713/2715 CAVOK SCPQ 271721Z 2718/2806 15007KT CAVOK TX28/2720Z TN16/2806Z BECMG 2800/2802 VRB02KT SCQP 272226Z 2800/2824 28010KT CAVOK TN15/2804Z TX29/2819Z BECMG 2803/2805 VRB02KT OVC006 TEMPO 2808/2811 5000 BR OVC003 BECMG 2813/2815 CAVOK BECMG 2815/2817 25010KT SCRM 081030Z 0812/0912 27015KT 9999 SCT020 TX02/0820Z TN01/0912Z TEMPO 0815/0818 30010KT SCT020 SCT150 BECMG 0820/0822 01010KT SCT015 BECMG 0900/0902 04015KT SCT020 BKN040 BECMG 0906/0908 2000 -RASN BR SCT005 OVC015 TEMPO 0909/0912 30015KT 0500 -RA FG OVC002 SCSE 272209Z 2800/2824 28011KT 9999 FEW015 TX21/2819Z TN13/2810Z BECMG 2801/2803 28004KT BECMG 2806/2808 SCT008 BKN012 BECMG 2814/2816 28011KT SCT020 BECMG 2816/2818 CAVOK SCTE 272228Z 2800/2824 23005KT CAVOK TN13/2809Z TX27/2817Z BECMG 2802/2804 VRB02KT BECMG 2815/2817 16010KT SCVD 271717Z 2718/2806 28006KT CAVOK TX31/2718Z TN15/2806Z BECMG 2801/2803 VRB02KT BECMG 2803/2805 1500 BR SCT003 SCVM 272210Z 2800/2824 29005KT 9999 BKN015 TX20/2819Z TN12/2810Z BECMG 2806/2808 15004KT BECMG 2808/2810 33004KT SCT010 OVC012 BECMG 2814/2816 30011KT SCT018 BECMG 2817/2819 22010KT CAVOK SEGU 280140Z 2802/2824 33006KT 6000 RA SCT010 BKN020 OVC080 TEMPO 2804/2806 TSRA SCT010 FEW016CB BKN020 BECMG 2809/2811 9999 BECMG 2817/2819 15007KT BKN023 BKN100 TX29/2820Z TN23/2810Z SELT 272225Z 2800/2824 05006KT 9999 BKN030 BKN1000 BECMG 2804/2806 SCT010 BKN026 BECMG 2812/2814 SCT030 SCT080 BECMG 2818/2020 16014KT TX19/2819Z TN07/2811Z SEMT 272225Z 2800/2824 24006KT 9999 OVC020 TEMPO 2800/2803 8000 RA BECMG 2812/2814 15006KT BKN020 TX28/2820Z TN23/2811Z SEQM 272225Z 2800/2824 03005KT 9999 BKN010 BKN020 BECMG 2804/2806 6000 BCFG BKN005 BKN020 FM281300 VRB03KT 9999 SCT020 BKN080 BECMG 2818/2820 36012KT TEMPO 2819/2821 SCT030TCU BKN100 TX22/2819Z TN11/2811Z SEQU 030500Z 0306/0406 VRB03KT 9999 BKN020 TEMPO 0309/0311 2000 BCFG SCT005 BKN020 BECMG 0312/0314 34012KT FEW030 SCT100 BECMG 0317/0319 12006KT SCT033 SCT100 BECMG 0400/0402 03005KT FEW010 SCT023 TX25/0319Z TN07/0311Z SGAS 272135Z 2800/2900 15010KT 9999 BKN015 TX33/2819Z TN22/2809Z BECMG 2812/2815 9999 SCT030 SGCO 270450Z 2706/2806 19008KT 7000 TSRA BKN017 FEW040CB TX30/2719Z TN23/2709Z PROB40 2711/2714 22015G25KT 4000 TSRA OVC010 FEW040CB BECMG 2715/2718 23015KT 8000 -RA BKN020 SGEN 270450Z 2706/2806 14008KT 9999 BKN015 TX30/2719Z TN22/2709Z TEMPO 2708/2711 VRB08KT 8000 -TSRA BKN010 FEW040CB PROB40 2712/2715 22015G25KT 5000 TSRA OVC010 FEW040CB BECMG 2718/2721 23015KT 8000 -RA BKN020 SGES 272135Z 2800/2900 23010KT 9000 - RA BKN020 TX31/2819Z TN23/2809Z BECMG 2802/2804 8000 BKN015 PROB30 2808/2812 7000 TSRA OVC015 FEW040CB SKAR 272230Z 2800/2824 VRB02KT 9999 SCT020 BECMG 2816/2818 SCT020TCU TX29/2820Z TN18/2810Z SKBG 272230Z 2800/2824 VRB03KT 9999 FEW010 SCT070 BECMG 2815/2817 32008KT SCT017 TX27/2818Z TN19/2810Z SKBO 272230Z 2800/2824 VRB03KT 9999 FEW015 SCT070 PROB40 TEMPO 2809/2812 5000 BCFG FEW010 BECMG 2815/2817 27012KT SCT023TCU PROB40 TEMPO 2821/2824 DZ TX21/2818Z TN09/2810Z SKBQ 272230Z 2800/2824 02016KT 9999 FEW015 TEMPO 2801/2804 03018G28KT BECMG 2810/2812 04004KT PROB40 TEMPO 2811/2814 5000 BR BKN008 BECMG 2818/2820 02015KT TX32/2818Z TN24/2809Z SKCC 272230Z 2800/2824 VRB02KT 9999 SCT018 TEMPO 2803/2806 5000 DZ BCFG BKN015 BECMG 2815/2817 03012KT TX31/2818Z TN23/2810Z SKCG 272230Z 2800/2824 01008KT 9999 FEW015 BECMG 2810/2812 VRB02KT BECMG 2815/2817 35012KT FEW020 TX31/2818Z TN24/2810Z SKCL 272230Z 2800/2824 33012KT 9999 SCT020 BECMG 2803/2805 VRB02KT TEMPO 2820/2824 32012KT TX32/2820Z TN19/2810Z SKLT 272230Z 2800/2824 VRB02KT 9999 FEW012 SCT080 PROB40 TEMPO 2809/2812 5000 BR SCT010 PROB40 TEMPO 2818/2821 5000 TSRA BKN015CB TX31/2818Z TN22/2810Z SKPE 272230Z 2800/2824 12006KT 9999 SCT017 BECMG 2816/2818 SCT018TCU TX28/2820Z TN18/2810Z SKRG 272230Z 2800/2824 VRB02KT 9999 SCT015 TEMPO 2801/2804 DZ BKN010 TEMPO 2808/2812 4000 BR BKN005 PROB40 2809/2812 0600 FG VV001 BECMG 2813/2815 12008KT TEMPO 2820/2823 DZ SCT020TCU TX22/2819Z TN12/2810Z SKRH 140430Z 1406/1506NIL SKSP 272230Z 2800/2824 08008KT 9999 FEW017 TX31/2818Z TN25/2811Z SLAL 272200Z 2800/2824 34010KT 9999 FEW020 FEW030CB SCT070 TX16/2819Z TN09/2810Z BECMG 2803/2805 00000KT SCT010 BKN070 TEMPO 2809/2811 4000 VCFG BECMG 2815/2817 02010KT SCT020 FEW030CB SLCB 272200Z 2800/2824 28010KT 9999 FEW033 FEW036CB SCT070 TX25/2819Z TN13/2810Z BECMG 2802/2804 00000KT SCT027 BKN070 TEMPO 2806/2810 12010KT 7000 TSRA BECMG 2815/2817 28010KT SCT033 FEW036CB SLCO 272200Z 2800/2824 00000KT 9999 SCT017 TX30/2820Z TN23/2810Z TEMPO 2806/2810 23006KT 5000 SHRA FEW017CB BKN070 BECMG 2815/2818 35007KT 9999 NSW SCT020 SCT080 PROB40 TEMPO 2819/2821 25010KT 7000 TSRA FEW023CB BECMG 2822/2824 00000KT SCT017 SLET 272200Z 2800/2824 19010KT 9999 BKN017 FEW030CB TX30/2819Z TN22/2810Z PROB30 TEMPO 2801/2803 18017KT 6000 TSRA BKN017 FEW030CB BKN070 BECMG 2804/2806 18005KT 8000 RA BKN015 BKN070 TEMPO 2810/2812 9999 NSW BKN013 SLLP 272200Z 2800/2824 07006KT 3000E VCFG FEW002 SCT013 BKN070 TX15/2819Z TN05/2810Z TEMPO 2807/2811 5000 SHRA FEW017CB BECMG 2812/2816 14010KT 9999 NSW SCT015 TEMPO 2817/2821 6000 TSRA FEW020CB SLOR 251000Z 2512/2612 05003KT 9999 SCT013 SCT070 TX18/2519Z TN06/2610Z TEMPO 2517/2520 24010KT 7000 VCTSSH FEW023CB SLPS 221000Z 2212/2312 VRB02KT 9999 BKN070 TX37/2220Z TN22/2310Z TEMPO 2218/2222 09007KT BECMG 2306/3409 00000KT SLRQ 251000Z 2512/2612 00000KT 9999 BKN012 BKN070 TX35/2519Z TN24/2610Z BECMG 2514/2516 34008KT SCT015 SCT070 BECMG 2600/2602 00000KT SLTJ 272200Z 2800/2824 00000KT 9999 FEW006 BKN025 BKN070 TX19/2819Z TN15/2810Z PROB30 TEMPO 2801/2802 7000 TSRA BKN025 FEW030CB TEMPO 2810/2812 5000 RA BECMG 2815/2817 15010KT SCT033 BKN070 SLTR 272200Z 2800/2824 15006KT 6000 RA SCT015 BKN070 TX32/2820Z TN24/2810Z BECMG 2807/2809 00000KT 9999 NSW BECMG 2810/2812 31007KT SCT017 SCT080 TEMPO 2818/2821 8000 VCSH FEW023CB BECMG 2822/2824 00000KT FEW015 SLUY 062200Z 0700/0724 03004KT 9999 FEW017 TX18/0719Z TNM02/0710Z TEMPO 0719/0723 30012KT FEW025CB SLVR 272200Z 2800/2824 19010KT 9999 BKN017 FEW030CB TX30/2819Z TN22/2810Z PROB30 TEMPO 2801/2803 18017KT 6000 TSRA BKN017 FEW030CB BKN070 BECMG 2804/2806 18005KT 8000 RA BKN015 BKN070 TEMPO 2810/2812 9999 NSW BKN013 SLYA 251000Z 2512/2612 00000KT 9999 FEW020 SCT070 TX38/2519Z TN23/2610Z BECMG 2514/2516 04015KT FEW023 BECMG 2601/2603 00000KT SMJP 272200Z 2800/2824 VRB02KT 9999 SCT020 TX30/2816Z TN22/2808Z FM281200 03006KT 9999 SCT020 PROB40 TEMPO 2818/2821 5000 SHRA RA SCT015 SCT020 SMZ0 021600Z 0218/0318 07008KT 9999 SCT030 TX31/0218Z TN24/0309Z TEMPO 0218/0221 4000 SHRA TSRA FEW015CB SCT020 BECMG 0223/0301 09004KT FM031200 09006KT 9999 SCT015 SMZO 272200Z 2800/2824 VRB02KT 9999 SCT020 TX30/2817Z TN23/2807Z FM281200 03007KT 9999 SCT020 PROB30 TEMPO 2813/2816 5000 SHRA RA SCT015 SCT020 SNYO 041100Z 0412/0518 22007KT 9999 FEW012 TEMPO 0412/0418 TS SCT011 FEW019 TEMPO 0415/0421 5000 TSRA BKN010 FEW018CB SOCA 271600Z 2718/2818 06010KT 9999 BKN015 OVC045 PROB30 TEMPO 2719/2721 3000 SHRA SCT012CB BECMG 2722/2723 VRB02KT PROB30 TEMPO 2723/2809 2000 SHRA SCT010TCU BECMG 2813/2814 07010KT SPAY 010500Z 0100/0124 CNL SPCL 272300Z 2800/2824 01005KT 9999 SCT020 BKN080 TX32/2819Z TN23/2811Z TEMPO 2802/2805 5000 RADZ BKN012 BKN080 TEMPO 2808/2812 2000 BR BKN005 BKN080 TEMPO 2819/2823 02015KT 3000 SHRA BKN010 FEW025TCU BKN080 SPEO 271700Z 2718/2818 19016KT CAVOK TX24/2719Z TN19/2811Z FM280600 19006KT 9999 BKN010 FM281630 21014KT CAVOK SPGM 271705Z 2718/2818 15005KT 9999 SCT030 BKN100 TX30/2720Z TN21/2811Z BECMG 2810/2812 4000 BR BKN010 BKN080 BECMG 2813/2815 8000 NSW SCT015 BKN100 SPHI 271700Z 2718/2818 19014KT CAVOK TX29/2719Z TN19/2811Z FM280500 18009KT 9999 SCT010 SCT080 SPHO 271700Z 2718/2818 17005KT 9999 FEW015 OVC100 TX20/2720Z TN11/2811Z TEMPO 2718/2721 02010KT FEW025 FEW030TCU BKN080 BECMG 2803/2806 RA BKN040 OVC100 BECMG 2911/2913 SCT040 SCT080 SPHY 271700Z 2718/2818 36010KT 4500 DZ BR BKN010 OVC050 TX11/2719Z TN04/2811Z BECMG 2718/2720 7000 NSW SCT012 BKN050 BECMG 2721/2723 00000KT BECMG 2810/2812 3000 RA BR BKN010 OVC040 TEMPO 2815/2818 SCT010TCU OVC050 SPHZ 081115Z 0812/0912 VRB02KT 9999 SCT050 TX24/0819Z TN08/0911Z BECMG 0815/0818 35010KT BKN040 SPJA 011100Z 0112/0212 12005KT 9999 SCT025 SCT080 TX26/0120Z TN14/0211Z TEMPO 0112/0114 4000 BCFG SCT010 BKN080 TEMPO 0210/0212 3000 BCFG BKN010 SPJC 272300Z 2800/2824 16010KT CAVOK TX27/2819Z TN20/2811Z TEMPO 2809/2811 BKN012 BECMG 2814/2816 18010KT BECMG 2818/1821 17018KT TEMPO 2819/2822 4000 DU NSC SPJE 281400Z 2814/2912 32005KT 9999 SCT030 BKN080 TX26/2820Z TN20/2911Z TEMPO 2814/2817 3000 RA BKN010 BKN080 TEMPO 2908/2912 4000 DZ BCFG BKN010 BKN080 SPJI 271700Z 2718/2818 12005KT 9999 FEW020 OVC080 TX29/2720Z TN19/2811Z TEMPO 2810/2814 3000 DZ BCFG BKN010 BKN080 SPJJ 111300Z 1112/1212 35005KT 9999 FEW030 TX21/1119Z TNM01/1211Z BECMG 1117/1119 02015KT BECMG 1200/1202 00000KT SPJL 271700Z 2718/2818 35006KT 9999 BKN020 BKN080 TX17/2718Z TN04/2810Z TEMPO 2719/2722 06013KT BECMG 2806/2808 BKN014 BKN070 BECMG 2810/2813 BKN020 BKN080 SPJR 271705Z 2718/2818 15010KT 9999 SCT025 SCT050 TX22/2720Z TN09/2811Z TEMPO 2719/2723 SCT030 BKN045 BECMG 2800/2802 VRB02KT BECMG 2806/2808 SCT030 BKN046 SPLO 271700Z 2718/2818 15012KT CAVOK TX26/2719Z TN17/2811Z FM280200 14007KT 9999 SCT030 FM281400 16012KT CAVOK SPME 272300Z 2800/2824 28004KT 9999 BKN020 TX30/2819Z TN23/2811Z FM280500 07004KT 9999 SCT015 BKN060 TEMPO 2809/2813 RA BECMG 2817/2818 35007KT SCT020 SCT080 SPMF 111300Z 1112/1212 28005KT 8000 FEW030 SCT050 BKN070 TX32/1119Z TN18/1211Z SPMS 271700Z 2718/2818 32005KT 9999 SCT015 SCT100 TX33/2719Z TN23/2811Z TEMPO 2720/2724 02015KT 2000 RADZ BKN015 FEW025CB BKN080 TEMPO 2810/2814 4000 DZ BR BKN007 BKN080 SPNC 271705Z 2718/2818 06012KT 9999 SCT030 BKN100 TX29/2720Z TN15/2811Z BECMG 2800/2802 00000KT BECMG 2815/2817 06012KT SPPY 271700Z 2718/2818 36006KT 9999 SCT015 SCT050 TX17/2720Z TN10/2811Z TEMPO 2718/2722 5000 BCFG BKN015 BKN040 TEMPO 2812/2816 2000 BCFG BKN010 BKN050 SPQT 272300Z 2800/2824 VRB02KT 9999 SCT020 BKN080 TX32/2820Z TN22/2811Z TEMPO 2802/2806 4000 SHRAS SCT010 FEW025TCU BKN080 TEMPO 2808/2812 1000 BCFG BKN002 BKN080 TEMPO 2819/2823 03015KT 3000 SHRA BKN010 FEW025TCU BKN080 SPQU 272300Z 2800/2824 02004KT 9999 FEW060 SCT100 TX20/2819Z TN12/2811Z FM281300 31006KT 9999 SCT100 BECMG 2816/2818 25010KT SPRU 272300Z 2800/2824 16008KT 9999 SCT010 BKN090 TX24/2819Z TN18/2811Z BECMG 2807/2810 4500 BR OVC012 TEMPO 2810/2813 0700 FG OVC005 BECMG 2813/2816 8000 NSW SCT007 BKN050 SPSO 272300Z 2800/2824 21017KT CAVOK TX28/2819Z TN20/2811Z TEMPO 2810/2812 VRB04KT 4900 BR NSC BECMG 2813/2816 30010KT BECMG 2818/2821 21014G24KT 4000 DU NSC BECMG 2822/2824 21016KT NSW CAVOK SPST 272305Z 2800/2824 35005KT 9999 SCT020 SCT100 TX35/2820Z TN22/2811Z FM280200 00000KT 9999 FEW020 BECMG 2815/2817 35010KT TEMPO 2819/2822 SCT015TCU SPTN 271700Z 2718/2818 22011KT 9999 FEW040 SCT100 TX26/2719Z TN17/2810Z FM280300 23005KT 9999 SCT030 BKN120 FM281500 21010KT 9999 FEW030 SCT100 SPTU 271700Z 2718/2818 33005KT 9999 SCT025 TX32/2719Z TN23/2811Z TEMPO 2719/2720 RA SCT025 SCT030TCU BKN100 FM272200 9999 SCT020 BKN100 SPUR 202222Z 2022/2118 20015KT 9999 BKN040 TX33/2019Z TN22/2111Z TEMPO 2022/2101 3000 DU SCT030 BKN080 TEMPO 2112/2114 18004KT BKN030 SPYL 271700Z 2718/2818 22010KT CAVOK TX32/2719Z TN20/2811Z BECMG 2723/2803 SCT020 BKN050 BECMG 2806/2810 14014KT BECMG 2816/2818 22010KT CAVOK SPZA 081225Z 0812/0912 VRB02KT CAVOK TX30/0819Z TN14/0910Z FM081900 22012KT CAVOK BECMG 0900/0902 18003KT SPZO 272300Z 2800/2824 13005KT 9999 SCT050 BKN100 TX17/2819Z TN08/2811Z TEMPO 2801/2805 RA BECMG 2807/2809 7000 RA FEW020 SCT040 BKN100 BECMG 2813/2815 35010KT 9999 NSW FEW040 BKN100 TEMPO 2819/2822 TSRA FEW040TCU BKN100 SUAA 272330Z 2800/2824 12008KT 9999 BKN030 TX24/2818Z TN14/2809Z SUCA 272330Z 2800/2824 15010KT 9999 SCT030 TX24/2818Z TN15/2809Z BECMG 2804/2808 08005KT BECMG 2818/2820 16010KT SUDU 272330Z 2800/2824 14008KT CAVOK TX25/2818Z TN12/2809Z SULS 272330Z 2800/2824 15008KT 9999 BKN030 TX24/2818Z TN14/2809Z BECMG 2820/2822 09012KT SUMDU 031130Z 0312/0412 10008KT 9999 SCT020 TX25/0318Z TN11/0410Z TEMPO 0313/0323 5000 RA BKN020 BKN060 TEMPO 0322/0406 09015G25KT SUMU 272330Z 2800/2824 14005KT 9999 SCT030 TX24/2818Z TN14/2809Z SURB 102330Z 1100/1124 14008KT 9999 FEW023 BKN200 TX25/1118Z TN11/1109Z TEMPO 1103/1109 3000 BR SCT010 PROB30 TEMPO 1105/1109 00000KT 0800 FG BKN006 SURV 272330Z 2800/2824 12008KT CAVOK TX28/2818Z TN14/2809Z SUSO 272330Z 2800/2824 15010KT CAVOK TX28/2818Z TN15/2809Z SUVR 122330Z 1300/1324 11006KT 9999 FEW020 TX22/1318Z TN11/1310Z TEMPO 1306/1312 3000 BR SCT010 TEMPO 1308/1311 00000KT 0800 BCFG SCT005 SVBC 272200Z 2800/2900 07011KT 9999 SCT010 TX33/2818Z TN22/2806Z TEMPO 2802/2806 06005KT 9000 -DZ BKN010 SVBM 261127Z 2612/2712 07008KT 8000 VCBR FEW013 CB BKN070 TX33/2618Z TN22/2708Z BECMG 2614/2618 11008KT 4000 VCTSDZ FEW010CB BKN070 SVJC 271600Z 2718/2818 09015KT 9999 FEW013 TX30/2719Z TN23/2708Z BECMG 2718/2722 09007KT SCT013 SCT090 FM272700 02003KT 9999 SCT013 SVMC 272200Z 2800/2900 09015KT 9999 SCT013 TX33/2819Z TN22/2808Z TEMPO 2802/2806 02003KT 9000 DZ BKN013 SVMG 272200Z 2800/2900 05005KT 9999 SCT016 TX32/2818Z TN22/2808Z BECMG 2802/2806 08003KT 9999 FEW010 SVMI 272200Z 2800/2900 07010KT 9999 FEW016 TX32/2818Z TN22/2807Z TEMPO 2802/2806 09005KT 9000 DZ BKN016 SVSA 271600Z 2718/2818 07011KT 9999 SCT020 TX32/2719Z TN23/2708Z TEMPO 2718/2722 15004KT 9000 VC-DZ SCT020 SCT090 FM272700 16004KT 9999 SCT020 SVVA 272200Z 2800/2900 02003KT 9999 BKN013 TX33/2819Z TN22/2807Z TEMPO 2802/2806 05001KT 9000 DZ BKN020 SYCJ 272308Z 2800/2824 06005KT 9999 FEW018 BKN100 TEMPO 2806/2810 5000 BR BECMG 2812/2814 04010KT 9999 SCT019 SCT100 SYEB 271100Z 2712/2723 07010KT 9999 BKN020 SCT045 TEMPO 2716/2720 5000 SHRA BKN017 SYEC 272308Z 2800/2824 07006KT 9999 FEW018 BKN100 BECMG 2811/2813 05010KT 9999 SCT019 BKN100 SYKA 271100Z 2712/2723 05008KT 9999 BKN016 SCT040 TEMPO 2716/2722 5000 SHRA BKN014 SYKM 271100Z 2712/2723 05008KT 9999 BKN016 SCT040 TEMPO 2716/2722 5000 SHRA BKN014 SYKT 141100Z 1412/1423 06008KT 9999 BKN016 SCT040 TEMPO 1416/1422 5000 SHRA FEW015CB SCT090 SYLT 271100Z 2712/2723 06010KT 9999 BKN022 SCT050 PROB30 TEMPO 2716/2720 5000 SHRA BKN018 SYMB 271100Z 2712/2723 08010KT 9999 BKN018 SCT045 TEMPO 2716/2720 5000 SHRA BKN015 SZMO 030400Z 0306/0406 09003KT 9999 SCT007 SCT025 TX31/0317Z TN24/0306Z PROB30 0306/0310 5000 SHRA TEMPO 0317/0323 VRB12G22KT 3000 SHRA TSRA SCT015CB SCT018 T SLVR 140120Z 1401/1424 16012G24KT 6000 TSRA BKN015 FEW030CB BKN070 TX35/1419Z TN22/1410Z BECMG 1403/1406 18010KT 8000 RA BKN017 FEW030CB BKN070 TEMPO 1412/1415 33010KT 9999 NSW BKN020 T FMMT 172300Z 1800/1824 22006KT 9999 FEW007 SCT017 BKN033 PROB40 TEMPO 1800/1824 4000 SHRA BECMG 1808/1812 16010KT BECMG 1815/1818 24005KT T HEAX 091105Z 0912/1018 16010G20KTKT 9999 FEW020 TEMPO 0912/0916 3000 SA NSC BECMG 0921/0923 24012KT BECMG 1010/1012 32011KT T AF DIBK 180500Z 1806/1906 18002KT 8000 NSC PROB30 TEMPO 1806/1808 2000 BR PROB30 TEMPO 1815/1821 TS BKN013 FEW020CB PROB30 TEMPO 1821/1824 4000 RA BKN010 T KHUL 051120Z 0512/0612 00000KT P6SM FEW100 T KOAJ 091721Z 0918/1018 24005KT P6SM VCSH BKN050 TEMPO 0918/0922 BKN025 FM092200 02003KT P6SM BKN060 FM100900 03006KT P6SM BKN007 FM101500 06007KT P6SM SCT040 L TD TO CLD VIS AND WIND T TNCC 292315Z 3000/3024 10011KT 9999 SCT018 PROB30 TEMPO 3006/3015 11015G25KT 7000 SHRA BKN014 T10 KEVW 231742Z 2318/2418 20009KT 3SM -SN BR OVC020 TEMPO 2318/2319 1SM -SN BR OVC006 FM231900 21008KT 1/2SM SN FZFG OVC004 FM240000 29007KT 3SM -SN BR OVC020 T25 KCKB 180544Z 1806/1906 28004KT P6SM BKN025 FM180800 VRB03KT 4SM BR BKN012 FM180900 00000KT 1SM BR BKN008 FM181200 00000KT 6SM BR BKN012 FM181400 32005KT P6SM BKN025 FM181600 33005KT P6SM BKN040 FM190000 00000KT P6SM FEW250 T?AF DIBK 180500Z 1806/1906 18002KT 8000 NSC PROB30 TEMPO 1806/1808 2000 BR PROB30 TEMPO 1815/1821 TS BKN013 FEW020CB PROB30 TEMPO 1821/1824 4000 RA BKN010 T?F OJAQ 022301Z 0300/0406 36014KT 7000 FEW040 TA FCPP 261100Z 2612/2712 22011KT 9999 SCT015 BKN024 TA HUEN 291100Z 2912/3018 17008KT 9999 FEW024 FEW026CB BECMG 2921/2924 34005KT 9000 BECMG 3002/3006 35004KT 8000 FEW019 FEW021CB TA KMRY 171139Z 1712/1812 24005KT P6SM OVC005 TEMPO 1712/1716 4SM BR OVC004 FM171800 27008KT P6SM BKN009 FM172000 26011KT P6SM FEW010 FM180400 24006KT P6SM BKN008 TA SPME 211110Z 2112/2212 09005KT 9999 OVC014 TX28/2119Z TN21/2211Z BECMG 2116/2117 02010KT SCT020 BECMG 2122/2123 27010KT OVC017 TA VOTR 291700Z 2918/3024 34005KT 3000 -RA/BR SCT015 BKN080 TEMPO 3000/3003 1500 RA/BR BECMG 3009/3010 05010KT 4000 -DZ/BR TEMPO 3009/3015 SCT015 FEW025TCU/CB BKN080 BECMG 3018/3019 34005KT 3000 -RA/BR TA5 PAKN 232335Z 2400/2424 35009KT P6SM FEW020 BKN050 TA6 KDSM 251121Z 2512/2612 27005KT P6SM SKC FM251700 27011G19KT P6SM FEW150 FM260000 24005KT P6SM SKC FM260700 20010KT P6SM SKC WS020/24035KT TA?F DIBK 261700Z 2618/2718 20006KT 8000 SCT013 FEW020CB PROB30 TEMPO 2618/2622 TS SCT013 FEW020CB PROB30 TEMPO 2704/2709 4000 DZ BKN010 PROB30 TEMPO 2713/2718 SCT013 FEW020CB TAAF HTAR 041700Z 0418/0518 09005KT 9999 FEW023CB BKN024 BECMG 0419/0423 SCT022 TAD VEAB 260930Z 2612/2624 28005KT 5000 HZ FEW020 BECMG 2617/2618 4000 BR FEW020 BECMG 2621/2622 3000 BR NSC BECMG 2623/2624 VRB02KT 1500 BR NSC TAF ORMM 110630Z 1107/1206 08010KT 2500 BR SCT040 OVC100 TEMPO 1109/1114 11010KT 6000 NSC TAF9 SCT020 PROB30 TEMPO 1014/1019 26004KT 5000 TSRA FEW020CB SCT025 BKN030 BECMG 1022/1024 8000 TAF= SPHO 171210Z 1712/1812 VRB04KT CAVOK TX28/1720Z TN12/1811Z TAF? MRLM 021720Z 0218/0318 28006KT 9999 FEW020 BKN100 TX29/0218Z TN22/0209Z TEMPO 0221/0302 09008KT RA BKN030 BECMG 0315/0317 06006KT TAF  HTDA 092300Z 1000/1106 00000KT 9999 SCT010           PROB30 TEMPO 1006/1012 10010KT RA BKN020 TAFF SEQM 201650Z 2018/2118 36015KT 9999 SCT033 BECMG 2022/2024 02005KT FM210500 VAR03KT 4000 BCFG FEW005 BKN020 BECMG 2111/2113 FEW033 TX25/2019Z TN10/2111Z TAFG SKBQ 142230Z 1500/1524 03014KT 9999 FEW015 BECMG 1507/1509 04004KT BECMG 1516/1518 04015KT TX31/1516Z TN24/1509Z TAFHLON 091100Z 0912/1012 23008KT CAVOK BECMG 1000/1002 VRB02KT TAFMIL LRTZ 241100Z 2412/2512 12008KT 9999 FEW040 BECMG 2417/2419 VRB03KT SKC PROB30 TEMPO 2500/2506 3000 BR TAFNVSS 190430Z 1906/2006 12008KT 9999 SCT020 TAFORNI 170400Z 1706/1806 30012KT 7000 NSC TEMPO 1708/1711 300110G20KT 4000 BLDU TAFS SKRG 212230Z 2200/2224 VRB02KT 9999 SCT015 TEMPO 2203/2206 DZ BKN010 TEMPO 2209/2212 3000 BCFG BKN005 BECMG 2213/2215 08008KT TEMPO 2219/2222 DZ SCT015TCU TX23/2219Z TN13/2210Z TAFV VEBD 200930Z 2012/2024 12006KT 5000 RABR TEMPO 2012/2014 16005KT 6000 SCT015 SCT020 FEW030CB BKN090 BECMG 2017/2019 3000 RABR BKN008 SCT015 BKN050 TAF` HTDA 201100Z 2012/2118 16020KT 9999 BKN026 BECMG 2018/2021 190010KT SCT012 TAF MTPP 051700Z 0518/0618 30007KT 9000 SCT024 PROB30 TEMPO 0600/0606 08012KT 4500 SHRA SCT024CB BKN040 BECMG 0607/0610 VRB02KT 9000 FEW022 BECMG 0611/0615 12012KT NNNN TAG SAWG 231700 SAWG 231700Z 2318/2418 24025G35KT 9999 BKN030 OVC070 TX15/2319Z TN03/2406Z TEMPO 2320/2323 30010G25KT SHRA FEW035TCU BKN060 BECMG 2401/2403 25030G45KT NSW BECMG 2412/2415 25025G50KT TAH HUEN 020500Z 0206/0312 17010KT 9999 FEW025 FEW027CB BECMG 0221/0224 35005KT 9000 BECMG 0302/0306 VRB03KT 8000 FEW020 TAPA 272300Z 2800/2824 08010KT 9999 SCT020 PROB40 TEMPO 2800/2814 SHRA TAQF HUEN 061700Z 0618/0724 18010KT 9999 FEW023 FEW025CB BECMG 0703/0705 VRB12KT 7000 TSRA BKN018 FEW020CB OVC090 TAR ORMM 170400Z 1706/1806 30010KT CAVOK TEMPO 1709/1715 28016KT TASF SKCC 062230Z 0700/0724 36012KT 9999 SCT020 BECMG 0702/0704 VRB02KT TX32/0718Z TN23/0710Z TAT ORER 021100Z 0212/0312 28008KT 7000 SCT040 PROB30 TEMPO 0212/0220 VRB02KT 4000 BR NSC PROB30 0221/0304 1000 FG TBPB 272300Z 2800/2824 09012KT 9999 SCT020 TEMPO 2816/2820 SHRA BKN015 TDPD 272300Z 2800/2824 11008KT 9999 SCT020 TEMPO 2816/2820 SHRA BKN015 techo SKAR 021030Z 0212/0312 VRB02KT 3000 BR BKN010 BECMG 0215/0217 9999 NSW SCT015 TEMPO 0217/0222 SCT017TCU TX28 / 0219Z TN19 / 0310Z TEMPO 2800/2808 27015G25KT 0700 SHSN VV004 TF MPDA 021700Z 0218/0306 18006KT 9999 SCT018 TEMPO 0219/0223 5000 TSRA SCT014CB BKN080 BECMG 0223/0302 26005KT NSW TF VOTV 271100Z 2712/2818 16004KT 4500 TS SCT012 FEW025CB BKN080 BECMG 2714/2716 VRB03KT 3000 TSRA BR SCT012 BKN080 TEMPO 2722/2802 1800 TSRA RA SCT015 FEW025CB OVC080 BECMG 2804/2805 VRB03KT 6000 FEW015 SCT080 TEMPO 2809/2813 3500 TSRA RA FEW008 SCT012 FEW025CB BKN080 TF ZMUB 110440Z 1106/1212 VRB02MPS 9999 SCT100 TX03/1106Z TNM15/1122Z TFA HUEN 042300Z 0500/0606 18010KT 9999 FEW023 FEW025CB BECMG 0503/0507 VRB10KT 8000 -RA SCT017 FEW019CB BKN100 FM 051600 24005KT BECMG 0521/0524 34005KT 9000 BECMG 0602/0606 02011KT 8000 DZ SCT016 FEW018CB TFFF 271054Z 2710/2806 CNL TFFR 271054Z 2710/2806 CNL TGPY 272159Z 2800/2824 07010KT 9999 SCT018 SCT040 BECMG 2810/2812 08015KT SCT018 THTKJ 292300Z 3000/3024 09005KT 9999 SCT020 TIST 272339Z 2800/2824 07006KT P6SM SCT030 FM280400 07005KT P6SM VCSH SCT025 SCT040 FM281400 10012KT P6SM VCSH FEW024 SCT030 TISX 272339Z 2800/2824 05005KT P6SM VCSH SCT030 FM280500 03005KT P6SM FEW024 FM281400 08014G20KT P6SM VCSH FEW026 SCT035 FM282200 06006KT P6SM FEW028 TJBQ 272339Z 2800/2824 11005KT P6SM FEW030 FEW060 FM280200 13003KT P6SM SKC FM281430 06012G19KT P6SM FEW030 FM282100 09012G19KT P6SM SCT040 BKN050 NOT SKED 2802/2811 TJMZ 231728Z 2318/2418 26008KT P6SM VCSH SCT025 SCT100 FM232200 VRB04KT P6SM FEW100 FM241400 24008KT P6SM FEW025 FEW100 NOT SKED TJPS 272339Z 2800/2824 08006KT P6SM FEW035 FEW050 FM280200 05003KT P6SM FEW035 FM281400 15010KT P6SM SCT030 FM282230 10008KT P6SM FEW040 FEW060 NOT SKED 2802/2811 TJSJ 272339Z 2800/2824 08008KT P6SM FEW040 FM280530 12003KT P6SM VCSH SCT025 SCT035 SCT060 FM281400 07014KT P6SM FEW030 SCT060 FM281800 07014KT P6SM VCSH SCT035 SCT060 FM282230 08008KT P6SM FEW035 FEW060 TKPG 101100Z 1012/1112 09013KT 9999 SCT020 TKPK 272339Z 2800/2824 05008KT P6SM FEW019 FM280500 05008KT P6SM VCSH SCT018 SCT035 FM281400 07011KT P6SM FEW022 FEW035 FM282230 05008KT P6SM FEW018 NOT SKED 2802/2811 TKPN 271700Z 2718/2818 07009KT 9999 SCT018 PROB40 TEMPO 2800/2810 SHRA TLPC 280200Z 2802/2824 09007KT 9999 SCT024 PROB30 TEMPO 2818/2824 5000 SHRA FEW012 BKN015 BKN040 TLPL 280200Z 2802/2824 08013KT 9999 SCT024 PROB30 TEMPO 2818/2824 5000 SHRA FEW012 BKN015 BKN040 TNCA 272315Z 2800/2824 07014KT 9999 SCT020 PROB40 TEMPO 2800/2818 7000 SHRA BKN015 BKN048 TNCB 272307Z 2800/2906 08012KT 9999 SCT025 PROB30 TEMPO 2800/2821 4000 SHRA BKN014 FEW020CB TNCC 272315Z 2800/2824 08008KT 9999 SCT020 BKN048 PROB40 TEMPO 2800/2818 7000 SHRA BKN015 TNCM 272339Z 2800/2824 05008KT P6SM FEW018 FM280530 06005KT P6SM VCSH SCT018 SCT035 FM281400 09011KT P6SM FEW018 FM282100 05010KT P6SM FEW018 TPKN 241700Z 2418/2518 07010KT 9999 SCT020 TPRG 011700Z 0118/0218 09015KT 9999 SCT018 PROB30 TEMPO 0118/0212 09017G27KT PROB40 TEMPO 0122/0216 SHRA TQPF 271700Z 2718/2818 06010KT 9999 SCT018 TQPG 241700Z 2418/2518 10013KT 9999 SCT020 TQPJ 181000Z 1812/1912 09015KT 9999 SCT018 PROB40 TEMPO 1814/1912 09017G27KT SHRA TQPK 101720Z 1018/1118 12010KT 9999 RA SCT019 TEMPO 1018/1112 +SHRA PROB40 TEMPO 1019/1024 3000 TSRA FEW012CB TRPG 271700Z 2718/2818 07010KT 9999 SCT018 PROB40 TEMPO 2800/2810 SHRA TSAF SKSP 221630Z 2218/2318 07012KT 9999 FEW018 TX31/2218Z TN25/2311Z TTCP 272200Z 2800/2824 08008KT 9999 SCT016 TEMPO 2800/2802 5000 SHRA SCT014 SCT035 TTPP 272200Z 2800/2824 00000KT 9999 SCT016 TEMPO 2800/2802 5000 SHRA SCT014 SCT035 BECMG 2812/2814 08008KT SCT020 TTUPJ 081700Z 0818/0918 07014KT 9999 SCT020 TEMPO 0902/0912 07015G25KT SHRA TUPG 171100Z 1712/1812 07013KT 9999 SCT018 PROB30 TEMPO 1712/1812 07015G25KT SHRA TUPJ 272300Z 2800/2824 09008KT 9999 SCT020 PROB40 TEMPO 2806/2816 SHRA TVSA 272300Z 2800/2824 09012KT 9999 SCT020 TEMPO 2821/2824 SHRA BKN015 TX27/1418Z TN19/1410Z BECMG 1403/1406 3000 DZ OVC012 FEW030TCU TEMPO 1408/1412 2000 +DZ BR OVC007 BECMG 1413/1416 05005KT 9999 NSW BKN030 FEW040TCU TX30/1418Z TN18/1410Z BECMG 1412/1415 18005KT 8000 BKN025 SANT 131700Z 1318/1418 18005KT 6000 DZ SCT007 OVC035 TX30/1418Z TN19/1409Z BECMG 1400/1403 23005KT 7000 RA DZ SCT010 OVC040 BECMG 1406/1409 05005KT 8000 SCT015 BKN030 TXKF 272340Z 2800/2824 04014KT 9999 VCSH FEW016 SCT030 BKN090 PROB40 TEMPO 2800/2818 4000 RADZ BKN012 PROB30 TEMPO 2800/2812 06015G25KT 3000 SHRA BR BKN008 OVC012 BECMG 2816/2820 10015KT UAAA 272358Z 2800/2824 22003MPS 1000 BR BKN011 OVC100 TX01/2809Z TNM09/2801Z TEMPO 2800/2805 29003MPS 0200 FZFG VV001 BECMG 2806/2807 02003MPS 5000 TEMPO 2806/2812 07003G08MPS 3100 SCT020 BKN100 TEMPO 2812/2824 22003G08MPS 1500 UAAH 111100Z 1109/1218 CNL UACC 272302Z 2800/2824 VRB02MPS 3100 BR SCT005 BKN011 TXM11/2809Z TNM25/2800Z TEMPO 2800/2805 08003MPS 0200 -SG FZFG VV001 FM280600 08003MPS 9999 SCT011 BKN030 UAII 272301Z 2800/2824 05003G08MPS 6000 NSC TX10/2810Z TNM03/2802Z TEMPO 2800/2804 12003MPS 0300 FZFG VV002 BECMG 2804/2806 20005G10MPS TEMPO 2806/2812 26009G14MPS -SHRA BKN011 OVC033CB FM281200 22009G14MPS 2000 -SHRASN BR BKN005 OVC020CB UAKD 251654Z 2515/2624 CNL UAKK 272301Z 2800/2824 10003MPS 9999 SCT020 BKN100 TXM09/2809Z TNM22/2801Z TEMPO 2800/2803 3100 BR SCT011 UATE 272302Z 2800/2824 33007G14MPS 9999 BKN005 BKN033CB TX02/2809Z TNM04/2802Z TEMPO 2800/2806 1000 BR OVC002 BECMG 2816/2818 33006MPS UATG 272300Z 2800/2824 06007MPS 3100 BR BKN005 BKN020CB TXM03/2810Z TNM06/2803Z BECMG 2802/2804 VRB03MPS TEMPO 2802/2808 2000 SHSN BR BKN003 OVC015CB BECMG 2808/2810 28010MPS TEMPO 2808/2816 -SHSN UATT 272300Z 2800/2824 11003MPS 3100 BR BKN011 TXM07/2812Z TNM14/2803Z TEMPO 2800/2805 0500 FZFG VV002 TEMPO 2806/2812 10008MPS UBBB 272306Z 2800/2824 33016KT 9999 SCT012 FEW025CB BKN025 TX06/2808Z TN03/2802Z TEMPO 2800/2806 34020G30KT -SHRA SCT008 SCT020CB OVC020 BECMG 2810/2812 35008KT BKN030 TEMPO 2812/2818 VRB04KT UBBF 141700Z 1418/1518 VRB04KT 9999 SCT070 TX30/1511Z TN18/1502Z BECMG 1506/1508 06008KT TEMPO 1509/1516 10010KT SCT030 UBBG 272300Z 2800/2824 31018KT 9999 FEW040 SCT080 TX06/2812Z TN02/2803Z TEMPO 2800/2806 27024G34KT BECMG 2810/2812 28010KT UBBL 272301Z 2800/2824 VRB04KT 9000 BKN030 TX07/2810Z TN01/2802Z TEMPO 2800/2804 4000 BR BKN008 OVC020 TEMPO 2806/2812 12006KT UBBN 272300Z 2800/2824 VRB04KT 6000 OVC030 TX02/2812Z TNM03/2803Z TEMPO 2800/2806 35010KT 1000 -SN BR OVC005 TEMPO 2806/2812 24010KT UBBQ 272304Z 2800/2824 VRB04KT 3000 BR SCT010 OVC020 TX05/2811Z TNM00/2802Z TEMPO 2800/2805 1000 BKN005 OVC012 BECMG 2805/2807 9000 NSW BKN030 BECMG 2809/2811 15008KT TEMPO 2811/2818 VRB04KT UCFL 272259Z 2800/2824 35003G08MPS 9999 SCT025CB BKN100 TEMPO 2800/2805 07003G08MPS BECMG 2805/2807 12003G08MPS BECMG 2814/2816 35003G08MPS UCFM 272259Z 2800/2824 16003G08MPS 3000 BR NSC TEMPO 2800/2805 04003G08MPS 0900 FZFG FU FEW002 BKN005 FM280500 34003G08MPS 9999 SCT040CB TEMPO 2805/2812 06005G10MPS 2000 FU SCT010 BECMG 2812/2814 12003G08MPS 4000 BR TEMPO 2812/2818 1500 BR FU SCT005 UCFO 272246Z 2800/2824 30003G08MPS 5000 BR FEW030CB BKN100 TEMPO 2800/2806 1500 BR FU TEMPO 2806/2812 25003G08MPS 3000 HZ BECMG 2812/2814 18003G08MPS 1000 BR FU UDSG 272300Z 2800/2824 24006KT 9999 BKN040 TEMPO 2800/2806 35006KT 5000 BR SCT030 UDYZ 272300Z 2800/2824 14006KT 6000 SCT040 TEMPO 2800/2806 2000 BR UEEE 280200Z 2803/2909 VRB01MPS CAVOK TEMPO 2807/2822 2100 -SN BR NSC UERP 280200Z 2803/2903 27003G08MPS CAVOK UERR 280200Z 2803/2903 27003G08MPS CAVOK= UHMM 280150Z 2803/2909 01007G13MPS 5000 -SHSN BLSN BKN020CB TEMPO 2803/2810 2000 SHSN BLSN VV005 UGGG 251700Z 2518/2618 31020KT 9999 SCT055 TX24/2611Z TN13/2602Z TEMPO 2518/2603 32025G37KT SHRA BKN040CB PROB40 TEMPO 2518/2522 TSRA TEMPO 2614/2618 31010KT UGKO 272300Z 2800/2824 27007KT 9999 SCT020 OVC040 TX03/2811Z TNM02/2824Z TEMPO 2800/2812 1500 SHSNRA SCT008 BKN015CB BECMG 2807/2810 08010KT TEMPO 2812/2816 BKN070 BECMG 2816/2819 CAVOK TEMPO 2821/2824 08016G27KT UGSB 272300Z 2800/2824 13010KT 9999 FEW030 BKN090 TX05/2811Z TN02/2803Z PROB40 TEMPO 2800/2806 5000 SHRASN SCT013 BKN025CB TEMPO 2808/2814 33007KT UGTB 272300Z 2800/2824 31015KT CAVOK TX06/2811Z TN00/2802Z TEMPO 2807/2815 32022G32KT UHBB 280145Z 2803/2903 01005G10MPS 9999 SCT030 TEMPO 2803/2808 03006G11MPS BECMG 2808/2810 35003G08MPS UHHH 280158Z 2803/2909 23005MPS 9999 SCT020 TEMPO 2803/2818 25005G10MPS 3100 -SN DRSN SCT011 BKN020 UHMA 280146Z 2803/2903 09008G15MPS 9999 DRSN SCT015 TEMPO 2803/2903 02003G10MPS 1400 -SN BR BKN004 BKN015 UHMM 280150Z 2803/2909 01007G13MPS 5000 -SHSN BLSN BKN020CB TEMPO 2803/2810 2000 SHSN BLSN VV005 UHPP 280148Z 2803/2909 36003G12MPS 3100 -SHSN BKN007 OVC015CB TEMPO 2803/2909 30006G16MPS 0700 +SHSN BLSN VV002 UHSS 280200Z 2803/2909 36003MPS 9999 BKN025CB TEMPO 2805/2909 0700 +SHSN BKN005 BKN020CB UHWW 280155Z 2803/2903 34003MPS 9999 SCT030 TEMPO 2803/2809 35010MPS UIAA 280200Z 2803/2903 28003MPS 6000 NSC TEMPO 2803/2903 3100 BR FU UIBB 280200Z 2803/2903 10003MPS 4000 BR BKN001 TEMPO 2803/2806 0300 FZFG BECMG 2806/2807 9999 NSW BKN016 UIII 280200Z 2803/2903 VRB01MPS CAVOK UIUU 280200Z 2803/2903 26003MPS 1400 FU NSC TEMPO 2803/2805 2500 FU BECMG 2805/2807 3100 FU TEMPO 2807/2903 1300 FU UKBB 272308Z 2800/2824 22005G11MPS 3000 -SN BR OVC005 TX02/2812Z TN00/2824Z TEMPO 2800/2806 24008G13MPS 0400 SHSN FG OVC002 SCT012CB BECMG 2806/2807 24006G12MPS 5000 BR OVC006 TEMPO 2807/2824 1600 SHSNRA BR BKN004 BKN012CB BECMG 2819/2821 28008G14MPS UKDD 272305Z 2800/2824 19006MPS 4000 BR BKN010 TXM00/2812Z TNM06/2800Z TEMPO 2800/2806 1100 SHSN BR BKN002 BKN020CB TEMPO 2806/2820 20007G12MPS 1400 SHSN BLSN BR BKN003 BKN020CB UKDE 110036Z 1100/1112 35007MPS 2000 BR OVC003 TXM00/1100Z TNM02/1106Z TEMPO 1100/1106 0700 -FZDZ FZFG VV001 TEMPO 1106/1109 01008G13MPS UKDR 312125Z 3121/0118 24003MPS 0300 FZFG VV002 TX03/0112Z TNM01/3122Z BECMG 0100/0102 0300 RA FG VV002 BECMG 0111/0113 28006MPS 3000 BR OVC007 UKHH 272312Z 2800/2824 19005MPS 2100 -SN BR OVC007 TXM00/2815Z TNM06/2800Z TEMPO 2800/2806 20006G12MPS 1600 SHSN BLSN SCT003 BKN013CB TEMPO 2806/2818 20008G13MPS 1100 SHSN FZRA BKN003 BKN013CB UKKK 272310Z 2800/2824 24006G11MPS 3000 -SN BR OVC003 TX02/2812Z TN00/2803Z TEMPO 2800/2808 0400 SN FG OVC001 TEMPO 2808/2824 23008G13MPS 2000 SNRA BR OVC002 UKKM 271500Z 2712/2812 CNL UKLI 131610Z 1316/1424 VRB01MPS 0300 FZFG VV002 TXM00/1316Z TNM03/1424Z UKLL 272305Z 2800/2824 25006G12MPS 2100 BR SCT005 BKN007 TX03/2812Z TN00/2801Z TEMPO 2800/2824 29009G17MPS 0600 +SHSNRA BKN003 BKN015CB UKLN 241605Z 2416/2524 VRB01MPS 9999 BKN030 TX02/2421Z TNM01/2416Z TEMPO 2417/2420 11005MPS 2100 -FZRA BKN004 BKN015CB UKLU 152133Z 1421/1606 CNL UKOO 272307Z 2800/2824 22003MPS 2500 BR SCT004 BKN007 SCT015CB TX03/2813Z TNM03/2803Z TEMPO 2800/2806 0300 FZFG VV002 BECMG 2806/2808 24006G12MPS 6000 NSW TEMPO 2808/2816 2500 -SHSN BECMG 2816/2818 2500 BR ULAA 280200Z 2803/2903 17003MPS 6000 -SN BKN007 TEMPO 2803/2807 15003MPS 0300 FZDZ FZFG BKN002 FM280700 15003MPS 9999 BKN016CB TEMPO 2807/2812 17003G08MPS 6000 -SHSN BKN011CB ULLI 280157Z 2803/2903 09004G09MPS 4000 -SN BR BKN007 BKN016 TEMPO 2803/2815 1500 SHSN BKN005 BKN016CB BECMG 2807/2809 04003G08MPS FM281500 01003G08MPS 6000 BKN010 OVC016 TEMPO 2815/2903 2100 -SHSN BR BKN006 BKN016CB BECMG 2821/2823 32004G09MPS ULMM 280150Z 2803/2903 21003MPS 9999 BKN016 TEMPO 2803/2809 18003MPS BKN010 BKN016CB TEMPO 2809/2824 18003MPS 3000 -SHSN BKN016CB UMBB 221401Z 2212/2224 CNL UMGG 272300Z 2800/2824 20007G12MPS 1200 SNRA BKN004 TEMPO 2800/2807 22009G14MPS 0700 +SHSNRA BKN003 BKN015CB FM280700 23009G14MPS 2000 SHSNRA BKN005 BKN020CB FM281700 26011G16MPS 1200 SHRASN BKN004 BKN013CB UMII 082101Z 0818/0906 CNL UMKK 280159Z 2803/2903 29012G18MPS 6000 -RA SCT010 BKN015 TEMPO 2803/2806 2100 -SHRA BKN006 BKN016CB BECMG 2804/2805 32012G20MPS TEMPO 2806/2818 34015G23MPS 1700 SHRA BKN004 BKN012CB FM281800 33010G17MPS 9999 SCT016 BECMG 2823/2901 28005G10MPS UMMS 272303Z 2800/2824 22006G11MPS 1500 SN BR OVC002 TX00/2800Z TNM01/2806Z TEMPO 2800/2808 20010G15MPS 0300 -FZDZ +SHRASN OVC001 BKN012CB TEMPO 2808/2815 0500 +SHRASN BKN010CB TEMPO 2815/2824 26009G14MPS 1200 SHRASN BKN010CB UNAA 280151Z 2803/2903 24002MPS 1400 BR FU BKN006 TEMPO 2803/2809 0300 -SN FZFG FU VV002 BECMG 2809/2810 2000 BR FU SCT016 TEMPO 2810/2903 0500 FZFG FU VV004 UNBB 280200Z 2803/2903 14003G08MPS 6000 -SN BKN016 TEMPO 2803/2805 1500 -SN BR SCT005 BKN010 BECMG 2805/2807 8000 BKN040 UNEE 280200Z 2803/2903 15003G08MPS 6000 -SN BKN040 TEMPO 2803/2812 BKN016 UNKL 280157Z 2803/2903 21003MPS 0300 FZFG VV001 TEMPO 2803/2805 4200 BR BKN016 BECMG 2805/2807 6000 NSW SCT016 TEMPO 2821/2903 1500 BR UNNT 280200Z 2803/2903 16003G08MPS 6000 -SN BKN016 TEMPO 2803/2805 3000 -SN BR BKN010 BECMG 2805/2808 9999 NSW BKN040 UNOO 280255Z 2803/2903 15003G08MPS 8000 SCT011 TEMPO 2803/2806 2100 -SHSN FU SCT005 BKN020CB TEMPO 2806/2815 -SHSN SCT010 BKN030CB UNWW 280200Z 2803/2903 15003G08MPS 8000 -SN BKN016 TEMPO 2803/2806 BKN010 BECMG 2806/2809 BKN040 BECMG 2812/2816 BKN016 UOOO 280157Z 2803/2903 18015G23MPS 0400 SN BLSN VV011 TEMPO 2803/2805 18020G26MPS BECMG 2805/2807 0800 SN BLSN OVC016 BECMG 2818/2820 18010G17MPS 1500 -SN BLSN URFF 280150Z 2803/2903 16003MPS 6000 -SHSN BKN016 SCT020CB TX04/2811Z TNM05/2818Z BECMG 2808/2811 27003MPS 9999 NSW URKA 280155Z 2803/2903 20003G08MPS 6000 SCT016CB TEMPO 2803/2812 22006G13MPS 2000 -SHSN BR FEW003 BKN016CB BECMG 2812/2813 21008G17MPS TEMPO 2813/2903 -SHRA SCT006 BKN016CB URKK 280157Z 2803/2903 22003G08MPS 6000 OVC016 TEMPO 2803/2810 0400 -SN FZFG SCT002 OVC016 PROB40 2806/2810 -FZDZ BECMG 2810/2812 21006G13MPS BKN016CB TEMPO 2812/2903 -SHRASN FEW007 BKN016CB URMM 280200Z 2803/2903 26003G08MPS 9999 BKN016 TX02/2811Z TNM04/2803Z TEMPO 2803/2807 6000 -SHSN BKN016 BKN020CB URMN 212300Z 2100/2209 22003MPS 9999 BKN020 TEMPO 2200/2206 2000 BR BKN003 URMT 241100Z 2412/2424 34005G13MPS 4000 -SHRA BR BKN015 BKN020CB TEMPO 2412/2424 31003G08MPS 1000 BR BKN003 BKN020CB URRP 280157Z 2803/2903 26003G08MPS 6000 SCT016 SCT020CB TEMPO 2803/2805 30003G08MPS 3100 BR SCT011 BKN020CB BECMG 2805/2806 21003G10MPS TEMPO 2806/2815 23006G12MPS 2000 BR SCT004 SCT020CB TEMPO 2815/2903 2000 SHSNRA BKN002 BKN020CB URSS 280156Z 2803/2903 11003G08MPS 9999 SCT010 BKN030CB OVC100 TEMPO 2803/2818 VRB05G10MPS 1500 TSRAGS BKN007 BKN020CB OVC100 BECMG 2818/2819 13007G14MPS TEMPO 2819/2903 04005MPS -SHRAGS URWA 181700Z 1818/1906 31003G09MPS 3000 HZ BKN016 BECMG 1820/1822 2000 -SHRA BR BKN007 SCT020CB URWI 010200Z 0103/0312 19003G10MPS 6000 BKN016 TEMPO 0103/0106 23006G12MPS 0300 FG BKN002 BECMG 0106/0108 26006G12MPS USCC 280158Z 2803/2903 18003G08MPS 3900 BR FU BKN016 TEMPO 2803/2806 09003MPS 0300 FZFG VV003 FM280600 14003G08MPS 6000 BKN016 USHH 280133Z 2803/2903 22005G12MPS 6000 FEW005 BKN016 TEMPO 2803/2806 2000 SHSN SCT003 BKN016CB TEMPO 2806/2815 5000 -SHSN BKN003 OVC016CB USNN 280145Z 2803/2903 20003G10MPS 9999 BKN016 TEMPO 2803/2809 -SHSN BKN010 OVC016CB USPP 280157Z 2803/2903 21003G10MPS 6000 -SN BKN016 TEMPO 2803/2806 3200 -SN BR BKN011 BECMG 2806/2807 17003G10MPS BECMG 2807/2808 9999 NSW BECMG 2815/2816 11003G08MPS USRR 280155Z 2803/2903 21005G12MPS 9999 FEW011 BKN016 TEMPO 2803/2812 2100 -SHSN SCT005 BKN015CB USSS 280157Z 2803/2903 19003G08MPS 6000 SCT016 BECMG 2805/2808 9999 FM281500 14003G08MPS 6000 BKN011 TEMPO 2817/2903 0300 FZFG FEW003 USTR 280151Z 2803/2903 20005MPS 9999 SCT020 TEMPO 2803/2806 23003MPS 2000 BR SCT004 BKN016 BECMG 2815/2818 18003MPS TEMPO 2818/2903 0600 FZFG VV002 UTAA 272245Z 2723/2824 01018KT 5000 BR BKN007 SCT020CB TEMPO 2723/2806 30018G28KT 1000 RA BR BKN002 TEMPO 2806/2812 32010G20KT 3000 -RA BKN005 PROB40 TEMPO 2816/2824 3000 -SNRA BKN003 UTAK 272230Z 2800/2824 35016G26KT 4000 -RA BR BKN005 SCT030CB OVC100 TEMPO 2800/2804 34018G28KT 3000 -SHRA BR BKN003 SCT030CB OVC100 TEMPO 2804/2809 33022G32KT 5000 BKN012 BKN100 UTAM 272230Z 2800/2824 27016KT 5000 BKN020 SCT030CB TEMPO 2800/2804 15012KT 3000 HZ BKN100 TEMPO 2805/2812 32018G28KT 1000 BLDU -SHRA BKN010 BECMG 2812/2814 03014KT 5000 SCT030 SCT100 UTAT 272233Z 2800/2824 09016G26KT 3000 -SN BR BKN020CB OVC005 TEMPO 2800/2806 27018G28KT 1000 SHSN FZRA VV001 PROB40 TEMPO 2800/2806 0500 FZFG VV001 UTAV 272231Z 2723/2824 27018KT 3000 HZ -SHRA SCT030CB OVC050 TEMPO 2723/2807 19020G30KT 0600 DS VV008 PROB40 TEMPO 2723/2811 VRB34KT TS SHRA BKN004 UTDD 280000Z 2801/2813 08005MPS 6000 SCT066CB BKN100 TEMPO 2801/2813 VRB02MPS UTDL 280000Z 2801/2813 08009MPS 3100 BR NSC TEMPO 2804/2809 07014MPS BECMG 2809/2811 08005MPS UTFN 272300Z 2800/2824 14010KT 7000 NSC TEMPO 2802/2810 24016G26KT 3000 -DS SCT050CB TEMPO 2810/2822 VRB16KT 2100 -SHRA BR BKN050CB UTNN 272300Z 2800/2824 26010G20KT 5000 BR BKN015 OVC100 TEMPO 2800/2804 0600 FZFG VV002 TEMPO 2805/2812 2100 -SNRA BR OVC007 UTNU 272304Z 2800/2824 08010G20KT 3000 BR BKN008 OVC020 TEMPO 2800/2806 VRB04KT 2100 -SNRA OVC010 UTSA 272301Z 2800/2824 10010KT 6000 FEW010 SCT050CB TEMPO 2800/2806 16016KT 3000 -SHRA HZ SCT007 BKN033CB TEMPO 2806/2814 22016KT 3000 -SHRA BR BKN005 OVC025CB UTSB 272300Z 2800/2824 VRB05KT 6000 FEW010 SCT050CB TEMPO 2800/2804 14014KT 2500 -SHRA HZ SCT007 BKN033CB TEMPO 2804/2414 25014KT 3000 -SHRA BR BKN005 OVC025CB UTSK 011500Z 0116/0201 07010KT 5000 BR SCT007 BKN040CB TEMPO 0116/0201 14010KT 0500 FG VV002 UTSS 280204Z 2802/2824 15010G20KT 9999 SCT060CB BKN100 TEMPO 2802/2810 20016G26KT 5000 -SHRA BR SCT010 BKN050CB UTST 280050Z 2801/2824 04010G20KT 6000 BKN050CB BKN100 TEMPO 2801/2806 VRB12G22KT -SHRA BKN040CB OVC100 TEMPO 2806/2816 24019G29KT 1500 SHRA DS SCT005 OVC040CB UTTT 272300Z 2800/2824 05012KT 7000 FEW060CB SCT100 TEMPO 2800/2812 23015G25KT 3000 -DS SCT050CB BKN100 TEMPO 2812/2824 16016G26KT 2100 -SHRA BR SCT010 BKN030CB OVC100 UUBP 131635Z 1312/1421 CNL UUBW 280156Z 2803/2903 14006MPS 6000 -SN FEW006 BKN011 TXM05/2812Z TNM09/2803Z TEMPO 2803/2808 2100 -SHSN BKN009 SCT016CB TEMPO 2808/2820 15008G13MPS 0700 +SHSN -FZRA SCT005 BKN012CB TEMPO 2820/2903 1000 SHSN BR SCT004 BKN012CB UUDD 280159Z 2803/2909 16008G13MPS 6000 -SN FEW005 OVC016 TXM05/2812Z TNM08/2806Z TEMPO 2803/2812 1000 SN BR FEW003 OVC008 PROB40 TEMPO 2803/2812 -FZDZ OVC005 BECMG 2812/2814 3000 -SN TEMPO 2814/2909 0700 +SHSN -FZRA FEW003 BKN012CB UUDL 280200Z 2803/2903 17005G10MPS 8000 -SN BKN016 TXM07/2903Z TNM09/2806Z TEMPO 2803/2809 BKN010 TEMPO 2809/2821 3000 -SN OVC010 UUEE 280155Z 2803/2903 16006MPS 6000 -SN BKN011 TXM05/2812Z TNM09/2805Z TEMPO 2803/2805 16008G13MPS OVC007 BECMG 2805/2806 4000 -SN BKN009 TEMPO 2806/2818 16009G15MPS 0700 +SHSN BLSN BKN004 BKN011CB TEMPO 2818/2903 1000 SHSN BKN004 BKN011CB UUWW 280156Z 2803/2903 16007MPS 6000 -SN BKN009 TXM04/2812Z TNM09/2806Z TEMPO 2803/2807 1400 SHSN -FZRA BKN004 SCT020CB TEMPO 2807/2818 14008G14MPS 0700 +SHSN -FZRA BKN004 BKN016CB BECMG 2818/2819 2900 -SN BR OVC004 TEMPO 2819/2903 1200 SN OVC002 PROB40 TEMPO 2819/2903 -FZDZ OVC003 BECMG 2821/2824 14002MPS UUYY 280200Z 2803/2903 19003G08MPS 6000 -SN BKN016 TEMPO 2803/2806 3100 -SHSN BR BKN006 BKN011CB UWGG 280150Z 2803/2903 15003MPS 8000 -SN BKN016 TXM07/2815Z TNM13/2803Z BECMG 2806/2808 16006G12MPS UWKD 280200Z 2803/2903 14003MPS 3100 -SN BR OVC016 TXM08/2810Z TNM18/2805Z TEMPO 2803/2806 0500 FZFG OVC002 BECMG 2807/2809 8000 NSW BKN020 TEMPO 2809/2821 3100 -SN BKN011 UWKE 280145Z 2803/2903 19003G10MPS 3100 -SN BKN007 TEMPO 2803/2806 VRB01MPS 0500 SN FZFG OVC002 FM280600 15003G08MPS 6000 -SN BKN016 TEMPO 2806/2809 0700 FZFG VV003 UWLL 280152Z 2803/2903 17003MPS 6000 -SN BKN016 TXM07/2818Z TNM09/2803Z TEMPO 2803/2806 2000 SN BR OVC005 UWLW 280157Z 2803/2903 15003MPS 6000 -SN BKN016 TXM06/2810Z TNM09/2806Z TEMPO 2803/2806 1500 BR OVC005 TEMPO 2806/2818 3100 -SN BKN011 UWOO 280145Z 2803/2903 04005G12MPS 6000 -SN BKN016 TXM08/2810Z TNM11/2803Z TEMPO 2803/2903 09007G13MPS 2000 SN BLSN BR OVC010 UWUU 280153Z 2803/2903 VRB01MPS 2100 -SN SCT004 OVC007 TXM12/2809Z TNM16/2803Z TEMPO 2803/2808 0200 FZFG VV002 FM280800 VRB01MPS 3500 BR FEW004 BKN016 TEMPO 2808/2903 03003MPS 2100 -SN SCT004 BKN007 UWWW 280155Z 2803/2903 12003G09MPS 2000 BR BKN007 TXM07/2811Z TNM13/2805Z TEMPO 2803/2808 0300 SN FZFG VV002 FM280800 08003G09MPS 6000 -SN BKN016 TEMPO 2808/2903 1000 SN BR OVC004 VAAH 272300Z 2800/2906 VRB02KT 4000 FU NSC BECMG 2801/2803 04004KT 2000 HZFU BECMG 2804/2806 07005KT 4000 FU BECMG 2807/2809 07008KT 6000 BECMG 2813/2815 04003KT 4000 FU VAAU 100200Z 1003/1012 07005KT 2000 BR HZ SCT020 BKN100 TEMP 1003/1004 1000 BR BECMG 1005/1007 3000 HZ BECMG 1007/1009 5000 HZ VABB 272300Z 2800/2906 03006KT 2500 HZ FU FEW100 BECMG 2808/2810 29008KT 3000 FU BECMG 2816/2818 03005KT 2500 HZ BECMG 2905/2906 3000 HZ VABJ 270930Z 2712/2724 06005KT 6000 NSC BECMG 2718/2719 00000KT 5000 BR VABO 261400Z 2615/2624 01005KT 6000 NSC BECMG 2616/2618 05005KT BECMG 2622/2624 4000 HZ VABP 302300Z 3100/0106 27010KT 5000 HZ NSC BECMG 3104/3106 29010G20KT 6000 NSC BECMG 3115/3117 27010KT 5000 HZ NSC BECMG 0104/0106 27010G20KT 6000 NSC VABV 271100Z 2712/2721 02006KT 6000 NSC BECMG 2718/2720 04005KT 4000 HZ FU VADU 271100Z 2712/2721 09006KT 6000 NSC BECMG 2714/2716 03006KT 4000 HZ FU VAEB 200930Z 2012/2024 02005KT 3000 BR NSC BECMG 2013/2015 VRB2KT 1500 BR NSC BECMG 2015/2017 VRB02KT 0800 FG NSC BECMG 2022/2024 VRB02KT 0200 FG VV/// VAID 041700Z 0418/0524 05005KT 3000 HZ NSC BECMG 0501/0503 02005KT 2000 BR HZ NSC BECMG 0505/0507 09005KT 5000 HZ NSC BECMG 0516/0518 02005KT 4000 HZ NSC VAJL 100200Z 1003/1012 07005KT 2000 BR HZ SCT020 BKN100 TEMP 1003/1004 1000 BR BECMG 1005/1007 3000 HZ BECMG 1007/1009 5000 HZ VAJM 270930Z 2712/2724 01005KT 6000 SKC BECMG 2721/2722 VRB02KT 4000 BR SKC VAKE 271100Z 2712/2721 05006KT 4000 HZ FU NSC BECMG 2714/2716 02006KT VAKP 100200Z 1003/1012 05005KT 3000 HZ SCT020 SCT100 BECMG 1004/1006 4000 HZ TEMPO 1007/1011 1500 -TSRA SHRA SCT018 FEW030CB BKN090 BECMG 1007/1009 27006KT VANP 272300Z 2800/2906 03006KT 2000 BR NSC BECMG 2804/2806 05008KT 5000 HZ BECMG 2808/2810 07005KT BECMG 2812/2814 VRB04KT 3500 BR HZ BECMG 2818/2820 02006KT 2500 BR BECMG 2900/2902 2000 BR BECMG 2904/2906 05006KT 4000 HZ VAPO 272130Z 2800/2812 VRB02KT 5000 BR NSC TEMPO 2801/2803 3000 BR BECMG 2804/2805 10007KT 5000 BR BECMG FM 0530 6000 VAPR 271100Z 2712/2721 05006KT 4000 HZ FU NSC VARK 271100Z 2712/2721 05006KT 6000 NSC VASD 100200Z 1003/1012 07005KT 2000 BR HZ SCT020 BKN100 TEMP 1003/1004 1000 BR BECMG 1005/1007 3000 HZ BECMG 1007/1009 5000 HZ VASL 100200Z 1003/1012 09005KT 4000 HZ SCT020 SCT100 BECMG 1006/1008 5000 HZ VASU 271100Z 2712/2721 03010KT 4000 HZ FU NSC VAUD 242300Z 2500/2509 VRB02KT 2000 FU NSC BECMG 2504/2506 VRB03KT 3000 HZ VCBI 272300Z 2800/2906 04005KT 9999 FEW018 TX33/2808Z TN22/2900Z TEMPO 2800/2802 8000 BECMG 2809/2811 36010KT BECMG 2817/2819 05005KT VCRI 272300Z 2800/2906 VRB05KT 9999 FEW018 TX32/2808Z TN21/2900Z BECMG 2804/2806 05008KT PROB30 TEMPO 2808/2812 7000 -TSRA/SHRA SCT016 FEW020CB VDPP 272300Z 2800/2818 VRB03KT 9999 SCT017 BECMG 2805/2806 29010KT VDSR 272300Z 2800/2818 16007KT 9999 SCT017 VDSV 272300Z 2800/2818 25007KT 9999 SCT017 VEAB 270930Z 2712/2724 30010KT 5000 HZ SCT020 BECMG 2715/2716 4000 BR NSC BECMG 2718/2719 3000 BR NSC BECMG 2720/2721 2000 BR NSC BECMG 2722/2723 1500 BR NSC VEAT 241100Z 2412/2421 00000KT 5000 BR FEW018 SCT100= VEBD 270930Z 2712/2724 18005KT 3000 BR SCT030 BKN090 BECMG 2714/2716 2000 BR SCT030 BKN090 BECMG 2718/2720 0800 FOG SKY OBS VEBN 272300Z 2800/2906 30003KT 0500 FG NSC BECMG 2804/2806 29003KT 1500 BR SCT100 BECMG 2807/2809 3000 HZ NSC BECMG 2816/2818 VRB02KT 1500 BR NSC BECMG 2900/2902 0200 FG VV/// BECMG 2904/2906 27005KT 0800 MIFG NSC VECC 272300Z 2800/2906 34007KT 1400 BR FEW020 SCT100 BECMG 2804/2806 2500 HZ BECMG 2807/2809 3500 HZ NSC BECMG 2816/2818 2500 HZ BECMG 2901/2903 1200 BR BECMG 2904/2906 2400 HZ VECX 270930Z 2712/2724 32005KT 2000 BR SCT020 BECMG 2714/2720 VRB02KT 1500 BR BECMG 2721/2724 00000KT 0600 FG FEW020 SCT090 VEDX 270930Z 2712/2724 33005KT 3500 HZ FEW100 BECMG 2717/2718 30005KT 2000 BR SKC BECMG 2722/2724 VRB02KT 1000 BR SKC VEGK 260930Z 2612/2624 VRB02KT 3000 HZ SCT025 SCT090 BECMG 2616/2620 1500 BR BECMG 2620/2624 0800 FG SCT015 SCT025 BKN090 VEHX 270930Z 2712/2724 07005KT 5000 BR FEW030 SCT100 BECMG 2718/2720 4000 BR SCT100 VEJT 270930Z 2712/2800 VRB02KT 5000 BR SCT020 BKN090 BECMG 2715/2716 3000 BR BECMG 2720/2721 1500 BR BECMG 2723/2800 0800 FG TEMPO 2716/2720 3000 RABR SCT015 SCT025 FEW025CB BKN080 VEKU 270930Z 2712/2724 07003KT 5000 BR SCT025 BKN090 TEMPO 2718/2720 VRB02KT 4000 -RABR BKN090 VELP 310500Z 3106/3115 03003KT 5000 HZ NSC BECMG 3111/3113 3000 BR VEPT 272300Z 2800/2906 27006KT 1000 BR FEW018 SCT100 BECMG 2804/2806 2000 HZ BECMG 2807/2809 3500 HZ BECMG 2816/2818 2000 BR BECMG 2900/2902 0800 FG BECMG 2904/2905 1500 FU VEPU 280000Z 2800/2812 VRB02KT 0500 FG FEW250 BECMG 2804/2805 1500 BR SCT010 SCT250 BECMG 2805/2806 2500 BR BECMG 2806/2807 4000 HZ BECMG 2807/2808 29008KT 5000 HZ FEW250 BECMG 2808/2810 6000 SKC VERP 241700Z 2418/2509 VRB04KT 3000 HZ FEW100 BECMG 2504/2506 29005KT 4000 HZ FEW020 BECMG 2506/2508 34005KT 5000 HZ FEW100 VETZ 270930Z 2712/2724 12005KT 6000 SCT020 SCT090 BECMG 2714/2716 VRB02KT 4000 BR SCT020 BKN090 TEMPO 2718/2720 2000 TSRABR SCT020 FEW030CB BKN080 VGEG 271700Z 2718/2824 00000KT 3500 HZ SCT015 TEMPO 2723/2803 00000KT 1000 BR/FG SCT012 BKN090 BECMG 2804/2806 02006KT 3200 HZ SCT015 BECMG 2812/2814 30008KT 4000 HZ SCT016 BECMG 2818/2820 00000KT 3500 HZ SCT015 VGHS 272300Z 2800/2906 00000KT 1200 BR SCT012 TEMPO 2800/2803 0800 FG BKN008 BECMG 2804/2806 32008KT 2800 HZ NSC BECMG 2810/2812 29008KT 3500 HZ NSC BECMG 2818/2820 VRB03KT 2500 HZ NSC VHHH 272300Z 2800/2906 06010KT 7000 FEW010 SCT030 TX22/2806Z TX20/2906Z TN17/2823Z TEMPO 2815/2821 4000 BR -RA VIAF 190930Z 1912/1924 07010KT 6000 SCT020 BKN080 BKN200 TEMPO 16010KT 4000 -RABR FEW010 FEW025 CB VIAG 272130Z 2800/2812 VRB02KT 0800 FG NSC BECMG 2804/2805 2500 HZ BECMG 2805/2806 3500 HZ SCT025 BECMG 2806/2807 4500 HZ BECMG 2807/2808 33010KT 6000 SCT025 VIAM 270930Z 2712/2724 32005KT 5000 HZ FEW030 BECMG 2715/2719 3000 HZBR NSC VIAR 272300Z 2800/2906 VRB02KT 0400 FG MIFG NSC BECMG 2804/2806 29006KT 2800 HZ SCT100 BECMG 2815/2817 VRB02KT 1800 BR BECMG 2820/2822 00000KT 1200 BR MIFG BECMG 2901/2903 VRB02KT 0400 FG FEW030 SCT100 BECMG 2904/2906 27004KT 2500 HZ VIAW 270930Z 2718/2812 VRB02KT 6000 SCT025 SCT040 BECMG 2801/2803 2000 BR SCT020 BECMG 2805/2808 6000 SCT020 SCT090 VIAX 270930Z 2712/2724 VRB02KT 3000 BR NSC BECMG 2714/2715 2000 BR BECMG 2716/2717 1000 BR BECMG 2717/2718 0800 FG BECMG 2721/2722 0400 FG VV/// VIBK 270930Z 2712/2724 34006KT 6000 NSC BECMG 2718/2720 VRB02KT 5000 HZ VIBR 182300Z 1900/1909 00000KT 4000 BR FEW030 BECMG 1904/1906 03003KT 5000 BR SCT030 VIBT 270930Z 2712/2724 31005KT 6000 NSC BECMG 2713/2715 VRB02KT 5000 BR BECMG 2715/2718 3000 BR BECMG 2718/2722 1500 BR VIBY 270930Z 2712/2724 28006KT 1200 BR VV/// BECMG 2714/2715 0800 FG VV/// BECMG 2715/2716 28003KT 0400 FG VV/// VICG 272130Z 2800/2812 29005KT 1000 BR FEW020 BECMG 2803/2805 2000 BR BECMG 2806/2807 30010KT 3000 HZ BECMG 2808/2809 5000 HZ VIDM 220500Z 2206/2215 VRB02KT 6000 NSC VIDN 182300Z 1900/1909 03003KT 1000 BR NSC BECMG 1904/1906 27004KT 3000 BR FEW070 BECMG 1907/1909 5000 HZ FEW035 SCT070 VIDP 272300Z 2800/2906 26006KT 0400 FG MIFG FEW030 SCT100 BECMG 2804/2806 31010G20KT 1500 FU FEW100 BECMG 2814/2816 27006KT 1800 BR NSC BECMG 2820/2822 26004KT 1200 BR MIFG BECMG 2901/2903 0500 FG MIFG FEW100 BECMG 2904/2906 29008KT 1500 FU FEW040 SCT100 VIDX 272130Z 2800/2812 29005KT 0800 MIFG NSC BECMG 2804/2806 31010KT 1500 FU BECMG 2808/2811 4500 FU TX18/09Z TN09/01Z VIGG 182300Z 1900/1909 00000KT 3000 BR FEW035 SCT080 BECMG 1905/1907 24004KT 5000 HZ SCT035 BKN080 VIGR 270930Z 2712/2800 31005KT 6000 SCT025 BECMG 2713/2714 VRB02KT 5000 BR BECMG 2714/2716 4000 BR BECMG 2716/2717 3000 BR BECMG 2718/2720 1500 BR FEW020 BECMG 2723/2724 0800 FG VIHX 270930Z 2712/2724 30005KT 5000 BR NSC BECMG 2714/2715 2000 BR BECMG 2717/2718 VRB02KT 0800 FG SKC VIJO 270930Z 2712/2724 08005KT 6000 NSC VIJP 272300Z 2800/2906 35004KT 1500 BR NSC BECMG 2805/2807 26005KT 3000 HZ BECMG 2812/2814 29004KT 2000 HZ BR BECMG 2904/2906 25004KT 3000 HZ NSC VIJR 270930Z 2712/2724 04005KT CAVOK BECMG 2716/2719 VRB02KT VIJT 250930Z 2512/2524 04003KT 6000 FEW025 SCT250 TEMPO 2512/2515 04003KT 6000 SCT025 FEW030CB SCT100 BECMG 2521/2524 VRB02KT 4000 BR SCT015 FEW030TCU SCT100 VIJU 270930Z 2718/2812 02005KT 4000 BR SCT090 TEMPO 2802/2805 VRB02KT 0500 FG SKY OBS TEMPO 2805/2807 13005KT 2000 BR FEW010 SCT080 VIKO 122300Z 1300/1309 27005KT 3000 HZ NSC BECMG 1304/1306 35005KT 5000 HZ NSC VIKU 220500Z 2206/2215 VRB02KT 5000 HZ NSC VILH 270930Z 2718/2812 VRB02KT 6000 FEW060 SCT150 TEMPO 2807/2809 30010G20KT VILK 272300Z 2800/2906 VRB02KT 0200 FG VV/// BECMG 2804/2806 29003KT 0800 MIFG SCT020 BKN100 BECMG 2807/2809 2000 BR HZ SCT020 BKN100 BECMG 2816/2818 VRB02KT 1500 BR NSC BECMG 2900/2902 0200 FG VV/// BECMG 2904/2906 29003KT 0800 MIFG SCT020 SCT100 VIPK 270930Z 2712/2724 VRB02KT 2000 HZ FEW090 BECMG 2713/2715 VRB02KT 1000 BR FEW090 BECMG 2716/2718 VRB02KT 0800 FG VV/// BECMG 2722/2724 VRB02KT 0200 FG VV/// VIPL 160330Z 1606/1618 21005KT 6000 FEW100 SCT250 TEMPO 1610/1612 30010KT FEW030 FEW030TCU BKN250 VIPX 290330Z 2906/2918 10008KT 6000 SCT020 TEMPO 2911/2913 10010G20KT 6000 TSRA SCT015 FEW030TCU/CB BKN090 VISM 182300Z 1900/1909 00000KT 4500 BR FEW060 BECMG 1904/1906 27005KT 6000 FEW040 SCT040 VISP 270930Z 2712/2724 27005KT 3000 BR FEW250 BECMG 2722/2724 1500 BR VISR 272130Z 2800/2812 VRB02KT 6000 SCT025 OCNL 2809/2812 FEW025 FEW030TCU VITE 270930Z 2718/2812 VRB02KT 6000 FEW060 SCT150 BECMG 2808/2810 FEW050 SCT070 BKN150 VIUT 270930Z 2712/2724 02005KT 6000 NSC VLLB 272300Z 2800/2824 09004KT 9999 FEW020 FEW060= VLLN 272300Z 2800/2824 34004KT 8000 FEW020 FEW100 TEMPO 2800/2803 0400 FG VV/// VLLN 261100Z 2612/2712 32002KT 7000 FEW020 FEW100 TEMPO 2618/2623 0300 FG VV/// VLPS 272300Z 2800/2824 18004KT 9999 FEW020 SCT050 VLSK 272300Z 2800/2824 27004KT 9999 FEW020 SCT100 VLVT 272300Z 2800/2824 04004KT 8000 FEW020 FEW100 VMMC 272300Z 2800/2906 09008KT 7000 FEW010 SCT020 TEMPO 2800/2810 4000 BR VNKT 272300Z 2800/2824 VRB02KT 3000 BR FEW010 SCT030 BKN100 PROB40 2801/2803 1500 BR BECMG 2804/2805 12003KT 5000 HZ FEW015 SCT00 BECMG 2807/2808 24010KT 7000 FEW015 SCT030 BECMG 2814/2815 19003KT 5000 BR FEW015 SCT030 VOAR 260500Z 2606/2712 20008KT 5000 HZ FEW016 BKN090 TEMPO 2607/2610 3000 -RA/DZ FEW014 BKN080 BECMG 2613/2615 VRB02KT 3500 BR FEW018 SCT100 BECMG 2621/2622 3000 BR TEMPO 2700/2702 2000 BR BECMG 2703/2705 22008KT 4500 BR FEW018 BKN100 BECMG 2706/2707 5000 HZ VOAT 100200Z 1003/1012 34010KT 6000 SCT015 SCT080 TEMPO 1010/1012 4000 .RA SCT012 FEW025CB BKN080 VOBG 262300Z 2700/2709 VRB02KT 3000 BR BKN008 SCT012 TEMPO 2700/2703 0800 FG BKN008 SCT012 BECMG 2704/2705 6000 SCT012 SCT020 VOBL 272300Z 2800/2906 VRB02KT 3000 BR SCT010 SCT012 TEMPO 2800/2803 1500 BR SCT008 SCT012 BKN080 BECMG 2804/2805 11005KT 6000 SCT012 SCT080 BECMG 2822/2823 VRB02KT 3000 BR SCT008 SCT012 TEMPO 2900/2903 1500 BR SCT006 SCT012 BECMG 2904/2905 14005KT 6000 FEW012 VOBM 011100Z 0112/0121 09005KT 6000 SCT015 VOBR 270930Z 2712/2724 04010KT 5000 HZ FEW030 BECMG 2722/2724 4000 HZ VOBZ 272300Z 2800/2906 03006KT 3000 BR FEW015 TEMPO 2800/2804 00000KT 0800 MIFG SCT010 BECMG 2804/2806 04008KT 5000 HZ FEW015 SCT025 BECMG 2815/2817 02005KT 3000 BR NSC TEMPO 2823/2904 VRB03KT 0800 MIFG SCT010 BECMG 2904/2906 06008KT 5000 HZ FEW015 SCT025 VOCB 272300Z 2800/2906 VRB02KT 3000 -DZ/BR FEW015 SCT080 TEMPO 2800/2803 2000 -DZ/BR BECMG 2806/2807 09005KT 5000 HZ BECMG 2809/2810 6000 BECMG 2815/2816 VRB02KT 5000 HZ BECMG 2900/2901 3000 -DZ/BR BECMG 2905/2906 09005KT 5000 HZ VOCC 012300Z 0200/0306 09005KT 2000 DZ BR SCT012 FEW022TCU BKN080 TEMPO 0200/0202 23010KT 1500 TSRA RA FEW008 SCT012 FEW025CB OVC080 BECMG 0204/0206 5000 HZ BECMG 0206/0208 29010KT 6000 FEW014 SCT080 TEMPO 0210/0215 15010G20KT 1500 TSRA RA FEW008 SCT012 FEW025CB BKN080 BECMG 0215/0216 VRB02KT 4500 BR SCT014 BKN080 BECMG 0302/0304 12006KT 3500 BR FEW014 SCT080 VOCI 272300Z 2800/2906 VRB03KT 3000 BR FEW015 TEMPO 2800/2802 2500 BR FEW015 BECMG 2805/2806 VRB03KT 6000 FEW015 BECMG 2809/2810 23005KT SCT015 BECMG 2814/2815 VRB03KT 4000 BR FEW015 TEMPO 2822/2902 2000 BR FEW015 BECMG 2905/2906 13005KT 5000 HZ FEW015 SCT080 VOCL 272300Z 2800/2906 00000KT 5000 BR SCT015 BECMG 2803/2804 04005KT 6000 FEW015 TEMPO 2810/2813 12010KT FEW015 SCT080 BECMG 2814/2815 VRB03KT 5000 BR FEW015 BECMG 2903/2904 VRB03KT 6000 FEW015 VOCP 140500Z 1406/1415 13010KT 5000 HZ SCT015 SCT100 VOCX 260930Z 2612/2624 05005KT 6000 SCT018 SCT080 SCT200 TEMPO 2620/2624 05008KT 6000 RA SCT015 BKN080 VOGB 262300Z 2700/2709 VRB02KT 6000 FEW015 SCT080 VOHB 011100Z 0112/0121 09005KT 6000 SCT015 VOHS 272300Z 2800/2906 06005KT 3000 BR FEW015 TEMPO 2800/2804 VRB03KT 1500 BR SCT010 BECMG 2804/2806 07008KT 5000 HZ SCT015 BECMG 2820/2822 06005KT 3000 BR NSC TEMPO 2823/2904 VRB03KT 1500 BR SCT010 BECMG 2904/2906 07010KT 5000 HZ FEW015 VOHY 140500Z 1406/1415 16008KT 5000 HZ SCT015 SCT025 TEMPO 1409/1414 3000 RA BR FEW030CB BKN100 VOJV 262300Z 2700/2709 VRB02KT 6000 SCT012 SCT080 VOKN 272300Z 2800/2906 09005KT 4000 BR FEW015 TEMPO 2800/2802 2500 BR FEW012 BECMG 2805/2806 09005KT 6000 FEW015 BECMG 2809/2810 15005KT SCT015 BECMG 2814/2815 VRB03KT 4000 BR FEW015 TEMPO 2900/2902 2500 BR FEW012 BECMG 2905/2906 07005KT 6000 FEW015 VOKU 140500Z 1406/1415 15008KT 5000 HZ SCT015 SCT025 TEMPO 1409/1414 FEW030CB VOKV 232300Z 2400/2409 33010KT 4000 HZ SCT015 BECMG 2402/2403 6000 SCT015 VOLT 100200Z 1003/1012 09005KT 4000 HZ SCT020 SCT100 BECMG 1006/1008 5000 HZ VOMD 272300Z 2800/2906 VRB02KT 5000 BR FEW020 SCT100 TEMPO 2800/2803 3000 BR BECMG 2806/2807 09010KT 6000 BECMG 2815/2816 5000 BR/HZ BECMG 2818/2819 VRB02KT BECMG 2905/2906 09010KT 6000 VOML 272300Z 2800/2906 VRB02KT 6000 FEW015 TEMPO 2800/2803 4000 BR FEW010 BECMG 2802/2803 09005KT BECMG 2807/2808 29005KT BECMG 2815/2816 VRB02KT TEMPO 2900/2903 3000 BR FEW010 VOMM 272300Z 2800/2906 VRB02KT 3000 -RA/BR SCT018 SCT080 TEMPO 2800/2803 1500 -RA/BR BECMG 2806/2807 12010KT 6000 BECMG 2818/2819 VRB02KT 5000 BR BECMG 2900/2901 3000 BR BECMG 2905/2906 12010KT 6000 VOMY 262300Z 2700/2709 VRB02KT 3000 BR BKN008 SCT012 TEMPO 2700/2703 0800 FG BKN008 SCT012 BECMG 2704/2705 6000 SCT012 SCT020 VOND 100200Z 1003/1012 07005KT 2000 BR HZ SCT020 BKN100 TEMP 1003/1004 1000 BR BECMG 1005/1007 3000 HZ BECMG 1007/1009 5000 HZ VOPB 222300Z 2300/2309 05008G18KT 6000 SCT014 SCT220 TEMPO 2301/2303 07010KT SCT012 SCT090 VOPO 261530Z 2618/2706 00000KT 5000 HZ NSC BECMG 2622/2700 4000 BR TEMPO 2702/0704 3000 BR BECMG 2705/2706 11005KT 5000 HZ VORY 140500Z 1406/1415 10010KT 5000 HZ SCT015 SCT025 BKN100 TEMPO 1409/1414 FEW030CB VOSM 190500Z 1906/1915 02005KT 6000 FEW020 VOSR 100200Z 1003/1012 05005KT 3000 HZ SCT020 SCT100 BECMG 1004/1006 4000 HZ TEMPO 1007/1011 1500 -TSRA SHRA SCT018 FEW030CB BKN090 BECMG 1007/1009 27006KT VOTJ 270930Z 2718/2812 VRB02KT 6000 SCT020 TEMPO 2800/2803 3000 BR BECMG 2803/2804 6000 SCT025 VOTK 190500Z 1906/1915 09010KT 5000 HZ FEW018 VOTP 140500Z 1406/1415 24006KT 4000 HZ SCT015 SCT025 TEMPO 1409/1415 3000 RA BR FEW030CB BKN100 VOTR 272300Z 2800/2906 VRB02KT 3000 BR SCT016 SCT100 TEMPO 2800/2803 1500 -DZ/BR BECMG 2806/2807 09010KT 5000 HZ BECMG 2818/2819 VRB02KT BECMG 2821/2822 3000 BR BECMG 2905/2906 09010KT 5000 HZ VOTV 272300Z 2800/2906 VRB03KT 3000 BR FEW015 TEMPO 2800/2802 2000 BR FEW015 BECMG 2805/2806 09005KT 6000 FEW015 BECMG 2809/2810 23005KT FEW015 BECMG 2814/2815 33005KT 3000 BR FEW015 TEMPO 2822/2902 2000 BR FEW015 SCT080 BECMG 2905/2906 06005KT 5000 HZ FEW015 SCT080 VOTX 050930Z 0512/0600 34005KT 6000 FEW030 FEW090 BECMG 0514/0515 VRB02KT 5000 HZ FEW030 BECMG 0516/0518 3500 BR NSC BECMG 0520/0522 1500 BR BECMG 0522/0600 0800 FG SKYOBS VOVZ 272300Z 2800/2906 VRB02KT 3000 BR FEW018 TEMPO 2800/2803 1500 BR BECMG 2803/2805 3500 HZ BECMG 2805/2807 09010KT 5000 HZ TEMPO 2807/2811 10010G20KT BECMG 2815/2817 VRB02KT 4000 BR TEMPO 2823/2903 1500 BR BECMG 2903/2905 3500 HZ VOYK 080930Z 0812/0824 VRB02KT 1500 FU SKC TEMPO 0815/0815 2200 BR BECMG 0822/0824 00000KT 0800 FG VV/// VRB05KT 9999 SCT025 BECMG 1518/1521 21008KT BECMG 1609/1612 20015KT TEMPO 1610/1618 20015G25KT PROB40 TEMPO 1613/1616 20018G30KT VRJT 180930Z 1812/1824 03005KT 6000 SCT025 BKN090 TEMPO 1814/1818 4000 RA SCT015 SCT020 FEW025TCU BKN080 TEMPO 1820/1824 3000 RABR SCT010 SCT020 BKN080 VRMG 272300Z 2800/2906 01007KT 9999 FEW018TCU TEMPO 2800/2806 FEW018CB VRMH 272300Z 2800/2906 02004KT 9999 FEW018 VRMM 272300Z 2800/2906 02006KT 9999 FEW018 TEMPO 2800/2806 FEW018CB VRTZ 190930Z 1912/1924 09005KT 6000 SCT025 SCT090 TEMPO 1914/1916 5000 BR SCT025 BKN090 TEMPO 1921/1923 4000 RABR SCT015 BKN090 VSIR 060930Z 0612/0624 23003KT 5000 FU SCT025 SCT100 TEMPO 0613/0614 4000 FU VTBD 272300Z 2800/2906 36005KT 3000 BR FEW020 BECMG 2802/2804 14005KT 9999 NSW BECMG 2809/2811 20005KT VTBO 272300Z 2800/2824 10005KT 4000 BR FEW020 BECMG 2802/2804 23008KT 9999 NSW BECMG 2820/2822 03005KT 4000 BR VTBS 272300Z 2800/2906 36005KT 3000 BR FEW020 BECMG 2802/2804 20005KT 9999 NSW VTBU 272300Z 2800/2824 35004KT 8000 FEW020 BECMG 2802/2804 18008KT BECMG 2814/2816 35004KT VTCC 272300Z 2800/2906 26005KT 9999 FEW035 BECMG 2801/2803 16005KT BECMG 2809/2811 27005KT BECMG 2814/2816 34005KT BECMG 2820/2822 24005KT VTCH 272300Z 2800/2824 00000KT 2000 BR FEW025 BECMG 2801/2803 20005KT 9999 NSW VTCL 272300Z 2800/2824 22005KT 9999 FEW025 VTCN 272300Z 2800/2824 20005KT 9999 FEW025 VTCP 272300Z 2800/2824 00000KT 4000 BR FEW035 BECMG 2801/2803 20005KT 9999 NSW VTCT 272300Z 2800/2906 26005KT 9999 FEW035 BECMG 2804/2806 19005KT BECMG 2812/2814 27005KT VTPB 272300Z 2800/2824 16005KT 9999 FEW030 VTPH 272300Z 2800/2824 13008KT 9999 FEW020 VTPM 272300Z 2800/2824 26005KT 9999 FEW035 VTPO 272300Z 2800/2824 16005KT 9999 FEW025 VTPP 272300Z 2800/2824 16005KT 9999 FEW030 VTPT 272300Z 2800/2824 26005KT 9999 FEW026 VTSB 272300Z 2800/2824 34003KT 8000 SCT020 BECMG 2804/2806 05013KT PROB40 TEMPO 2807/2813 VRB15G25KT 4000 TSRA FEW016CB SCT018 BKN100 BECMG 2813/2815 34003KT VTSC 272300Z 2800/2824 18004KT 9999 FEW020 BECMG 2803/2805 09010KT BECMG 2813/2815 18004KT VTSE 272300Z 2800/2824 10006KT 8000 FEW020 VTSF 272300Z 2800/2824 28003KT 9999 FEW020 BECMG 2804/2806 10010KT BECMG 2813/2815 28003KT VTSG 272300Z 2800/2824 06006KT 9999 FEW020 BECMG 2806/2808 22006KT BECMG 2814/2816 00000KT VTSM 272300Z 2800/2824 15010KT 9999 FEW020 VTSP 272300Z 2800/2906 10007KT 9999 FEW020 BECMG 2806/2808 29006KT BECMG 2814/2816 00000KT BECMG 2900/2902 09006KT VTSR 272300Z 2800/2824 00000KT 9999 FEW020 BECMG 2802/2804 29006KT BECMG 2814/2816 00000KT VTSS 272300Z 2800/2824 29003KT 9999 FEW020 BKN100 BECMG 2804/2806 07013KT BECMG 2813/2815 29003KT VTST 272300Z 2800/2824 00000KT 9999 FEW020 BECMG 2802/2804 06006KT BECMG 2814/2816 00000KT VTUD 272300Z 2800/2824 09005KT 9000 FEW035 VTUI 272300Z 2800/2824 11005KT 9000 FEW035 VTUK 272300Z 2800/2824 09005KT 8000 FEW030 VTUL 272300Z 2800/2824 07005KT 9000 FEW030 VTUO 272300Z 2800/2824 05005KT 9000 FEW035 VTUQ 272300Z 2800/